ENHM 191850Z AUTO 02008KT 9999NDV NCD 08/06 Q1030 W08/S3 UUOK 191800Z 35006G11MPS 9999 OVC050CB 04/M03 Q1002 NOSIG RMK 30CLRD65 KIWI 191853Z AUTO 10SM CLR 13/M02 A3024 RMK AO2 SLP239 T01331022 KJMR 191857Z AUTO 20005KT 3SM DZ OVC006 10/09 A2962 RMK AO2 KJMS 191856Z AUTO 34031G40KT 10SM BKN060 OVC080 10/02 A2976 RMK AO2 PK WND 33040/1854 SLP084 T01000022 $ PPIT 191856Z AUTO 01005KT 9SM -RA SCT004 BKN025 OVC035 01/00 A2911 RMK AO2 RAB52 SLP857 P0000 T00110000 FZRANO KIXA 191855Z AUTO 09007KT 10SM SCT032 OVC050 20/13 A2999 RMK AO2 UUOO 191830Z 00000MPS CAVOK M01/M05 Q0999 NOSIG RMK 30090060 KIXD 191853Z 28015G21KT 10SM FEW034 19/11 A2966 RMK AO2 SLP038 T01940111 ENHV 191850Z 30015KT 9999 -SHRA SCT008 BKN019 03/M00 Q1010 KM63 191756Z AUTO 25009G16KT 10SM FEW190 22/M06 A3000 RMK AO2 SLP102 T02151063 10218 20108 58004 PPIZ 191856Z AUTO -SN BKN004 OVC012 M14/M17 A2960 RMK AO2 TSNO T11441166 UPB10E22SNE10B15E16B22 P0000 SLP028 $ KIYA 191835Z AUTO 26006KT 10SM CLR 27/17 A2982 RMK AO2 T02670170 ENKB 191850Z 27005KT CAVOK 07/02 Q1032 FDSK 191850Z VRB02KT 5000 TSRA BKN035 FEW040CB 20/19 Q1017 TEMPO 8000 -TSRA KJNX 191855Z AUTO 00000KT 7SM RA SCT023 BKN034 OVC047 20/19 A2995 RMK AO2 P0004 KIZA 191835Z AUTO 27004KT 10SM CLR 19/06 A2995 RMK AO2 ENLA 191850Z AUTO 03009KT 9999NDV NCD 08/05 Q1028 W///S3 KJOT 191835Z AUTO 13007G15KT 10SM SCT120 21/08 A2962 RMK AO2 T02130079 FDST 191800Z AUTO 09006KT //// // ////// 19/18 Q1017 KJQF 191759Z 15004KT 4SM -RA BR BKN006 BKN012 OVC030 19/18 A2993 LBGO 191830Z AUTO 00000KT 9999 NCD 05/04 Q1018 KIZG 191854Z AUTO 03007KT 10SM CLR 15/M04 A3020 RMK AO2 SLP230 T01501044 ENKR 191850Z 30008KT 9999 VCSH FEW008 BKN018 03/M01 Q1007 RMK WIND 731FT 30014KT ENLK 191850Z 27009KT 230V320 9999 -DZ FEW004 SCT007 BKN010 05/05 Q1022 KM91 191855Z AUTO 21015KT 10SM SCT021 BKN034 BKN055 22/22 A2956 RMK KN03 191855Z AUTO 09008KT 10SM CLR 17/M05 A3011 RMK AO2 ENMH 191850Z 33022KT 9999 SCT018 BKN031 03/M03 Q1009 KLAA 191853Z AUTO 35023G29KT 9SM SCT055 12/M01 A3003 RMK AO2 PK WND 36031/1829 SLP156 T01221006 ENNA 191850Z 33021KT 9999 -DZ FEW019 SCT029 BKN061 03/00 Q1012 RMK WIND 1800FT 32034KT ENML 191850Z 27003KT CAVOK 08/04 Q1031 ENNE 191850Z AUTO 27023KT 9999NDV BKN011/// 06/04 Q1027 W///S5 KLAF 191854Z 07012KT 2 1/2SM -RA BR BKN010 OVC015 12/12 A2959 RMK AO2 CIG 007V012 SLP020 P0025 T01220117 ENMS 191850Z VRB02KT 9999 SCT018 BKN025 07/04 Q1025 RMK WIND 412FT VRB02KT ENOA 191850Z 03017KT CAVOK 08/06 Q1030 W///S3 KLBB 191853Z 36023G29KT 10SM BKN060 18/03 A2996 RMK AO2 PK WND 35032/1813 SLP117 T01780028 ENNK 191850Z 26012KT 9999 FEW025 BKN035 05/01 Q1020 KJTC 191855Z AUTO 34015G18KT 10SM CLR 17/M08 A3014 RMK AO2 KLAL 191850Z 20013G21KT 10SM BKN050 32/21 A2990 KLAM 191835Z AUTO 00000KT 10SM CLR 11/M08 A3009 RMK AO2 T01131076 ENNM 191850Z 24008KT 220V280 9999 SCT020 BKN023 07/03 Q1029 KLAN 191853Z 09017KT 10SM CLR 20/02 A2977 RMK AO2 SLP083 T02000017 KLBE 191850Z 12012KT 15SM BKN120 20/03 A2996 KLBF 191853Z AUTO 34020G33KT 10SM BKN070 11/M04 A2997 RMK AO2 PK WND 33037/1821 SLP148 T01061044 KJSO 191855Z AUTO 25010G15KT 10SM BKN021 BKN029 23/17 A2977 RMK AO2 T02370178 ENNO 191650Z VRB05KT CAVOK 20/M02 Q1025 LATI 191850Z 21004KT 170V240 9999 BKN050 13/04 Q1015 NOSIG KLAR 191853Z AUTO 32019KT 10SM CLR 00/M06 A3010 RMK AO2 SLP189 T00001061 VMMC 191830Z 21010KT 9999 FEW010 SCT025 25/24 Q1006 NOSIG KLAS 191856Z VRB05KT 10SM FEW150 FEW250 27/M08 A2989 RMK AO2 SLP101 T02721078 $ KJST 191854Z AUTO 13012G24KT 090V150 10SM CLR 16/01 A3000 RMK AO2 PK WND 14026/1806 SLP155 T01610011 KLBL 191855Z AUTO 01028G35KT 10SM FEW028 BKN034 OVC055 12/03 A2999 RMK AO1 ENOL 191850Z 27010KT 9999 FEW012 BKN017 07/05 Q1031 BECMG BKN012 KJSV 191855Z AUTO 28007KT 255V325 10SM SCT038 22/12 A2969 RMK AO2 KLAW 191853Z 29011G16KT 10SM CLR 21/08 A2978 RMK AO2 SLP079 T02110078 KLAX 191853Z 25009KT 10SM FEW250 17/12 A2995 RMK AO2 SLP142 T01720122 KLCG 191835Z AUTO 34025G29KT 10SM OVC031 10/04 A2980 RMK AO2 T01020043 KLCH 191853Z 22008KT 10SM CLR 26/18 A2980 RMK AO2 SLP099 T02610183 KLCI 191855Z AUTO 26006KT 10SM CLR 14/M04 A3018 RMK AO1 KN38 191855Z AUTO 16009G18KT 10SM CLR 17/M04 A3007 RMK AO2 ENQA 191850Z AUTO 02019KT 9999NDV NCD 07/06 Q1029 W04/S4 KLBT 191854Z AUTO 13007KT 8SM -RA FEW020 BKN080 OVC090 22/21 A2991 RMK AO2 SLP128 P0006 T02220206 KLCK 191835Z AUTO 12012G19KT 10SM -RA OVC050 19/11 A2975 RMK AO2 T01930107 ENQC 191850Z AUTO 01017KT 9999NDV NCD 07/05 Q1029 W///S4 ENOV 191850Z VRB01KT CAVOK 09/03 Q1031 RMK WIND 2175FT 11009KT KLBX 191853Z AUTO 23007KT 10SM CLR 27/20 A2979 RMK AO2 SLP087 T02670200 KLCQ 191835Z AUTO 22012G15KT 10SM CLR 27/20 A2989 RMK AO2 LTG DSNT W VLVT 191500Z 09002KT 3000 BR SCT050 32/20 Q1006 NOSIG KKLS 191855Z 34011G15KT 10SM CLR 19/06 A3013 RMK AO1 ENRA 191850Z 26009KT 9999 SCT025 05/02 Q1023 KLEB 191853Z 18005KT 10SM CLR 14/M03 A3020 RMK AO2 SLP227 T01441033 KJVL 191845Z 12015G20KT 10SM SKC 24/03 A2961 KLDM 191855Z AUTO 12013G22KT 10SM CLR 22/M09 A2972 RMK AO2 T02171095 KLEE 191853Z 22008KT 10SM SCT060 BKN085 31/20 A2990 RMK AO2 SLP125 T03060200 KJWG 191855Z AUTO 31009KT 10SM -RA SCT045 BKN060 OVC070 16/10 A2982 RMK AO2 T01570099 ENQR 191850Z AUTO 04018KT 9999NDV NCD 07/05 Q1031 W///S3 KN60 191852Z AUTO 32025G36KT 08/02 A2989 RMK AO1 PK WND 32037/1806 SLP133 T00780022 UUWW 191830Z 33004MPS 9999 SCT045 BKN100 M01/M05 Q1001 NOSIG ENSB 191850Z 33003KT 300V010 9999 FEW020 BKN035 M06/M10 Q1007 RMK WIND 1400FT 22003KT ENSD 191850Z VRB02KT CAVOK 11/03 Q1030 RMK WIND 1138FT 05004KT ENRM 191850Z 26009KT 9999 BKN016 07/03 Q1028 UWGG 191830Z 33002MPS 0900 R36L/P1500N +SHSN OVC004CB 00/00 Q0997 TEMPO 0500 +SHSN OVC004 BKN012CB 36650140 RMK QBB130 QFE741 KJVW 191855Z AUTO 25008G14KT 10SM FEW035 25/22 A2977 RMK AO2 LCEN 191820Z 00000KT CAVOK 16/12 Q1015 NOSIG ENSE 191850Z AUTO 04022KT 9999NDV NCD 07/05 Q1032 W///S4 ENRO 191850Z 30007KT 260V340 CAVOK 04/M01 Q1028 ENSG 191750Z 00000KT CAVOK 09/01 Q1029 RMK WIND 3901FT 05005KT ENSH 191850Z 21003KT 9000 6000N -RADZ SCT008 BKN019 05/04 Q1022 KLFI 191858Z AUTO 06014KT 7SM SCT043 BKN060 BKN120 BKN180 19/15 A3003 RMK AO2 SLP176 T01880148 KJXI 191855Z AUTO 20011G17KT 10SM SCT025 23/17 A2970 RMK AO2 T02340173 KLGA 191851Z 16013G22KT 10SM BKN250 14/01 A3021 RMK AO2 SLP230 T01390011 ENRS 191120Z 29015KT 9999 FEW010 BKN015 06/04 Q1023 KLGB 191853Z 19007KT 9SM CLR 21/13 A2994 RMK AO2 SLP137 T02060128 KLFK 191853Z AUTO 24008KT 10SM CLR 28/19 A2975 RMK AO2 SLP069 T02830189 ENSK 191850Z 26007KT 9999 VCSH FEW006 SCT012 BKN020 05/04 Q1021 KLGC 191835Z AUTO 20010G18KT 10SM OVC012 24/22 A2979 RMK AO2 T02400220 ENTC 191850Z 28006KT 9999 VCSH SCT024 BKN033 03/M02 Q1019 NOSIG RMK WIND 2600FT 30025KT ENSL 191850Z AUTO 01012KT 9999NDV NCD 08/07 Q1030 W06/S3 KLGD 191855Z AUTO 35003KT 10SM CLR 14/M01 A3014 RMK AO1 LBPD 191830Z AUTO 09009KT 9999 NCD 07/03 Q1018 KLEW 191855Z AUTO 31007G14KT 10SM CLR 13/M03 A3022 RMK AO1 KJXN 191856Z 10015G21KT 10SM OVC050 17/03 A2976 RMK AO2 SLP079 T01670033 ENSN 191750Z 30005KT CAVOK 18/M01 Q1025 KLEX 191854Z 13012G22KT 10SM FEW011 BKN018 OVC029 19/17 A2960 RMK AO2 RAB33E49 SLP017 P0000 T01890172 ENSO 191850Z 35005KT CAVOK 10/02 Q1029 KJYG 191855Z AUTO 30015G24KT 10SM OVC013 11/09 A2969 RMK AO2 KJWY 191855Z AUTO 28016G23KT 10SM CLR 24/15 A2976 RMK AO2 T02410146 ENRY 191850Z 36005KT CAVOK 16/M02 Q1024 ENSR 191450Z 33018G28KT 9999 -SHRA BKN019 03/M00 Q1015 WIND 1119FT 29028G38KT ENSS 191850Z 33019KT 9999 -SHRA SCT012 BKN020 02/01 Q1005 RESHRA RMK WIND 500FT 34027KT KLFT 191853Z 21009KT 10SM CLR 28/17 A2981 RMK AO2 SLP093 T02780167 KLHB 191855Z AUTO 25011G18KT 10SM SCT030 SCT035 28/21 A2977 RMK AO2 T02770211 ENST 191820Z VRB02KT 9999 SCT010 BKN017 07/04 Q1026 RMK WIND 300FT 26006KT KJYL 191855Z AUTO 18005KT 10SM BKN021 BKN065 BKN075 26/23 A2985 RMK AO2 LTG DSNT SW THRU NW T02550226 KJYM 191855Z AUTO 10015G20KT 10SM BKN050 17/04 A2975 RMK AO2 T01670035 UUYY 191830Z VRB02MPS 9000 -SN SCT008 BKN026 OVC066 M00/M01 Q1002 NOSIG 1929//51 RMK QFE743/0990 EPCE 191830Z 29007KT 9999 BKN222 05/M00 Q1020 RMK 054 066 7/7 = KJYO 191835Z AUTO 15007G17KT 10SM CLR 20/09 A3009 RMK AO2 ENTO 191850Z 33004KT CAVOK 16/M01 Q1024 KJZI 191855Z AUTO 15007KT 9SM BKN030 BKN046 BKN085 24/22 A2990 RMK A02 P000 KJYR 191855Z AUTO 35017G29KT 10SM BKN060 10/02 A2982 RMK AO2 EPDA 191830Z 26008KT 210V300 9999 BKN229 07/02 Q1021 RMK 067 073 5/5 = ENVA 191850Z 27016KT 9999 SCT030 07/04 Q1030 RMK WIND 670FT 30020KT FGBT 191800Z 19008KT 9999 SCT010 FEW018CB BKN100 29/26 Q1009 TEMPO TS KLGU 191851Z AUTO VRB04KT 10SM CLR 16/M01 A3006 RMK AO2 SLP159 T01561006 KLIC 191855Z AUTO 35023G29KT 10SM SCT050 08/M03 A3007 RMK AO2 PK WND 01033/1840 SLP166 T00831033 KLHM 191835Z AUTO 00000KT 10SM CLR 24/07 A2990 RMK AO1 ENVD 191850Z 34008KT 9999 VCSH BKN015 03/00 Q1007 EPDE 191830Z 30008KT 9999 SCT033 BKN080 06/01 Q1016 RMK 061 069 6/4= KJZP 191835Z AUTO 00000KT 10SM OVC006 19/13 A2983 RMK AO2 LTG DSNT SE T01910127 EPBY 191830Z 33009KT CAVOK 08/M02 Q1019 KLHQ 191853Z AUTO 13016KT 9SM -RA SCT055 BKN080 OVC100 18/11 A2977 RMK AO2 PK WND 13032/1831 RAB1754 SLP077 P0000 T01830111 ENVH 191850Z AUTO 08018KT 9999NDV NCD 07/04 Q1027 W///S3 UWKD 191830Z 19007G13MPS 2900 -SHRA BKN018CB 05/04 Q0997 R11/2/0050 TEMPO 16010G16MPS 1500 SHRA BKN005 BKN014CB RMK QFE737/0983 UWKE 191830Z 14006MPS CAVOK 06/M03 Q0999 NOSIG RMK QFE732/0977 03090070 KMAE 191853Z AUTO 28005KT 10SM CLR 27/06 A2990 RMK AO2 SLP124 T02720056 KLHW 191858Z AUTO 15005KT 10SM SCT070 BKN110 BKN180 26/22 A2983 RMK AO2 LTG DSNT SW SLP104 T02640217 KLHX 191853Z AUTO 36021G31KT 10SM FEW060 12/M02 A3007 RMK AO2 PK WND 02031/1845 SLP162 T01221022 KMAF 191853Z 35014G25KT 10SM CLR 23/01 A2996 RMK AO2 PK WND 36026/1842 SLP110 T02330006 KLJF 191853Z AUTO 29015G19KT 10SM OVC017 12/09 A2967 RMK AO2 LBSF 191830Z 31005KT CAVOK 09/M02 Q1018 NOSIG DXNG 191800Z 08005KT 050V110 6000 NSC 35/06 Q1011 NOSIG KLHZ 191835Z AUTO 09006KT 10SM SCT033 OVC055 19/15 A2998 RMK AO2 KMAI 191853Z AUTO 16008KT 10SM -RA FEW050 SCT080 BKN110 20/20 A2981 RMK AO2 LTG DSNT N AND SE AND S SLP091 P0010 T02000200 VOCB 191800Z 18006KT 5000 HZ FEW015 SCT080 26/21 Q1013 NOSIG ENVR 191350Z 30013G25KT 260V010 9999 VCSH SCT013 BKN036 07/04 Q1023 VOBL 191830Z 00000KT 6000 FEW015 27/23 Q1016 NOSIG KLIT 191853Z 22006G14KT 10SM SCT050 SCT200 27/13 A2967 RMK AO2 SLP048 T02670128 KO22 191835Z AUTO 26006KT 10SM CLR 25/08 A2994 RMK AO1 KMAN 191835Z AUTO 31006KT 10SM CLR 16/M04 A3011 RMK AO1 KMAO 191855Z AUTO 11006KT 7SM -RA CLR 22/21 A2990 RMK AO2 P0005 VOCI 191830Z 11006KT 4000 HZ SCT015 SCT080 26/23 Q1010 NOSIG KMBG 191852Z AUTO 32020G28KT 10SM FEW040 SCT060 OVC070 09/01 A2987 RMK AO2 PK WND 33030/1818 RAE1759B18E33 SLP119 P0000 T00890011 UWKS 191830Z 12006MPS 9999 OVC015CB 03/03 Q0994 NOSIG RMK QFE731 24290160 VNKT 191850Z VRB02KT 7000 FEW020 SCT030 19/16 Q1018 NOSIG VOCL 191830Z 08002KT 6000 -TSRA SCT012 FEW025CB OVC080 24/23 Q1011 TEMPO 4000 TSRA KMCB 191853Z AUTO 29010KT 10SM CLR 27/14 A2980 RMK AO2 SLP085 T02720139 KMBL 191855Z AUTO 13012G21KT 10SM CLR 20/M05 A2975 RMK AO1 KMCC 191850Z AUTO 00000KT 9SM CLR 24/09 A2991 RMK AO2 KMCD 191855Z AUTO 10019G33KT 10SM CLR 04/00 A2993 RMK AO2 T00401003 KMCE 191853Z AUTO 31008KT 10SM CLR 26/07 A2990 RMK AO2 SLP123 T02610072 EPGD 191830Z 30009KT CAVOK 05/00 Q1019 KMCF 191858Z AUTO 22021G23KT 10SM FEW150 SCT210 30/25 A2992 RMK AO2 PK WND 22026/24 SLP135 T03000246 KMCI 191853Z 30012G19KT 10SM FEW029 SCT034 BKN055 18/12 A2964 RMK AO2 SLP032 T01830122 $ KLKR 191855Z AUTO 16008KT 10SM OVC005 20/20 A2987 RMK AO2 KMBS 191853Z 07011G21KT 10SM CLR 18/02 A2984 RMK AO2 SLP106 T01780017 KLLJ 191855Z AUTO 21003KT 10SM CLR 13/M08 A3010 RMK AO2 SLP166 T01281078 KMCJ 191855Z AUTO 21011G15KT 020V030 10SM CLR 29/18 A2974 RMK AO1 KMCK 191853Z AUTO 34027G32KT 10SM BKN070 13/M03 A2997 RMK AO2 PK WND 34034/1757 SLP142 T01331033 LCLK 191830Z 23012KT CAVOK 17/13 Q1016 NOSIG UWLW 191800Z 17005MPS 5000 -SHRA OVC026CB 08/05 Q0997 20190055 NOSIG RMK QFE742 KLKU 191835Z AUTO 11009G14KT 10SM SCT100 21/09 A3003 RMK AO2 KLKV 191855Z 00000KT 10SM CLR 17/M04 A3015 RMK AO1 KMDD 191835Z AUTO 35015G23KT 5SM HZ CLR 23/00 A2997 RMK AO2 T02311002 KMCN 191853Z 21008KT 7SM -RA OVC100 21/19 A2983 RMK AO2 SLP098 P0005 T02060189 KMCO 191853Z 18012KT 10SM FEW048 FEW250 OVC300 32/22 A2989 RMK AO2 SLP119 T03220217 KMDH 191852Z AUTO 35005KT 10SM BKN010 OVC017 19/17 A2951 RMK AO2 CIG 007V013 SLP989 T01940172 KLLQ 191853Z AUTO 24011KT 10SM CLR 26/14 A2970 RMK AO2 SLP056 T02560144 KMDJ 191855Z AUTO 24011KT 10SM CLR 25/22 A2985 RMK A01 KMEB 191852Z AUTO 14016KT 10SM FEW060 FEW080 OVC100 22/20 A2989 RMK AO2 RAE40 SLP121 P0005 T02170200 KLNC 191855Z AUTO 29015G21KT 10SM CLR 25/13 A2974 RMK AO2 T02450129 KLND 191853Z AUTO VRB03KT 10SM FEW042 07/M03 A3013 RMK AO2 SLP201 T00721033 KMCW 191853Z AUTO 11004KT 10SM SCT016 BKN023 OVC095 17/13 A2961 RMK AO2 SLP021 T01670128 $ KO54 191835Z AUTO 13003KT 10SM CLR 25/M03 A3000 RMK AO1 KLMO 191855Z AUTO 12003KT 10SM SCT041 BKN055 OVC070 12/00 A3010 RMK AO2 T01201004 KMCX 191855Z AUTO 08009KT 4SM +RA OVC017 13/12 A2962 RMK AO2 P0011 T01250115 KMEH 191856Z AUTO 10SM CLR 17/M03 A3015 RMK AO2 SLP214 T01671028 KMDQ 191855Z AUTO 19012G19KT 10SM SCT024 BKN034 22/15 A2968 RMK AO2 KMEI 191758Z 23013G20KT 10SM FEW043 FEW050 SCT060 26/16 A2976 RMK AO2 SLP072 T02560156 10256 20194 51005 $ KMDS 191850Z AUTO 33025G32KT 10SM FEW030 SCT035 BKN047 11/03 A2978 RMK AO2 KLMT 191853Z VRB03KT 10SM CLR 17/M06 A3012 RMK AO2 SLP176 T01721061 KLNK 191854Z 33022G28KT 10SM BKN023 OVC029 11/07 A2977 RMK AO2 PK WND 34034/1836 RAB15E24 SLP081 P0000 T01060067 KMDT 191856Z 14014KT 10SM OVC250 18/04 A3009 RMK AO2 SLP190 T01830044 LDDU 191900Z 05003KT 010V080 CAVOK 11/04 Q1016 NOSIG KLNL 191835Z AUTO 16010G17KT 120V190 10SM BKN120 14/00 A2970 RMK AO2 T01360002 UWOO 191830Z 21003MPS P5000 SCT033CB BKN240 09/07 Q1001 26CLRD65 NOSIG RMK QFE740/0987 KMFD 191852Z 12018G26KT 10SM BKN100 22/07 A2976 RMK AO2 PK WND 11026/1849 SLP074 T02220067 KMEM 191854Z 26008G14KT 10SM -RA SCT016 BKN049 BKN090 BKN250 22/18 A2965 RMK AO2 RAB1756 SLP037 P0000 T02220178 ENZV 191850Z 35003KT CAVOK 10/04 Q1028 NOSIG KMDW 191853Z 07009KT 10SM BKN085 BKN170 OVC250 19/05 A2962 RMK AO2 SLP027 T01890050 $ KMFE 191853Z 13005KT 10SM SCT032 SCT041 32/22 A2979 RMK AO2 SLP087 T03170222 KLNN 191855Z AUTO 05008KT 10SM 15/06 A2982 RMK AO1 T01490055 LBWN 191830Z 05003KT 010V080 CAVOK 07/04 Q1018 NOSIG UWOR 191800Z 20010MPS 9999 SCT050CB BKN100 12/08 Q1003 25CLRD65 NOSIG RMK QFE729/0972 KLNP 191855Z AUTO 13005G14KT 10SM BKN005 OVC013 16/16 A2982 RMK AO2 KMDZ 191835Z AUTO 14007KT 10SM BKN065 BKN085 OVC110 14/04 A2967 RMK AO2 T01360037 KMFI 191854Z AUTO 15010KT 10SM SCT085 19/03 A2965 RMK AO2 SLP043 T01890033 KLNR 191856Z AUTO 08008KT 10SM CLR 22/07 A2961 RMK AO2 SLP019 T02220067 $ KMER 191845Z 36012KT 10SM SKC 27/06 A2991 EPIR 191830Z 31008KT CAVOK 06/M01 Q1019 RMK 062 060 5/5 = KLNS 191853Z 11015KT 10SM CLR 18/04 A3011 RMK AO2 SLP195 T01780044 KO69 191855Z AUTO 29005KT 10SM CLR 15/11 A2998 RMK AO1 DXSK 191800Z 18006KT 8000 NSC 34/16 Q//// KLOL 191853Z AUTO 33006KT 10SM CLR 19/M10 A3010 RMK AO2 SLP171 T01941100 KLPC 191855Z AUTO 28007KT 10SM CLR 18/09 A2998 RMK AO1 KMGC 191835Z AUTO 13012G17KT 10SM BKN110 20/00 A2967 RMK AO2 KLOM 191855Z AUTO 11009G15KT 10SM CLR 18/03 A3016 RMK AO1 KMEV 191855Z AUTO 25003KT 10SM CLR 18/M09 A3012 RMK AO2 KMGE 191851Z 18007KT 10SM BKN010 OVC015 21/20 A2978 RMK AO2A $ KMGG 191857Z AUTO 28011G16KT 10SM OVC025 14/09 A2964 RMK AO2 T01360092 KMEZ 191855Z AUTO 24005KT 10SM SCT055 25/14 A2969 RMK AO2 LCPH 191830Z 06006KT 9999 FEW020 15/12 Q1016 KMFR 191853Z 00000KT 10SM CLR 21/03 A3003 RMK AO2 SLP161 T02110028 KLOR 191853Z AUTO 27007KT 10SM BKN009 BKN034 OVC110 21/19 A2980 RMK AO2 RAB1755E50 SLP087 P0005 T02060194 $ KMGJ 191854Z AUTO 00000KT 10SM CLR 18/M02 A3015 RMK AO2 SLP211 T01781017 TSNO KLOT 191835Z AUTO 16015KT 10SM BKN080 BKN120 21/05 A2962 RMK AO2 T02100050 EPLB 191600Z 29010KT 9999 FEW025 07/02 Q1016 KLOU 191855Z VRB04KT 3SM -RA BR BKN010 OVC018 19/18 A2953 RMK AO2 P0000 T01890178 EPKK 191830Z 27004KT 9999 BKN060 09/M02 Q1018 KMGM 191853Z 20009KT 10SM FEW017 24/20 A2976 RMK AO2 SLP075 T02390200 KMFV 191835Z AUTO 08015G28KT 10SM OVC021 17/10 A3008 RMK AO2 KMHE 191853Z AUTO 33025G29KT 10SM SCT060 13/M01 A2984 RMK AO2 PK WND 32035/1822 SLP106 T01281006 KMGN 191855Z AUTO 08014G20KT 10SM CLR 16/M02 A2985 RMK AO2 T01671023 FHAW 191850Z 13013KT 9999 FEW024 SCT300 27/21 Q1011 BLU NOSIG VOHS 191840Z 14004KT 6000 FEW020 29/21 Q1013 NOSIG KLOZ 191853Z AUTO 14008G14KT 10SM SCT033 BKN046 BKN100 20/16 A2966 RMK AO2 RAB1759E50 SLP034 P0000 T02000156 KO86 191845Z AUTO 00000KT 10SM CLR 24/M01 A3001 RMK AO1 KLPR 191853Z AUTO 15017KT 10SM CLR 22/07 A2978 RMK AO2 SLP082 T02220072 TSNO KMGR 191855Z AUTO 26004KT 4SM +TSRA SCT015 BKN043 OVC055 19/ A2992 RMK AO2 LTG DSNT ALQS KMIA 191853Z 16013G17KT 10SM SCT035 SCT250 32/17 A2993 RMK AO2 SLP134 T03170172 LCRA 191850Z 24003KT CAVOK 15/14 Q1016 NOSIG EPKS 191830Z 32010KT 9999 BKN200 09/M01 Q1020 RMK 093 049 5/5= KMHK 191852Z 34009G19KT 7SM -RA BKN018 OVC024 13/10 A2976 RMK AO2 RAE09B29 SLP075 P0002 T01280100 KLQK 191855Z AUTO 18010G16KT 10SM RA SCT007 BKN013 OVC040 A2981 RMK AO2 KMIB 191858Z AUTO 32025G30KT 10SM SCT028 BKN038 OVC060 07/04 A2987 RMK AO2 PK WND 33032/06 SLP130 T00700038 $ EPMB 191830Z 29008KT 9999 SCT050 BKN200 08/M00 Q1019 RMK 075 058 5/3= EPLK 191830Z 35006KT CAVOK 07/M01 Q1019 RMK 070 058 6/2= KMHL 191855Z AUTO 27011G18KT 10SM SCT019 SCT023 SCT041 20/15 A2963 RMK AO2 LTG DSNT NE KMIC 191853Z 28013KT 10SM OVC014 14/09 A2962 RMK AO2 WSHFT 1809 SLP029 T01390089 EPKT 191830Z 30006KT CAVOK 08/00 Q1018 EPLL 191830Z 35006KT 320V020 CAVOK 07/M02 Q1019 KLRD 191856Z 03003KT 10SM FEW047 27/19 A2984 RMK AO2 T02720188 SLP093 VOHY 191040Z 09006KT 6000 NSC 37/13 Q1010 NOSIG KMIE 191853Z 09007KT 4SM -RA BR OVC014 16/14 A2963 RMK AO2 SLP029 P0013 T01560144 KMGW 191853Z 13010KT 10SM FEW100 19/04 A2993 RMK AO2 SLP130 T01940044 KLRF 191758Z AUTO 24011G17KT 10SM CLR 24/15 A2970 RMK AO2 SLP058 60000 T02380150 10238 20173 51003 KMGY 191853Z AUTO 11014G26KT 10SM -RA SCT015 BKN060 OVC090 18/16 A2964 RMK AO2 PK WND 09026/1851 SLP033 P0003 T01780161 KMHR 191850Z 31003KT 10SM SKC 24/10 A2990 KMHS 191856Z AUTO 00000KT 10SM CLR 22/M01 A3006 RMK AO2 SLP178 T02171011 KP08 191855Z AUTO VRB04G12KT 10SM CLR 28/M05 A2993 RMK AO2 KLRJ 191835Z AUTO 33017G23KT 10SM BKN020 OVC026 11/07 A2976 RMK AO2 LEAB 191800Z 34008KT 9999 FEW045 17/02 Q1016 NOSIG KMHT 191853Z VRB05KT 10SM FEW060 SCT250 15/M03 A3018 RMK AO2 SLP236 T01501033 KLSB 191835Z AUTO 27005G16KT 10SM CLR 22/M07 A3001 RMK AO2 KMHV 191855Z AUTO 09009KT 10SM CLR 25/M07 A2997 RMK AO1 EPMM 191830Z 29010KT 9999 BKN050 06/M00 Q1016 RMK 063 062 7/7 = KLSE 191853Z 32004KT 9SM -RA FEW060 OVC085 13/08 A2964 RMK AO2 SLP036 P0001 T01280078 $ KLSF 191858Z AUTO 15007KT 10SM SCT060 BKN075 M M RMK AO2 SLPNO PWINO PNO FZRANO TSNO VISNO RWY33 CHINO RWY33 $ KLRO 191855Z AUTO 14007KT 7SM SCT006 SCT050 BKN095 23/22 A2990 RMK AO2 EPMO 191830Z 32010KT CAVOK 07/M01 Q1017 LEAG 191830Z AUTO VRB08KT CAVOK 20/10 Q1015 EPLY 191830Z 33004KT CAVOK 06/M00 Q1019 RMK 061 063 4/4= UWSS 191830Z 35005MPS 9999 -SHRA BKN050CB 08/04 Q0997 1219//60 NOSIG RMK QFE736 LEBA 191800Z 23007KT 200V260 CAVOK 22/05 Q1014 KMIS 191855Z AUTO 22008KT 6SM BR CLR 24/22 A2983 RMK A01 KNAK 191854Z AUTO 10014G22KT 10SM CLR 16/06 A3012 RMK AO2 SLP202 T01610056 LEBB 191830Z 33009KT 270V020 9999 FEW027 SCT045 14/10 Q1018 NOSIG KMKC 191854Z 30013KT 10SM SCT033 SCT042 BKN049 20/11 A2963 RMK AO2 SLP030 T02000111 KNBC 191856Z AUTO A2987 RMK AO2 SLP117 PWINO TSNO $ KLRU 191835Z AUTO 11004KT 10SM SCT110 22/M07 A3002 RMK AO2 T02231066 LEAL 191830Z 08007KT 040V110 CAVOK 18/11 Q1015 NOSIG KMIV 191854Z AUTO 10015KT 10SM CLR 14/02 A3017 RMK AO2 SLP216 T01440022 LEAM 191830Z 16003KT CAVOK 17/15 Q1015 KMKE 191852Z 05006KT 10SM FEW200 BKN250 13/02 A2970 RMK AO2 SLP058 T01280022 KMIW 191850Z AUTO 07006KT 7SM FEW008 SCT012 BKN080 17/14 A2958 RMK AO2 RAE24 SLP015 P0000 T01720144 LEAO 191800Z 27007KT 230V290 9999 FEW045 17/02 Q1016 LEBG 191800Z 34004KT 280V030 9999 SCT040 12/03 Q1017 KNBG 191855Z 30008G16KT 260V340 10SM FEW030 29/13 A2980 RMK AO2 SLP089 T02890128 $ KMKG 191855Z 09012G20KT 10SM SCT250 21/00 A2972 RMK AO2 SLP062 T02060000 KMJQ 191852Z AUTO 33019G28KT 10SM BKN018 OVC024 11/07 A2969 RMK AO2 KNCA 191856Z AUTO 12007KT 10SM OVC095 22/18 A2994 RMK AO2 SLP142 T02170183 KP28 191856Z AUTO 35029G38KT 13/08 A2979 RMK AO1 PK WND 34039/1825 SLP086 T01330083 KLUA 191835Z AUTO 10008G14KT 10SM OVC100 20/07 A3004 RMK AO2 KMKJ 191835Z AUTO 08008G15KT 2 1/2SM RA BKN008 OVC014 16/15 A2992 RMK AO2 P0005 T01590145 LEAS 191830Z 29010KT 9999 SCT010 13/11 Q1019 TEMPO BKN010 KMLB 191853Z 19015KT 10SM FEW048 33/20 A2988 RMK AO2 SLP117 T03280200 EPOK 191830Z 29016KT 9999 FEW100 SCT204 06/01 Q1019 RMK 063 066 4/1 = KMKL 191853Z 24012KT 10SM FEW022 SCT036 BKN120 22/17 A2961 RMK AO2 LTG DSNT SE RAE01 SLP023 P0000 T02220167 KMLC 191853Z AUTO 34008KT 10SM BKN028 BKN035 OVC043 20/14 A2971 RMK AO2 SLP054 T02000139 LEBL 191830Z 07007KT 9999 SCT030 15/12 Q1017 NOSIG KLUD 191855Z AUTO 28011G18KT 10SM SCT029 SCT035 21/13 A2978 RMK AO2 T02070128 KLSV 191758Z AUTO 09005KT 10SM CLR 27/M06 A2992 RMK AO2 SLP111 T02701056 10270 20150 57006 KMKN 191855Z AUTO 33013G20KT 10SM SCT050 23/12 A2985 RMK AO2 P0001 T02300124 KMLE 191835Z AUTO 33017G25KT 10SM OVC015 11/09 A2973 RMK AO2 T01070085 KMLF 191852Z AUTO VRB04KT 10SM CLR 19/M07 A3005 RMK AO2 SLP145 T01891067 TSNO KMKO 191853Z AUTO 03003KT 10SM -RA FEW032 SCT075 BKN100 20/13 A2972 RMK AO2 RAB50 SLP060 P0000 T02000133 KMJX 191855Z AUTO 13014G17KT 10SM CLR 12/02 A3023 RMK AO1 KLUF 191758Z AUTO 11006KT 10SM CLR 27/M02 A2991 RMK AO2 SLP118 T02671021 10267 20134 56006 $ LECH 191600Z 12010KT 9999 SCT030 18/03 Q1015 KMLI 191852Z 07010KT 10SM CLR 26/09 A2954 RMK AO2 SLP002 T02560089 $ LEDA 191500Z 25011KT 9999 FEW035 19/06 Q1014 UWUU 191830Z 04002MPS 9999 SCT040 BKN100 05/01 Q0999 640///60 NOSIG RMK QFE739/0986 KMKS 191855Z AUTO 15008KT 10SM BKN012 BKN075 BKN100 24/21 A2988 RMK AO2 KLTS 191858Z AUTO 33019G23KT 10SM FEW050 21/08 A2981 RMK AO2 PK WND 35034/23 SLP087 T02060084 $ KMLJ 191835Z AUTO 00000KT 2SM RA SCT012 BKN020 OVC025 21/21 A2982 RMK AO2 LTG DSNT ALQS VOMM 191840Z 13006KT 6000 NSC 29/25 Q1009 NOSIG LEBT 191800Z AUTO 07006KT 010V120 CAVOK 17/08 Q1015 KLUK 191853Z 11009G19KT 4SM -RA BR FEW018 BKN027 OVC044 18/17 A2962 RMK AO2 SLP028 P0004 T01780167 KMKT 191855Z AUTO 32017G22KT 10SM OVC018 13/07 A2965 RMK AO1 KNBT 191856Z AUTO 15014G21KT 9SM -RA FEW016 BKN055 OVC065 A2998 RMK AO2 RAB20 SLP158 PNO $ KLUM 191855Z AUTO 12008G14KT 10SM OVC026 16/07 A2963 RMK AO2 T01580073 LDLO 191400Z 04006KT CAVOK 14/05 Q1020 LECO 191830Z 02003KT 340V060 9999 SCT045 13/10 Q1019 NOSIG DXXX 191830Z 20008KT 9999 FEW014 30/25 Q1009 NOSIG KMLP 191853Z AUTO 34005KT 10SM CLR 09/M08 A3014 RMK AO2 SLP150 T00891078 KMKY 191855Z AUTO 19007KT 160V220 10SM SCT026 BKN034 31/21 A2993 RMK AO1 EPPO 191830Z 33009KT CAVOK 09/M02 Q1020 LEBZ 191800Z 28007KT 240V330 9999 FEW048 20/06 Q1016 KMMH 191855Z AUTO 14004KT 10SM CLR 17/M10 A3016 RMK AO1 KLVJ 191853Z AUTO 24009KT 10SM CLR 28/19 A2979 RMK AO2 SLP087 T02830189 KMLS 191853Z AUTO 34021G29KT 10SM FEW055 10/M05 A3012 RMK AO2 PK WND 34034/1806 SLP212 T01001050 KLWA 191855Z AUTO 08012G15KT 10SM CLR 22/M01 A2967 RMK AO2 T02201008 EPRA 191830Z 29008KT CAVOK 06/02 Q1017 RMK 064 071 6/3= KLVK 191853Z 26005KT 10SM CLR 20/10 A2993 RMK AO2 SLP134 T02000100 KMLT 191853Z AUTO 35009KT 10SM FEW060 12/M05 A3018 RMK AO2 SLP228 T01171050 KMMK 191853Z AUTO 17012KT 10SM CLR 15/M01 A3021 RMK AO2 SLP230 T01501006 TSNO KLWB 191835Z AUTO 11007G16KT 060V130 10SM -RA SCT038 BKN050 OVC080 17/10 A2996 RMK AO2 T01650101 KLWC 191852Z AUTO 32011KT 10SM SCT032 SCT045 BKN055 19/13 A2966 RMK AO2 RAB32E43 SLP040 P0000 T01890128 KMLU 191853Z 24008KT 10SM FEW042 27/17 A2975 RMK AO2 SLP074 T02670172 KMML 191855Z AUTO 34022G27KT 10SM SCT026 BKN033 OVC049 11/03 A2973 RMK AO1 KLVL 191855Z AUTO 12005KT 10SM SCT031 BKN049 OVC100 21/13 A3000 RMK AO1 T02100129 LECV 191800Z 04008KT 9999 FEW055 12/04 Q1017 KLVM 191853Z AUTO 26005KT 10SM FEW075 BKN120 09/M09 A3014 RMK AO2 SLP215 T00941089 KLWD 191853Z AUTO 25012KT 10SM FEW007 SCT013 OVC050 17/15 A2958 RMK AO2 WSHFT 1740 LTG DSNT N RAE06 TSE02 SLP015 P0001 T01720150 KLVN 191853Z AUTO 28013KT 10SM OVC016 13/11 A2962 RMK AO2 P0007 KMNE 191835Z AUTO 24004KT 10SM SCT027 25/18 A2974 RMK AO2 T02460177 KP53 191756Z AUTO 15013G21KT 13/M03 A2983 RMK AO1 PK WND 15029/1718 SLP108 T01331028 10150 20056 58036 EPPW 191830Z 34002KT 9999 BKN200 08/M02 Q1019 RMK 079 051 6/6 = KLUX 191855Z AUTO 18008G16KT 7SM -RA BKN007 OVC014 21/21 A2983 RMK AO2 LTG DSNT SW P0007 KMNH 191857Z AUTO 35005KT 10SM OVC030 03/M03 A3009 RMK AO2 KMNI 191855Z AUTO 15005KT 120V180 10SM RA OVC010 22/16 A2989 RMK AO2 KP58 191851Z AUTO 08007KT 07/02 A2992 RMK AO1 SLP136 T00670017 KLVS 191853Z AUTO 07009G23KT 10SM BKN065 OVC075 10/M06 A3009 RMK AO2 SLP144 T01001061 KP59 191851Z AUTO 18013G25KT 06/M01 A2975 RMK AO1 PK WND 20027/1817 SLP081 P0001 T00561006 KMMT 191838Z 15008KT 10SM BKN008 OVC025 22/20 A2989 RMK AO2A SLP121 KP60 191856Z AUTO 00000KT 02/M07 A3014 RMK AO1 SLP206 T00221072 $ KMOB 191856Z 22009KT 10SM SCT029 BKN036 BKN250 28/19 A2979 RMK AO2 SLP084 T02780194 UWWW 191830Z 14002MPS 9999 SCT033 OVC100 06/02 Q0998 23CLRD60 15//99// NOSIG RMK QFE737/0983 KMMU 191845Z 16015KT 15SM BKN200 15/02 A3020 EPSC 191830Z 00000KT CAVOK 07/M02 Q1022 KMMV 191853Z AUTO 00000KT 10SM CLR 18/07 A3010 RMK AO2 SLP191 T01830072 KMOD 191853Z 32005KT 10SM CLR 24/08 A2990 RMK AO2 SLP125 T02440083 KLWM 191854Z 10010G15KT 10SM FEW060 13/01 A3024 RMK AO2 SLP240 T01280006 KMNM 191855Z AUTO 09009KT 10SM CLR 09/M01 A2978 RMK AO1 KMNN 191853Z AUTO 16015G27KT 10SM SCT055 SCT080 OVC100 22/08 A2975 RMK AO2 PK WND 18028/1755 SLP072 T02170083 TSNO $ KNFE 191856Z AUTO 08008KT 10SM BKN036 OVC055 22/14 A3002 RMK AO2 SLP167 T02220144 KNFG 191854Z AUTO 22007KT 5SM HZ CLR 22/10 A2993 RMK AO2 SLP135 T02220100 $ KNDZ 191856Z AUTO 20012G18KT 9SM OVC011 24/21 A2980 RMK AO2 SLP077 T02440211 $ LEGA 191200Z 00000KT CAVOK 19/02 Q1016 KP68 191853Z AUTO VRB04KT 16/M12 A3012 RMK AO1 SLP166 T01561117 KLWS 191856Z 03004KT 10SM CLR 18/02 A3012 RMK AO2 SLP200 T01780022 $ KP69 191852Z AUTO 19003KT 18/M01 A3010 RMK AO1 SLP192 T01831006 KLWT 191854Z AUTO 32011G19KT 300V360 10SM SCT065 09/M08 A3019 RMK AO2 SLP236 T00891078 KLXL 191856Z AUTO 29012G18KT 10SM OVC020 10/06 A2963 RMK AO2 KNFL 191856Z VRB05KT 10SM FEW200 19/M13 A3010 RMK AO2 SLP160 HZ ALQDS T01891128 FGSL 191800Z 22008KT 8000 SCT008 FEW018CB 29/24 Q1009 TEMPO TS KLWV 191853Z AUTO 11005KT 9SM OVC007 17/17 A2953 RMK AO2 RAE46 CIG 005V010 SLP995 P0004 T01670167 $ KNEW 191853Z AUTO 31009KT 10SM CLR 28/19 A2981 RMK AO2 SLP087 T02830189 TSNO KLXN 191855Z AUTO 36023G29KT 10SM BKN060 OVC095 11/01 A2993 RMK AO2 T01110008 LEGE 191830Z 00000KT 9999 FEW030TCU BKN045 14/12 Q1017 EPSN 191830Z 27004KT CAVOK 07/M02 Q1021 RMK 072 051 5/5= KMOP 191855Z AUTO 09014G20KT 10SM CLR 17/00 A2982 RMK AO2 T01660004 KMNZ 191855Z AUTO 29017G22KT 10SM CLR 25/12 A2984 RMK AO2 T02450122 KLYH 191854Z 08006KT 10SM -RA FEW030 BKN065 OVC080 18/14 A3000 RMK AO2 RAB1759 SLP154 P0000 T01830144 KMOR 191835Z AUTO 12007KT 8SM CLR 19/18 A2974 RMK EPRZ 191830Z 29005KT CAVOK 05/03 Q1017 LDOS 191900Z 00000KT CAVOK 09/M02 Q1020 KLXT 191853Z AUTO 28009G15KT 10SM SCT036 BKN049 19/12 A2964 RMK AO2 SLP034 T01940117 KMOT 191854Z 31020G30KT 10SM FEW021 BKN050 OVC065 07/02 A2988 RMK AO2 PK WND 32038/1800 RAB01E29B41E54 SLP129 P0000 T00720022 KMQB 191855Z AUTO 11014KT 10SM SCT034 SCT041 OVC065 18/12 A2959 RMK AO2 T01780116 LEHC 191600Z 26013KT 230V300 9999 FEW045 17/04 Q1014 LDPL 191900Z VRB01KT CAVOK 07/01 Q1020 BECMG 06006KT KLXV 191855Z AUTO 32009G21KT 3/4SM -SN SCT024 BKN034 OVC047 M02/M05 A3010 RMK AO2 P0000 T10221050 KNFW 191852Z 29015G20KT 10SM FEW032 23/14 A2982 RMK AO2 SLP082 T02330139 $ KMQE 191854Z AUTO 08007KT 12/00 A3021 RMK AO1 SLP244 T01170000 KMPO 191853Z AUTO 13010G16KT 10SM CLR 16/M05 A3014 RMK AO2 SLP207 T01611050 $ KMOX 191853Z AUTO 32020G26KT 10SM SCT022 OVC028 09/05 A2972 RMK AO2 KNGP 191856Z 15011KT 10SM SCT015 BKN027 OVC034 26/21 A2982 RMK AO2 SLP096 T02560206 $ KLXY 191855Z AUTO 25014G17KT 10SM SCT043 27/18 A2974 RMK AO2 T02680178 LEGR 191830Z 27010KT 240V300 CAVOK 19/04 Q1015 KMQI 191855Z AUTO 10012G18KT 10SM SCT029 OVC100 20/17 A3001 RMK AO2 T02010165 KMQJ 191856Z AUTO 11011KT 4SM OVC011 15/ A2960 RMK AO1 LEGT 191800Z 24005KT 9999 FEW050 17/04 Q1016 KMRB 191853Z AUTO 14011G18KT 10SM CLR 19/05 A3006 RMK AO2 SLP176 T01890050 TSNO KNHK 191852Z 11016KT 10SM BKN034 BKN060 BKN250 17/10 A3009 RMK AO2 SLP190 T01720100 LEIB 191830Z 07004KT CAVOK 16/12 Q1016 NOSIG KMRC 191855Z AUTO 22012KT 10SM FEW050 24/00 A2959 RMK KNGU 191759Z 07016G21KT 7SM BKN230 BKN300 20/14 A3007 RMK AO2 SLP182 T02000139 10211 20178 58018 KP92 191853Z AUTO VRB05KT 25/21 A2982 RMK AO1 SLP097 T02500211 KMPV 191851Z AUTO 06005KT 10SM CLR 11/M08 A3026 RMK AO2 SLP254 T01111078 KLYV 191854Z AUTO 34021G25KT 10SM BKN021 OVC026 11/05 A2975 RMK AO2 KNID 191856Z AUTO 14008KT 090V180 10SM CLR 28/M08 A2993 RMK AO2 SLP118 T02781078 KMRF 191815Z AUTO 30011G18KT 10SM CLR 23/M06 A3005 RMK AO1 KMPZ 191835Z AUTO 34004KT 10SM SCT120 20/11 A2956 RMK AO2 T02010114 KMRH 191758Z AUTO 13008KT 10SM -RA FEW017 BKN030 OVC046 21/19 A2999 RMK AO2 RAB30 SLP157 P0000 60000 T02110194 10244 20200 55008 TSNO LDRI 191800Z 05007KT 350V090 CAVOK 13/03 Q1019 KMQS 191855Z AUTO 12008KT 080V160 10SM CLR 17/02 A3014 RMK AO2 KMRJ 191830Z AUTO 06004KT 10SM CLR 23/04 A2962 RMK AO2 EPWA 191830Z 32012KT CAVOK 07/M01 Q1017 NOSIG KLZU 191845Z 22008G15KT 5SM -RA BR OVC005 19/16 A2979 RMK ATIS H RWY 25 JW KMRN 191835Z AUTO 11004KT 10SM OVC009 18/18 A2990 RMK AO2 T01800177 KNIP 191853Z 21013KT 10SM SCT055 OVC210 33/18 A2987 RMK AO2 SLP110 SVR T2 SET T03280183 $ KMQY 191856Z 17012G18KT 10SM FEW023 SCT030 23/18 A2960 RMK AO2 T02330183 SLP030 KLZZ 191855Z AUTO 29013G22KT 10SM CLR 27/10 A2982 RMK AO2 T02700103 KOAJ 191855Z AUTO 11011G16KT 10SM FEW020 SCT041 BKN050 22/17 A2995 RMK AO1 LFBA 191830Z AUTO 11004KT 9999 FEW026 OVC046 14/12 Q1017 KOAK 191853Z 28005KT 10SM BKN012 14/09 A2998 RMK AO2 SLP151 T01440089 KMRT 191854Z AUTO 14010G16KT 5SM BKN032 OVC038 18/11 A2974 RMK AO2 T01770110 KNJK 191856Z AUTO 16006KT 10SM CLR 31/M01 A2984 RMK AO2 SLP120 T03061011 $ KMTC 191822Z 10012KT 7SM SCT036 BKN060 BKN080 10/06 A2987 KMSL 191853Z AUTO 24014G17KT 10SM FEW038 SCT065 24/18 A2965 RMK AO2 RAB21E43 SLP033 P0004 T02440178 LFBC 191830Z AUTO 23006KT 9999 FEW016 12/10 Q1017 KNJM 191857Z AUTO 11009KT 10SM FEW070 BKN085 OVC110 21/18 A2997 RMK AO2 RAE23 SLP152 P0000 T02060183 LFBD 191830Z AUTO 24011KT 9999 NSC 13/09 Q1016 KMSN 191853Z 10014KT 10SM SCT170 OVC250 23/05 A2962 RMK AO2 SLP028 T02280050 KOBE 191855Z AUTO 19011KT 10SM SCT043 32/21 A2992 RMK AO2 LFBE 191830Z AUTO 00000KT 9999 NSC 14/11 Q1017 KMSO 191853Z 00000KT 10SM CLR 13/M03 A3013 RMK AO2 SLP205 T01331028 VOTR 191840Z 10004KT 6000 FEW020 28/24 Q1011 NOSIG KMSP 191853Z 27012KT 10SM OVC017 15/12 A2961 RMK AO2 RAE11 SLP028 PRESENT WX VCSH P0001 T01500117 KMRY 191854Z 30007KT 10SM CLR 13/08 A2999 RMK AO2 SLP166 T01330083 LDSP 191900Z 31006KT 250V010 CAVOK 12/02 Q1018 NOSIG LFBG 191830Z AUTO 27004KT 9999 BKN044 OVC058 13/10 Q1016 KMTH 191853Z AUTO VRB06KT 10SM FEW016 31/24 A2994 RMK AO2 SLP137 T03060244 LFBH 191830Z AUTO 23007KT 190V250 9999 NSC 14/07 Q1016 LFAQ 191830Z AUTO 02010KT 9999 NSC 11/03 Q1020 LEJR 191900Z 28005KT 240V340 CAVOK 17/12 Q1016 LFBI 191830Z AUTO 09004KT 050V120 9999 NSC 16/00 Q1016 KMTJ 191853Z AUTO VRB05KT 10SM FEW029 11/04 A3012 RMK AO2 SLP172 T01110039 KMSS 191853Z AUTO 05009G17KT 10SM CLR 12/M03 A3024 RMK AO2 SLP244 T01221033 EPWR 191830Z 33007KT CAVOK 09/01 Q1020 VOTV 191710Z 01005KT 3000 TS SCT015 FEW025CB BKN090 27/23 Q1010 NOSIG LFAT 191830Z AUTO 36008KT 340V040 9999 NSC 09/02 Q1022 LELC 191800Z 21008KT 180V240 CAVOK 20/08 Q1014 NOSIG KNLC 191856Z AUTO VRB05KT 10SM CLR 28/06 A2990 RMK AO2 SLP122 T02830056 $ LFBL 191830Z AUTO 23003KT 9999 -RA OVC039/// ///TCU 11/10 Q1016 KMSV 191855Z AUTO 09009KT 10SM CLR 16/M05 A3016 RMK AO1 LFBM 191830Z AUTO 27008KT 9999 FEW034 BKN042 15/07 Q1017 KMTN 191854Z 10014G20KT 10SM SCT150 BKN250 17/06 A3016 KMTO 191853Z AUTO 10004KT 1 3/4SM -RA BR OVC006 15/15 A2952 RMK AO2 RAE21B50 CIG 003V008 SLP993 P0000 T01500150 KOCF 191850Z 21012G20KT 10SM SCT060 32/17 A2991 LFBO 191830Z AUTO 09002KT 9999 FEW038 BKN047 BKN054 13/11 Q1017 KMTP 191854Z AUTO 16006KT 12/02 A3027 RMK AO1 SLP250 T01170022 KMSY 191853Z 29012KT 10SM FEW030 FEW250 29/15 A2980 RMK AO2 SLP096 T02890150 $ LFBP 191830Z AUTO 29010KT 9999 OVC090 13/08 Q1018 KOCH 191855Z AUTO 23010G14KT 10SM FEW027 26/19 A2975 RMK AO1 KMUI 191858Z AUTO 15012KT 10SM FEW200 19/02 A3010 RMK AO2 SLP195 T01920019 KNKT 191854Z 13012G19KT 10SM -RA SCT017 BKN050 OVC070 21/19 A2998 RMK AO2 WSHFT 1828 RAE07B30 SLP148 P0001 T02110189 LFBT 191830Z AUTO 24005KT 9999 FEW031 OVC058 12/08 Q1018 LFCK 191830Z AUTO VRB02KT 9999 FEW010/// BKN015/// BKN025/// ///TCU 12/11 Q1018 LELL 191830Z 16005KT 100V200 9999 FEW015 BKN065 15/12 Q1017 LFBU 191830Z AUTO 28003KT 9999 FEW023 OVC041 13/09 Q1016 KMTV 191835Z AUTO 10005KT 5SM RA OVC009 17/17 A2996 RMK AO2 P0003 T01720172 LEMD 191830Z 35010KT 310V020 9999 SCT070 17/04 Q1016 NOSIG LELN 191800Z 27008KT 240V310 9999 FEW055 13/03 Q1016 KMVE 191854Z AUTO 01016G23KT 10SM OVC024 09/07 A2973 RMK AO2 KMTW 191856Z AUTO 10006KT 10SM FEW075 12/00 A2974 RMK AO2 SLP093 T01220000 LELO 191800Z VRB03KT 9999 FEW035 SCT060 16/07 Q1016 KNKX 191855Z 29007KT 10SM CLR 23/11 A2994 RMK AO2 SLP134 T02280106 $ KMUO 191758Z AUTO VRB02KT 10SM CLR 16/M04 A3012 RMK AO2 SLP192 T01641039 10165 20050 57008 $ LFBY 191800Z AUTO 27005KT 230V300 9999 // FEW024/// SCT029/// BKN034/// 14/09 Q1017 LEMG 191830Z VRB01KT CAVOK 19/11 Q1014 NOSIG EPZG 191830Z 30004KT 270V340 CAVOK 11/01 Q1021 KMVH 191855Z AUTO 34012G21KT 10SM OVC065 07/M10 A3018 RMK A01 KOCQ 191835Z AUTO 07007KT 10SM CLR 12/01 A2976 RMK AO1 T01190007 LFBZ 191830Z AUTO 28007KT 250V310 9999 BKN021 OVC064 13/09 Q1018 LEMH 191830Z 01009KT 9999 FEW008 BKN015 15/13 Q1016 LFCR 191830Z AUTO 25005KT 9999 BKN008 OVC030 09/09 Q1017 KMWA 191853Z 14005KT 10SM -RA BKN010 OVC015 20/18 A2952 KOEB 191854Z AUTO 09013G16KT 10SM SCT060 SCT080 18/04 A2973 RMK AO2 T01750037 KMUT 191835Z AUTO 00000KT 10SM FEW070 SCT095 23/10 A2956 RMK AO2 KMVL 191854Z AUTO 00000KT 10SM CLR 12/M07 A3024 RMK AO2 SLP245 T01221072 TSNO KMWC 191845Z AUTO 10007KT 10SM SKC 15/M02 A2972 KNMM 191856Z AUTO 27013G21KT 10SM SCT048 BKN060 BKN075 27/15 A2973 RMK AO2 SLP075 T02670150 KMVN 191855Z AUTO 00000KT 3SM OVC005 17/14 A2953 RMK AO1 KOCW 191855Z AUTO 10004KT 10SM SCT027 SCT035 BKN060 22/18 A2998 RMK AO2 T02200180 KODO 191853Z AUTO 36016G21KT 10SM CLR 23/M01 A2997 RMK AO2 PK WND 01028/1821 SLP116 T02281011 LEMO 191900Z 27004KT CAVOK 19/07 Q1016 NOSIG KMWH 191852Z 15003KT 10SM CLR 20/M03 A3014 RMK AO2 SLP207 T02001028 KMWK 191835Z AUTO 11007KT 19/17 A2992 RMK AO2 P0003 T01860171 PWINO KMWL 191853Z AUTO 30017G24KT 10SM CLR 22/12 A2979 RMK AO2 SLP079 T02220122 KMWM 191841Z AUTO 31021G29KT 10SM BKN012 OVC017 10/07 A2971 RMK AO2 KMWN 191851Z 31006KT 110SM FEW/// FEW170 FEW200 FEW220 M03/M11 RMK TPS LWR FEW060 KODX 191853Z AUTO 34025G33KT 10SM SCT090 10/M02 A2989 RMK AO2 PK WND 35033/1844 SLP125 T01001017 $ KOFF 191847Z AUTO 32014G27KT 10SM -RA OVC014 11/09 A2970 RMK AO2 RAE07RAB11E31DZB31E35RAB35E36RAB47 KMXF 191803Z AUTO 19005KT 10SM SCT016 SCT021 23/21 A2977 RMK AO2 KMWO 191855Z AUTO 12015G20KT 10SM -RA SCT018 BKN026 OVC080 20/16 A2966 RMK AO2 T01950162 KOEO 191835Z AUTO 18010KT 10SM OVC014 14/11 A2964 RMK AO2 T01350105 KMVY 191853Z 08012KT 10SM CLR 12/01 A3026 RMK AO2 SLP247 T01170011 $ KNOG 191856Z AUTO 22005KT 10SM CLR 28/22 A2982 RMK AO2 SLP079 T02780217 TSNO $ KMWS 191845Z 25502G05KT 21/02 RMK SNOW DEPTH 3.00 PTKK 191850Z 04007KT 15SM FEW014 SCT120 OVC280 28/25 A2976 RMK SLP079 T02800252 KNPA 191856Z 22014G21KT 10SM SCT012 OVC015 24/22 A2980 RMK AO2 SLP093 T02440217 $ KOGA 191835Z AUTO 33020G27KT 10SM BKN070 BKN080 10/M05 A3002 RMK AO2 T00991055 LFGA 191830Z AUTO 36010KT 9999 NSC 15/M00 Q1017 LEPA 191830Z 29005KT 270V330 9999 FEW035 17/06 Q1015 NOSIG KMWT 191853Z AUTO VRB05KT 10SM CLR 26/11 A2965 RMK AO2 SLP032 T02560111 $ KOGB 191853Z AUTO 15007KT 10SM -RA FEW014 BKN035 OVC045 23/20 A2988 RMK AO2 SLP115 P0000 T02330200 $ KOGD 191853Z VRB03KT 10SM CLR 17/00 A3005 RMK AO2 SLP143 T01670000 KMYF 191853Z 30007KT 10SM CLR 22/12 A2994 RMK AO2 SLP136 T02170117 KMXO 191835Z AUTO 04007KT 10SM CLR 21/10 A2959 RMK AO2 KOFP 191854Z AUTO 08009G15KT 050V120 10SM OVC110 20/11 A3005 RMK AO2 SLP176 T02000111 $ PTKR 191850Z 00000KT 15SM SCT017 SCT300 26/25 A2984 RMK SLP104 T02610246 KNQA 191850Z 23016KT 10SM SCT018 BKN030 OVC150 21/18 A2964 LDZA 191900Z 20002KT CAVOK 08/02 Q1021 NOSIG LFGJ 191830Z AUTO 20007KT 9999 NSC 14/08 Q1017 KMYL 191851Z AUTO VRB05KT 10SM CLR 12/M07 A3012 RMK AO2 SLP190 T01221067 LDZD 191900Z 25003KT 120V290 CAVOK 09/02 Q1018 NOSIG KNOW 191835Z AUTO 12004KT 10SM CLR 12/06 A3021 RMK AO2 T01230060 LEPP 191830Z 33008KT 9999 FEW032 11/06 Q1017 ESCF 191850Z AUTO 30008KT 9999 NCD 09/04 Q1018 KMYP 191855Z AUTO 1 1/2SM -SN BKN003 OVC007 M05/M06 A3024 RMK AO2 VIS 1/2V4 KMZH 191852Z AUTO 00000KT 2 1/2SM BR OVC007 08/07 A2959 RMK AO2 KMYR 191845Z 15009KT 10SM -RA SCT010 BKN048 OVC100 22/19 A2995 KNQI 191856Z 21006KT 10SM SCT022 BKN037 OVC250 28/23 A2981 RMK AO2 SLP091 T02780233 $ GABS 191830Z 12004KT 090V150 8000 FEW033 38/06 Q1009 NOSIG KNRB 191852Z AUTO 15010KT 10SM FEW055 24/22 A2987 RMK AO2 SLP113 T02440222 $ KMYV 191853Z AUTO 00000KT 10SM CLR 26/12 A2990 RMK AO2 SLP127 T02560117 ESDF 191850Z AUTO 29004KT 9999 NCD 10/03 Q1020 FJDG 191755Z 02005KT 9999 FEW020 SCT050 BKN080 27/26 A2985 RMK SLP105 P0003 60003 8/870 T02710260 10286 20270 402990270 52014 KMYZ 191835Z AUTO 33018G24KT 10SM OVC019 11/08 A2976 RMK AO2 LERI 191800Z 16004KT CAVOK 20/08 Q1014 NOSIG WIBB 191730Z 00000KT 8000 FEW020 26/24 Q1011 LESA 191800Z 26005KT 200V330 9999 FEW045 14/04 Q1017 KOJA 191855Z AUTO 32012G19KT 10SM SCT037 BKN060 OVC070 16/09 A2981 RMK AO2 KOJC 191853Z 28009G16KT 10SM FEW033 SCT042 BKN050 19/12 A2965 RMK AO2 SLP033 T01940122 LGAD 191850Z 00000KT CAVOK 15/12 Q1012 KPAE 191853Z 01006KT 10SM CLR 14/07 A3017 RMK AO2 SLP219 T01440067 KNSE 191856Z AUTO 21017KT 8SM OVC011 24/23 A2980 RMK AO2 CIG 008V014 SLP076 T02390233 $ KNQX 191853Z 16012KT 10SM FEW016 SCT045 BKN120 29/23 A2993 RMK AO2 SLP133 T02940233 $ KPAH 191853Z 23010KT 10SM FEW013 SCT021 BKN048 21/18 A2952 RMK AO2 RAB04E19 SLP994 P0001 T02060178 $ FIMP 191900Z 11005KT 9999 VCSH SCT017 24/21 Q1017 KMZZ 191835Z AUTO 08007KT 4SM -RA OVC019 13/12 A2966 RMK AO2 P0014 T01320115 KNSI 191857Z AUTO 31015KT 10SM CLR A2997 RMK AO2 SLPNO $ FIMR 191800Z 13013KT 9999 FEW018 24/19 Q1015 KNRS 191856Z AUTO 30012KT CLR 19/13 A2996 RMK AO2 SLP143 T01940128 $ LERS 191830Z 08008KT 050V120 9999 FEW020 15/13 Q1016 LERT 191800Z 28012KT CAVOK 17/12 Q1016 NOSIG KOKB 191852Z AUTO 24009KT 10SM CLR 20/11 A2994 RMK AO2 SLP137 T02000111 LFKB 191830Z 32003KT 9999 BKN053 BKN110 14/08 Q1016 NOSIG KOKC 191852Z 31010KT 10SM BKN047 BKN060 BKN100 19/09 A2975 RMK AO2 SLP067 T01940094 $ LGAL 191850Z 02007KT 9999 SCT035 08/04 Q1019 LFKC 191700Z 00000KT 9999 VCSH FEW026 FEW043CB BKN063 17/11 Q1014 TEMPO TS LFJL 191830Z AUTO 08008KT 9999 NSC 12/M02 Q1018 KPAM 191851Z AUTO 14006KT 10SM -DZ FEW200 21/19 A2982 RMK AO2 RAE42DZB42 PRESFR KNTD 191856Z 27010KT 9SM FEW006 FEW300 16/12 A2997 RMK AO2 SLP149 T01560117 $ KPAN 191855Z AUTO 24011G16KT 10SM CLR 22/M09 A3006 RMK AO2 KPAO 191847Z 03006KT 7SM SCT015 16/12 A2997 KPBF 191853Z AUTO 27010G14KT 10SM CLR 26/14 A2969 RMK AO2 SLP050 T02560144 LFKF 191830Z AUTO 07006KT 030V120 9999 BKN054/// BKN092/// 14/10 Q1016 LESO 191830Z VRB03KT 9999 BKN025 14/11 Q1018 KPBG 191853Z AUTO 08006KT 10SM CLR 10/M04 A3026 RMK AO2 SLP248 T01001044 KPBH 191855Z AUTO 16006KT 10SM OVC025 11/06 A2966 RMK AO2 T01130056 KPBI 191853Z 16013KT 10SM FEW033 SCT250 32/20 A2992 RMK AO2 SLP132 T03220200 $ LFJR 191830Z AUTO 04005KT 9999 NSC 16/02 Q1017 LFKJ 191830Z AUTO 00000KT 9999 FEW048 OVC062 17/11 Q1015 WIDD 191830Z AUTO 00000KT 9999NDV BKN038 25/24 Q1010 METAR WAAA 191830Z 05002KT 8000 FEW020 24/24 Q1009 NOSIG KOKK 191855Z AUTO 09014KT 5SM BKN018 BKN024 13/11 A2963 RMK AO1 P0015 LFLB 191830Z AUTO 01007KT 9999 SCT045 SCT072 OVC084 12/08 Q1017 LEST 191830Z 36004KT 330V050 9999 SCT011 SCT032 11/09 Q1019 NOSIG KNUC 191756Z 28011KT 10SM BKN011 BKN250 16/11 A3000 RMK SLP156 T01610111 10161 20133 55002 LESU 191700Z 35005KT 280V080 9000 -SHRA FEW018 SCT030CB BKN052 11/07 Q1015 LETL 191830Z AUTO 34015KT CAVOK 12/02 Q1017 LGBL 191850Z 11016KT 9999 FEW020 BKN080 BKN200 13/09 Q1017 LFLC 191830Z 19002KT 9999 SCT066 SCT180 12/08 Q1015 NOSIG PTPN 191350Z 16003KT 15SM SCT018 BKN130 OVC300 26/24 A2976 RMK LAST LGAV 191820Z 02013KT 9999 SCT020 BKN070 13/10 Q1014 NOSIG KOKM 191835Z AUTO 02005KT 10SM BKN070 20/12 A2971 RMK AO2 T01980122 KOLE 191855Z AUTO 12012G16KT 10SM CLR 18/00 A3000 RMK AO2 LETO 191800Z VRB02KT 9999 FEW060 17/03 Q1016 NOSIG KOLF 191853Z AUTO 34021G32KT 10SM CLR 12/M04 A3009 RMK AO2 PK WND 36032/1845 SLP204 T01221044 KOLG 191835Z AUTO 16003KT 10SM OVC022 11/08 A2961 RMK AO1 ESGG 191850Z 30008KT CAVOK 09/02 Q1022 KNUI 191853Z AUTO 07011G18KT 10SM OVC029 18/11 A3008 RMK AO2 SLP187 T01830111 KOMA 191852Z 33021G26KT 10SM -RA BKN012 OVC050 11/09 A2971 RMK AO2 PK WND 32032/1824 SLP061 P0002 T01060089 LFKS 191830Z AUTO VRB01KT 9999 BKN086/// OVC150/// ///TCU 13/12 Q1016 ESGJ 191850Z 30010KT CAVOK 10/03 Q1020 WIEE 191430Z 03004KT 6000 R33/M0050VP1500D TSRA FEW017CB 25/24 Q1012 KNTU 191856Z 09015G21KT 8SM FEW065 BKN080 OVC200 19/14 A3002 RMK AO2 CIG 065 RWY 05R SLP166 VIRGA SW-W T01890144 $ KPDC 191855Z AUTO 31005KT 10SM SCT090 SCT120 19/05 A2960 RMK AO2 T01920054 LFMC 191830Z AUTO 00000KT 9999 NSC 12/09 Q1017 LFLL 191830Z 12003KT CAVOK 12/09 Q1017 NOSIG LEVC 191830Z 06008KT CAVOK 18/12 Q1014 NOSIG LEVD 191830Z 30005KT 220V350 9999 FEW040 14/02 Q1017 KOLM 191854Z 01009KT 10SM CLR 17/05 A3016 RMK AO2 SLP214 T01670050 KPCM 191855Z AUTO 23009KT 175V245 10SM SCT048 SCT060 32/22 A2992 RMK AO2 KOKV 191855Z AUTO 10010KT 10SM CLR 19/01 A3005 RMK AO2 LFMD 191830Z AUTO VRB02KT 9999 SCT080 BKN120 13/06 Q1017 LFLN 191830Z AUTO 07004KT 9999 -RA NSC 12/10 Q1016 KPBX 191835Z AUTO 13014G21KT 7SM SCT020 BKN047 OVC070 18/15 A2976 RMK AO2 T01800150 LFLP 191830Z AUTO 28001KT 9999 FEW036 SCT044 OVC056 11/07 Q1017 ESGP 191850Z 31008KT CAVOK 08/02 Q1023 KNUQ 191856Z 01006KT 8SM CLR 17/11 A2997 RMK AO2 SLP152 T01720106 KOKZ 191855Z AUTO 23006KT 4SM +VCTSRA SCT006 BKN031 OVC044 19/18 A2983 RMK AO2 LTG DSNT ALQS T01880175 KOMH 191835Z AUTO 05008G14KT 10SM SCT055 BKN110 21/08 A3006 RMK AO2 LFMH 191830Z AUTO VRB03KT 6000 NSC 11/08 Q1017 LFMI 191830Z AUTO 08004KT 9999 BKN033 BKN060 OVC072 13/09 Q1017 ESGR 191850Z AUTO 33008KT 9999 NCD 12/M01 Q1020 KOLS 191854Z AUTO 28009KT 10SM CLR 26/M06 A3001 RMK AO2 SLP112 T02561061 KONA 191853Z AUTO 12008KT 10SM BKN027 BKN031 16/07 A2963 RMK AO2 KPEA 191835Z AUTO 04003KT 10SM SCT018 20/16 A2958 RMK AO2 T02010158 LFLS 191830Z AUTO 33002KT 9999 BKN017 OVC060 10/09 Q1018 KPDK 191853Z 17008KT 10SM BKN006 BKN019 OVC025 20/19 A2978 RMK AO2 SLP075 T02000194 KOMK 191853Z AUTO 01011KT 10SM CLR 20/M02 A3014 RMK AO2 SLP208 T02001022 KNY0 191835Z AUTO 12008KT 040V130 10SM CLR 13/M03 A3020 RMK AO2 T01321031 LFMK 191830Z AUTO 26005KT 230V300 9999 FEW032/// OVC064/// ///TCU 14/10 Q1017 ESGT 191750Z 29012KT CAVOK 14/03 Q1022 LFLU 191800Z AUTO 21004KT 9999 OVC066 13/09 Q1017 ESIB 191850Z AUTO 30007KT 9999 // NCD 12/03 Q1021 KOLU 191855Z AUTO 34021G26KT 10SM FEW036 SCT043 BKN060 11/02 A2983 RMK AO1 LFML 191830Z 07008KT 030V100 9999 FEW030 BKN056 BKN100 13/08 Q1017 NOSIG KOLV 191750Z 27010KT 10SM BKN020 BKN049 OVC070 19/19 A2967 KOMN 191850Z 22008G14KT 10SM SCT040 32/20 A2989 LFLW 191830Z AUTO 28003KT 7000 -RADZ SCT006 BKN010 OVC021 09/08 Q1016 PTRO 191850Z 00000KT 14SM SCT016 BKN300 26/24 A2984 KPCW 191852Z AUTO 08020KT 10SM CLR 08/03 A2977 RMK AO2 T00770033 PK WND KNUW 191856Z 26007KT 10SM FEW200 14/08 A3019 RMK AO2 SLP228 T01390083 VISNO E $ LFMN 191830Z 12011KT 9999 FEW030 BKN070 BKN120 15/07 Q1017 NOSIG LFMO 191830Z AUTO 00000KT 9999 BKN066 OVC100 13/11 Q1018 LFLX 191830Z AUTO 04003KT 9999 NSC 14/08 Q1016 KOLY 191835Z AUTO 14005KT 2 1/2SM -RA OVC006 16/16 A2953 RMK AO2 LFMP 191830Z AUTO 01008KT 9999 BKN064 OVC074 16/09 Q1017 LFLY 191830Z AUTO 12003KT 9999 NSC 11/10 Q1017 KPCZ 191855Z AUTO 10010G18KT 10SM CLR 20/01 A2969 RMK AO2 T01970012 KOLZ 191835Z AUTO 12006KT 10SM CLR 15/12 A2962 RMK AO2 LEVS 191830Z 25006KT 9999 FEW045 16/04 Q1016 KOOA 191835Z AUTO 10007KT 10SM SCT120 21/13 A2957 RMK AO2 T02050131 LFOA 191830Z AUTO 17001KT 9999 NSC 16/06 Q1016 KPDT 191853Z 25005KT 10SM CLR 19/01 A3012 RMK AO2 SLP193 T01890006 LFMT 191830Z 12008KT 9999 FEW010 BKN016 13/11 Q1018 NOSIG LFOB 191830Z AUTO 03008KT 9999 NSC 12/04 Q1020 LEVT 191830Z 04007KT 9999 SCT030 BKN042 11/08 Q1018 LGEL 191850Z 00000KT 9999 FEW030 SCT070 16/10 Q1014 KONL 191835Z AUTO 33025G34KT 10SM SCT050 11/00 A2988 RMK AO2 T01131001 LFOC 191830Z AUTO 04007KT 9999 NSC 14/02 Q1017 LFMU 191830Z AUTO 09008KT 9999 SCT017/// BKN027/// BKN032/// ///TCU 13/11 Q1017 KONM 191835Z AUTO 04010G19KT 10SM CLR 20/M03 A3003 RMK AO2 T01961030 LFMV 191830Z AUTO 12003KT 080V140 9999 FEW027 OVC072 13/10 Q1018 ETAD 191858Z AUTO 07008KT 9999 CLR 12/M02 A3014 RMK AO2 SLP200 LFOE 191830Z AUTO 03009KT 9999 NSC 12/03 Q1019 KPDX 191853Z 26006KT 10SM BKN250 18/06 A3009 RMK AO2 SLP189 T01780061 KONO 191853Z AUTO 05006KT 10SM CLR 20/M04 A3012 RMK AO2 SLP196 T02001039 KPEO 191853Z AUTO 11006KT 10SM CLR 17/M02 A3009 RMK AO2 SLP190 T01671017 KNXF 191856Z AUTO 26010KT 200V290 6SM HZ CLR 19/12 A2995 RMK AO2 SLPNO T01890122 $ LEVX 191830Z 27008KT 240V300 CAVOK 12/09 Q1019 NOSIG RCKH 191800Z 31003KT 270V350 9999 FEW015 BKN030 BKN060 27/22 Q1010 NOSIG RMK A2984 KONP 191855Z AUTO 34010KT 10SM CLR 15/07 A3011 RMK AO2 LFMY 191830Z AUTO 09006KT 060V120 9999 FEW042 BKN062 OVC092 12/09 Q1017 KPEQ 191855Z AUTO 34013G16KT 10SM CLR 25/01 A2995 RMK AO2 T02510009 LFOH 191830Z AUTO 05011KT 9999 NSC 09/04 Q1021 LEXJ 191830Z 26009KT 9999 FEW018 SCT024 13/09 Q1018 KPGA 191853Z AUTO VRB06KT 10SM CLR 20/00 A3005 RMK AO2 SLP130 T02000000 TSNO $ LFOJ 191830Z AUTO 03008KT 9999 NSC 14/03 Q1017 KONT 191853Z 30004KT 4SM HZ CLR 24/03 A2993 RMK AO2 SLP124 T02440033 LFOK 191830Z AUTO 03007KT 9999 NSC 13/03 Q1018 LFPB 191830Z AUTO 02007KT 350V050 9999 NSC 15/03 Q1018 KNYC 191851Z AUTO 17008G19KT 10SM CLR 14/01 A3024 RMK AO2 SLP230 T01390006 $ LFPC 191830Z AUTO 02008KT 9999 NSC 13/03 Q1019 KPGD 191853Z 22015G21KT 10SM CLR 32/21 A2992 RMK AO2 SLP132 T03220211 PTTP 192350Z 03006KT 15SM SCT018TCU BKN300 30/26 A2984 RMK TCU E-SE SLP105 60021 8/201 T03000255 10318 20244 50000 WIHH 191100Z 21005KT 4000 -TSRA FEW017CB SCT016 24/23 Q1011 RMK CB TO S KOPF 191853Z 18013KT 10SM CLR 32/18 A2993 RMK AO2 SLP134 T03170183 KPEX 191853Z AUTO 25016KT 10SM OVC006 07/07 A2968 RMK AO2 T00730067 KONX 191855Z AUTO 09006KT 7SM SCT025 BKN046 OVC055 19/14 A3003 RMK AO2 T01880138 VQPR 192350Z 32004KT 6000 SCT015 BKN050 09/05 Q1019 NOSIG KNYG 191856Z AUTO 17016KT 10SM CLR 19/12 A3008 RMK AO2 SLP186 T01890117 KNXP 191856Z AUTO VRB05KT 10SM CLR 29/M07 A2998 RMK AO2 SLP117 T02891067 $ LFPG 191830Z 02010G21KT 010V080 CAVOK 14/04 Q1018 NOSIG LFOP 191830Z AUTO 04009KT 9999 NSC 13/03 Q1020 KONZ 191854Z AUTO 07014G20KT 10SM CLR 13/06 A2981 RMK AO2 KPEZ 191855Z AUTO 24007KT 10SM SCT018 27/21 A2982 RMK AO2 T02680210 ETAR 191858Z AUTO 06005KT 9999 CLR 10/M02 A3012 RMK AO2 SLP208 T01021019 $ LFQA 191830Z AUTO 03005KT 360V060 9999 NSC 15/M00 Q1018 LFOT 191830Z 04006KT 360V080 CAVOK 15/02 Q1016 NOSIG LFQB 191830Z AUTO 04006KT 9999 NSC 16/01 Q1017 KNYL 191757Z AUTO 22004KT 9SM CLR 29/M02 A2988 RMK AO2 SLP116 T02941017 10294 20167 58001 $ KOPL 191835Z AUTO 25003KT 10SM CLR 25/17 A2981 RMK AO2 T02500173 KPHD 191853Z AUTO 13016G24KT 10SM BKN110 23/05 A2981 RMK AO2 SLP091 T02330050 LFOV 191830Z AUTO 05008KT 9999 NSC 14/03 Q1018 LFPM 191830Z AUTO 03004KT 360V070 9999 NSC 14/02 Q1018 KOPN 191855Z AUTO 21008G14KT 10SM OVC009 21/20 A2983 RMK AO2 LTG DSNT E LFPN 191830Z AUTO 04009KT CAVOK 14/01 Q1018 ESKN 191850Z 34011KT CAVOK 14/M02 Q1016 KPHF 191854Z 08012G21KT 8SM BKN018 OVC040 20/14 A3005 RMK AO2 SLP174 T02000144 LFPO 191830Z 05010KT CAVOK 15/01 Q1018 NOSIG LFQG 191800Z AUTO 15005KT 9999 NSC 17/08 Q1015 WIII 191900Z 25002KT 4000 BR FEW020 25/23 Q1010 NOSIG LEZG 191830Z 31006KT 9999 FEW040 16/05 Q1016 LGHI 191750Z 01005KT 340V050 9999 FEW020 SCT090 BKN180 17/14 Q1012 KPIA 191854Z 08004KT 8SM -RA SCT070 OVC085 17/12 A2958 RMK AO2 SLP016 P0000 T01720117 KORB 191853Z AUTO 00000KT 3SM DZ BKN005 OVC009 06/04 A2958 RMK AO2 KPIB 191855Z AUTO 28007KT 10SM FEW001 28/14 A2978 RMK AO1 LFRB 191830Z CAVOK 10/06 Q1020 NOSIG LFPT 191830Z AUTO /////KT 9999 NSC 13/03 Q1019 GAMB 191800Z 00000KT 4000 DU NSC 38/05 Q1009 KPHL 191854Z 12012KT 10SM FEW180 BKN250 17/02 A3017 RMK AO2 SLP216 T01670022 $ KORC 191835Z AUTO 34015G24KT 10SM OVC019 11/07 A2973 RMK AO2 LFRC 191830Z AUTO 06011KT 9999 NSC 08/03 Q1021 LEZL 191830Z VRB02KT CAVOK 21/06 Q1015 NOSIG KORD 191851Z 08011KT 10SM SCT080 SCT095 BKN140 BKN210 19/03 A2963 RMK AO2 SLP031 T01940033 KPGV 191835Z AUTO 10008KT 10SM SCT027 BKN050 21/17 A3000 RMK AO2 LFPV 191830Z AUTO 03010KT 9999 NSC 15/01 Q1018 LFRD 191830Z AUTO 03012KT 9999 NSC 11/05 Q1020 KORE 191852Z AUTO VRB04KT 10SM CLR 16/M04 A3019 RMK AO2 SLP225 T01611039 KPIE 191853Z 20013G24KT 10SM FEW032 OVC320 30/22 A2992 RMK AO2 PK WND 21027/1759 SLP132 T03000217 KPHN 191856Z AUTO 11013G17KT 10SM SCT028 SCT044 BKN075 12/06 A2986 RMK AO2 KORF 191851Z AUTO 06009KT 8SM FEW048 BKN070 OVC120 17/13 A3002 RMK AO2 SLP166 T01720133 TSNO RCMQ 191800Z 18011KT 9999 FEW010 BKN050 24/20 Q1008 RMK A2979 KPHP 191855Z AUTO 33026G35KT 10SM OVC065 11/M04 A2997 RMK AO2 PK WND 33039/1837 SLP149 T01111044 KORG 191855Z AUTO 18011G14KT 10SM CLR 27/17 A2981 RMK AO2 T02660168 LFRG 191830Z AUTO 07008KT 030V120 9999 NSC 10/04 Q1020 GAKY 191800Z 36006KT 4000 DU NSC 43/04 Q1005 KPIH 191853Z VRB05KT 10SM CLR 16/M08 A3010 RMK AO2 SLP174 T01561078 KORH 191854Z 10SM CLR 14/M03 A3019 RMK AO2 SLP228 T01391033 LFQQ 191830Z 01011KT CAVOK 11/04 Q1021 NOSIG LFRH 191830Z AUTO 03011KT 9999 NSC 12/06 Q1019 LFRI 191830Z AUTO 05004KT 9999 NSC 14/03 Q1016 KOSA 191835Z AUTO 21010G20KT 10SM SCT016 BKN023 BKN028 23/17 A2972 RMK AO1 T02300170 LFRJ 191830Z AUTO 05012KT 9999 NSC 09/06 Q1020 KOQT 191853Z AUTO 17004KT 10SM -RA SCT013 BKN027 OVC070 21/19 A2970 RMK AO2 SLP048 P0003 T02060189 KPHT 191855Z AUTO 24009KT 10SM BKN017 BKN021 OVC080 20/18 A2957 RMK LFSB 191830Z 12002KT CAVOK 15/01 Q1017 NOSIG LFRK 191830Z AUTO 04008KT 010V070 9999 NSC 09/05 Q1020 KOQU 191750Z 18012KT 15SM BKN250 A3024 ESMK 191850Z 30013KT CAVOK 10/02 Q1021 KORL 191853Z 20012KT 10SM FEW070 32/21 A2989 RMK AO2 SLP123 T03220211 KPIL 191853Z AUTO 11014KT 7SM FEW019 SCT031 28/23 A2979 RMK AO2 SLP086 T02780233 KOSC 191854Z AUTO 06012KT 10SM CLR 09/00 A2995 RMK AO2 T00970001 ETEB 191858Z AUTO 04003KT 9999 CLR 12/M04 A3014 RMK AO2 SLP225 LFRL 191830Z AUTO 04010KT 010V070 9999 NSC 11/06 Q1019 RCNN 191800Z 19003KT 9999 FEW012 BKN060 25/21 Q1009 RMK A2982 LFRM 191830Z AUTO 03008KT 360V070 9999 NSC 16/02 Q1018 LFSD 191830Z AUTO 22002KT 9999 NSC 15/05 Q1016 LFRN 191830Z AUTO 02010KT CAVOK 14/06 Q1018 LGIO 191850Z 00000KT 9999 FEW035 14/11 Q1013 KPHX 191851Z 35004KT 10SM FEW120 FEW200 29/M04 A2988 RMK AO2 SLP102 T02941039 LFRO 191830Z AUTO 05005KT 340V110 9999 FEW013 09/06 Q1021 KNZY 191852Z 31011KT 10SM FEW013 BKN250 19/12 A2994 RMK AO2 SLP137 T01890122 $ LFSG 191830Z AUTO 03009KT 9999 NSC 13/01 Q1017 ESNG 191820Z 32014KT CAVOK 04/M04 Q1015 KOSH 191853Z 14012G21KT 10SM CLR 18/02 A2969 RMK AO2 SLP049 T01830017 LFRQ 191830Z AUTO 06011KT 030V090 9999 NSC 12/04 Q1019 KPIR 191853Z AUTO 32025G34KT 10SM FEW047 OVC070 11/M01 A2990 RMK AO2 PK WND 33039/1810 SLP130 T01061011 PTYA 191854Z VRB04KT 12SM SCT016 SCT130 BKN300 26/24 A2982 RMK SLP098 T02570238 ESMQ 191850Z 30007KT CAVOK 10/02 Q1018 LGIR 191820Z 30007KT 9999 SCT080 18/16 Q1012 NOSIG LFSI 191830Z AUTO 05007KT 9999 NSC 16/M01 Q1017 KORS 191855Z AUTO 36006KT 10SM CLR 12/08 A3019 RMK AO2 KQAJ 191855Z 28007KT 9999 SKC 24/M03 A2996 RMK SLP145 T02441028 LFRS 191830Z 04010KT 010V090 CAVOK 17/01 Q1017 NOSIG LFRT 191830Z AUTO 06012KT 9999 NSC 09/05 Q1020 KPKB 191853Z 12011G17KT 10SM -RA OVC100 20/09 A2985 RMK AO2 PK WND 15026/1828 RAB05 SLP105 P0000 T02000089 KPIT 191851Z 14016G23KT 10SM FEW038 FEW075 OVC180 21/03 A2989 RMK AO2 PK WND 12027/1810 SLP125 T02110033 ESMS 191850Z 31013KT CAVOK 07/02 Q1022 LGKC 191450Z /////KT 9999 FEW025 18/10 Q1013 LFRU 191830Z AUTO 04010KT 9999 SCT017 SCT022 09/06 Q1020 ESNK 191850Z AUTO 33015KT 9999 NCD 09/00 Q1018 ESMT 191850Z 32008KT CAVOK 08/02 Q1022 LHBC 191745Z 19003KT CAVOK 08/M01 Q1020 LFSL 191830Z AUTO VRB02KT 9999 BKN014 BKN027 BKN048 12/10 Q1016 ESNL 191850Z 30010KT CAVOK 07/M01 Q1017 KPKD 191853Z AUTO 29018G24KT 10SM BKN008 OVC013 09/06 A2962 RMK AO2 RAB34E46 CIG 006V010 SLP040 P0000 T00890061 LFRV 191830Z AUTO 01008KT 9999 NSC 12/06 Q1018 LFSN 191830Z AUTO 05005KT 9999 NSC 12/01 Q1018 ESNN 191850Z 31023G34KT CAVOK 10/M01 Q1018 R16/CLRD// ESOE 191850Z AUTO 33014KT 9999NDV NCD 14/M02 Q1019 LGKF 191750Z 34006KT CAVOK 18/13 Q1012 KQBF 191755Z AUTO 13003KT 2SM HZ CLR 37/M07 A2997 RMK AO2 SLP125 T03711072 10379 20255 55001 $ LFSO 191830Z AUTO 06009KT 9999 NSC 14/M01 Q1018 ESNO 191850Z AUTO 32011KT 9999 NCD 09/M00 Q1017 ESMX 191850Z AUTO 30005KT 9999 NCD 09/02 Q1020 KOTG 191855Z AUTO 33023G30KT 7SM OVC012 09/06 A2972 RMK AO1 KS25 191835Z AUTO 32016G24KT 10SM SCT027 BKN033 OVC050 05/00 A2999 RMK AO2 KOTH 191855Z 34012KT 10SM CLR 16/11 A3005 RMK AO1 LFRZ 191830Z AUTO 04006KT 9999 NSC 16/02 Q1017 LFTH 191830Z AUTO 05007KT 010V090 9999 NSC 12/08 Q1017 ESNQ 191850Z 32014KT CAVOK 02/M03 Q1015 GANR 191800Z 08002KT 8000 NSC 41/M03 Q//// ESPA 191850Z 34006KT CAVOK 06/M04 Q1015 ESNS 191850Z 34010KT CAVOK 08/M03 Q1015 LFST 191830Z AUTO 04012KT 9999 NSC 16/M02 Q1018 KOSU 191853Z 12014G21KT 8SM -RA OVC050 18/12 A2974 RMK AO2 PK WND 12026/1808 SLP070 P0000 T01830117 ESOK 191850Z 34010KT CAVOK 13/M05 Q1022 LGKL 191850Z 00000KT CAVOK 15/14 Q1012 KQBL 191856Z AUTO 18004KT 10SM FEW029 SCT035 BKN045 24/19 A2981 RMK AO2 SLP100 T02370193 ESNU 191850Z 33011KT CAVOK 10/M03 Q1016 R14/09//95 KOTM 191853Z AUTO 04010KT 10SM CLR 22/13 A2954 RMK AO2 SLP999 T02220133 ESPE 191850Z AUTO 34008KT 9999 NCD 06/M02 Q1016 LGKO 191850Z 01005KT 9999 FEW020 SCT080 BKN180 17/14 Q1012 LFSX 191830Z AUTO 14005KT 9999 NSC 13/01 Q1016 ESNX 191850Z 31015KT CAVOK 04/M01 Q1016 LGKP 191850Z AUTO 05012KT 360V060 //// -RA ////// 17/10 Q1011 RE// LHBP 191830Z 30007KT CAVOK 06/M02 Q1020 NOSIG ETGG 191820Z VRB02KT 9999 FEW150 10/02 Q1025 BLU+ ESNZ 191850Z 31024KT CAVOK 05/M01 Q1024 LGKR 191820Z 24003KT CAVOK 16/12 Q1012 NOSIG ETHA 191820Z AUTO 06008KT //// // ////// 08/M01 Q1019 /// VRMM 191800Z 28004KT 9999 FEW018TCU BKN270 30/25 Q1011 NOSIG WIMM 191830Z AUTO 25003KT 6000NDV SCT230 25/25 Q1009 KS39 191900Z AUTO 00000KT 10SM CLR 17/M05 A3012 RMK AO2 ETHB 191820Z 03003KT 9999 FEW300 12/02 Q1023 BLU+ KQCL 191855Z AUTO 26003KT 6000 BR CLR 15/14 A2992 RMK AO2 SLP099 T01540136 PNO $ LHDC 191415Z 25008KT 9999 SCT046 11/M03 Q1019 NOSIG ETHC 191820Z VRB02KT 9999 SCT250 14/M01 Q1023 BLU+ KPMD 191853Z AUTO 05005KT 10SM CLR 26/M04 A2995 RMK AO2 SLP119 T02611039 LGKV 191850Z 07006KT 9999 FEW015 SCT025 OVC080 09/08 Q1019 LGLM 191850Z AUTO 04009KT //// -RA ////// 11/04 Q1018 RE// KPKV 191855Z AUTO 20007KT 10SM CLR 27/22 A2979 RMK AO2 T02670224 KOVE 191853Z AUTO VRB04KT 10SM CLR 25/11 A2991 RMK AO2 SLP129 T02500106 $ KPLN 191854Z AUTO 10015G27KT 10SM CLR 14/M01 A2987 RMK AO2 PK WND 08027/1851 SLP121 T01441011 KOUN 191855Z AUTO 31010G15KT 10SM SCT047 BKN060 BKN070 20/11 A2976 RMK AO2 LFTW 191830Z AUTO 00000KT 9999 BKN039 BKN064 OVC078 13/10 Q1018 ETHE 191820Z AUTO 03004KT //// // ////// 13/02 Q1023 /// ESOW 191850Z AUTO 34010KT 9999 NCD 13/M03 Q1018 ETHF 191820Z 06004KT 9999 FEW300 14/00 Q1021 BLU+ LGKZ 191850Z AUTO 34007KT 320V020 //// // ////// 07/02 Q1017 RERA ETGQ 190420Z AUTO VRB01KT //// // ////// 01/M00 Q1022 /// LGLR 191750Z 08017KT 9999 SCT030 OVC070 12/08 Q1016 BLU KOWA 191855Z AUTO 30012KT 7SM -RA SCT009 BKN015 OVC038 14/12 A2962 RMK AO2 KPNA 191835Z AUTO 00000KT 10SM SCT048 BKN065 06/M06 A3014 RMK AO2 LGMK 191750Z 01011KT 7000 SCT006 SCT018 OVC080 15/12 Q1013 KOWB 191856Z 22008KT 10SM BKN009 OVC046 22/19 A2953 RMK AO2 T02160188 RAB17E49 P0000 SLP996 KPNC 191853Z AUTO 34008KT 10SM SCT031 BKN046 BKN060 20/12 A2972 RMK AO2 SLP059 T02000122 TSNO $ KOVL 191853Z AUTO 32021G28KT 10SM BKN018 OVC031 08/05 A2969 RMK AO2 KPLU 191835Z AUTO 00000KT 10SM CLR 16/08 A3016 RMK AO2 ETHL 191820Z 06007KT 9999 FEW280 09/M00 Q1019 BLU+ KOWD 191853Z 10008KT 10SM CLR 13/00 A3023 RMK AO2 SLP235 T01330000 ETIC 191858Z AUTO 33002KT 9999 CLR 09/M01 A3014 RMK AO2 SLP220 T00941012 KPNE 191854Z 09013KT 10SM CLR 17/M01 A3020 RMK AO2 SLP225 T01671006 ETHN 191820Z 04004KT 9999 SCT300 10/M02 Q1020 BLU+ LFVP 191900Z 02015KT 9999 FEW020 BKN040 02/M07 Q1018 NOSIG KPMP 191853Z 16015KT 10SM FEW035 31/21 A2992 RMK AO2 SLP131 T03110211 KQEI 191850Z AUTO 31004KT 9999 OVC018 09/07 A2972 RMK A02 TSNO ETIH 191858Z AUTO 28005KT 9999 CLR 08/M01 A3014 RMK AO2 SLP220 T00801008 KQEJ 191850Z AUTO 18002KT 8000 -RA BKN025 BKN055 09/07 A2969 RMK A02 TSNO KOVS 191853Z AUTO 00000KT 10SM CLR 23/06 A2960 RMK AO2 SLP023 T02280056 KQFA 191855Z AUTO VRB01KT 9999 -RA FEW042 SCT060 OVC075 10/10 A2964 RMK AO2 RAB1656E1656B1712 SLP036 P0004 T00990099 $ PWAK 191858Z AUTO 08016KT 9999 FEW024 25/20 A2998 RMK AO2 SLP159 T02500203 ETHS 191820Z 03005KT 9999 SCT300 12/M01 Q1024 BLU+ KOXB 191853Z AUTO 06013G20KT 10SM BKN031 13/07 A3014 RMK AO2 SLP207 T01280067 TSNO ESSA 191850Z 34006KT CAVOK 11/M01 Q1016 NOSIG KQFB 191850Z AUTO 27004G10KT 9000 HZ BKN010 13/11 A2963 RMK A02 TSNO LGMT 191850Z 10011KT 050V140 9999 FEW025 BKN080 BKN180 13/08 Q1015 KPOB 191838Z AUTO 11005KT 6SM -RA BR OVC029 21/19 A2991 RMK AO2 KPOC 191747Z 26005KT 3SM CLR 20/08 A2999 ESSB 191850Z 35006KT CAVOK 12/M02 Q1016 KQEL 191850Z AUTO 08003KT 9999 OVC050 10/08 A2973 RMK A02 TSNO KOXC 191850Z 15009KT 10SM BKN250 14/M00 A3020 ETIK 191858Z AUTO 00000KT 9999 CLR 08/00 A3014 RMK AO2 SLP216 T00781004 WIOO 191500Z 00000KT 7000 SCT011 24/24 Q1012 NOSIG KPNM 191854Z AUTO 26010G15KT 10SM BKN019 OVC023 12/09 A2963 RMK AO2 KPMV 191855Z AUTO 32021G29KT 10SM OVC015 10/08 A2970 RMK AO2 T01030082 ESSD 191850Z AUTO 32013KT 9999 NCD 10/M03 Q1019 KQEN 191850Z AUTO M0400 -RA FG CLR M03/M05 / RMK A02 TSNO KPOE 191758Z AUTO 21009KT 10SM FEW038 25/17 A2979 RMK AO2 SLP087 T02470172 10247 20145 58007 KPOF 191853Z AUTO 29011KT 10SM BKN022 BKN028 OVC100 21/16 A2957 RMK AO2 LTG DSNT SE SLP010 T02060156 KQEP 191850Z AUTO 31005KT 9999 CLR 11/08 A2960 RMK A02 TSNO KQFG 191855Z AUTO 06004KT 9999 VCTS FEW038 BKN055 19/14 A2992 RMK AO2 SLP105 T01900137 $ KOWP 191855Z AUTO 00000KT 10SM BKN060 BKN090 21/08 A2972 RMK AO2 T02120082 KQEQ 191850Z AUTO 04007G12KT 9999 OVC043 10/08 A2953 RMK A02 TSNO RCSS 191800Z 27004KT 8000 FEW020 SCT150 23/21 Q1004 NOSIG RMK A2967 KQER 191850Z AUTO 11001KT 8000 /OVC039 09/07 / RMK A02 TSNO KOXI 191855Z AUTO 12011KT 7SM SCT033 BKN041 OVC049 15/01 A2965 RMK AO1 KQES 191850Z AUTO 3200 -RA OVC007 10/08 A2965 RMK A02 TSNO LGPA 191850Z AUTO 04018KT //// // ////// 16/11 Q1012 RE// KPNS 191853Z 20011G20KT 10SM -RA BKN016 OVC028 23/20 A2980 RMK AO2 RAB47 SLP094 P0000 T02280200 KPPA 191835Z AUTO 35023G35KT 10SM BKN027 BKN031 OVC036 10/05 A2997 RMK AO2 T01040047 ESTA 191850Z 31011KT CAVOK 07/03 Q1023 KPNT 191835Z AUTO 10010KT 10SM -RA SCT033 BKN060 OVC080 15/13 A2963 RMK AO2 P0001 T01450125 ESSL 191850Z AUTO 30010KT 9999NDV NCD 11/03 Q1018 KQEV 191850Z AUTO 08002KT 2000 -RA BR CLR 13/11 A2960 RMK A02 TSNO WIPP 191700Z 00000KT 8000 FEW062 26/25 Q1011 NOSIG KQEW 191850Z AUTO 04002KT 4000 -RA BR OVC003 13/12 A2958 RMK A02 TSNO FKKD 191800Z 26010KT 7000 -TSRA SCT002 BKN013 SCT016CB BKN120 28/26 Q1009 TEMPO 3000 TSRA RCTP 191830Z 24028G38KT 9999 FEW020 SCT150 26/20 Q1003 NOSIG RMK A2964 KPPF 191852Z AUTO 28007KT 10SM SCT080 17/12 A2972 RMK AO2 SLP059 T01670122 KQEX 191850Z AUTO 05002KT 1600 BR CLR 13/12 A2961 RMK A02 TSNO LGNX 191250Z 02014KT CAVOK 19/14 Q1012 KQEY 191850Z AUTO 23001KT 2000 DZ BR BKN002 BKN009 14/12 A2958 RMK A02 TSNO ESSP 191850Z 32009KT CAVOK 14/M03 Q1017 KQFQ 191855Z AUTO VRB03KT 6SM -RA SCT042 OVC070 10/10 A2964 RMK AO2 RAB1727 SLP036 P0004 T00990099 $ KOXR 191851Z 28009KT 8SM FEW008 16/11 A2996 RMK AO2 SLP145 T01560111 KQFS 191856Z AUTO M M M M M M RMK AO2 SLPNO $ KOZA 191835Z AUTO 34014G22KT 10SM CLR 26/00 A2994 RMK AO2 KQFT 191850Z AUTO 02004G13KT 9999 OVC013 12/07 A2965 RMK A02 TSNO KQFU 191850Z AUTO 21004KT 9999 CLR 10/08 A2967 RMK A02 TSNO KPOU 191853Z 04006KT 10SM CLR 18/01 A3016 RMK AO2 SLP210 T01780006 FKKL 191800Z 02005KT CAVOK 32/M02 Q1009 KQFV 191850Z AUTO 10001KT 9999 CLR 09/07 A2969 RMK A02 TSNO ESTL 191850Z AUTO 30012KT 9999NDV NCD 07/03 Q1023 KPOV 191855Z AUTO 13010G16KT 10SM CLR 22/00 A2983 RMK AO2 T02200000 KOXV 191835Z AUTO 00000KT 10SM FEW018 BKN027 19/14 A2956 RMK AO2 ESUD 191850Z AUTO 29013KT 9999 ////// 06/M00 Q1018 ESSV 191850Z 27008KT CAVOK 07/05 Q1015 KPPO 191835Z AUTO 12013KT 10SM SCT036 SCT050 BKN100 20/05 A2968 RMK AO2 T02020053 FKKN 191700Z 36004KT CAVOK 30/12 Q1014 KQFX 191850Z AUTO 06003KT 6000 HZ FEW003 BKN009 BKN011 11/09 A2964 RMK A02 TSNO KPOY 191835Z AUTO 35015G21KT 10SM CLR 08/M09 A3015 RMK AO2 KPPQ 191855Z AUTO 06007KT 7SM -RA SCT030 BKN039 OVC070 17/14 A2957 RMK AO2 P0002 T01660139 KPQI 191855Z AUTO 31010G17KT 10SM FEW075 10/M08 A3014 RMK AO1 LFYR 191830Z AUTO 04004KT 360V070 9999 NSC 17/M00 Q1016 FKKR 191800Z 02008KT 8000 NSC 37/02 Q1006 NOSIG KPRB 191853Z AUTO 00000KT 10SM CLR 23/03 A2993 RMK AO2 SLP130 T02280033 TSNO KPRC 191853Z 00000KT 10SM CLR 22/M09 A3004 RMK AO2 SLP113 T02171094 KPQL 191853Z 20010KT 10SM FEW022 SCT028 26/21 A2980 RMK AO2 SLP091 T02610206 KQGV 191755Z 29010G15KT 9999 CLR 25/M06 A2995 RMK SLPNO QNH1015 PA +446 52016 KPQN 191854Z AUTO 33017G32KT 10SM SCT020 BKN028 OVC044 10/04 A2975 RMK AO2 KQHN 191855Z 22005KT 9999 CLR 19/07 A2994 RMK SLP098 Q1014 DA4655 KQGX 191758Z AUTO 28007KT 9999 CLR 25/15 A2990 RMK AO2 SLP127 60000 T02500146 10303 20250 52013 CHINO RWY13 $ KPRG 191835Z AUTO 08009KT 5SM RA OVC007 14/14 A2957 RMK AO2 P0006 T01400137 LGPZ 191850Z 23004KT CAVOK 15/13 Q1014 KOZR 191858Z AUTO 23009KT 10SM BKN007 BKN190 20/18 A2982 RMK AO2 RAE47 PRESRR SLP098 P0007 T02030179 LGSA 191850Z 12008KT 8000 FEW008 SCT080 16/15 Q1012 VTBD 191830Z 20007KT 9999 FEW030 SCT300 29/25 Q1009 NOSIG KPSC 191853Z 32006KT 10SM CLR 19/03 A3014 RMK AO2 SLP205 T01890028 ESUT 191850Z AUTO 30023KT 9999 OVC020/// 04/01 Q1020 KRAC 191853Z AUTO 02009KT 10SM CLR 15/02 A2970 RMK AO2 SLP057 T01500017 ETML 191820Z AUTO 32007KT //// // ////// 09/06 Q1024 /// KOZW 191855Z AUTO 11015KT 10SM SCT060 BKN070 BKN090 16/01 A2980 RMK AO2 T01600006 KPRN 191856Z AUTO 20010G14KT 10SM BKN007 BKN011 OVC014 22/19 A2978 RMK AO2 CIG 004V008 SLP081 T02170189 ETMN 191820Z 02010KT 9999 SCT220 09/04 Q1025 BLU+ KPSF 191854Z AUTO 02005KT 10SM CLR 15/M07 A3015 RMK AO2 SLP204 T01501072 KPRO 191855Z AUTO 30010KT 7SM SCT009 BKN014 OVC060 16/14 A2961 RMK AO2 T01550137 KQHY 191856Z AUTO 21007G14KT 10SM BKN031 23/19 A2982 RMK AO2 SLP104 T02340189 LGRP 191820Z 10007G18KT 9999 FEW020 18/16 Q1012 WS R07 NOSIG KQL5 191855Z 00000KT 9999 BKN050 18/16 A2990 RMK LTG DSNT NW SLP101 T01770158 ETNG 191850Z 04006KT CAVOK 13/03 Q1022 ETNH 191820Z 07004KT 9999 SCT220 10/00 Q1025 BLU+ KQIR 191858Z 34008KT 9999 CLR 23/11 A2991 RMK AO2A SLP130 T02260112 $ VTCC 191830Z 27003KT 9999 FEW040 28/17 Q1011 A2986 NOSIG KPRS 191835Z AUTO 29006KT 10SM CLR 28/M04 A2995 RMK AO2 T02761045 LGSK 191750Z /////KT 9999 FEW015 BKN025 OVC070 13/08 Q1016 KPTB 191835Z AUTO 07009KT 10SM SCT033 OVC110 21/11 A3003 RMK AO2 T02100109 KT20 191835Z AUTO 21007KT 10SM CLR 28/22 A2978 RMK AO2 T02830222 KPSK 191835Z AUTO 09010G17KT 5SM -RA OVC007 15/15 A2994 RMK AO2 P0001 T01510151 LIBC 191750Z 36011KT 9999 FEW050 13/09 Q1015 KRAL 191853Z 27005KT 5SM HZ CLR 25/04 A2993 RMK AO2 SLP120 T02500039 ETNL 191820Z 34007KT 9999 SCT170 BKN210 09/03 Q1023 BLU+ VTBO 191000Z 24010KT 9999 FEW024 31/25 Q1009 LIBD 191820Z 01008KT CAVOK 12/02 Q1017 LGSM 191550Z 21005KT CAVOK 20/14 Q1011 KRBD 191853Z 29017G24KT 10SM CLR 24/14 A2973 RMK AO2 SLP062 T02440139 KPSM 191858Z 10011KT 10SM FEW055 SCT250 10/01 A3022 RMK AO2A SLP238 T01030006 LHKE 191845Z 28004KT CAVOK 07/M02 Q1020 NOSIG RMK BLU KPSN 191855Z AUTO 20009KT 10SM SCT026 SCT033 25/19 A2976 RMK AO2 T02580194 LIBF 191550Z 34014KT CAVOK 14/03 Q1017 ETNN 191820Z AUTO 36004KT 6000 // ////// 13/01 Q1021 /// VTCH 191200Z VRB05KT 9999 SCT028 36/12 Q1006 A2972 LGSO 191850Z AUTO 35007KT 280V060 //// // ////// 15/12 Q1013 RE// KPSO 191855Z AUTO 28010G19KT 10SM SCT048 SCT050 OVC065 13/M09 A3008 RMK AO2 T01271093 KPRX 191855Z 10SM SCT030 BKN038 OVC045 23/15 A2970 RMK AO1 LGRX 191850Z 04006KT CAVOK 16/14 Q1012 LIBG 191750Z 36009KT CAVOK 12/04 Q1016 KPSP 191853Z 10008KT 10SM CLR 32/M06 A2986 RMK AO2 SLP107 T03221061 KRBG 191853Z AUTO 22004KT 10SM CLR 19/09 A3005 RMK AO2 SLP177 T01890089 KRAP 191852Z 33035G44KT 10SM SCT060 11/M05 A3000 RMK AO2 PK WND 33044/1852 SLP165 T01061050 LGTG 191750Z 08011KT 9999 FEW030 BKN080 BKN180 13/10 Q1014 BLU LIBH 191755Z 30010KT 9999 BKN030 17/09 Q1016 RMK BKN QUK / QUL / VIS MAR 15 KM VIS MIN 9999 VTBS 191830Z 20006KT 9999 FEW020 SCT300 28/24 Q1009 NOSIG LGSR 191850Z 04010KT 350V060 8000 FEW016 SCT080 BKN180 17/15 Q1012 VTCL 191200Z 21005KT 9999 FEW025 35/16 Q1006 A2973 INFO VTBU 191800Z 26006KT 6000 FEW020 SCT300 29/24 Q1010 A2984 LICA 191750Z 07017KT 9999 FEW035 16/10 Q1014 KRCA 191858Z AUTO 33029G38KT 10SM BKN060 10/M05 A2999 RMK AO2 PK WND 32043/33 SLP163 T01041052 $ KRAS 191855Z AUTO 16006KT 10SM OVC024 24/22 A2982 RMK AO2 T02390221 ETNS 191820Z AUTO 05005KT 9000 // ////// 09/00 Q1025 /// LICB 191750Z 03005KT 340V070 CAVOK 17/12 Q1015 KPUB 191853Z 05015G19KT 10SM FEW055 12/M02 A3006 RMK AO2 SLP157 T01221022 KPTK 191853Z 12016G22KT 10SM SCT030 BKN060 OVC090 14/02 A2982 RMK AO2 SLP100 VIRGA W T01440017 $ ETNT 191820Z 03007KT 9999 FEW190 09/03 Q1025 BLU+ VTCN 191200Z 00000KT 9999 FEW025 31/14 Q1005 A2970 RWY/02 INFO/L LICC 191850Z 10003KT 9999 SCT018 15/11 Q1017 KPUC 191853Z AUTO 19006KT 10SM SCT090 BKN110 14/M01 A3008 RMK AO2 SLP166 T01391006 TSNO $ KRBL 191854Z AUTO 35010KT 10SM CLR 29/01 A2991 RMK AO2 SLP124 T02890006 LICD 191750Z 01012KT CAVOK 18/14 Q1014 VTCP 190800Z 19007KT 9999 SCT025 BKN300 40/13 Q1005 A2969 RWY19 INFO H LIBN 191755Z 36008KT CAVOK 13/07 Q1016 RMK BKN FEW120 BKN200 VIS MIN 9999 WIND THR14 35008KT BLU KPTN 191855Z AUTO 20007G14KT 10SM CLR 27/18 A2984 RMK AO1 KRCE 191835Z AUTO 30012G17KT 10SM SCT047 BKN065 18/11 A2978 RMK AO2 ETNW 191820Z AUTO 01005KT 7000 // ////// 13/00 Q1023 /// LICF 191755Z 18006KT 9999 FEW040 17/13 Q1013 RMK BKN BKN200 QUK 2 QUL 0 VIS MAR 12 KM MON LIB NC VIS MIN 9999 KPSX 191853Z AUTO 19007KT 10SM CLR 26/21 A2980 RMK AO2 SLP090 T02560206 KRBO 191835Z 10SM SCT020 SCT025 OVC031 28/22 A2983 RMK AO2 T02750219 LIBP 191750Z VRB01KT 9999 FEW070 SCT090 12/03 Q1019 LICG 191755Z /////KT 4000 BR BKN003 BKN010 15/14 Q1014 LGSY 191750Z 04015G25KT 9999 SCT020 BKN080 OVC180 12/07 Q1015 BLU KT35 191835Z AUTO 26013G21KT 10SM SCT035 SCT043 SCT049 28/20 A2976 RMK AO2 T02830195 LIBQ 191755Z 25007KT 9999 FEW003 07/07 Q1013 RMK BKN SCT160 MON LIB VAL MAR CLD VIS MIN 9999 VTCT 191800Z 01002KT 7000 NSC 23/22 Q1010 A2984 LIBR 191845Z 34007KT 9999 FEW030 13/05 Q1017 NOSIG LICJ 191850Z 31005KT 8000 SCT008 16/16 Q1016 LGTS 191850Z 15008KT 9999 FEW008 BKN035 BKN060 11/08 Q1018 NOSIG KPTS 191855Z AUTO 23008KT 7SM -RA SCT036 BKN060 OVC090 16/12 A2972 RMK AO2 P0001 T01600123 KPUJ 191855Z AUTO 20006KT 10SM OVC016 22/22 A2977 RMK AO2 KPTT 191855Z AUTO 36028G37KT 10SM VCTS BKN018 BKN026 BKN031 10/07 A2988 RMK AO2 P0001 KPVB 191835Z AUTO 10007KT 10SM CLR 23/07 A2961 RMK AO1 T02250066 LICL 191755Z 22002KT 9999 SCT023 19/15 Q1014 RMK BKN BKN200 QUK 1 QUL 0 VIS MAR 12 KM VIS MIN 9999 KPVC 191855Z 05008KT 10SM CLR A3028 RMK AO1 LIBV 191755Z 35008KT CAVOK 09/02 Q1016 RMK BKN SCT120 BKN200 VIS MIN 9999 WIND THR32 35008KT WIND THR14 35008KT BLU KPVD 191851Z VRB06KT 10SM FEW050 BKN300 14/01 A3022 RMK AO2 SLP234 T01390011 KRDD 191853Z 01009KT 10SM CLR 29/01 A2990 RMK AO2 SLP120 T02940011 KPTV 191855Z AUTO 27007KT 10SM CLR 26/05 A2991 RMK AO1 ETOU 191555Z 07008KT 030V090 9999 CLR 17/M01 A3011 RMK A02A SLP200 KRCM 191835Z AUTO 26008KT 10SM SCT031 BKN036 19/12 A2964 RMK AO2 GCGM 191700Z 23009KT 200V260 9999 FEW035 19/10 Q1018 RMK CAB09 24006KT 180V290 GCFV 191830Z 05018KT 9999 FEW035 19/13 Q1017 KRBW 191855Z AUTO 16008KT 10SM OVC013 23/21 A2989 RMK AO2 LTG DSNT NW KPTW 191854Z AUTO VRB06KT 10SM CLR 17/03 A3016 RMK AO2 SLP210 T01720028 KPVE 191855Z AUTO 17007KT 10SM FEW015 SCT022 BKN029 19/18 A2959 RMK KPVF 191855Z AUTO 25005KT 10SM CLR 23/07 A2998 RMK AO1 KQLP 191655Z AUTO RMK AO2 SLPNO PWINO PNO TSNO $ LIBY 191755Z 02014KT CAVOK 12/02 Q1014 RMK BKN SCT080 BKN200 QUK 2 QUL 1 NE VIS MAR 20 KM VIS MAX 20 KM VIS MIN 9999 KRDG 191854Z 14008G16KT 110V170 10SM CLR 18/02 A3011 RMK AO2 SLP202 T01830017 KPVG 191855Z AUTO 10006KT 10SM BKN039 OVC047 22/13 A3004 RMK AO1 LICR 191750Z 20010KT CAVOK 15/12 Q1014 KRCR 191835Z AUTO 10010KT 10SM -RA BKN011 BKN017 OVC041 15/10 A2968 RMK AO2 P0001 GCHI 191700Z 04014KT 9999 FEW025 18/12 Q1018 LIEA 191820Z 20006KT 9999 FEW016 16/14 Q1015 KPWA 191853Z 33016G22KT 10SM SCT041 BKN050 BKN060 18/09 A2976 RMK AO2 SLP070 T01830089 KPVJ 191855Z AUTO 28003KT 10SM SCT035 SCT060 21/13 A2973 RMK AO2 T02060133 LIEB 191755Z 12002KT 9999 FEW015 SCT020 15/14 Q1014 RMK BKN BKN200 QUK 2 QUL 0 VIS MAR 20 KM MON W CIME INC NC VIS MIN 9999 LICT 191755Z 34006KT CAVOK 16/15 Q1014 KRDK 191835Z AUTO 33016G26KT 9SM -DZ FEW012 BKN037 OVC047 12/12 A2966 RMK AO2 LIEC 191755Z 22007KT 9999 SCT015 16/14 Q1014 RMK BKN SCT100 BKN200 QUK 2 QUL 0 VIS MAR 16 KM VIS MIN 9999 KPWC 191854Z AUTO 31004KT 10SM OVC014 08/08 A2965 RMK AO2 LIED 191755Z 15006KT 9999 FEW020 18/15 Q1013 RMK BKN BKN200 VIS MIN 9999 WIND THR35 15006KT WIND THR17 15006KT BLU KRCV 191855Z AUTO 24008KT 210V270 10SM BKN080 BKN090 10/M08 A3007 RMK AO2 T01001079 KRDM 191856Z 00000KT 10SM CLR 18/M04 A3012 RMK AO2 SLP192 T01781044 LIEE 191850Z 11003KT 070V150 9999 FEW025 16/14 Q1015 KPUW 191853Z AUTO VRB03KT 10SM CLR 17/M02 A3014 RMK AO2 SLP209 T01671017 FLHN 191525Z 07009KT 9999 TS FEW035CB SCT030 TEMPO 12015G20KT 7000 TS KRCX 191855Z AUTO 00000KT 7SM RA OVC020 10/07 A2968 RMK AO2 P0001 T00970067 KPWG 191855Z AUTO 29012G20KT 10SM CLR 27/15 A2978 RMK AO1 LICZ 191755Z 12003KT 5000 BR BKN018 14/14 Q1016 RMK BKN VIS MIN 5000 WIND THR28 10003KT A3002 WHT KRCZ 191835Z AUTO 13014G18KT 10SM SCT006 BKN065 OVC100 20/19 A2989 RMK AO2 T02030192 KRDR 191858Z AUTO 33022G28KT 10SM -RA BKN014 OVC022 06/04 A2972 RMK AO2 PK WND 33028/35 BKN V OVC SLP073 P0002 T00570037 ETSA 191820Z AUTO 05008KT 9999 // ////// 09/M02 Q1019 /// KPWK 191852Z 06008KT 10SM SCT080 15/02 A2966 RMK AO2 SLP045 T01500022 ETSB 191820Z AUTO 06008KT 9999 // ////// 11/M02 Q1020 /// KRDU 191851Z 10009KT 6SM -RA BR FEW019 BKN028 OVC047 19/18 A2994 RMK AO2 SLP136 P0004 T01940178 $ KPVU 191852Z VRB04KT 15SM SKC 16/M01 A3006 KPWM 191851Z 12009KT 10SM FEW050 12/01 A3024 RMK AO2 SLP239 T01170006 KRFD 191854Z 13014G20KT 10SM SCT080 BKN120 OVC250 23/06 A2961 RMK AO2 SLP024 T02280056 KPVW 191835Z AUTO 36021G29KT 10SM BKN049 16/03 A2996 RMK AO2 T01550030 KPXE 191835Z AUTO 22008G14KT 10SM -RA SCT035 SCT045 SCT050 22/20 A2986 RMK AO2 LTG DSNT E AND SE T02180195 LIEO 191820Z 01006KT 9999 -RA BKN015 14/13 Q1017 KREO 191852Z AUTO 04007KT 17/M13 A3012 RMK AO1 SLP192 T01721128 KT65 191835Z AUTO 21004KT 10SM BKN029 BKN035 BKN047 30/22 A2979 RMK AO2 T03020216 ETSH 191820Z 33003KT 9999 BKN240 11/01 Q1022 BLU+ KRFI 191835Z AUTO 23010G15KT 10SM BKN021 OVC028 24/18 A2975 RMK AO2 T02410182 ETSI 191820Z AUTO 11003KT 5000 // ////// 12/M02 Q1020 /// LHPA 191845Z 00000MPS CAVOK 07/01 Q1021 NOSIG RMK BLU KPWT 191855Z AUTO 03009KT 10SM CLR 17/06 A3018 RMK AO1 ETSL 191820Z 05008KT 9999 FEW300 07/M02 Q1019 BLU+ ETSN 191820Z AUTO 07004KT //// // ////// 11/M02 Q1020 /// LGZA 191850Z 36004KT CAVOK 14/13 Q1012 GCLA 191830Z 02011KT 350V050 9999 SCT035 18/10 Q1019 KRGK 191851Z AUTO 15004KT 10SM OVC023 18/11 A2960 RMK AO2 FLKK 191800Z 13004KT 9000 RA BKN090 19/16 Q1020 KPYM 191852Z AUTO 05010KT 10SM CLR 10/01 A3026 RMK AO2 SLP247 T01000006 KT82 191835Z AUTO 29010KT 10SM CLR 27/09 A2985 RMK AO2 P0001 T02650085 LHPP 191815Z 00000KT CAVOK 09/M03 Q1021 FMCH 191500Z 13005KT 9999 SCT020 30/23 Q1012 NOSIG KRHI 191853Z AUTO 14010KT 10SM BKN055 14/01 A2969 RMK AO2 SLP058 T01440011 LHPR 191815Z 27004KT CAVOK 09/M00 Q1021 FLLI 191525Z 07009KT 9999 TS FEW035CB SCT030 TEMPO 12015G20KT 7000 TS AGGH 191800Z 07002KT 9999 -DZ FEW014 SCT026 OVC100 24/24 Q1008 KRIC 191854Z 12015KT 10SM BKN120 OVC180 21/11 A3003 RMK AO2 SLP173 T02060106 $ KPYX 191835Z AUTO 36027G35KT 10SM BKN022 BKN028 OVC037 10/05 A2996 RMK AO2 T01010051 KRHP 191835Z AUTO 00000KT 3SM RA BKN017 BKN022 OVC036 16/16 A2980 RMK AO2 P0020 T01640164 GCLP 191830Z 01023KT 9999 FEW033 19/10 Q1017 NOSIG KQRH 191856Z AUTO 14003KT 9999 CLR 28/21 A2987 RMK AO2 SLP108 T02800212 KPZQ 191854Z AUTO 09018G21KT 10SM CLR 07/02 A2998 RMK AO2 T00700020 KSAA 191855Z AUTO 24003KT 10SM CLR 01/M05 A3016 RMK AO2 KQSA 191858Z 17006KT 9999 FEW070 SCT110 12/10 A2994 RMK AO2A SLP063 T01170102 402190113 $ KRIL 191853Z AUTO 00000KT 10SM FEW100 09/02 A3013 RMK AO2 SLP191 T00890022 KSAC 191853Z 00000KT 10SM CLR 23/12 A2990 RMK AO2 SLP126 T02330117 $ KRHV 191750Z 00000KT 10SM SCT013 14/09 A2999 KSAD 191851Z AUTO 27007KT 10SM CLR 27/M08 A2994 RMK AO2 SLP096 T02671083 FMEE 191830Z AUTO 13012KT 9999 FEW031/// ///CB 25/20 Q1016 KSAF 191853Z 06004KT 10SM CLR 14/M08 A3005 RMK AO2 SLP126 T01391083 KQSF 191855Z AUTO VRB01KT 9999 FEW100 11/08 A3006 RMK AO2 SLP137 T01130079 KQQY 182256Z AUTO 09006KT 9999 FEW065 SCT160 28/22 A2990 RMK AO2 SLP106 T02810224 $ FMCZ 191830Z AUTO 13006KT 9999 NCD 28/22 Q1013 KSBA 191853Z 17005KT 9SM HZ CLR 17/11 A2996 RMK AO2 SLP145 T01670111 KSBD 191850Z 32004KT 5SM HZ SKC 25/-01 A2993 KRKD 191855Z AUTO 17008KT 10SM BKN049 09/01 A3021 RMK AO1 KRIV 191758Z AUTO VRB05KT 10SM CLR 24/03 A2995 RMK AO2 SLP133 T02350031 10235 20060 57008 LHSM 191815Z 03003KT CAVOK 09/00 Q1021 ETWM 191820Z AUTO 05004KT 9999 // ////// 12/M00 Q1023 /// KSAN 191851Z 29010KT 10SM FEW012 SCT250 19/12 A2996 RMK AO2 SLP144 T01940117 LHSN 191845Z 25004KT CAVOK 07/M01 Q1020 NOSIG RMK BLU KRIW 191853Z AUTO 35009KT 310V010 10SM SCT050 08/M06 A3014 RMK AO2 SLP198 T00781061 $ KQSN 191855Z AUTO VRB01KT FEW100 12/05 A2997 RMK AO2 SLP133 T01160053 PWINO $ FMEP 191830Z AUTO 03003KT 9999 NCD 23/20 Q1015 KQTH 191855Z AUTO VRB03KT 9999 CLR 25/06 A2999 RMK AO2 SLP128 T02530055 $ KSAR 191855Z AUTO 33003KT 2SM RA OVC004 16/15 A2955 RMK AO2 P0004 T01560151 KQTI 191755Z AUTO 13001KT 9999 CLR 24/03 A2994 RMK AO2 SLP136 T02350031 10311 20268 52010 PWINO $ KSAT 191851Z 23013KT 10SM FEW035 FEW250 29/18 A2981 RMK AO2 SLP076 CU BLDG DSNT NW-NE T02890178 KSAV 191853Z 16010KT 10SM FEW015 SCT025 BKN110 OVC200 27/21 A2985 RMK AO2 SLP108 T02670211 KSBM 191853Z AUTO 15006KT 10SM CLR 17/01 A2972 RMK AO2 SLP066 T01670006 KSCD 191855Z AUTO 22010G16KT 10SM SCT018 SCT025 SCT095 23/20 A2975 RMK AO2 T02290201 LHUD 191815Z 20004KT CAVOK 08/00 Q1020 KSBN 191854Z 12013KT 10SM FEW065 SCT080 OVC095 19/06 A2968 RMK AO2 RAB35E44 SLP049 P0000 T01890056 KSAW 191847Z 16016G20KT 10SM OVC060 09/M02 A2980 GBYD 191900Z 32014KT CAVOK 23/17 Q1008 LJCE 191830Z 17004KT 140V210 CAVOK 08/02 Q1020 KSCF 191855Z AUTO 00000KT 10SM CLR 27/18 A2984 RMK A01 KRKP 191853Z AUTO 14011KT 10SM BKN014 BKN019 OVC026 26/22 A2981 RMK AO2 SLP095 T02560217 KSBP 191856Z 00000KT 10SM CLR 18/09 A2996 RMK AO2 SLP145 T01780089 KSCH 191756Z 00000KT 10SM CLR 13/M05 A3023 KSAZ 191853Z AUTO 28017G22KT 4SM RA OVC009 08/07 A2964 RMK AO2 KRKR 191855Z AUTO 24006G17KT 10SM SCT044 25/14 A2967 RMK AO2 T02460136 LIMA 191650Z VRB02KT 9999 FEW025 14/01 Q1019 KRKS 191854Z AUTO 00000KT 10SM OVC038 06/M04 A3014 RMK AO2 SLP196 T00561039 KSBS 191855Z AUTO 23006KT 10SM SCT036 SCT060 OVC075 04/M04 A3013 RMK AO1 T00431041 KSDA 191835Z AUTO 34020G28KT 10SM BKN015 BKN029 OVC055 13/11 A2968 RMK AO2 KSDB 191848Z AUTO 18009KT 10SM CLR 23/M01 A3005 RMK AO2 SLP126 T02331011 KSCK 191855Z 30006KT 10SM CLR 23/11 A2991 RMK AO2 SLP127 T02280106 LIMC 191850Z 15002KT CAVOK 09/03 Q1020 NOSIG LIME 191850Z 21004KT CAVOK 12/03 Q1020 KRME 191853Z 13009KT 10SM CLR 16/M07 A3017 RMK AO2 SLP218 T01611067 LIMF 191850Z 06002KT CAVOK 11/03 Q1020 KSDF 191856Z 20004KT 1SM R35R/4000VP6000FT +RA BR FEW006 BKN010 OVC016 19/18 A2953 RMK AO2 SLP996 P0014 T01890178 LIMG 191750Z 02014G26KT 350V050 9999 SCT080 15/01 Q1017 KRMG 191853Z AUTO 19009KT 10SM BKN020 BKN027 23/19 A2972 RMK AO2 SLP056 T02280189 $ KSBY 191854Z 09015G26KT 9SM OVC030 16/07 A3012 RMK AO2 PK WND 10029/1815 SLP203 T01560072 LIMH 191755Z /////KT 0300 FZFG VV/// M07/M09 Q1017 RMK MON INVIS VAL INVIS VIS MIN 0300 KQTZ 191855Z VRB02KT 9999 CLR 25/00 A2994 RMK SLP137 WND/ALSTG/SLP ESTMD KSCR 191835Z AUTO 12006KT 4SM RA BKN007 BKN016 OVC022 19/19 A2992 RMK AO2 T01930190 LIMJ 191850Z 35008KT 310V050 9999 FEW070 14/03 Q1018 KSEA 191853Z 35005KT 10SM SCT130 SCT230 17/06 A3016 RMK AO2 SLP220 T01670061 $ FKYS 191800Z 13002KT 9999 TS SCT020 FEW026CB 27/21 Q1013 NOSIG LIMK 191755Z 09004KT 9999 SCT030 09/01 Q1018 RMK BKN SCT100 VAL FOSCHIA VIS MIN 9999 LIML 191850Z 20003KT CAVOK 12/06 Q1020 NOSIG KSDL 191853Z VRB05KT 10SM CLR 28/M05 A2992 RMK AO2 SLP110 T02831050 KRNC 191855Z AUTO 21008KT 10SM FEW035 SCT060 23/18 A2965 RMK KSDM 191853Z 29007KT 10SM CLR 21/12 A2994 RMK AO2 SLP135 T02060122 KRND 191858Z AUTO 24012G16KT 10SM FEW100 SCT190 29/19 A2979 RMK AO2 SLP081 T02860193 KRMN 191835Z AUTO 11011G23KT 7SM SCT038 19/09 A3011 RMK AO2 T01910093 KSEE 191835Z AUTO 28006KT 9SM CLR 25/08 A2995 RMK AO2 LIMP 191750Z VRB02KT CAVOK 13/04 Q1019 KSEG 191853Z AUTO 17008KT 120V190 10SM CLR 19/03 A3008 RMK AO2 SLP186 T01940028 KRNH 191835Z AUTO 18007KT 10SM OVC018 14/09 A2962 RMK AO2 T01440094 LIMS 191755Z 11003KT CAVOK 12/10 Q1018 KROA 191854Z 11011G18KT 10SM -RA SCT026 OVC050 17/13 A2998 RMK AO2 SLP144 P0001 T01720133 KSFB 191853Z 20010G19KT 10SM CLR 33/18 A2988 RMK AO2 SLP118 T03280183 LIMU 191755Z 35019KT CAVOK 14/M02 Q1017 RMK BKN SCT070 QUK 3 QUL 1 E VIS MAR 30 KM VIS MIN 9999 KROC 191854Z 06013KT 10SM BKN230 13/01 A3010 RMK AO2 SLP197 T01330011 KRNM 191853Z 27008KT 10SM CLR 24/06 A2994 RMK AO2 SLP128 T02390056 $ KSEM 191855Z AUTO 20013G18KT 10SM SCT026 SCT032 SCT041 25/20 A2974 RMK AO2 KQWM 191855Z 30009KT 9999 CLR 25/M06 A2997 RMK SLP144 QNH1014 LIMW 191820Z AUTO 11012KT CAVOK 11/01 Q1019 VTPH 191200Z 17007KT 130V200 CAVOK 30/26 Q1008 NOSIG KSFF 191853Z 00000KT 10SM CLR 17/M03 A3013 RMK AO2 SLP203 T01721028 KRNO 191855Z VRB03KT 10SM FEW250 20/M13 A3010 RMK AO2 SLP153 T02001133 $ LIMY 191755Z 32004KT CAVOK 11/04 Q1019 RMK FEW FEW080 VAL FOSCHIA VIS MIN 9999 KRMY 191853Z AUTO 10009G18KT 10SM BKN046 BKN065 BKN070 18/03 A2973 RMK AO2 T01810029 KRNP 191854Z AUTO 11013G19KT 10SM CLR 20/01 A2979 RMK AO2 T01960012 KSDY 191855Z AUTO 30020G23KT 10SM SCT041 OVC050 08/M02 A3006 RMK AO1 KSEP 191855Z AUTO 33013G20KT 10SM SCT045 23/11 A2985 RMK AO2 T02300110 KROG 191857Z 30007KT 260V330 10SM BKN035 20/12 A2971 RMK AO2 SLP052 T02000117 LIMZ 191750Z 20002KT CAVOK 11/04 Q1019 LIPA 181955Z 35004KT 9999 SCT070 07/06 Q1020 RMK SCT VIS MIN 9999 WIND THR05 36004KT WIND THR23 35003KT A3015 BLU GCRR 191830Z 36019KT 320V020 9999 BKN035 19/10 Q1017 KU68 191835Z AUTO 30009G17KT 10SM CLR 11/M10 A3016 RMK AO2 KRNT 191853Z 31009KT 10SM CLR 16/07 A3015 RMK AO2 SLP214 T01610067 LIPB 191850Z 16009KT 120V190 CAVOK 14/01 Q1017 KSET 191854Z AUTO 03004KT 6SM -RA BR BKN016 OVC024 17/15 A2954 RMK AO2 SLP000 P0006 T01720150 FLSK 191800Z 00000KT 9999 FEW055CB SCT060 SCT300 20/19 Q1018 LIPC 191755Z 09003KT CAVOK 11/05 Q1019 FNBC 191600Z 22006KT 9999 FEW016 FEW019CB 26/26 Q1010 VTPO 191000Z 28005KT 9999 FEW022 SCT300 40/18 Q1004 KSFM 191855Z AUTO 14009G15KT 090V170 10SM CLR 11/M01 A3023 RMK AO1 KRNV 191855Z AUTO 26008KT 10SM CLR 24/19 A2971 RMK AO2 T02360187 KRPD 191835Z AUTO 14007KT 10SM OVC021 13/06 A2966 RMK AO2 T01250059 VTPP 191400Z 23002KT 7000 FEW027 31/21 Q1007 LIPE 191850Z 12003KT CAVOK 09/02 Q1020 LIPF 191755Z 00000KT CAVOK 12/00 Q1019 KSGF 191852Z 30013G20KT 10SM SCT027 BKN034 19/11 A2967 RMK AO2 PK WND 29028/1756 SLP041 T01940111 KSFO 191856Z 03004KT 10SM FEW007 SCT180 16/11 A2997 RMK AO2 SLP148 T01560111 FNBG 191600Z 30010KT 9999 BKN020 25/22 Q1010 LIPH 191845Z /////KT CAVOK 11/03 Q1019 KSGH 191856Z AUTO 12019G23KT 2 1/2SM -RA BR FEW017 BKN035 OVC075 17/17 A2970 RMK AO2 T01720166 BKN V SCT RAB1758 P0010 PRESFR SLP056 KRPH 191835Z AUTO 29016G22KT 10SM CLR 22/11 A2981 RMK AO2 T02220111 KSFQ 191835Z AUTO 07010KT 10SM BKN035 OVC040 21/12 A3003 RMK AO2 T02110121 KSEZ 191835Z AUTO 21008KT 170V240 10SM CLR 22/M06 A3005 RMK AO2 KROS 191856Z AUTO 18005KT 10SM OVC012 13/10 A2961 RMK AO2 T01250098 KRPJ 191855Z AUTO 13013KT 10SM OVC080 21/06 A2961 RMK AO2 T02050055 KSGJ 191758Z 14010KT 10SM SCT050 SCT060 28/23 A2990 RMK AO2 SLP125 T02830233 10300 20222 58007 FNCA 191600Z 21008KT 9999 FEW016 SCT090 29/25 Q1008 KQXT 191855Z 29010KT 9999 CLR 20/07 A2995 RMK SLP114 WND DATA ESTMD ALSTG/SLP ESTMD Q1014 KRQB 191853Z AUTO 08015G22KT 10SM CLR 18/M03 A2977 RMK AO2 T01751026 LIQC 191755Z /////KT 9999 BKN030 15/11 Q1014 RMK BKN QUK 2 QUL 1 NE VIS MAR 12 KM VIS MIN 9999 KSHD 191835Z AUTO 00000KT 10SM -RA SCT060 SCT070 OVC090 17/07 A3006 RMK AO2 T01740069 KROW 191851Z 02011KT 10SM CLR 21/M01 A3001 RMK AO2 SLP117 T02111011 KRQE 191853Z AUTO 31011G23KT 10SM FEW100 17/M09 A3009 RMK AO2 SLP113 T01721094 TSNO LIPO 191750Z 20006KT CAVOK 14/02 Q1019 KROX 191854Z AUTO 31005KT 7SM -RA BKN008 OVC012 08/05 A2960 RMK AO2 P0003 KSFY 191855Z AUTO 10008KT 10SM SCT080 25/06 A2957 RMK AO2 T02520055 LIPQ 191850Z VRB02KT CAVOK 12/01 Q1019 KSFZ 191855Z 07005KT 10SM CLR 15/M02 A3020 RMK AO1 LIPR 191745Z 07001KT 9999 FEW025 11/03 Q1019 VTSB 191500Z 00000KT 8000 FEW020 SCT300 26/26 Q1011 A2987 KSGR 191853Z 21009KT 10SM CLR 28/21 A2977 RMK AO2 SLP083 T02780206 VTSC 190900Z 07007KT 040V100 9000 SCT022 BKN300 30/26 Q1007 A2976 RWY20 INFO H LIPS 191755Z 22005KT CAVOK 14/01 Q1019 RMK SKC VIS MIN 9999 WIND THR26 /////KT WIND THR08 20003KT BLU LIRA 191845Z 21001KT 9999 FEW018 SCT025 15/12 Q1015 KSGS 191851Z AUTO 19007KT 2 1/2SM RA SCT015 BKN021 OVC038 15/13 A2960 RMK AO2 P0004 T01500133 GCTS 191830Z 08021KT 9999 FEW040 19/10 Q1017 WS R08 NOSIG KSGT 191855Z AUTO 25011KT 10SM CLR 26/17 A2968 RMK AO1 LIPU 191450Z 14005KT CAVOK 15/03 Q1019 KSGU 191855Z AUTO 35005KT 10SM CLR 24/M03 A2999 RMK AO1 KSHL 191835Z AUTO 33020G26KT 10SM BKN014 BKN022 OVC033 10/09 A2972 RMK AO2 VTSF 191400Z VRB02KT 9999 FEW018 SCT300 27/27 Q1011 A2986 INFO O / RWY 19 KQYV 191856Z AUTO 28002KT 9999 BKN060 03/01 A2987 RMK AO2 SLPNO T00330009 KSHM 191856Z AUTO 36012G24KT 10SM FEW090 06/M04 A3008 RMK AO2 SLP187 T00621040 LIQN 191750Z 00000KT CAVOK 15/05 Q1015 VTSG 191800Z 00000KT 9999 FEW020 BKN100 26/24 Q1011 A2986 LIRE 191755Z 25006KT 9999 FEW020 SCT040 17/15 Q1015 RMK SCT VIS MIN 9999 WIND THR31 /////KT BLU KSHN 191853Z AUTO 00000KT 10SM CLR 17/05 A3014 RMK AO2 SLP208 T01720050 VTSH 190900Z 06008KT 9000 FEW020 BKN300 31/24 Q1007 A2975 LIPX 191845Z 27002KT CAVOK 12/03 Q1020 LIRF 191820Z 25006KT CAVOK 15/13 Q1015 NOSIG KRQO 191855Z AUTO 32016KT SCT050 BKN110 17/10 A2979 RMK AO2 PWINO KSIF 191855Z AUTO 10004KT 4SM RA SCT007 BKN012 OVC026 18/18 A2992 RMK AO2 P0006 T01810178 LIPY 191750Z 34004KT 9999 SCT045 11/01 Q1019 LIRH 191755Z 08006KT 9999 SCT030 BKN040 16/09 Q1014 WMBA 191800Z 04001KT 9999 FEW033 SCT150 BKN280 25/24 Q1011 LIPZ 191850Z 23008KT CAVOK 11/04 Q1020 LIRI 191650Z 06008KT 9999 FEW020 17/05 Q1014 KSHR 191853Z AUTO 34017G25KT 10SM OVC070 08/M06 A3016 RMK AO2 PK WND 32028/1755 SLP225 T00831061 FMMI 191900Z 13004KT 090V180 9999 VCTS FEW017CB 18/18 Q1023 NOSIG VTSM 191500Z 16005KT 9000 FEW020 BKN300 29/26 Q1011 A2988 LIRK 191755Z AUTO 33010KT //// 05/02 Q1017 LIRL 191755Z 24005KT 9999 FEW020 SCT060 17/14 Q1014 KSJC 191853Z 00000KT 10SM BKN200 17/09 A2996 RMK AO2 SLP146 T01670089 KRRL 191835Z AUTO 16009KT 10SM SCT070 SCT110 15/02 A2969 RMK AO2 T01530021 LIRM 191755Z 06014KT 9999 SCT025 SCT070 17/10 Q1015 KTAD 191854Z AUTO 34007G18KT 320V050 10SM SCT045 10/M03 A3008 RMK AO2 SLP163 T01001028 KSHV 191856Z 23011G18KT 10SM FEW026 FEW031 25/18 A2971 RMK AO2 SLP059 T02500183 VTSP 191830Z 00000KT 9999 FEW018CB BKN300 27/24 Q1011 A2986 LIRN 191850Z 03006KT 280V060 9999 SCT060 15/06 Q1015 VTSR 191100Z 23005KT 9000 FEW025 32/25 Q1007 A2976 VOR/DME RWY 02 INFO J LIRP 191845Z 13002KT 9999 SCT060 12/03 Q1017 NOSIG VTSS 191830Z 18004KT 9999 FEW020 BKN300 23/22 Q1010 A2985 NOSIG LIRQ 191850Z VRB04KT 9999 SCT080 12/01 Q1018 VTST 191100Z 17003KT 9999 FEW020 29/25 Q1006 RWY08 INFO M LIRS 191755Z 04012KT CAVOK 18/00 Q1015 WMAU 191800Z 24004KT 8000 FEW000 SCT140 BKN270 24/24 Q//// QFF1011 KSKA 191758Z AUTO 06004KT 10SM CLR 15/M03 A3014 RMK AO2 SLP208 60000 T01491026 10149 20062 57008 LIRT 190855Z 04009KT 0000 FG VV/// 04/02 Q1017 RMK MON INVIS VAL INVIS VIS MIN 0000 VTUD 191500Z VRB01KT 8000 SCT040 31/18 Q1007 A2976 INFO Q RWY30 KRRT 191854Z AUTO 36004KT 1 1/2SM -RA OVC005 04/02 A2960 RMK AO2 P0001 LIRU 191650Z 23007KMH 9999 BKN030 17/12 Q1015 FMMT 191800Z 22010KT 5000 RA FEW007 SCT017 BKN033 24/24 Q1016 TEMPO 4000 RA KRSL 191853Z AUTO 34029G38KT 10SM -RA BKN021 BKN029 OVC100 09/05 A2991 RMK AO2 PK WND 35044/1759 RAB1759E09B36 SLP132 P0000 T00940050 LIRV 191755Z 03011KT 9999 FEW025 15/04 Q1015 FMNM 191800Z 28006KT 9999 VCTS FEW020CB 27/24 Q1013 NOSIG KTAN 191852Z AUTO VRB04KT 10SM CLR 14/01 A3023 RMK AO2 SLP238 T01390006 KSJN 191854Z AUTO 33009G15KT 290V360 10SM CLR 18/M06 A3006 RMK AO2 SLP116 T01831056 LIRX 191755Z 36003KT CAVOK 14/08 Q1014 RMK BKN BKN060 VIS MIN 9999 VIS MAR 30 KM FMNN 191500Z 23004KT 9999 SCT020 28/24 Q1011 KSKF 191758Z AUTO 23006KT 10SM FEW023 27/21 A2982 RMK AO2 SLP092 T02660211 10266 20194 55006 $ KRSP 191754Z AUTO 10SM CLR 14/03 A3010 RMK AO2 SLP195 T01440033 10161 20111 56023 $ VTUI 191300Z 20003KT 9999 FEW030 32/19 Q1007 A2974 INFO K RWY23 KSIY 191853Z AUTO VRB03KT 10SM CLR 20/00 A3007 RMK AO2 SLP180 T02000000 LIRZ 191750Z 02011KT 9999 SCT080 12/02 Q1017 VTUK 191800Z 23003KT 200V260 8000 NSC 31/18 Q1007 A2975 NOSIG VTUL 191000Z 24004KT 190V290 5000 HZ SCT028 39/17 Q1005 A2968 KSJS 191855Z AUTO 15012G15KT 10SM SCT018 SCT040 BKN060 20/16 A2974 RMK AO2 T01980162 KSJT 191851Z 33009G18KT 10SM CLR 25/07 A2989 RMK AO2 SLP108 T02500067 KRST 191854Z 00000KT 10SM BKN018 OVC032 16/12 A2962 RMK AO2 SLP030 T01610117 KSLB 191835Z AUTO 32020G26KT 4SM -RA OVC020 11/10 A2968 RMK AO2 KSLC 191853Z 29007KT 10SM FEW090 FEW200 17/M01 A3005 RMK AO2 SLP148 T01671011 KTCC 191853Z AUTO 02017G29KT 10SM BKN055 16/M01 A3004 RMK AO2 PK WND 02033/1754 SLP149 T01611011 VTUO 190900Z VRB06KT 8000 FEW022 40/14 Q1005 A2970 INFO J RWY 22 KRSV 191855Z AUTO 09003KT 5SM -RA SCT003 BKN012 OVC017 16/16 A2956 RMK AO2 P0009 T01570155 KRUE 191853Z AUTO 00000KT 10SM OVC034 24/13 A2966 RMK AO2 SLP037 T02390128 KRSW 191853Z 24017KT 10SM CLR 31/22 A2992 RMK AO2 SLP128 T03110222 KRTN 191853Z AUTO 04015G23KT 10SM CLR 11/M03 A3005 RMK AO2 PK WND 02026/1825 SLP145 T01061028 KSLE 191856Z 34006KT 10SM CLR 18/07 A3008 RMK AO2 SLP185 T01780067 KTBN 191828Z AUTO VRB05KT 10SM SCT016 BKN095 BKN140 BKN200 19/17 A2962 RMK AO2 CIG 150 RWY32 $ KSJX 191858Z AUTO 07013G20KT 10SM OVC070 07/00 A2984 RMK AO2 T00740004 VVCR 191830Z 00000KT CAVOK 26/24 Q1009 NOSIG GCXO 191830Z 31016KT 9999 FEW010 BKN016 13/09 Q1019 NOSIG KSLG 191855Z AUTO 34011KT 10SM BKN036 20/12 A2972 RMK AO1 KRUG 191855Z AUTO 32022G28KT A2980 RMK AO2 KSLH 191859Z AUTO 08015G20KT 10SM CLR 09/01 A2992 RMK AO2 T00920016 KTAZ 191835Z AUTO 06007KT 5SM -RA OVC007 14/13 A2955 RMK AO2 VVCT 191100Z 19004KT 170V260 9999 SCT015 31/23 Q1008 NOSIG KTBR 191855Z AUTO 17007KT 10SM 26/24 A2984 RMK AO2 LTG DSNT ALQS T02560244 KSLI 191758Z 19007KT 7SM FEW250 21/13 A2995 RMK AO2A SLP145 T02070134 10208 20106 57006 FNGI 191600Z 16006KT 9999 FEW012 BKN020 31/11 Q1014 VTUU 191800Z 17002KT 9000 NSC 30/21 Q1007 A2975 NOSIG KRTS 191855Z AUTO 16005KT 10SM CLR 17/M13 A3012 RMK AO2 LJLJ 191830Z 00000KT 9999 FEW040 07/02 Q1020 NOSIG VTUV 191400Z 16003KT CAVOK 31/17 Q1008 A2975 INFO O RWY 36 KSLK 191851Z AUTO VRB06KT 10SM CLR 12/M08 A3016 RMK AO2 SLP225 T01171078 $ LJMB 191830Z VRB01KT CAVOK 07/02 Q1020 VTUW 190900Z 22007KT 6000 SCT024 SCT300 39/14 Q1004 A2965 RWY15 INFO F VVDN 191830Z VRB02KT 5000 BR FEW015 SCT300 28/26 Q1007 NOSIG LIVC 191455Z 28016KT CAVOK 01/M15 Q1017 RMK OVC SCT050 SCT060 MON CLD SCT NC VAL CLD SCT DIM VIS MIN 9999 KTCL 191853Z 20012G21KT 9SM FEW029 BKN040 26/19 A2969 RMK AO2 LTG DSNT NW SLP051 T02560189 LIVD 191755Z 00000KT CAVOK 11/M06 Q1017 RMK SKC VIS MIN 9999 KTCM 191758Z AUTO 04007KT 10SM CLR 15/07 A3017 RMK AO2 SLP221 T01490072 10149 20012 57012 $ LIVE 191755Z /////KT CAVOK 06/M05 Q1017 RMK SKC VIS MIN 9999 KSLN 191853Z 33027G39KT 5SM -RA BR SCT010 BKN023 OVC029 10/08 A2983 RMK AO2 PK WND 34040/1838 SLP099 P0001 T01000078 KSME 191835Z AUTO 16009G17KT 10SM BKN017 BKN024 OVC075 20/18 A2965 RMK AO2 LIVF 182155Z 04005KT 5000 -RA BR SCT015 BKN027 06/05 Q1019 RMK OVC MON INVIS VAL INVIS VIS MIN 5000 KSMF 191853Z VRB04KT 10SM FEW250 24/11 A2990 RMK AO2 SLP124 T02390111 $ KSLO 191855Z AUTO 00000KT 5SM RA OVC005 17/15 A2953 RMK AO2 T01650146 KTBX 191855Z AUTO 33015G22KT 10SM SCT026 SCT033 01/M07 A3022 RMK AO2 KTDF 191835Z AUTO 10006KT 10SM -RA BKN027 OVC033 18/16 A2997 RMK AO2 P0001 KRUQ 191835Z AUTO 20005KT 1SM +RA OVC008 18/18 A2989 RMK AO2 P0043 T01830183 KSLR 191855Z AUTO 24013G20KT 10SM 24/17 A2972 RMK AO2 T02400168 KSNA 191853Z 21009KT 180V250 9SM CLR 21/12 A2994 RMK AO2 SLP138 T02110122 KTCS 191853Z AUTO 02009KT 10SM CLR 22/M05 A2998 RMK AO2 SLP090 T02221050 TSNO EVRA 191850Z 32010KT 290V350 9999 OVC026 06/03 Q1008 NOSIG KTEB 191851Z 15011G17KT 120V190 10SM CLR 14/01 A3020 RMK AO2 SLP226 T01440011 KRUT 191855Z AUTO 04006KT 10SM CLR A3020 RMK AO1 KSNC 191835Z AUTO 16008G14KT 10SM CLR 12/01 A3024 RMK AO2 LKCV 191800Z 33005KT CAVOK 12/M02 Q1020 NOSIG RMK BLU BLU KSMN 191855Z AUTO 08004KT 10SM CLR 13/M06 A3008 RMK AO1 LIVO 191755Z 09003KT CAVOK 09/M01 Q1017 RMK SKC VIS MIN 9999 KSMO 191851Z 21008KT 10SM CLR 19/12 A2995 RMK AO2 SLP142 T01890117 KRWF 191853Z AUTO 33014G25KT 10SM BKN020 12/07 A2970 RMK AO2 SLP061 T01170067 LIVP 190955Z 19002KT 0300 FG VV/// M02/M05 Q1016 RMK MON INVIS VAL INVIS VIS MIN 0300 KSMQ 191853Z AUTO 14010G17KT 10SM CLR 18/01 A3017 RMK AO2 SLP215 T01780011 TSNO KSNH 191855Z AUTO 26009KT 1 3/4SM BKN005 BKN019 OVC046 18/00 A2966 RMK LIVR 191755Z 31006KT CAVOK 02/M07 Q1016 RMK SKC MON LIB VIS MIN 9999 KRWI 191853Z AUTO 07006KT 10SM OVC050 21/14 A2997 RMK AO2 SLP146 T02060144 $ KTDR 191856Z AUTO 14007KT 10SM SCT032 21/20 A2983 RMK AO2 LTG DSNT E RAE52 TSE00 SLP105 T02130200 TSNO $ KRVS 191853Z 01005KT 10SM OVC080 19/11 A2971 RMK AO2 SLP067 T01940106 KSMS 191855Z AUTO 16009KT 10SM OVC015 23/22 A2989 RMK AO2 KSOA 191835Z AUTO VRB04G15KT 10SM CLR 26/03 A2994 RMK AO2 LIVT 191755Z 22001KT CAVOK 14/M03 Q1019 RMK SKC QUK 1 QUL 0 VIS MAR 20 KM VIS MIN 9999 KSNK 191835Z AUTO 31018G26KT 10SM CLR A2993 RMK AO2 TSNO KRWL 191853Z AUTO 33009G15KT 10SM CLR 06/M06 A3014 RMK AO2 SLP189 T00561056 KSNL 191855Z AUTO 00000KT SCT044 BKN050 OVC060 20/12 A2975 RMK AO2 PWINO FNHU 191200Z 18010KT 9999 SCT013 26/13 Q1022 FMSD 191800Z 0614KT 9999 FEW020SCT040 25/20 Q1014 KRXE 191853Z AUTO VRB05KT 10SM BKN110 13/M07 A3010 RMK AO2 SLP184 T01281072 KSMX 191851Z 32005KT 8SM CLR 18/09 A2998 RMK AO2 SLP152 T01780089 $ KTDZ 191853Z AUTO 05017G24KT 10SM CLR 10/04 A2979 RMK AO2 SLP088 T01000039 TSNO KSNS 191853Z VRB04KT 10SM CLR 17/08 A2997 RMK AO2 SLP158 T01720083 KSPA 191855Z AUTO 14009KT 1 3/4SM +RA OVC004 A2982 RMK AO2 LTG DSNT S P0019 KSPB 191853Z AUTO 02010KT 10SM CLR 19/04 A3008 RMK AO2 SLP186 T01940039 KSNT 191851Z AUTO VRB04KT 13/M06 A3014 RMK AO1 SLP162 T01281061 KSPD 191856Z AUTO 35021G31KT 12/00 A3003 RMK AO1 PK WND 01036/1801 SLP146 T01170000 KRWV 191835Z AUTO 20009G17KT 10SM CLR 26/22 A2979 RMK AO2 KTEW 191853Z AUTO 11012G19KT 10SM SCT060 SCT070 17/02 A2978 RMK AO2 T01710015 KTEX 191855Z AUTO 25006KT 10SM SCT050 BKN060 06/M03 A3017 RMK AO2 T00611033 KSPF 191835Z AUTO 31025G35KT 10SM FEW050 07/M06 A3005 RMK AO2 KSNY 191853Z AUTO 34028G37KT 10SM BKN065 08/M04 A3006 RMK AO2 PK WND 34037/1852 SLP174 T00831044 KSPG 191853Z 23017G24KT 10SM FEW022 28/22 A2990 RMK AO2 PK WND 24026/1810 SLP125 T02830217 KSOP 191855Z AUTO 11006KT 10SM FEW008 BKN021 OVC080 20/18 A2991 RMK AO1 P0010 KTFP 191835Z AUTO 15009KT 10SM BKN016 OVC028 27/22 A2982 RMK AO2 T02670224 KSPI 191852Z 05009KT 2 1/2SM -RA BR BKN008 BKN011 OVC026 16/14 A2955 RMK AO2 SLP005 P0002 T01610139 KTGI 191733Z AUTO 09016G28KT 10SM BKN022 BKN030 18/12 A3010 RMK AO1 KTHA 191855Z AUTO 19010KT 10SM SCT024 SCT043 BKN050 22/17 A2967 RMK KSPL 191855Z AUTO RMK AO1 TSNO KRYN 191745Z 34003KT 10SM 26/M05 A2999 KSOW 191855Z AUTO 36011G16KT 260V010 10SM CLR 17/M08 A3011 RMK AO2 KSQE 191855Z AUTO VRB04KT 10SM CLR 26/21 A2984 RMK A01 KSQI 191855Z AUTO 14011G16KT 10SM BKN090 22/07 A2959 RMK AO1 KSPR 191855Z AUTO 20015KT 8SM CLR 25/20 A2983 RMK A01 KSPS 191852Z 32017G25KT 10SM FEW055 22/09 A2980 RMK AO2 SLP082 T02220089 MBGT 191800Z 12010KT 9999 SCT015 30/22 Q1015 EVVA 191820Z AUTO 32013KT CAVOK 06/03 Q1012 KSRB 191855Z AUTO 21013KT 10SM FEW027 SCT034 SCT043 23/18 RMK KRYT 191853Z AUTO VRB04KT 10SM CLR 17/04 A3007 RMK AO2 SLP179 T01670039 $ KSRC 191856Z AUTO 28008KT 240V320 10SM FEW110 25/15 A2967 RMK AO2 SLP048 T02500150 TSNO KSQL 191854Z 36006KT 10SM FEW014 BKN200 15/12 A2998 KRZL 191855Z AUTO 07011KT 5SM -RA BKN037 OVC044 13/12 A2962 RMK AO2 P0005 FNKU 191500Z 13011KT 9999 FEW015 SCT100 26/13 Q1017 KRYV 191835Z AUTO 12012G18KT 10SM CLR 20/04 A2966 RMK AO2 T02010039 KSPW 191853Z AUTO 33020G27KT 10SM BKN018 OVC028 12/08 A2968 RMK AO2 PK WND 34027/1814 SLP053 T01220083 TSNO KRYW 191855Z AUTO 27016G21KT 10SM SCT050 30/08 A2981 RMK AO2 T02950084 LIYW 191758Z AUTO 18004KT 9999 CLR 13/02 A3009 RMK AO2 SLP194 T01300024 10157 20130 KRZN 191830Z AUTO 17009KT 10SM OVC016 12/07 A2961 RMK AO2 T01230072 KTIF 191835Z AUTO 34025G33KT 10SM BKN060 11/M03 A2996 RMK AO2 T01101028 KRYY 191810Z 21005KT 10SM BKN008 OVC050 21/19 A2980 WMKA 191800Z 13002KT 9999 FEW016CB BKN280 24/23 Q1011 LJPZ 191830Z 19004KT 150V210 CAVOK 11/04 Q1020 WMKB 191800Z 07003KT 8000 FEW025 SCT140 BKN270 25/25 Q1010 NOSIG KRZR 191855Z AUTO 19010KT 10SM BKN019 BKN025 BKN030 21/17 A2972 RMK WMKC 191800Z 22003KT 9999 FEW022 BKN280 26/24 Q1010 WMKD 191800Z 30001KT 9999 FEW025 BKN290 26/25 Q1011 NOSIG KRZT 191855Z AUTO 13007G16KT 10SM -RA SCT024 BKN037 OVC110 17/12 A2974 RMK AO2 P0002 KTIK 191858Z AUTO 29009KT 10SM SCT049 SCT080 20/09 A2973 RMK AO2 SLP068 T02020088 WMKE 191100Z 08003KT 9999 FEW018 BKN270 30/26 Q1007 KSSC 191858Z AUTO 15008KT 10SM -RA BKN009 OVC014 22/20 A2986 RMK AO2 RAB49 BKN V OVC SLP112 P0000 T02190204 $ FNLU 191800Z 13006KT 9999 FEW020 SCT024 BKN090 26/23 Q1010 NOSIG GEML 191830Z 26005KT 230V290 9999 FEW025 20/06 Q1015 KTHV 191853Z AUTO 12012G21KT 080V150 10SM CLR 18/04 A3010 RMK AO2 SLP195 T01780044 KW13 191855Z AUTO 09006KT 10SM OVC100 16/08 A3003 RMK AO1 T01590080 KSSF 191853Z 24009KT 10SM CLR 28/21 A2979 RMK AO2 SLP078 T02830206 PNO FNMO 191300Z 00000KT 9999 FEW009 27/22 Q1010 WMKI 191800Z 03004KT 8000 FEW010 FEW017CB SCT150 BKN280 25/23 Q1011 KTIP 191835Z AUTO 05012G17KT 5SM RA BKN037 BKN043 OVC060 14/12 A2958 RMK AO2 P0001 T01380122 WMKJ 191800Z 01001KT 9999 FEW023 BKN300 24/23 Q1011 KSRQ 191853Z AUTO 20015G24KT 10SM FEW018 29/22 A2991 RMK AO2 SLP126 T02890222 WMKK 191830Z 29001KT 9000 FEW017CB SCT140 BKN280 27/24 Q1010 NOSIG KSSI 191853Z AUTO 16011KT 10SM CLR 24/22 A2985 RMK AO2 LTG DSNT NW SLP107 T02440217 KSRR 191835Z AUTO 32012G16KT 040V040 10SM FEW070 14/M05 A3011 RMK AO2 WMKL 191800Z 03003KT 9999 FEW017CB SCT140 BKN280 25/24 Q1010 WMKM 191800Z 04001KT 9999 FEW017CB BKN270 26/25 Q1011 LKKB 191800Z 03004KT 340V080 9999 FEW044 SCT080 11/M01 Q1021 NOSIG WMKN 191800Z 19003KT 9999 FEW024 BKN300 26/25 Q1010 KSTC 191853Z 30013KT 10SM OVC023 12/07 A2963 RMK AO2 SLP043 T01220072 KTKC 191851Z AUTO 32021G28KT 10SM SCT016 BKN022 OVC047 11/07 A2973 RMK AO2 T01100071 KW22 191835Z AUTO 14010G19KT 110V170 9SM -RA FEW027 SCT039 BKN046 17/09 A2992 RMK AO2 WMKP 191830Z 36002KT 7000 FEW025 SCT140 BKN270 26/25 Q1010 NOSIG KTIW 191853Z 35011KT 10SM CLR 16/04 A3016 RMK AO2 SLP213 T01610044 KUBE 191835Z AUTO 16010KT 10SM OVC017 11/07 A2964 RMK AO2 KSTE 191835Z AUTO 12010KT 10SM SCT070 17/02 A2969 RMK AO2 T01660019 KTIX 191847Z 22015KT 7SM SCT050 33/21 A2989 KUAO 191853Z AUTO 04005KT 10SM CLR 19/07 A3009 RMK AO2 SLP190 T01890067 KSTF 191855Z AUTO 25007KT 10SM SCT030 BKN080 OVC090 22/17 A2971 RMK AO2 LLBG 191850Z VRB03KT CAVOK 17/13 Q1017 NOSIG KTKI 191853Z 28016G25KT 10SM BKN035 22/15 A2973 RMK AO2 SLP070 T02220150 KSTJ 191853Z 32018KT 6SM HZ SCT014 BKN019 OVC035 15/12 A2966 RMK AO2 SLP041 T01500122 KSUA 191347Z 26005KT 4SM HZ SKC 26/22 A2998 KW29 191850Z AUTO 09013G22KT 10SM 16/03 A3014 RMK AO1 KSTK 191850Z AUTO 35020G26KT 10SM SCT060 OVC070 08/M03 A3008 RMK AO2 KSTL 191851Z 00000KT 9SM FEW010 BKN017 OVC030 18/15 A2955 RMK AO2 RAE07 SLP001 P0000 T01830150 $ KW31 191855Z AUTO 10007KT 10SM SCT027 BKN032 OVC095 20/12 A3000 RMK AO1 T01960117 KSUE 191855Z AUTO 09006KT 10SM CLR 14/M01 A2978 RMK AO1 KSTP 191853Z 16005KT 9SM BKN017 OVC028 15/13 A2961 RMK AO2 RAB23E41 SLP025 P0002 T01500128 KTLH 191853Z 25006KT 1/2SM TSRA FG SCT018 BKN031CB OVC045 21/19 A2991 RMK AO2 SLP129 TS OHD SW-N MOV NE P0021 T02060194 $ VVNB 191830Z 03005KT 4500 BR NSC 26/24 KSTS 191853Z VRB04KT 10SM FEW010 15/11 A2995 RMK AO2 SLP135 T01500106 KTMA 191835Z AUTO 25004KT 4SM +VCTSRA SCT033 BKN048 OVC070 18/18 A2992 RMK AO2 LTG DSNT NE S AND SW T01830175 KTMB 191853Z 19013KT 10SM CLR 32/18 A2992 RMK AO2 SLP132 T03220183 KSVC 191855Z AUTO 29014G19KT 10SM 21/M10 A3005 RMK AO2 KTKV 191855Z AUTO 15004KT 10SM BKN120 15/02 A2967 RMK AO2 T01450016 LKKV 191830Z 04006KT CAVOK 08/M03 Q1021 LKLN 191800Z AUTO 06002KT CAVOK 12/M03 Q1020 KSUN 191847Z 12011G20KT 10SM FEW100 14/M02 A3012 KTME 191855Z AUTO 24008KT 10SM CLR 27/20 A2979 RMK AO2 KW43 191855Z AUTO 32016G28KT 10SM SCT060 07/M07 A3008 RMK AO2 KUDG 191855Z AUTO 13009KT 9SM BKN010 OVC017 22/20 A2989 RMK AO1 KUCP 191856Z AUTO 14013G21KT 10SM CLR 23/03 A2988 RMK AO2 T02270033 SLP131 KSVH 191835Z AUTO 12008KT 7SM RA BKN006 OVC011 18/18 A2987 RMK AO2 P0004 T01820179 LKNA 191800Z 35004KT 300V030 CAVOK 09/M02 Q1020 NOSIG RMK BLU BLU KSUS 191854Z 29011G16KT 7SM -RA BKN026 OVC030 18/15 A2954 RMK AO2 RAB45 SLP000 P0000 T01830150 KTMK 191855Z AUTO 04004KT 10SM CLR 17/09 A3010 RMK AO2 KSUT 191855Z AUTO 13006KT 10SM RA SCT035 BKN041 BKN065 22/19 A2995 RMK AO2 T02160193 KTNB 191855Z AUTO 14011G15KT 4SM RA SCT006 OVC010 15/15 A2990 RMK AO2 P0009 T01510151 KSUU 191658Z AUTO 23012KT 10SM CLR 17/11 A2992 RMK AO2 SLP139 T01700109 PWINO $ KSVN 191858Z AUTO 14006KT 10SM FEW015 SCT110 25/24 A2984 RMK AO2 SLP108 T02540235 $ KSUW 191835Z AUTO 06010G14KT 10SM OVC003 03/03 A2964 RMK AO2 T00300027 KSUX 191852Z 33021G29KT 10SM BKN025 OVC031 11/06 A2976 RMK AO2 PK WND 33033/1830 SLP078 T01110061 KSWF 191845Z 08006KT 20SM SCT100 16/01 A3018 KUCY 191855Z AUTO 22008KT 9SM OVC040 20/00 A2955 RMK VVPB 191830Z VRB01KT 9999 FEW023 BKN300 27/25 Q1006 NOSIG KTOA 191748Z 29010KT 10SM SKC 19/13 A2997 FNSA 191300Z 00000KT 9999 BKN025 23/19 Q1016 KTOB 191853Z AUTO 14004KT 10SM SCT019 BKN027 BKN040 17/13 A2961 RMK AO2 LKMT 191830Z 29003KT CAVOK 09/M02 Q1020 NOSIG KTOC 191835Z AUTO 19006G15KT 10SM -RA SCT011 BKN038 OVC060 20/19 A2980 RMK AO2 T01960186 KW63 191855Z AUTO 09007KT 10SM BKN060 OVC075 18/15 A2997 RMK AO1 KSWO 191853Z 31008KT 290V350 10SM FEW044 SCT110 21/10 A2973 RMK AO2 SLP059 T02110100 KTOI 191853Z AUTO 19006KT 10SM OVC010 21/19 A2980 RMK AO2 CIG 008V013 SLP088 T02110194 KTPA 191853Z 20016KT 10SM FEW036 FEW210 OVC280 29/22 A2992 RMK AO2 PK WND 20026/1818 SLP132 T02940217 KUES 191845Z 10012KT 10SM SCT180 BKN250 17/02 A2970 LLET 191850Z 04008KT CAVOK 26/M04 Q1015 KTOL 191852Z 06016G22KT 10SM CLR 11/04 A2977 RMK AO2 SLP083 T01110044 $ KTNU 191835Z AUTO 05004KT 9SM BKN013 BKN100 BKN120 18/15 A2959 RMK AO2 PWINO LKPD 191800Z 04006KT 310V080 CAVOK 12/M02 Q1020 NOSIG RMK BLACK KSWW 191855Z AUTO 28017G21KT 10SM CLR 22/02 A2993 RMK AO2 T02220024 VVPQ 191500Z 28004KT 9999 FEW017 25/23 Q1011 NOSIG KTPF 191855Z AUTO 24014G19KT 10SM CLR 31/23 A2992 RMK AO2 KSYF 191835Z AUTO 34020G27KT 10SM SCT055 BKN075 10/M04 A3004 RMK AO2 T01011045 FNSO 191600Z 18009KT 9999 FEW014 BKN100 28/24 Q1009 KTOP 191853Z 32015G20KT 10SM FEW031 OVC060 18/12 A2969 RMK AO2 SLP048 T01780117 KW75 191835Z AUTO 10009G21KT 10SM OVC021 17/12 A3008 RMK AO1 T01670124 KTPH 191856Z AUTO 31011G19KT 10SM CLR 21/M13 A3009 RMK AO2 SLP137 T02061133 KTOR 191853Z AUTO 33022G31KT 10SM BKN070 08/M08 A3007 RMK AO2 PK WND 33031/1832 SLP178 T00831078 KSYI 191855Z AUTO 18016KT 10SM SCT026 SCT032 SCT037 24/19 A2964 RMK LLHA 191650Z 34004KT CAVOK 18/14 Q1017 KW78 191835Z AUTO 11007KT 10SM BKN060 OVC085 20/14 A2998 RMK AO1 T01950138 KSXT 191856Z AUTO 12007KT 10SM -RA CLR 20/01 A3009 RMK AO2 SLP151 P0000 T02000011 FNUB 191700Z 20004KT 9999 SCT020 24/10 Q1022 KTPL 191855Z AUTO 28016G19KT 10SM CLR 28/14 A2977 RMK AO1 KW81 191835Z AUTO 08005KT 10SM SCT032 SCT039 OVC095 21/11 A3001 RMK AO1 T02050113 FNSU 191800Z 23004KT 9999 FEW013 BKN080 28/23 Q1013 KSYM 191855Z AUTO A2968 RMK AO2 PWINO KSYN 191854Z AUTO 00000KT 5SM BR SCT006 SCT025 OVC047 16/13 A2960 RMK AO2 T01570134 KTQE 191854Z AUTO 32023G29KT 8SM -RA OVC065 11/08 A2975 RMK AO2 PK WND 32029/1800 SLP069 P0009 T01060083 KUGN 191855Z 06011G19KT 10SM FEW085 14/01 A2966 RMK AO2 SLP042 T01440011 FNUG 191600Z 18006KT 9999 FEW017 SCT070 22/19 Q1013 WMSA 191800Z 00000KT 9000 FEW017CB SCT140 BKN270 27/22 Q1011 KTQH 191855Z AUTO 34006KT 10SM SCT032 SCT041 19/12 A2971 RMK AO2 P0001 KSYR 191854Z 05013G20KT 10SM FEW180 BKN220 17/00 A3012 RMK AO2 SLP196 T01670000 LKPR 191830Z 02006KT CAVOK 09/M01 Q1021 NOSIG LLIB 191450Z 35009KT CAVOK 24/06 Q1016 KSZL 191858Z AUTO 27007KT 10SM FEW022 SCT028 BKN160 BKN190 BKN210 19/14 A2962 RMK AO2 SLP029 T01870139 $ MBPV 191900Z 12010KT 9999 SCT015 31/22 Q1014 GFLL 191800Z 27010KT 9999 SKC 29/24 Q1008 KW96 191855Z AUTO 09012G19KT 10SM BKN120 20/13 A3004 RMK AO1 T02000127 KTRI 191853Z 07003KT 5SM -RA BR SCT060 BKN070 OVC090 18/18 A2978 RMK AO2 SLP066 P0002 T01830178 MDAB 191800Z 09010KT 9999 FEW026 35/27 Q1015 KSZT 191855Z AUTO 12005KT 10SM CLR 13/M01 A3013 RMK AO2 KTRK 191850Z 04005KT 10SM SKC 17/M05 A3014 RMK NOSPECI KW99 191835Z AUTO 10007KT 10SM -DZ SCT039 BKN049 OVC095 19/05 A3002 RMK AO2 T01850052 KUIL 191853Z AUTO 24007KT 9SM CLR 17/09 A3015 RMK AO2 SLP211 T01670094 KTRL 191853Z AUTO 25017G22KT 10SM CLR 27/15 A2971 RMK AO2 SLP055 T02670150 KTRM 191852Z AUTO 10SM CLR 31/01 A2982 RMK AO2 SLP099 T03110011 TSNO KVAD 191842Z 26007KT 10SM -TSRA SCT040 BKN050CB OVC080 25/20 A2987 RMK LTG OHD TS 5 SW MOV NE RAB36 TSB40E42 KUIN 191854Z AUTO 26007KT 10SM OVC120 19/12 A2955 RMK AO2 SLP002 T01940122 KVAF 191855Z AUTO 17010KT 6SM HZ CLR 25/22 A2983 RMK A01 KTTA 191855Z AUTO 11005KT 7SM RA BKN007 BKN012 BKN027 21/20 A2992 RMK AO2 P0003 T02080203 LKTB 191830Z 34007KT CAVOK 11/M03 Q1020 NOSIG KTTD 191753Z 25004KT 10SM CLR 14/07 A3010 RMK AO2 SLP192 T01440067 10144 20050 58015 KTTF 191851Z AUTO 06011G18KT 10SM CLR 14/05 A2979 RMK AO2 KUKF 191835Z AUTO 12006KT 7SM RA OVC007 17/17 A2992 RMK AO2 P0004 KTSP 191855Z AUTO 11014G18KT 10SM CLR 24/M08 A3002 RMK AO2 KVBG 191758Z AUTO 29005KT 10SM CLR 14/09 A2998 RMK AO2 SLP155 T01390089 10139 20091 57006 TSNO $ MDBH 191800Z 13018KT 9999 FEW024 Q1017 FOOG 191800Z /////KT 9999 SCT008 FEW020CB 29/26 Q1009 VVTS 191830Z 20006KT 170V230 9999 FEW020 28/24 Q1009 NOSIG KUKI 191856Z AUTO 10003KT 10SM CLR 24/08 A2991 RMK AO2 SLP122 T02440083 KVCB 191853Z AUTO VRB04KT 10SM CLR 24/11 A2992 RMK AO2 SLP129 T02440111 FOOL 191500Z 23007KT 200V260 9999 TS SCT010 FEW018CB 31/25 Q1008 NOSIG KTTN 191853Z 13014G19KT 10SM CLR 16/02 A3018 RMK AO2 SLP212 T01610017 FOON 191800Z /////KT 8000 TS BKN013 FEW020CB 24/22 Q1008 KVAY 191854Z AUTO 11011G18KT 10SM CLR 14/01 A3019 RMK AO2 SLP223 T01440011 KTTS 191858Z AUTO 22013KT 10SM FEW170 SCT210 32/21 A2987 RMK AO2 SLP119 T03230212 $ KVBS 191855Z AUTO VRB05G10KT 10SM CLR 25/20 A2982 RMK A01 KUKT 191900Z AUTO 12009G14KT 100V160 10SM CLR 18/03 A3016 RMK AO1 KVBT 191855Z AUTO 32010G16KT 10SM SCT035 BKN043 20/12 A2972 RMK AO1 KTUL 191853Z 00000KT 10SM FEW050 BKN110 BKN200 19/12 A2970 RMK AO2 SLP053 CB DSNT NW T01940117 $ KTVC 191853Z 12015G24KT 10SM BKN090 19/M06 A2978 RMK AO2 SLP085 T01941056 KULM 191854Z AUTO 32015G26KT 10SM BKN012 OVC019 11/08 A2967 RMK AO2 KVBW 191855Z AUTO 00000KT 10SM OVC095 16/08 A3003 RMK AO2 T01630083 KVDF 191855Z AUTO 24009G20KT 215V305 10SM CLR 31/22 A2991 RMK AO2 KTVF 191855Z AUTO 30016G19KT 10SM BKN010 BKN019 OVC023 07/05 A2965 RMK AO1 KTUP 191853Z 27008KT 10SM FEW055 BKN075 OVC100 20/18 A2968 RMK AO2 PK WND 26027/1807 RAB12E47 SLP049 P0003 T02000178 RJAA 191830Z 16007KT 6000 BR FEW015 BKN180 14/13 Q1013 NOSIG RMK 1SC015 7AC180 A2993 KTVI 191855Z AUTO 23004KT 7SM TSRA SCT038 BKN065 OVC080 20/20 A2994 RMK AO2 LTG DSNT ALQS KVDI 191835Z AUTO 18005KT 10SM -RA SCT037 SCT044 OVC060 23/22 A2986 RMK AO2 LTG DSNT ALQS KTUS 191853Z 25005KT 10SM CLR 27/M07 A2997 RMK AO2 SLP114 T02671067 KVCT 191851Z 19008KT 10SM CLR 27/22 A2979 RMK AO2 SLP087 T02720217 KTVK 191835Z AUTO 04004KT 10SM BKN025 20/16 A2957 RMK AO2 KTVL 191853Z AUTO VRB03KT 10SM CLR 17/M09 A3013 RMK AO2 SLP166 T01671089 KVCV 191835Z AUTO 00000KT 10SM CLR 25/M06 A2997 RMK AO2 RJAF 190700Z VRB02KT 8000 -RA FEW010 BKN030 BKN050 10/07 Q1016 KTWF 191853Z 04006KT 10SM CLR 17/M06 A3010 RMK AO2 SLP159 T01671061 MDCY 191800Z 06010KT 9999 FEW024 31/24 Q1014 RJAH 191800Z VRB01KT 4000 BR FEW012 BKN015 OVC020 13/10 Q1013 KTVR 191853Z AUTO VRB04KT 10SM CLR 25/16 A2977 RMK AO2 SLP085 T02500161 RJBB 191830Z 05005KT 020V080 9999 -RA FEW020 SCT040 BKN100 16/12 Q1007 BECMG 16008KT RJBD 191000Z 14008KT 9999 FEW020 SCT100 BKN150 19/15 Q1014 KVEL 191853Z AUTO VRB04KT 10SM BKN042 OVC050 11/01 A3014 RMK AO2 SLP183 T01060006 RJBE 191200Z 25006KT 9999 SCT030 BKN130 18/15 Q1012 KTWM 191854Z AUTO 06008KT 4SM DZ OVC003 05/02 A2962 RMK AO2 P0002 SABE 191800Z 02008KT CAVOK 24/16 Q1007 KUNO 191853Z AUTO VRB05G16KT 4SM TSRA FEW037 BKN080 OVC090 17/13 A2964 RMK AO2 WSHFT 1823 LTG DSNT NE AND E RAB30 TSB44 SLP031 P0002 T01670128 SAAR 191800Z 32006KT 9999 SCT020 26/17 Q1007 KVER 191835Z AUTO 25009KT 10SM BKN017 BKN023 BKN031 20/16 A2960 RMK AO2 LTG DSNT N T01950164 RJAT 182123Z 25001KT 9999 FEW030 BKN120 10/M00 Q1018 RMK 1CU030 6AC120 A3008 RJCB 191100Z 34009KT 9999 FEW050 05/M00 Q1015 KVES 191835Z AUTO 13015G20KT 10SM -DZ BKN020 OVC029 17/16 A2968 RMK AO2 P0005 RJCC 191830Z 34004KT 9999 FEW020 BKN/// 02/00 Q1016 RMK 1CU020 A3002 EYKA 191850Z 29010G21KT 240V340 9999 OVC047 07/M01 Q1009 KTXK 191853Z 20009KT 10SM BKN030 OVC036 23/17 A2969 RMK AO2 SLP051 T02330172 KUNU 191835Z AUTO 12012KT 10SM CLR 19/03 A2968 RMK AO2 T01890029 RJAW 191800Z 13010KT 9999 FEW005 BKN012 23/21 Q1016 RMK 1ST005 5CU012 A3002 KUNV 191853Z 13012G17KT 10SM SKC 18/00 A3005 RJCH 191100Z 01003KT CAVOK 08/01 Q1016 RJCK 191100Z 14003KT 9999 FEW035 BKN040 03/00 Q1016 RJBT 190900Z 17005KT 8000 -RA FEW020 SCT060 BKN090 16/15 Q1011 RJDC 191200Z 09018KT 3000 -SHRA BR FEW002 SCT003 BKN025 15/14 Q1006 RJCM 191100Z VRB02KT 9999 FEW004 SCT015 BKN020 03/00 Q1017 LLOV 191550Z 04012KT CAVOK 26/M06 Q1016 RJCN 190900Z 30011KT 270V340 9999 FEW015 SCT050 BKN080 03/M01 Q1013 RJCO 190634Z 32011KT 9999 FEW020 SCT030 BKN230 08/02 Q1016 RMK 1CU020 4CU030 5CI230 A3002 SADF 191800Z 32008KT CAVOK 26/15 Q1007 SACO 191800Z 14015KT 9999 BKN025 26/15 Q1009 KUOX 191835Z AUTO 25010G15KT 9SM FEW020 SCT027 BKN032 20/18 A2970 RMK AO2 PWINO PNO KTYQ 191855Z AUTO 09008KT 4SM -RA OVC005 14/13 A2961 RMK AO2 P0017 T01410125 FQCH 191800Z /////KT 9999 BKN015 20/20 Q1020 KTYR 191853Z 23011G18KT 10SM SCT025 SCT033 25/18 A2971 RMK AO2 SLP056 T02500178 FQBR 191800Z 08004KT 9999 FEW018 SCT030 BKN080 26/22 Q1015 RJEB 190700Z 33015KT 9999 -SHRA FEW009 BKN040 04/01 Q1014 KTYS 191753Z 17006KT 10SM -RA FEW075 OVC100 21/17 A2971 RMK AO2 RAB12 SLP052 P0004 60013 T02060172 10211 20172 58020 $ RJEC 191100Z 29004KT 240V310 9999 FEW030 BKN060 02/M00 Q1017 KVGT 191853Z 07005KT 10SM CLR 28/M10 A2992 RMK AO2 SLP129 T02781100 RJCW 190900Z 31009KT 9999 -SHRA FEW008 SCT015 BKN025 03/00 Q1015 KVIH 191858Z AUTO 27008KT 10SM SCT009 SCT019 17/15 A2959 RMK AO2 T01720150 KTZR 191850Z 13008KT 7SM RA OVC045 18/13 A2975 RJDT 191100Z 18016KT 1200 SHRA BR PRFG FEW000 SCT005 BKN008 17/17 Q1004 MDJB 191800Z 18012KT 9999 SCT025 31/22 Q1015 RJFE 190926Z 17017KT 1000 SHRA BR FEW001 BKN002 BKN003 19/19 Q1004 RMK 2ST001 5ST002 6ST003 A2966 2500N-E LLSD 191850Z VRB02KT CAVOK 17/13 Q1016 RJFF 191830Z 17004KT 120V250 9999 -RA FEW007 SCT015 BKN045 20/19 Q1000 RMK 1ST007 3CU015 7SC045 A2953 KUSE 191855Z AUTO 08020KT 10SM CLR 15/05 A2975 RMK AO2 RJFG 190919Z 17010KT 2000 -SHRA PRFG BR FEW000 SCT002 BKN004 21/21 Q1009 RMK 1ST000 3ST002 5ST004 A2982 FG SE KVJI 191855Z AUTO 11009KT 7SM SCT027 OVC065 18/17 A2982 RMK AO2 P0001 T01790168 RJFK 191214Z 12007KT 4500 SHRA BR FEW006 SCT015 BKN025 19/19 Q1008 RMK 1ST006 4CU015 6CU025 A2977 KUTA 191855Z AUTO 26012KT 10SM SCT006 22/18 A2968 RMK AO2 KVIS 191855Z AUTO 30005KT 10SM CLR 26/09 A2991 RMK AO1 KY19 191835Z AUTO 31026G34KT 10SM SCT029 SCT035 BKN045 08/01 A2989 RMK AO2 RJFM 191200Z 15011KT 7000 -SHRA FEW004 SCT020 BKN030 21/19 Q1008 KWAL 191854Z AUTO 06018G25KT 10SM OVC025 14/11 A3011 RMK AO2 PK WND 06026/1813 SLP194 T01440106 RJFO 191330Z 14018KT 2000 -SHRA BR FEW002 SCT035 BKN050 17/17 Q1007 RMK 1ST002 4CU035 7SC050 A2974 KY23 191835Z AUTO 12007G17KT 10SM BKN022 BKN028 OVC085 13/05 A2965 RMK AO2 T01300054 RJGG 191830Z 11013KT 8000 VCSH FEW008 SCT015 BKN170 16/14 Q1011 NOSIG SAEZ 191800Z 33010KT 9999 FEW040 27/14 Q1007 RJFR 191800Z VRB02KT 9999 -SHRA FEW003 SCT010 BKN030 17/17 Q1000 RJFS 191800Z 19010KT 8000 -SHRA FEW003 SCT008 BKN015 19/18 Q1000 RJFT 191200Z 04002KT 4500 R07/P1800N -RA BR FEW030 BKN050 OVC080 18/18 Q1006 RJFU 191239Z 14019KT 3500 +SHRA BR FEW009 SCT015 BKN020 19/18 Q1004 RMK 1ST009 3CU015 7CU020 A2966 EYPA 191850Z 31005KT 240V040 9999 FEW043 06/03 Q1014 KVLD 191856Z 26010G20KT 190V350 1/4SM +TSRA FG FEW010 BKN024 OVC055 21/20 A2993 RMK AO2 PRESRR P0005 T02060200 RJFY 191616Z 23009KT 3200 -SHRA BR FEW003 SCT008 BKN015 FEW015CB 21/20 Q1004 RMK 2ST003 4ST008 7CU015 1CB015 A2967 CB 10KM NE MOV NE KUVA 191855Z AUTO 28006KT 10SM CLR 28/13 A2984 RMK AO2 T02830129 KUTS 191853Z AUTO 24011G16KT 10SM CLR 27/19 A2976 RMK AO2 SLP073 T02720194 KVKS 191900Z AUTO 21006KT 10SM CLR 24/16 A2978 RMK A01 KVLL 191855Z AUTO 09013G20KT 7SM SCT024 BKN095 12/04 A2987 RMK AO2 T01210038 KVKY 191855Z AUTO 24015KT 10SM CLR 25/22 A2984 RMK A01 KWDG 191850Z 29012G19KT 10SM SCT048 SCT050 BKN200 19/10 A2975 MDLR 191800Z 18014KT 9999 SCT025 32/21 Q1015 KY50 191856Z AUTO 13013KT 10SM CLR 22/03 A2966 RMK AO2 TSNO T02160027 SLP041 KY49 191835Z AUTO 28004KT 10SM OVC011 08/06 A2960 RMK AO2 T00750056 LMML 191845Z 06009KT 8000 BKN011 BKN013 16/14 Q1016 BECMG 5000 BR BKN008 KUUU 191853Z AUTO 14013KT 10SM CLR 11/01 A3024 RMK AO2 SLP238 T01110006 KVNC 191835Z AUTO 19013G21KT 10SM SCT019 29/23 A2994 RMK AO2 KY51 191835Z AUTO 13004KT 10SM SCT120 17/04 A2964 RMK AO1 T01650040 SBAF 191800Z 18008KT 8000 FEW015 BKN100 29/22 Q1012 RJKA 191000Z 19024KT 4500 SHRA BR FEW002 BKN006 BKN010 23/20 Q1008 KWDR 191855Z AUTO 22006KT 10SM RA SCT012 BKN036 OVC120 21/20 A2982 RMK AO1 LTG DSNT SE AND NW KVOA 191855Z AUTO 24014KT 10SM CLR 26/21 A2984 RMK A01 EYSA 191850Z 30016KT 9999 FEW023 OVC046 05/01 Q1010 SBAN 191800Z 18006KT 9999 TS VCSH SCT030 FEW040CB BKN100 27/18 Q1167 SBBE 191830Z 35009KT 2000 +TSRA BKN013 FEW020CB BKN100 27/24 Q1009 KY63 191853Z AUTO 32016G28KT 10SM OVC020 08/05 A2971 RMK AO2 T00750049 SBBH 191800Z 30003KT 9999 FEW035 FEW040TCU SCT070 31/16 Q1014 SBBI 191800Z 04005KT 9999 BKN020 BKN030 23/18 Q1016 SBAR 191800Z 12009KT 9999 SCT017 BKN090 28/23 Q1010 SBCA 191800Z 02015KT 9999 SCT023 BKN100 25/18 Q1014 SBAT 191800Z 34005KT 9999 SCT025 FEW030TCU BKN100 30/24 Q1011 SBCB 191900Z 24005KT 9999 FEW020 BKN050 26/24 Q1011 SBAU 191700Z 03004KT 9999 FEW040 32/20 Q1012 SBCC 191800Z 22005KT 9999 VCTS VCSH SCT030 FEW040CB BKN080 27/23 Q1012 KY70 191853Z AUTO 07014G20KT 10SM CLR 19/00 A2975 RMK AO2 T01941001 KVOK 191758Z VRB01KT 10SM BKN120 OVC200 18/03 A2967 RMK AO2A SLP050 57033 MDPC 191900Z 15007KT 9999 FEW024 30/23 Q1015 NOSIG KVPC 191853Z AUTO 19006KT 10SM SCT020 BKN024 22/18 A2976 RMK AO2 SLP065 T02220183 KUXL 191835Z AUTO 20010KT 10SM CLR 28/18 A2982 RMK AO2 T02780182 SBCF 191800Z 19006KT 9999 SCT040 30/16 Q1015 SBCG 191800Z 32009KT 9999 BKN035 FEW040TCU 28/21 Q1012 KUYF 191855Z AUTO 14012G18KT 7SM RA SCT019 OVC034 16/15 A2973 RMK AO2 P0012 SBBQ 191800Z 05008KT 9999 VCSH FEW035TCU SCT040 27/18 Q1019 SBCH 191800Z 36011KT 9999 FEW020 SCT040 FEW045TCU 26/19 Q1012 KVNY 191851Z 00000KT 10SM CLR 26/05 A2993 RMK AO2 SLP125 T02560050 SBBR 191800Z 23011KT 9999 VCSH BKN040 FEW045TCU BKN070 25/18 Q1016 WS 11L SBCJ 191800Z 03002KT 9999 SCT025 28/22 Q1013 KUZA 191854Z AUTO 16007KT 130V190 5SM BR OVC005 20/19 A2986 RMK AO2 RAE26 SLP104 P0000 T02000189 SBBU 191800Z 03005KT CAVOK 25/22 Q1013 SBCM 191800Z 08006KT 9999 SCT035 BKN080 25/20 Q1012 FPST 191800Z 16008KT 9999 FEW020CB SCT100 28/24 Q1010 NOSIG SBBV 191800Z 06014KT 9999 FEW020 BKN030 31/20 Q1011 SBBW 191800Z 28008KT 9999 SCT020 FEW025TCU BKN080 25/24 Q1012 RETS FQLC 191800Z 12005KT 9999 FEW018 FEW023CB 19/18 Q1021 RMK CB TO NE SAME 191800Z 11012KT 9999 FEW045 22/11 Q1009 SBCO 191800Z 12004KT CAVOK 28/19 Q1010 SBCP 191800Z 18014KT 9999 FEW020 32/22 Q1011 MDPP 191900Z 08016KT 9999 FEW022 31/25 Q1013 SBCR 191900Z 04007KT 9999 SCT025 31/25 Q1007 SBCT 191800Z 13003KT 9999 SCT013 BKN015 OVC020 22/19 Q1017 KVPS 191855Z 22009G15KT 8SM SCT038 BKN120 OVC190 24/19 A2980 RMK AO2A SLP097 T02360191 $ FQMA 191800Z 09007KT 9999 TS SCT025 FEW030CB 24/21 Q1016 NOSIG RMK CB TO W KVRB 191853Z 13008KT 10SM SCT048 BKN070 BKN100 30/23 A2991 RMK AO2 SLP126 T03000228 SBDN 191800Z 31007KT 9999 SCT035 FEW040TCU 32/19 Q1011 SBCY 191800Z 03007KT 9999 VCSH SCT020 FEW025TCU 33/22 Q1010 SBEG 191800Z 25003KT 9999 BKN020 FEW025TCU 30/24 Q1010 RJNG 190446Z 04006KT 9999 FEW030 BKN050 OVC080 12/10 Q1016 RMK 2SC030 6SC050 8AS080 A3003 KWHP 191847Z 12004 7SM SKC 24/05 A2996 SBCZ 191800Z 27007KT 9999 BKN030 FEW040TCU 31/26 Q1011 KVQQ 191850Z 18010KT 10SM FEW060 30/20 A2988 KVPZ 191856Z AUTO 12012KT 10SM -RA FEW070 OVC085 17/07 A2965 RMK AO2 RAB41 SLP039 P0000 T01720072 TSNO RJOA 191200Z 09006KT 3000 -SHRA BCFG BR FEW000 SCT015 BKN020 15/15 Q1010 RJNK 191800Z 18004KT 140V210 9999 FEW050 BKN080 BKN120 19/13 Q1006 RJOB 191200Z 08008KT 3000 R07/P1800N BR BCFG FEW000 SCT003 BKN010 15/15 Q1011 EYVI 191850Z 33011KT 7000 -RA OVC030 05/01 Q1008 NOSIG SAOC 191800Z 18024KT CAVOK 24/07 Q1008 RJOC 191100Z 06009KT 8000 -SHRA FEW001 SCT035 BKN060 17/16 Q1007 KVQT 191855Z AUTO 00000KT 10SM CLR 26/19 A2985 RMK A01 MDSD 191900Z 19007KT 9999 FEW022CB SCT025 31/20 Q1014 CB/NE RJOF 191819Z 10017KT 6000 -SHRA FEW004 BKN007 BKN010 18/18 Q1001 RMK 1ST004 5ST007 7ST010 A2958 KVSF 191854Z AUTO 11004KT 10SM CLR 14/M06 A3020 RMK AO2 SLP229 T01441056 TSNO KWJF 191856Z AUTO VRB06KT 10SM CLR 27/M04 A2994 RMK AO2 SLP125 T02671044 TSNO RJOH 191800Z 17007KT 120V210 9999 -RA FEW035 BKN080 OVC120 18/14 Q1001 SBFI 191800Z 35008KT 9999 SCT020 BKN100 28/21 Q1010 RJOI 191855Z 28003KT 1200 SHRA BR FEW003 BKN010 OVC020 16/16 A2963 RMK SLP034 P0025 T01610156 SBES 191800Z 23007KT 9999 FEW030 SCT050 BKN100 27/22 Q1012 RJNS 191100Z 03003KT 9999 FEW015 SCT020 BKN030 15/12 Q1016 RJOK 191100Z 10009KT 9999 FEW030 SCT120 BKN150 20/16 Q1012 RJNT 191200Z VRB02KT 3000 -RA BR FEW003 SCT030 OVC100 11/10 Q1012 KVTA 191854Z AUTO 13017G26KT 7SM -RA SCT065 OVC080 19/11 A2977 RMK AO2 PK WND 13026/1854 RAB04 SLP079 P0001 T01890111 SANT 191800Z 18004KT 9999 SCT027 24/17 Q1006 SBFL 191800Z 01006KT 9999 FEW025 BKN080 25/18 Q1013 RJOM 191200Z 36008KT 9000 FEW030 SCT040 BKN100 15/13 Q1009 SBFN 191900Z 12008KT 9999 SCT015 27/25 Q1010 RJNW 191000Z 08005KT 4000 -RA BR FEW003 SCT008 BKN015 09/09 Q1013 LOAN 191800Z 00000KT 35KM FEW060CU SCT300CI RMK SCT RJOO 191100Z 09007KT 060V130 9999 FEW015 SCT035 BKN070 19/12 Q1013 RJNY 191822Z 00000KT 9999 FEW009 BKN013 BKN100 14/12 Q1014 RMK 1ST009 5CU013 7AC100 A2994 RJOP 191845Z 14019G29KT 8000 -SHRA FEW008 BKN012 BKN020 19/18 Q1005 RMK 1ST008 5CU012 7CU020 A2970 P/FR FQNP 191500Z /////KT 9999 BKN020 29/20 Q1014 RJOR 191200Z 14010KT 9999 -SHRA FEW025 SCT045 BKN080 19/14 Q1008 SBFS 191800Z 21006KT 9999 FEW020 BKN090 ///// Q1012 RJOS 191825Z 17019KT 4000 -SHRA BR FEW007 BKN014 BKN025 17/16 Q1006 RMK 2ST007 6CU014 7CU025 A2972 P/FR KVTI 191855Z AUTO 08005KT 10SM CLR 19/13 A2958 RMK AO2 T01940131 RJOT 191200Z 07003KT 020V090 9999 FEW020 SCT060 BKN120 15/14 Q1011 MDST 191900Z 15007KT 9999 FEW033 33/19 Q1013 VYMD 191230Z 04004KT 6000 HZ FEW025 31/19 Q1007 SBGL 191800Z 12008KT 7000 FEW015 BKN100 28/23 Q1011 SBGM 191800Z /////KT 9999 VCSH FEW015TCU BKN020 31/23 Q1010 FQPB 191500Z 16008KT 9999 FEW020 FEW025CB 29/24 Q1013 RMK CB TO SW LOAV 191800Z VRB02KT 30KM FEW050CU SCT300CI 11/M01 Q1021 RMK SCT RJOW 191000Z 16017KT 9999 -SHRA FEW030 SCT040 BKN070 19/16 Q1006 KWLD 191854Z AUTO 32012KT 10SM FEW026 SCT033 19/13 A2974 RMK AO2 SLP068 T01940128 SBGO 191800Z 36009KT 9999 SCT035 FEW040TCU 31/15 Q1014 KVTN 191852Z AUTO 33022G31KT 10SM OVC060 11/M03 A2995 RMK AO2 PK WND 32038/1840 SLP145 T01061028 RJOY 191000Z 34004KT 9999 FEW040 SCT140 BKN/// 21/12 Q1013 RJOZ 191830Z 10012KT 5000 -SHRA BR FEW003 BKN008 BKN020 18/18 Q1000 RMK 2ST003 5ST008 6CU020 A2955 SBFZ 191800Z 10011KT 9999 SCT020 SCT100 28/22 Q1009 KVTP 191854Z AUTO 36004KT 10SM BKN002 BKN018 OVC043 00/M02 A3011 RMK AO2 P0006 KXBP 191855Z AUTO 32006G14KT 10SM CLR 21/14 A2981 RMK AO2 T02120140 SBGR 191800Z 03003KT 8000 SCT030 BKN080 27/21 Q1015 KVUJ 191835Z AUTO 12007G15KT 10SM -RA OVC009 20/20 A2992 RMK AO2 P0004 T01960196 SARC 191800Z 02010KT 9999 BKN025 BKN100 27/22 Q1007 KWMC 191856Z AUTO 01006KT 10SM CLR 18/M11 A3011 RMK AO2 SLP177 T01781106 SBGW 191800Z 31003KT 250V340 8000 FEW025 BKN100 29/21 Q1013 SARE 191800Z 02005KT 9999 SCT015 BKN100 BKN200 26/22 Q1006 SARF 191800Z 36006KT 9999 BKN020 28/22 Q1007 KVUO 191853Z AUTO 28007KT 10SM CLR 18/06 A3009 RMK AO2 SLP188 T01780056 SBIH 191800Z 07002KT 9999 TS VCSH FEW023 FEW024CB 32/25 Q1009 KVVG 191835Z AUTO 19008G16KT 10SM 31/27 A2980 RMK A01 SARI 191800Z 36005KT 9999 SCT025 SCT030 27/22 Q1011 RJSA 191200Z VRB01KT CAVOK 03/00 Q1016 SASA 191800Z 05003KT CAVOK 26/14 Q1007 SBHT 191800Z 08004KT 9999 BKN015 31/25 Q1009 RKJB 191800Z AUTO 28005KT 0900 ///002 13/13 Q1002 SBIL 191800Z 11012KT 9999 FEW020 30/23 Q1011 RJSC 191000Z 05003KT CAVOK 15/02 Q1014 SARL 191800Z 05008KT 9999 BKN020 BKN200 29/21 Q1008 FQQL 191800Z 18002KT CAVOK 27/23 Q1015 SBJF 191800Z 06008KT 9999 FEW020 FEW025TCU 28/20 Q1016 RJSF 191000Z 15003KT 9999 -RA SCT040 BKN080 14/07 Q1015 SBIP 191825Z 05005KT 9999 FEW030 30/19 Q1011 SARP 191800Z 36008KT 9999 BKN030 SCT100 27/21 Q1009 RJSH 190008Z 28015G26KT 240V320 9999 FEW030 BKN230 14/M01 Q1014 RMK 1CU030 A2997 RJSI 191000Z VRB02KT CAVOK 14/00 Q1015 SCBA 191800Z 30022G34KT 260V320 9999 FEW030 12/02 Q1002 SASJ 191800Z 09003KT CAVOK 25/16 Q1005 RJSK 191200Z 12003KT CAVOK 11/00 Q1014 RKJK 191858Z AUTO 32006KT 2SM R18/4500FT RA BR OVC002 14/14 A2956 RMK AO2 VIS 1 1/4V2 SLP014 P0006 $ RJTC 190320Z 14004KT 110V170 9999 -SHRA FEW030 SCT080 BKN100 17/04 Q1016 RMK 2CU030 4AC080 5AC100 A3002 HAAB 191800Z 02010KT C A V O K 20/03 Q1026 RJSN 191200Z 05003KT 010V070 9999 -RA FEW030 BKN050 OVC100 12/08 Q1014 KVVV 191854Z AUTO 32021G27KT 10SM SCT035 BKN043 11/02 A2974 RMK AO2 RJTF 190800Z VRB01KT 6000 FEW040 SCT130 BKN160 17/07 Q1016 SBKG 191800Z 09011KT 9999 SCT030 31/17 Q1012 SBJP 191800Z 10008KT 9999 BKN035 30/22 Q1010 SCAP 191800Z AUTO 23010G24KT 180V300 //// // NSC 14/05 Q1015 SBIZ 191800Z 36006KT 9999 BKN023 33/24 Q1008 SBJR 191800Z 20004KT 9999 FEW018 29/25 Q1012 RJTI 190700Z VRB02KT 6000 FEW040 BKN060 16/10 Q1016 RJSR 191000Z VRB01KT CAVOK 08/02 Q1015 SCAR 191800Z 22012KT 9999 SCT043 25/15 Q1011 RJSS 191200Z 35003KT 9999 FEW060 BKN090 11/09 Q1015 RJTK 190303Z 36004KT 9999 -RA FEW020 BKN100 OVC200 15/10 Q1016 RMK 1SC020 7AC100 8CI200 A3002 SBLB 191800Z 02006KT CAVOK 31/22 Q1012 W///S2 SCAT 191800Z 22006KT 9999 SCT026 19/11 Q1015 RJTL 191523Z 33002KT 9999 SCT012 BKN150 13/09 Q1015 RMK 4CU012 7AC150 A2998 SBJU 191800Z 00000KT 9999 SCT020 34/21 Q1012 SBJV 191800Z 17003KT 7000 BKN007 BKN015 23/22 Q1013 KVWU 191855Z AUTO 00000KT 10SM OVC011 07/05 A2961 RMK AO2 SBLE 191800Z 24003KT 9999 SCT040 33/20 Q1013 RJTO 190800Z 20012KT 9999 FEW020 BKN025 BKN040 17/13 Q1016 SCCF 191800Z 25013KT CAVOK 22/M10 Q1024 SBKP 191800Z 32007KT 7000 -TSRA FEW020 FEW040CB BKN080 25/22 Q1015 RJSY 191200Z 09004KT CAVOK 10/04 Q1014 SCCH 191800Z 15003KT 9999 BKN025 18/09 Q1017 SCCI 191800Z 23019KT 9999 SCT030 05/M03 Q0993 NOSIG SBMA 191800Z 30004KT 9999 SCT022 FEW030TCU 32/25 Q1009 SCDA 191800Z 22010KT 9999 FEW035 SCT300 24/14 Q1012 RJTT 191830Z 20010KT 9999 FEW008 BKN170 16/15 Q1013 NOSIG RMK 1ST008 7AC170 A2992 SAVC 191815Z 20008KT 120V270 9999 -RA FEW015 BKN050 09/09 Q1001 SBMD 191800Z 10009KT 9999 BKN020 ///// Q1011 SBME 191800Z 17006KT 9999 FEW025 BKN090 29/25 Q1012 SBLO 191800Z 02005KT 9999 SCT025 29/22 Q1012 SBLP 191800Z 30005KT 9999 SCT030 35/18 Q1011 SBMG 191800Z 35008KT 9999 VCSH SCT032 30/21 Q1011 RJTY 191858Z AUTO 35004KT 10SM CLR 12/09 A2995 RMK AO2 SLP145 T01210085 $ SBLS 191800Z 15007KT 110V200 9999 VCSH SCT040 29/17 Q1015 SBMK 191800Z 08012KT 9999 BKN045 FEW050TCU 29/17 Q1013 KVYS 191835Z AUTO 13007KT 10SM SCT036 SCT050 SCT060 19/06 A2962 RMK AO2 T01870060 SBML 191800Z 35008KT 9999 SCT025 29/19 Q1014 SAWC 191327Z 25019KT 9999 VCSH FEW020 05/M02 Q0997 KWRB 191845Z 21008KT 170V230 10SM FEW025 OVC100 21/19 A2983 RMK AO2A LTG DSNT E-SE RAE14DZB14E17DZB28E34RAB34 TSE01 PRESFR SAWE 191800Z 23026G36KT 9999 BKN018 07/02 Q0984 SBMN 191800Z 16004KT 9999 SCT020 FEW025TCU 30/22 Q1010 SBNF 191800Z 13005KT 9999 FEW015 SCT020 BKN030 27/21 Q1013 SBMO 191800Z 11012KT 9999 FEW030 31/22 Q1010 SCCY 191800Z 26007KT 9999 SCT030 SCT040 12/05 Q1006 SAWG 191800Z 23034G48KT 9999 FEW025 SCT030 08/02 Q0991 SBMQ 191800Z 05008KT 9999 -RA SCT017 BKN090 28/25 Q1011 SAWH 191900Z 23027G35KT 8000 RA BKN020 BKN050 04/03 Q0988 LOIH 191500Z 02003KT 35KM FEW060CU 18/04 Q1015 RMK FEW KXIH 191855Z AUTO 23009KT 10SM CLR 27/19 A2981 RMK A01 SBMS 191800Z 02009KT 9999 SCT030 33/24 Q1008 KWRI 191858Z AUTO 12010G19KT 10SM CLR 14/02 A3016 RMK AO2 SLP217 T01410015 SCFA 191800Z 20010KT 9999 FEW020 SCT250 22/13 Q1013 NOSIG SBMT 191800Z 19005KT 5000 HZ SCT030 BKN100 27/19 Q1015 SCEL 191800Z VRB02KT 9999 BKN180 BKN250 18/04 Q1016 NOSIG KWRL 191853Z AUTO 34008KT 10SM CLR 11/M10 A3013 RMK AO2 SLP205 T01061100 SBMY 191800Z 06002KT 9999 SCT020 33/23 Q1010 SBOI 191800Z 36005KT 8000 VCSH SCT015 FEW025TCU BKN100 27/24 Q1 011 SBPA 191800Z 10003KT CAVOK 28/19 Q1010 SBPB 191800Z 05009KT 9999 SCT017 FEW025TCU BKN090 30/26 Q1009 SBNT 191800Z 11013KT 9999 SCT027 30/22 Q1010 SBPC 191800Z 04002KT 9999 BKN020 FEW025TCU 21/21 Q1019 RETS RKPC 191800Z 29009KT 0800 R07/P2000N R25/P2000N FG SCT002 BKN020 13/08 Q1002 BECMG 2800 SCGE 191800Z 00000KT 9999 SCT010 OVC030 13/11 Q1018 SBPF 191800Z 06010KT 9999 BKN030 27/23 Q1013 RKNY 191800Z AUTO 34010KT 3000 ///022 09/09 Q1007 SBPJ 191800Z 29005KT 9999 SCT025 34/23 Q1009 SBPK 191500Z 05010KT CAVOK 26/13 Q1012 LPBJ 191800Z 31011KT 9999 FEW048 19/10 Q1017 RKPK 191756Z 06006KT 4000 -RA BR FEW005 BKN010 OVC020 15/13 A2959 SCFT 191800Z AUTO 27012KT 240V300 CAVOK 14/04 Q1010 MGCB 191900Z 05008KT 9999 SCT018 29/19 QFE 868.2 SBPL 191800Z 05003KT 9999 FEW030 35/20 Q1010 KWST 191853Z AUTO 14008KT 10SM CLR 10/02 A3026 RMK AO2 SLP246 T01000017 $ SBPP 191800Z 33008KT 9999 BKN015 28/22 Q1012 SBPR 191800Z 02004KT 9999 SCT025 30/17 Q1016 LPAZ 191830Z 03013KT 9999 SCT035 15/08 Q1026 SBPS 191900Z 11009KT 9999 FEW020 28/24 Q1012 SBRB 191800Z 28002KT 9999 SCT025 SCT100 31/24 Q1011 SCIC 191800Z VRB02KT 9999 FEW015 SCT030 OVC090 14/12 Q1015 SBPV 191800Z 32003KT 9999 SCT023 FEW025TCU SCT100 32/21 Q1010 KXLL 191855Z AUTO 13009KT 10SM CLR 18/00 A3015 RMK AO2 SAZM 191800Z 32012KT CAVOK 25/11 Q1004 SCIE 191800Z 20007KT 180V240 9999 SCT023 18/12 Q1017 SAZN 191800Z 23013G24KT CAVOK 20/00 Q1010 SBRF 191800Z 11006KT 9999 SCT023 SCT060 29/23 Q1010 SBRJ 191800Z 14007KT 7000 FEW010 SCT100 26/24 Q1011 SAZS 191900Z 29020G33KT 9999 SCT045 SCT100 10/04 Q1013 KWVI 191853Z AUTO 16007KT 10SM BKN015 16/10 A2999 RMK AO2 SLP155 T01560100 KXNA 191853Z 31008KT 10SM BKN037 BKN043 19/11 A2971 RMK AO2 SLP051 T01940111 SBSC 191800Z 20006KT 9999 FEW020 BKN100 27/21 Q1012 FSIA 191800Z 13006KTKT 9999 BKN018 28/25 Q1012 NOSIG SBQV 191800Z 16010KT 9999 SCT025 29/18 Q1016 KWVL 191855Z 32004KT 300V360 10SM CLR 12/M03 A3019 RMK AO1 SBRP 191800Z 31007KT 9999 SCT040 31/19 Q1012 RKSG 191858Z 08003KT 3SM R32/5500FT -RA BKN008 OVC014 12/12 A2961 RMK AO2A CIG 006V008 SLP030 P0006 T01180117 $ SCIP 191800Z 32009KT 260V020 9999 SCT020 SCT250 25/19 Q1019 NOSIG RKSI 191800Z 05017KT 6000 -RA FEW005 BKN030 OVC080 10/08 Q1003 NOSIG SBTA 191845Z 01006KT 9999 TS SCT025 FEW030CB SCT080 29/21 Q1013 SBSJ 191900Z 00000KT 9000 BKN020 BKN070 26/23 Q1014 KXMR 191858Z AUTO 15009KT 10SM CLR 31/23 A2988 RMK AO2 SLP121 T03060234 $ SBTC 191800Z 12002KT 9999 FEW020 32/25 Q1011 SBSL 191829Z 03009KT 360V070 8000 TS VCSH BKN017 FEW020CB 29/23 Q1009 SBSM 191800Z 15006KT 9999 FEW040 27/20 Q1009 SBTE 191800Z 16006KT 9999 SCT030 32/26 Q1008 SBSN 191800Z 09003KT 9999 FEW020 FEW025TCU 31/25 Q1009 SBTF 191800Z 09005KT 9999 SCT020 33/26 Q1010 SCJO 191800Z 33005KT 9999 BKN025 15/10 Q1017 RKSO 191758Z 03007KT 3SM RA BKN013 OVC022 12/12 A2962 RMK AO2A SLP033 P0006 60010 T01170117 10137 20117 57005 $ SBSP 191800Z 18007KT 5000 HZ FEW016 BKN019 25/19 Q1016 SBSR 191800Z 26008KT 9999 BKN030 FEW050TCU 27/20 Q1014 SBUA 191800Z 09006KT 9999 VCSH SCT017 FEW025TCU 35/24 Q1010 RKSS 191800Z 02009KT 4200 -RA BR FEW010 BKN030 OVC060 11/08 Q1004 NOSIG KWWR 191835Z AUTO 32021G26KT 10SM VCTS BKN031 BKN038 OVC055 15/11 A2988 RMK AO2 LTG DSNT NE THRU SE P0005 SBTK 191800Z 28005KT 9999 SCT030 SCT100 ///// Q1011 MGES 191900Z 27010KT 9999 FEW020 31/18 QFE 909.0 FEW200 SBST 191800Z 10002KT 9000 -DZ BKN015 BKN070 25/24 Q1012 LPFL 191800Z 32006KT 270V350 9999 FEW024 17/08 Q1027 SBSV 191800Z 12009KT CAVOK 30/23 Q1010 RKTN 191755Z 13009KT 4000 -DZ BR FEW005 BKN010 OVC020 13/11 A2957 SBUF 191800Z 14014KT 9999 SCT021 FEW025TCU 33/21 Q1011 SBUG 191900Z 01007KT 9999 BKN040 27/20 Q1008 LPFR 191830Z 35010KT 320V020 CAVOK 21/06 Q1016 SBTT 191900Z 17003KT 9999 BKN020 ///// Q1009 SBUL 191800Z 36006KT 350V060 9999 FEW027 FEW030TCU 29/19 Q1016 RKTU 191758Z 01008KT 4000 -RA BR BKN010 OVC025 12/10 A2961 VYYY 191830Z 24006KT 7000 NSC 28/22 Q1010 NOSIG SBVH 191800Z 31010KT 9999 SCT020 FEW022TCU 31/23 Q1013 SBUR 191800Z 27004KT 9999 BKN040 30/18 Q1014 MGGT 191900Z 18012KT 9999 SCT020TCU 27/17 Q1023 A3021 TCU N/NE/E KXPY 191855Z AUTO 22012G17KT 10SM CLR 26/20 A2986 RMK A01 YABA 191900Z AUTO 04005KT 9999 // NCD 12/11 Q1027 LPHR 191830Z 06009KT 9999 FEW020 17/06 Q1027 SBVT 191800Z 09008KT CAVOK 30/21 Q1011 KXSA 191855Z AUTO 10013G17KT 10SM SCT030 SCT065 19/10 A3008 RMK AO2 T01910100 MGHT 191900Z 09010KT 9999 FEW025 29/10 QFE 815.6 WSAP 191500Z 34004KT 9999 FEW016 BKN300 29/24 Q1011 KYIP 191853Z AUTO 08012G22KT 10SM FEW080 17/05 A2982 RMK AO2 SLP094 T01720050 TSNO MHAM 191800Z 23004KT 9999 FEW034 35/220 METAR MHTR 191800Z 30002KT 9999 FEW028 BKN250 32/23 HZ SCON 191800Z AUTO 27004KT 230V310 CAVOK 13/10 Q1014 LPLA 191800Z /////KT 9999 FEW025 17/10 Q1027 MHCA 191800Z 12006KT 9999 BKN030 32/19 Q1014 FU LQBK 191830Z 29002KT CAVOK 08/03 Q1020 NOSIG KYKM 191853Z VRB03KT 10SM CLR 22/M01 A3013 RMK AO2 SLP202 T02221006 $ KYKN 191855Z AUTO 33024G32KT 10SM FEW047 12/01 A2981 RMK AO1 SCPQ 191800Z 27007KT 9000 VCSH BKN029 OVC036 12/10 Q1015 MHCH 191800Z 20010KT 9999 BKN034 37/22 FU HZ SBYS 191800Z 33006KT 9999 BKN040 FEW045TCU 32/21 Q1013 LPMA 191830Z VRB05KT 9999 FEW018 18/10 Q1021 SCRD 191800Z 19008KT 9999 FEW010 BKN070 18/10 Q1015 SCQP 191800Z 27006KT 240V300 9999 SCT020 BKN025TCU 16/11 Q1017 KXVG 191856Z AUTO 31005KT 10SM OVC010 07/07 A2960 RMK AO2 SCRM 191800Z 34027KT 0800 -RA FG OVC001 01/01 Q0973 MGMM 191900Z 30004KT 9999 FEW020 36/23 Q1009 A2980 SCSE 191800Z 27010KT 9999 SCT020 18/10 Q1015 LOWG 191850Z 18002KT CAVOK 08/M01 Q1020 NOSIG KYNG 191851Z 12019G26KT 10SM SCT080 OVC200 23/03 A2986 RMK AO2 PK WND 12028/1755 SLP106 T02280028 LOWI 191850Z 06005KT 020V100 CAVOK 11/01 Q1018 NOSIG SCTB 191800Z 00000KT 9999 BKN100 17/08 Q1016 MGMT 191900Z 18006KT 9999 FEW014 34/24 Q1005.0 LOWK 191850Z 08006KT CAVOK 10/M00 Q1019 NOSIG SEAM 191700Z 13006KT 9999 FEW020 SCT100 20/12 Q1028 LOWL 191850Z 02003KT CAVOK 10/02 Q1020 NOSIG SCTE 191800Z 26005KT 9999 SCT020 OVC070 13/11 Q1016 NOSIG SCSN 191800Z 28005KT 230V320 9999 OVC018 16/11 Q1016 SECA 191700Z 25002KT 9999 FEW040 SCT100 28/18 Q1017 LOWS 191850Z 35003KT 300V040 CAVOK 09/01 Q1020 NOSIG MGPB 191900Z 30010KT 7000 FEW020 32/26 Q1008 A2977 HZ LPPD 191830Z 02010KT 330V070 9999 FEW025 15/07 Q1026 SCTN 191822Z AUTO 35010KT 9999 FEW006 BKN020 OVC024 12/11 Q1014 RERA LOWW 191850Z 16004KT CAVOK 09/M02 Q1020 NOSIG LOWZ 191700Z 27005KT 50KM SKC 14/M01 Q1016 RMK SKC LOXT 191750Z 18003KT 30KM FEW150AC BKN300CI 11/01 Q1020 RMK BKN SCVD 191800Z 25005KT 200V310 9999 -SHRA SCT030 BKN036 15/10 Q1017 SECO 191800Z 32002KT 8000 -RA FEW004 SCT023 OVC100 23/23 Q1015 LOXZ 191850Z VRB03KT 30KM FEW250CI 08/M02 Q1019 RMK FEW LPPR 191830Z 30006KT 9999 FEW020 14/09 Q1018 LPPS 191830Z 03005KT 350V070 9999 FEW016 17/11 Q1021 SECU 191700Z 04007KT 9999 SCT040 BKN300 21/11 Q1025 LPPT 191830Z 35010KT 9999 FEW038 15/08 Q1018 SCVM 191800Z 27006KT 9999 BKN040 16/09 Q1016 YBAF 191830Z AUTO 21005KT 9999 // SCT069 SCT081 OVC098 19/18 Q1017 MGQZ 191900Z 17008KT 8000 SCT020 24/13 QFE 769.6 HZ YBAS 191900Z AUTO 13015KT 9999 // OVC044 15/06 Q1026 MGSJ 191900Z 20008KT 8000 SCT020 BKN200 33/25 Q1011 A2985 HZ MGRT 191900Z 22008KT 9000 SCT020TCU 32/22 Q1013 A2991 HZ TCU N/NE/E/S=VOL. STA. MARIA Y SANTIAGUITO EN ACTIVIDAD YBBN 191830Z 19007KT 9999 -RA FEW005 BKN045 20/18 Q1017 LRBC 191800Z 30003KT CAVOK 06/04 Q1016 YBCG 191830Z AUTO 21005KT 9999 // OVC120 20/19 Q1017 YBCK 191900Z AUTO 17014KT //// // ////// 17/11 Q1021 YAMB 191830Z AUTO 00000KT 9999 // SCT046 SCT062 OVC098 20/19 Q1017 LRAR 191830Z 18004KT CAVOK 06/M01 Q1020 MHLC 191900Z 35007KT 9999 SCT020 31/25 Q1009 A2979 NOSIG LRBM 191830Z 34002KT 9999 FEW045 07/02 Q1019 YBDG 191830Z AUTO 19005KT 9999 // NCD 07/03 Q1033 MHLE 191800Z 18004KT 9999 SCT024 25/19 YBCS 191830Z 17008KT 9999 FEW025 25/22 Q1013 SEGS 191800Z 02006KT 9999 SCT026 SCT030 BKN100 28/25 Q1011 A298 5 LRBS 191830Z 08003KT CAVOK 08/04 Q1018 NOSIG SEGU 191700Z 12004KT 9999 SCT026 31/23 Q1010 NOSIG RMK A2983 YBCV 191830Z AUTO 18009KT 9999 // NCD 14/09 Q1023 LRCK 191830Z 23005KT CAVOK 05/04 Q1017 NOSIG MGTU 191900Z 18006KT 9000 SCT018 33/25 HZ LRCL 191830Z 30005KT CAVOK 06/M01 Q1019 MHLM 191900Z 00000KT 9999 FEW028 38/23 Q1007 A2974 NOSIG LRCT 191800Z 32008KT 9999 BKN060 03/M03 Q1019 BLU BLU YBDV 191900Z AUTO 16013KT //// // ////// 13/01 Q1027 SEJD 191400Z 00000KT 9999 SCT040 OVC100 22/22 Q1017 RMK A3004 LRCV 191830Z 26010KT CAVOK 10/M04 Q1017 LQMO 191900Z VRB03KT CAVOK 14/M02 Q1015 ROAH 191830Z 21017KT 5000 -SHRA SCT008 BKN010 BKN030 24/23 Q1005 RMK 3ST008 6CU010 7SC030 A2969 BGBW 191850Z AUTO 36004KT 9999NDV BKN034/// M02/M11 Q1005 SFAL 191850Z 21018KT 9999 -SHRA BKN007 07/07 Q0978 GMAD 191830Z 20006KT 150V260 CAVOK 20/12 Q1013 NOSIG MHNO 191800Z 19010KT 9999 FEW040 30/21 Q1015 FU GMAG 191800Z 28014KT CAVOK 19/13 Q1012 NOSIG FTTA 191800Z 00000KT CAVOK 34/14 Q1009 FTTC 191500Z 22006KT CAVOK 36/M08 Q1010 FTTD 191500Z 36008KT CAVOK 39/10 Q1008 HDAM 191400Z 09009KT CAVOK 31/24 Q1008 YBHI 191900Z AUTO 17006KT 9999 // NCD 05/03 Q1033 MGZA 191900Z 00000KT 9999 FEW018 40/21 QFE 981.6 FEW200 SEMC 191800Z 36008KT 330V040 9999 VCSH SCT020 OVC100 21/19 Q1018 FTTJ 191800Z 02006KT 8000 NSC 33/02 Q1009 NOSIG YBHM 191900Z AUTO 14011KT 9999 // SCT021 25/22 Q1015 MHPL 191800Z 06008KT 9999 SCT028 32/22 Q1012 HZ GMAT 191800Z 36016KT 8000 BKN016 16/12 Q1014 NOSIG YARG 191830Z AUTO 14008KT 9999 // NCD 25/13 Q1016 SELT 191800Z 12006KT 9999 SCT030 SCT300 20/08 Q1029 BGGH 191850Z 25007KT 5000 -SN SCT018 BKN023 BKN120 M05/M08 Q1006 LRIA 191800Z 27007KT CAVOK 07/M00 Q1015 FVBU 191800Z 16003KT 9999 FEW025CB BKN090 16/15 Q1022 NOSIG RODN 191858Z AUTO 18021G29KT 4SM R23/4500FT -RA BR SCT009 OVC013 24/24 A2968 RMK AO2 PK WND 20029/45 RAB11E21RAB35 CIG 009V013 CIG 008 RWY05 SLP056 P0006 T02410236 FTTY 191500Z 06010KT CAVOK 34/M08 Q1013 YCBA 191900Z AUTO 22005KT //// // ////// 05/03 Q1027 YCBB 191900Z AUTO 20008KT //// // ////// 09/07 Q1021 SEMT 191700Z 31007KT 9999 FEW026 BKN200 29/25 Q1011 RMK A2987 WSSL 191500Z 32003KT CAVOK 27/23 Q1011 RMK 1430Z Q1011 LQSA 191830Z VRB02KT CAVOK 09/M02 Q1019 NOSIG SENL 191700Z 00000KT 9999 FEW006 SCT016TCU OVC100 25/23 Q1015 YBKE 191830Z AUTO 21009KT //// // ////// 10/04 Q1026 MHRO 191900Z 08011KT CAVOK 31/22 Q1009 A2980 NOSIG YCAR 191900Z AUTO 08009KT 9999 // SCT120 23/14 Q1017 YCAS 191900Z AUTO 18003KT //// // ////// 18/16 Q1019 WSSS 191830Z 31002KT 8000 FEW018 BKN300 27/24 Q1011 NOSIG FVCZ 190600Z 00000KT 9999 BKN010 BKN090 20/19 Q1023 FVFA 191500Z 12006KT 080V150 9999 TS FEW045CB SCT050 26/18 Q1016 TEMPO 8000 -TSRA MHTE 191800Z 36006KT 9999 SKC 32/26 Q1008 FU YCBP 191900Z AUTO 13012KT //// // NCD 10/02 Q1033 MHTG 191900Z VRB02KT 9999 SCT032 31/14 Q1016 A3000 NOSIG GMFF 191800Z 32005KT 9999 FEW026 20/08 Q1017 NOSIG YBMA 191900Z AUTO 16018KT 9999 // SCT100 19/08 Q1020 YBKT 191900Z AUTO 17017KT //// // ////// 24/14 Q1015 MHSR 191800Z 29002KT 9999 BKN030 30/16 HZ FU YBLN 191830Z AUTO 11007KT //// // ////// 13/09 Q1025 GMFK 191800Z 22018KT 6000 SA SCT026 SCT080 30/M05 Q1013 NOSIG GMFM 191800Z 32005KT 8000 NSC 19/08 Q1017 NOSIG BGJN 191850Z AUTO 33009KT 9999NDV FEW023/// BKN095/// M09/M14 Q1003 GMFO 191800Z 35013KT 9999 FEW033 SCT230 18/06 Q1015 NOSIG YBNA 191830Z AUTO 22005KT 8000 // SCT016 BKN052 BKN097 19/18 Q1018 YBLT 191830Z AUTO 15006KT //// // SCT035 03/02 Q1035 MHTR 191700Z 30002KT 9999 FEW028 BKN250 31/24 HZ YBMK 191830Z AUTO 24006KT 9999 // SCT020 BKN025 21/20 Q1014 SERB 191800Z 12010KT 9999 BKN040 21/12 Q1027 FVHA 191800Z 08005KT 9999 FEW025 SCT090 17/17 Q1023 NOSIG YCEE 191900Z AUTO 08010KT //// // ////// 09/05 Q1036 SEQM 191700Z 01009KT 9999 FEW023 SCT300 21/10 Q1025 NOSIG RMK A3028 YCDO 191830Z AUTO 18009KT //// // ////// 11/08 Q1026 BGKK 191850Z AUTO 05028G38KT 9999NDV -RA OVC011/// 02/00 Q1004 YCCY 191900Z AUTO 16016G26KT //// // ////// 21/07 Q1019 ROIG 191100Z 20013KT 9999 FEW006 BKN130 25/25 Q1007 LQTZ 191800Z 02003KT 9999 FEW050 10/M03 Q1020 SESA 191700Z 27008KT CAVOK 29/23 Q1011 YCDU 191900Z AUTO 10009KT 9999 // NCD 07/05 Q1036 YCEM 191830Z AUTO 00000KT //// // ////// 01/00 Q1034 SESD 191700Z 30004KT 9999 VCSH BKN010 BKN100 25/23 Q1012 GLRB 191830Z 23006KT 9999 SCT016 FEW026 CB SCT100 29/25 Q1009 RMK CB-SE SERO 191700Z 03004KT 350V060 9999 FEW020 BKN030 30/24 Q1011 YBNS 191830Z AUTO 31009KT 9999 // SCT047 BKN061 06/05 Q1034 YBOK 191900Z AUTO 31004KT 9999 // SCT009 SCT030 OVC115 17/16 Q1019 YCFL 191900Z AUTO 14018KT //// // ////// 26/24 Q1011 SESM 191700Z 20002KT 9999 VCSH SCT010 BKN023 OVC100 20/18 Q1017 RMK3005 RETS YAYE 191900Z AUTO 12015KT 9999 // NCD 15/00 Q1027 LROD 191830Z AUTO 20006KT 9999 NCD 04/M01 Q1020 YCFS 191900Z AUTO 22012KT 9999 // BKN075 BKN087 BKN105 19/15 Q1018 SGAS 191900Z 04007KT 360V060 9999 SCT033 BKN200 29/23 Q1007 SEST 191800Z 21007KT 9999 SCT023 BKN200 30/24 Q1009 A2982 HEBA 191800Z 10006KT CAVOK 23/04 Q1016 NOSIG FVKB 191500Z 00000KT 9999 FEW025CB SCT030 BKN100 25/21 Q1015 YBPN 191830Z AUTO 00000KT 9999 // NCD 20/19 Q1015 LSGC 191850Z AUTO VRB01KT 9999 NSC 08/03 Q1018 SETN 191800Z 01005KT 9999 SCT026 SCT300 30/25 Q1010 A2983 LSGG 191850Z VRB02KT 9999 FEW035 SCT060 BKN100 11/08 Q1018 NOSIG LROP 191830Z 12004KT 9999 FEW049CB 08/05 Q1018 NOSIG YCHK 191830Z AUTO 14006KT 9999 // SCT054 OVC120 18/14 Q1019 HEAR 191800Z 04002KT CAVOK 17/17 Q1017 NOSIG SETU 191800Z 09008KT 9999 -SHRA OVC023 14/11 Q1031 HECA 191830Z 02005KT CAVOK 25/06 Q1017 NOSIG HEAT 191800Z 32014KT CAVOK 25/05 Q1015 NOSIG HEBL 191800Z 00000KT CAVOK 27/M00 Q1012 NOSIG HEAX 191800Z 29003KT CAVOK 22/06 Q1015 NOSIG MHYR 191800Z 09004KT 9999 SCT2025TCU 32/18 TCU ALL HZ YBRK 191830Z AUTO 21005KT 9999 // SCT044 22/20 Q1016 YBRL 191900Z AUTO 18007KT //// // ////// 23/12 Q1014 LSGS 191750Z 29009KT 250V320 9999 SCT080 15/05 Q1014 YBRM 191900Z AUTO 09016KT 9999 // OVC098 23/20 Q1013 YCIN 191830Z AUTO 12011KT //// // SCT013 BKN086 22/20 Q1012 GMMB 191800Z 36012KT 9999 SCT010 18/13 Q1018 NOSIG FWCL 191500Z 24004KT 9999 BKN030 25/19 Q1018 BECMG FEW030 GMMC 191800Z /////KT 9999 SCT016 18/12 Q1016 YBSG 191830Z AUTO 14004KT //// // ////// 24/23 Q1010 GMME 191830Z 01009KT 9999 SCT020 SCT200 17/11 Q1017 NOSIG GMMH 191800Z 36023KT CAVOK 19/13 Q1014 NOSIG GMMI 191800Z AUTO 03015KT 9999NDV NCD 20/11 Q1014 NOSIG LRSB 191730Z 03005KT 340V080 9999 FEW040CB BKN047 07/M02 Q1019 NOSIG LTAC 191820Z 25006KT 9999 SCT040 BKN080 11/03 Q1012 NOSIG SGEN 191900Z 0506KT 9999 BKN020 OVC070 28/17 Q1009 KZZV 191853Z AUTO 18018G27KT 10SM -RA OVC090 21/08 A2980 RMK AO2 PK WND 18027/1849 RAB42 SLP087 P0000 T02060083 TSNO GMML 191800Z 04016KT 9999 FEW026 21/11 Q1015 NOSIG YBRY 191830Z AUTO 11014KT 9999 // SCT063 BKN120 18/09 Q1020 YBTH 191830Z AUTO 19008KT 9999 // SCT027 BKN052 OVC063 08/08 Q1024 ROMY 191100Z 19015KT 8000 FEW007 BKN009 BKN013 25/23 Q1007 LTAF 191820Z 16003KT 9999 SCT035 16/12 Q1016 NOSIG GMMN 191830Z 02012KT 9999 SCT016 17/12 Q1017 NOSIG LTAG 191820Z 19006KT 9999 SCT035 16/12 Q1016 NOSIG SGES 191900Z 02004G14KT 330V060 9999 SCT030 BKN080 29/21 Q1009 LTAI 191820Z VRB01KT 9999 SCT030 BKN100 16/13 Q1016 NOSIG YBSU 191830Z AUTO 00000KT 9999 // SCT047 19/18 Q1016 YBTL 191830Z AUTO 15004KT 9999 // SCT035 25/21 Q1014 LTBA 191843Z 05008KT 360V130 8000 SCT016 BKN080 08/04 Q1020 RESHRA NOSIG RMK RWY17L 06008KT 040V100 RWY05 05009KT RWY23 05009KT LTAJ 191820Z 22007KT CAVOK 12/08 Q1014 NOSIG YBUD 191830Z AUTO 24007KT 9000 DZ SCT008 SCT038 OVC052 20/19 Q1016 RERA YCKN 191900Z AUTO 14010KT 9999 // SCT018 SCT035 BKN041 26/23 Q1011 LRTC 191800Z AUTO 27006KT 9999 SCT065/// 05/02 Q1017 LRSM 191800Z AUTO 00000KT 9999 SCT100/// BKN110/// 08/02 Q1018 FVMV 190300Z 19002KT 9999 -DZ BKN007 OVC080 17/17 Q1022 LTAN 191750Z 27009KT CAVOK 15/04 Q1013 NOSIG LTBF 191750Z 02010KT 9999 FEW015 SCT035 BKN100 09/04 Q1018 NOSIG GMMW 191800Z 32004KT 300V360 CAVOK 19/08 Q1015 NOSIG LTAP 191820Z 01020G31KT 9999 SCT040 BKN100 06/03 Q1013 NOSIG GMMX 191830Z 35008KT 310V030 9999 FEW026 25/11 Q1015 NOSIG BGSF 191850Z AUTO 10002KT 9999NDV BKN060/// BKN075/// M10/M19 Q1005 LTAR 191750Z 27010KT CAVOK 12/M05 Q1012 GMMZ 191800Z 18010KT 160V240 6000 SCT040 30/M04 Q1013 NOSIG LTAS 191223Z 35010KT 4000 -RA BR SCT006 BKN022 BKN080 08/06 Q1018 REDZ RMK RWY18 34011KT LTBJ 191820Z 02011KT 9999 FEW030 SCT100 BKN200 17/12 Q1013 NOSIG LTCA 191750Z 25009KT 9999 FEW035 SCT100 15/07 Q1011 NOSIG LTAT 191820Z 23008KT 9999 FEW040 SCT100 13/05 Q1011 NOSIG LTAU 191820Z 28007KT 9999 FEW040 14/04 Q1012 NOSIG LTCC 191820Z 13007KT CAVOK 15/11 Q1012 NOSIG LTCD 191750Z 06004KT 9999 SCT045 BKN120 15/01 Q1011 NOSIG LRTM 191800Z 27003KT CAVOK 04/M01 Q1019 LRSV 191800Z AUTO 27008KT 9999 NCD 04/01 Q1015 YDBY 191830Z AUTO 13014KT //// // ////// 24/20 Q1013 LTCE 191820Z 23007KT 170V260 CAVOK 09/M01 Q1014 NOSIG BIBD 191320Z 20016KT 9999 FEW015 BKN025 OVC030 07/// Q1019 LTCF 191750Z 12008KT 9999 SCT035 05/01 Q1013 LTCG 191820Z 29024KT 9999 BKN033 11/08 Q1015 NOSIG LTAZ 191820Z 17007KT 140V200 9999 FEW040 15/M01 Q1012 LTBQ 191811Z 07005KT 040V100 8000 BKN012 OVC024 06/05 Q1020 REDZ BECMG TL2000 SCT012 BKN025 RMK RWY09 07005KT LTBR 191820Z 06004KT 9999 BKN026 BKN080 07/04 Q1018 RESHRA NOSIG LTCI 191750Z 16005KT 9999 SCT040 11/M02 Q1016 NOSIG LRTR 191830Z 07001KT CAVOK 08/01 Q1020 LSMA 191850Z AUTO VRB01KT 9999NDV NCD 10/05 Q1017 RMK BLU LTBS 191820Z 32005KT 290V360 9999 FEW030 BKN180 17/13 Q1014 NOSIG LTCJ 191820Z 14006KT 9999 VCTS FEW025CB SCT040 16/10 Q1013 YCMM 191900Z AUTO 16005KT //// // ////// 05/04 Q1037 LTCK 191450Z 22011KT 9999 SCT035 BKN090 17/03 Q1013 BIAR 191803Z 19023KT CAVOK 11/02 Q1021 LTBU 191820Z 05007KT 9999 SCT025 BKN080 05/04 Q1020 LSMD 191850Z AUTO VRB02KT 9999NDV NCD 13/M02 Q1018 RMK BLU LTCN 191434Z 29022G33KT CAVOK 18/09 Q1014 RMK RWY07 29025KT BGTL 191858Z AUTO 00000KT 9999 CLR M13/M20 A2980 RMK AO2 SLP082 T11341205 LSME 191850Z AUTO 00000KT 9999NDV NCD 11/04 Q1017 RMK BLU HEGN 191800Z 32014KT CAVOK 26/03 Q1013 NOSIG YCMT 191830Z AUTO 12009KT //// // ////// 21/17 Q1018 YCNK 191900Z AUTO 22007KT //// // ////// 13/11 Q1022 LTCT 191308Z 31015G31KT 280V350 9999 FEW030CB SCT040 21/03 Q1009 RMK RWY30 32012KT 290V360 YCNM 191900Z AUTO 21009KT //// // ////// 08/06 Q1022 YCOE 191900Z AUTO 09006KT //// // ////// 25/21 Q1011 LTCU 191225Z 19012KT 9999 -SHRA FEW025CB BKN030 17/07 Q1014 RMK RWY30 19012KT LSMM 191850Z AUTO 07005KT 020V120 9999NDV NCD 12/03 Q1017 RMK BLU YBWP 191900Z AUTO 11004KT 9999 // NCD 24/23 Q1010 LSMP 191850Z AUTO 34004KT 9999NDV OVC079 13/05 Q1017 RMK WHT RORS 191000Z 18014KT 8000 FEW007 SCT009 BKN015 25/24 Q1007 LSMS 191850Z AUTO 26012KT 240V300 9999NDV SCT086 13/05 Q1015 RMK BLU YCOM 191830Z AUTO 21012KT 9999 // OVC010 03/03 Q1030 LTFC 191820Z 02004KT 340V060 9999 SCT035 SCT100 BKN200 13/09 Q1014 YBWX 191900Z AUTO 09030KT //// // ////// 22/19 Q1014 YCNY 191900Z AUTO 16006KT //// // ////// 22/04 Q1017 LTFE 191820Z VRB05KT 9999 FEW035 BKN100 17/11 Q1012 NOSIG LTFH 191750Z 31015KT 8000 -SHRA BKN030 BKN090 08/06 Q1019 NOSIG BIEG 191800Z 25010KT CAVOK 11/01 Q1024 LTFJ 191820Z 06009KT 9999 SCT013 BKN100 07/04 Q1019 NOSIG RPLB 191800Z 00000KT 9999 FEW020 BKN300 28/23 Q1009 NOSIG RMK A2980 GMTA 191800Z 06002KT CAVOK 21/10 Q1015 NOSIG RPLC 191800Z 20002KT 9999 SCT020 BKN090 27/25 Q1011 NOSIG RMK A2985 ROTM 191858Z 22020G27KT 9999 BKN010 24/24 A2971 RMK PK WND 21027/27 SHRAE43 SLP046 T2 WND WRNG XWND ADV P0003 T02440239 RPLI 191800Z 00000KT 9999 FEW019 25/24 Q1009 NOSIG RMK A2980 FWKI 191500Z 09009KT 9999 FEW045 23/17 Q1018 NOSIG RPLL 191800Z 16004KT 120V230 9999 FEW030 29/26 Q1010 NOSIG RMK A2983 RPMD 191500Z 31003KT 9999 FEW016 SCT290 26/24 Q1012 RMK A2988 FVTL 190500Z 00000KT 9999 -RA BKN008 BKN090 16/16 Q1023 GMTN 191800Z 26012KT CAVOK 20/06 Q1015 NOSIG HEMA 191800Z 33012KT CAVOK 26/M00 Q1013 NOSIG GMTT 191830Z 32007KT CAVOK 16/09 Q1017 NOSIG HEMM 191800Z 13009KT CAVOK 24/04 Q1014 NOSIG BIHN 191700Z 19010KT 9999 FEW008 FEW013 10/// Q1027 HELX 191800Z 28002KT CAVOK 28/07 Q1012 NOSIG RPMZ 191800Z 00000KT 9999 FEW017CB SCT300 25/24 Q1012 RMK A2988 CB WITH OCCNL LGTNG NW NCAI 191700Z AUTO 08009KT //// //// 25/23 Q1013 FVWN 190900Z 09002KT 9999 BKN025 24/18 Q1022 NOSIG MKJP 191800Z 15022KT 9999 FEW024 31/23 Q1012 MKJS 191800Z 06011KT 9999 FEW022 30/25 Q1013 YCUN 191900Z AUTO 06009KT //// // ////// 14/10 Q1026 BIIS 191800Z 21015G27KT 9999 -RA OVC022 09/04 Q1016 RMK 08 ENDI 170GR RV 17G36KT LUBL 191830Z AUTO 28009KT 9999 NCD 05/M01 Q1014 YDLQ 191900Z AUTO 21011KT //// // ////// 05/02 Q1032 YCWA 191830Z AUTO 08005KT 9999 // SCT055 BKN065 17/10 Q1020 GOGG 191830Z 26008KT CAVOK 29/20 Q1008 BIKF 191830Z 14025KT 9999 VCSH BKN010 07/06 Q1018 GOGK 191800Z VRB02KT CAVOK 41/14 Q1006 GOGS 191800Z 30012KT CAVOK 24/19 Q1009 HEPS 191800Z 04005KT CAVOK 19/15 Q1017 NOSIG YCWR 191900Z AUTO 19011KT //// // ////// 08/08 Q1026 FYAB 191100Z AUTO 00000KT //// // ////// 26/M04 Q1010 HESC 191800Z 02008KT CAVOK 19/M05 Q1023 NOSIG HESH 191800Z 34009KT CAVOK 28/02 Q1012 NOSIG YDPO 191900Z AUTO 19006KT 9999 // NCD 02/00 Q1036 FYAN 191100Z AUTO 12002KT //// // ////// 27/04 Q1020 HESN 191800Z 35006KT CAVOK 29/04 Q1012 NOSIG FYBG 191100Z AUTO 11006KT //// // ////// 30/15 Q1017 LSZA 191850Z 16003KT 130V200 CAVOK 12/03 Q1019 NOSIG FYAS 191100Z AUTO 29004KT //// // ////// 26/02 Q1021 LSZB 191850Z VRB02KT CAVOK 12/05 Q1017 NOSIG LSZC 191850Z AUTO 24006KT 210V300 CAVOK 10/05 Q1017 LSZG 191850Z 07004KT CAVOK 11/03 Q1017 NOSIG LSZH 191850Z 04008KT 010V070 CAVOK 14/M00 Q1018 NOSIG LSZL 191850Z AUTO 00000KT 9999NDV FEW100 11/03 Q1019 RMK BLU RPVM 191800Z 05004KT 9999 FEW020 BKN300 28/25 Q1011 RMK A2985 HEUN 191400Z 12006KT 9999 FEW023 FEW025CB 25/18 Q1015 LSZR 191850Z AUTO VRB04KT CAVOK 12/01 Q1018 LSZS 191650Z 21015KT 9999 FEW040 04/M01 Q1017 MMAA 191847Z 26009KT 7SM SKC 30/23 A2984 RMK HZY FXMM 191300Z 27010KT 9999 SCT035 FEW040CB 21/02 Q1023 NOSIG YELD 191900Z AUTO 14005KT //// // ////// 26/24 Q1010 CAHR 191800Z AUTO 02001KT 04/M06 RMK AO1 5001 SLP223 T00361055 50006 BIRK 191800Z 14023G33KT 9999 FEW010 SCT028 BKN040 08/04 Q1020 MMAN 191840Z 01012KT 12SM FEW200 30/17 A2985 RMK 8/002 ISOL SC GOOD 191800Z 34006KT CAVOK 36/16 Q1007 FYEN 191100Z AUTO 10004KT //// // ////// 29/11 Q1017 YFBS 191900Z AUTO 15011KT //// // ////// 10/06 Q1026 GOOG 191800Z 36004KT CAVOK 42/13 Q//// MMAS 191844Z 22015KT 15SM BKN040 23/00 A3016 RMK 8/100 MMCB 191849Z 24008KT 10SM FEW025 32/05 A3000 RMK 8/100 LUKK 191830Z 26008KT 9999 FEW039 05/M02 Q1015 R26/CLRD65 NOSIG FYGB 191800Z AUTO 05001KT //// // ////// 19/09 Q1021 GOOK 191800Z 26008KT CAVOK 37/20 Q1007 YFDF 191900Z AUTO 11010KT 9999 // OVC120 17/14 Q1019 MMCE 191845Z 15008KT 6SM SCT300 34/24 A2978 RMK 8/008 HZY CBBC 191800Z AUTO 36003KT 310V100 9SM FEW085 09/07 A3030 RMK SLP262 FYGF 191800Z AUTO 32003KT //// // ////// 18/12 Q1021 YEML 191900Z AUTO 16012KT 9999 // OVC066 20/15 Q1018 MMBT 191850Z 23013KT 7SM FEW030 30/25 A2986 RMK 8/100 HZY MMCL 191841Z 21005KT 10SM SKC 31/21 A2991 RMK ISOL AC CI MMCM 191844Z 12010KT 7SM SCT020 BKN230 30/26 A2983 RMK 8/502 FYHD 191100Z AUTO 04004KT //// // ////// 30/11 Q1018 MMCN 191842Z 30008KT 10SM FEW080 OVC200 31/M05 A2986 RMK 8/087 BINOVC HZY MMCP 191841Z 30005KT 7SM FEW030 37/21 A2976 RMK 8/100 HZY GOOY 191900Z 33010KT CAVOK 21/18 Q1009 NOSIG MMCS 191842Z 36006KT 10SM FEW030 FEW200 24/05 A2996 RMK 8/102 MMCT 191843Z 12010KT 8SM BKN020 35/18 A2983 RMK 8/100 MSGTX MMMD MMCU 191842Z 31004KT 10SM SCT090 BKN200 23/M05 A3006 RMK 8/038 MMCV 191851Z 16007KT 10SM SKC 32/18 A2976 RMK DSNT TCU N/E/W FYHN 191100Z AUTO 20010KT //// // ////// 16/13 Q1020 MMDO 191840Z 06011KT 14SM SKC 22/M08 A3014 RMK ISOL CU-CI MMCZ 191849Z 15010KT 8SM BKN015TCU 28/22 A2989 RMK 8/200 CI BIVM 191800Z 11018G28KT 9999 FEW006 SCT010 BKN020 07/07 Q1023 MMEP 191851Z 24008KT 12SM FEW015 30/12 A3003 RMK 8/500 FYKB 191100Z AUTO 29004KT //// // ////// 26/M04 Q1019 GOSM 191800Z 00000KT CAVOK 43/08 Q1005 FYKG 191100Z AUTO 03002KT //// // ////// 30/10 Q1023 GOSP 191800Z 34004KT CAVOK 41/12 Q1006 GOSS 191800Z 34012KT 310V010 CAVOK 23/18 Q1008 GOTK 191800Z 12004KT CAVOK 41/16 Q1004 MMGL 191852Z 34008G24KT 12SM SCT030 27/05 A3012 RMK 8/100 MMGM 191745Z 00000KT 10SM BKN140 30/01 A2985 RMK 8/030 MMIA 191841Z 24008KT 8SM FEW020TCU FEW200 28/18 A2998 RMK 8/201 HZY CB N YERN 191900Z AUTO 12016KT //// // ////// 10/00 Q1029 GOTT 191800Z VRB04KT CAVOK 42/16 Q1004 FYKT 191800Z 00000KT CAVOK 21/00 Q1018 MMHO 191746Z 00000KT 10SM SCT100 SCT200 29/M04 A2994 RMK SLP122 57006 966 8/034 HZY FYKX 191100Z AUTO 17003G73KT //// // ////// 31/M05 Q1022 NCRG 191800Z 11014G24KT 9999 -SHRA FEW010 SCT015 BKN100 25/22 Q1015 RMK SUSPECT WIND SHEAR ON APPROACH NCPY 191500Z AUTO 00000KT //// //// 28/25 Q1008 FYMH 191100Z AUTO 24003KT //// // ////// 26/04 Q1022 FYML 191800Z AUTO 17003KT //// // ////// 23/05 Q1020 FYND 191100Z AUTO 31003KT //// // ////// 29/24 Q1015 YESP 191830Z AUTO 03009KT 9999 // NCD 11/09 Q1031 MMIO 191840Z 35005KT 10SM FEW040 SCT200 27/12 A3001 RMK 8/102 YGBI 191900Z AUTO 13011KT //// // ////// 28/24 Q1010 FYMP 191100Z AUTO 36004KT //// // ////// 36/26 Q1017 FYLZ 191800Z AUTO 18008KT //// // ////// 14/12 Q1015 MMIT 191845Z 18016KT 7SM FEW030 32/22 A2981 RMK 8/100 FYOA 191800Z AUTO 27002KT //// // ////// 26/08 Q1015 YFLI 191900Z AUTO 06007KT 9999 // NCD M00/M02 Q1035 FYOG 191100Z AUTO 21002KT //// // ////// 19/11 Q1016 FYOH 191100Z AUTO 03001KT //// // ////// ///// Q1019 FYOJ 191100Z AUTO 26002KT //// // ////// 30/00 Q1019 MNBL 191800Z 10008KT 9999 SCT017 31/24 Q1012 FYOM 191100Z AUTO 24003KT //// // ////// 31/M03 Q1020 YGDH 191900Z AUTO 14009KT //// // ////// 13/11 Q1021 FYOO 191800Z AUTO 35003KT //// // ////// 25/01 Q1016 FYOP 191100Z AUTO 04003KT //// // ////// 31/01 Q1017 MNCH 191800Z 20004KT 9999 FEW025 BKN300 34/23 Q1009 MMMA 191842Z 14010KT 7SM BKN025TCU 30/24 A2981 RMK 8/200 HZY FYOS 191100Z AUTO 07002KT //// // ////// 30/11 Q1019 FYOT 191100Z AUTO 15007KT //// // ////// 30/03 Q1014 MMLM 191844Z 27010KT 10SM BKN100 BKN220 30/M02 A2990 RMK 8/058 HZY MMMD 191847Z 00000KT 7SM SCT025 BKN300 38/18 A2979 RMK 8/108 FYOW 191800Z AUTO 18002KT //// // ////// 22/09 Q1018 MMLO 191840Z 24003KT 10SM BKN030 25/07 A3022 RMK 8/500 PRESFR MMLP 191840Z 06003KT 10SM FEW100 FEW200 31/02 A2991 RMK 8/031 FYOY 191100Z AUTO 15002KT //// // ////// 35/15 Q1018 YGEL 191900Z AUTO 06020KT 9999 // NCD 21/06 Q1020 MMLT 191842Z 00000KT 8SM SCT150 BKN220 28/20 A2989 RMK 8/036 MMML 191844Z 10003KT 10SM SKC 30/M01 A2987 RMK HZY ISOL CI MMMM 191843Z 25004KT 7SM BKN030 24/08 A3016 RMK 8/100 FYRH 191100Z AUTO 08003KT //// // ////// 26/M06 Q1021 MMMT 191843Z 19015KT 10SM SKC 34/21 A2972 MMNL 191840Z 00000KT 10SM OVC220 28/19 A2983 RMK 8/002 YGFN 191830Z AUTO 00000KT 9999 // OVC053 OVC100 18/17 Q1018 MMMV 191840Z 00004KT 8SM BKN100 32/11 A2989 RMK 8/020 HZY SKBG 191900Z 30010KT 9999 TS SCT010CB BKN080 24/20 A2996 RMK CB/NE/SE FYRN 191800Z 00000KT CAVOK 21/14 Q1017 MMMX 191846Z 33002KT 10SM SCT030 26/04 A3021 NOSIG RMK 8/100 HZY FYSF 191100Z AUTO 12001KT //// // ////// 34/M05 Q1018 MMMY 191848Z 06006KT 12SM SCT040 SCT120 30/17 A2981 RMK 8/170 TCU NE SSW SKAR 191800Z 01003KT 9999 SCT025 BKN100 23/17 A3009 MMMZ 191844Z 22008KT 15SM SKC 27/17 A2988 RMK ISOL CU E MMPA 191845Z 00000KT 4SM BKN020 BKN280 32/24 A2988 RMK SLP094 50000 903 8/108 HZY MMPB 191847Z 21007G17KT 7SM FEW020 24/07 A3023 RMK 8/100 CB W AC HZY SKCC 191900Z 17012KT 9999 SCT015 BKN090 28/21 A2988 FYRU 191100Z AUTO 12010G23KT //// // ////// 23/13 Q1021 SKBO 191900Z VRB02KT 9999 -DZ BKN017 15/12 A3028 SKCG 191800Z 36014KT 9999 FEW025 SCT200 32/25 A2977 RMK CB/E MMPG 191840Z 35006KT 8SM BKN200 27/17 A2987 RMK 8/001 HZY SKBQ 191800Z 06010KT 9999 VCSH SCT015CB 33/26 A2980 RMK/CB/VCSH/SW SKCL 191800Z 32004KT 9999 SCT015 SCT017CB 26/18 A2999 RMK CB/SE/S/SW FYTM 191100Z AUTO 20002KT //// // ////// 28/09 Q1020 MMPN 191848Z 18010KT 12SM SKC 25/11 A3014 RMK CU-CI FYTN 191100Z AUTO 34006KT //// // ////// 31/11 Q1018 MMOX 191842Z 14007KT 10SM SCT030 30/07 A3009 RMK 8/100 MMPQ 191842Z 00000KT 3SM BR BKN025 BKN070 33/25 A2976 RMK 8/120 HZY MSGTX MMMD MMPR 191850Z 22009KT 15SM FEW025 SCT300 28/21 A2989 RMK 8/101 MMPS 191741Z 22007KT 10SM SKC 28/22 A3001 RMK SLP142 54000 966 FU N HZY YHBA 191830Z AUTO 22004KT 190V250 8000 // SCT012 BKN027 OVC033 21/20 Q1016 SKEJ 191800Z 24006KT 9999 SCT010 31/24 A2979 YFRT 191900Z AUTO 090//KT //// // ////// 10/07 Q1033 MMQT 191845Z 27007G20T 8SM SCT030 25/07 A3022 RMK 8/100 BKPR 191900Z 34007KT 9999 SCT060 06/M02 Q1019 NOSIG FYWB 191800Z AUTO 25007KT //// // ////// 12/10 Q1015 MMSD 191840Z 13012KT 15SM SKC 29/09 A2993 RMK CI FYWE 191800Z 17004KT CAVOK 15/// Q1022 MNJG 191800Z 00000KT 9999 SCT020 28/16 Q1012 YGLA 191811Z AUTO 21007KT 9999 // SCT012 SCT027 BKN071 21/20 Q1016 FYWH 191800Z 25004KT CAVOK 10/00 Q1023 NOSIG TAPA 191800Z 10012KT 9999 SCT018 28/22 Q1016 NOSIG GQNI 191800Z 08006KT 3000 HZ NSC 40/M07 Q1008 MMTB 191800Z 00000KT 7SM SCT030 32/16 A2994 RMK 8/400 MMSL 191847Z 17010KT 10SM SKC 28/09 A2998 RMK CI MSGTX MMSD MMTC 191841Z 00000KT 12SM FEW030 SCT200 28/M01 A3002 RMK 8/102 YHAY 191830Z AUTO 20013KT //// // ////// 07/04 Q1031 MMRX 191841Z 11003KT 8SM BKN020 29/21 A2979 RMK 8/500 HZY GQNN 191900Z 33011KT 300V360 8000 NSC 22/14 Q1009 NOSIG YGLI 191900Z AUTO 13007KT //// // ////// 12/11 Q1020 MMTG 191847Z 09004KT 7SM SCT020TCU 33/16 A2984 RMK 8/200 CB DSTNTS SE / HZY MMSP 191848Z 26015G27KT 15SM BKN025 27/01 A3010 RMK 8/100 MMTJ 191845Z 29011KT 6SM SKC 21/09 A2996 RMK HZY ISOL CI GQPA 191800Z 25010KT 8000 NSC 41/08 Q1011 MNJU 191800Z 09010KT 9999 SCT025 SCT300 34/22 Q1012 MMTM 191840Z 13010KT 5SM FEW010 31/24 A2977 RMK 8/100 HZY YFTZ 191900Z AUTO 12011KT //// // ////// 22/18 Q1015 FYWW 191800Z 16003KT CAVOK 19/M08 Q1022 MMTO 191842Z 28009KT 7SM BKN020 21/03 A3032 RMK 8/100 HZY MMTP 191840Z 27010KT 10SM SCT015 31/25 A2986 RMK 8/100 HZY YGLS 191900Z AUTO 12011KT //// // ////// 15/06 Q1026 SKIB 191800Z 08003KT 9999 BKN015 SCT070 24/21 A3007 MMVA 191843Z 00000KT 4SM SKC 35/24 A2980 RMK HZY MMUN 191846Z 13017KT 7SM SCT015TCU BKN250 30/22 A2990 RMK 8/208 K04V 191852Z AUTO 35009G17KT 282V012 10SM BKN065 OVC075 08/M06 A3008 RMK AO2 K06D 191855Z AUTO 32022G28KT 10SM SCT018 BKN024 BKN034 05/05 A2979 RMK AO2 P0002 K04W 191853Z AUTO 21006KT 10SM OVC012 11/09 A2961 RMK AO2 MNMG 191900Z 10012KT 9999 FEW024 SCT300 35/20 Q1008 A2978 NOSIG GQPP 191800Z 33020KT 6000 DRSA NSC 20/14 Q1011 NOSIG K05U 191900Z AUTO 34004KT 10SM CLR 16/M12 A3015 RMK AO1 SKIP 191800Z 16007KT 9999 VCSH OVC016 14/10 A3044 RERA RMK VCSH/SE/W GQPZ 191800Z 02012KT 7000 NSC 35/01 Q1011 MMVR 191844Z 10008KT 5SM FEW010 BKN100 32/22 A2978 RMK 8/110 HZY K08D 191855Z AUTO 33024G34KT 10SM FEW025 FEW031 BKN042 06/02 A2994 RMK AO2 LWOH 191300Z 34012KT 9999 FEW020 OVC035 07/00 Q1016 SLCA 191800Z 36010KT 9999 NSC 29/19 Q1006 SLCB 191900Z 29013KT 9999 FEW027 BKN200 25/06 Q1019 SKLC 191800Z 31006KT 9999 SCT018 SCT080 31/24 A2981 LXGB 191850Z 27013KT CAVOK 19/10 Q1015 NOSIG MNPC 191800Z 10008KT 7000 BKN016 30/27 Q1012 HZ NFFN 191900Z 16003KT 9999 FEW028 SCT048 BKN300 23/22 Q1013 NOSIG YHID 191900Z AUTO 15006KT 9999 // SCT020 SCT025 27/25 Q1009 SKMD 191800Z 18015KT 9999 SCT030TCU BKN100 24/15 A3013 RMK TCU/E/SE MMZC 191843Z 29025KT 10SM SKC 23/02 A3018 SLCO 191900Z 27004KT 9999 SCT023 30/25 Q1010 SLCP 191800Z 36014KT 9999 BKN017 29/23 Q1012 MMZH 191845Z 24010KT 7SM SKC 30/23 A2987 RMK HZY SKLT 191900Z VRB02KT 8000 VCSH SCT016 SCT080 30/25 A2980 RMK VCSH/N/NW MMZO 191845Z 24012KT 10SM SKC 29/22 A2987 RMK HZY SKMR 191800Z 00000KT 9999 BKN018 SCT100 34/25 A2975 K11R 191855Z AUTO 23007KT 10SM CLR 29/21 A2977 RMK AO2 T02850212 YGTE 191900Z AUTO 15001KT 9999 // SCT030 26/24 Q1011 YGTH 191830Z AUTO 19012KT 9999 // NCD 07/03 Q1028 K12N 191854Z AUTO 00000KT 18/M03 A3015 RMK AO1 SLP211 T01781033 SKMZ 191800Z 28005KT 5000 BRDZ BKN008 16/XX A3033 AD BLW MNM MET YHLC 191900Z AUTO 10007KT //// // ////// 18/15 Q1018 MNRS 191800Z 10012KT 9999 FEW018 32/23 Q1010 SLET 191900Z 31020G33KT 9999 FEW012 SCT017 FEW025TCU 28/22 Q1005 TBPB 191800Z 10018KT 9999 FEW022 SCT038 BKN120 29/23 Q1014 NOSIG SKPC 191800Z 08003KT 9999 BKN023 35/21 A2976 LWSK 191800Z VRB02KT 9999 FEW100 08/01 Q1018 NOSIG YGTN 191900Z AUTO 12004KT //// // ////// 25/18 Q1015 SKNV 191800Z 29007KT 9999 SCT027 31/21 A2987 SKPE 191900Z 32006KT 9999 FEW015 SCT080 23/19 A3006 LYBE 191830Z 11002KT CAVOK 09/01 Q1020 NOSIG MPBO 191700Z VRB02KT 9000 -RA SCT016 BKN090 Q1015 RWY WET SKPS 191800Z 00000KT 9999 BKN020 20/17 A3016 REDZ YHML 191830Z AUTO 23001KT 9999 // SCT031 SCT049 02/01 Q1037 MPDA 191800Z 21008KT 9999 FEW016CB SCT018 BKN250 33/24 Q1009 LYBT 191830Z 07003KT CAVOK 08/01 Q1021 NOSIG SKPV 191800Z 08006KT 9999 FEW018 30/24 A//// SKRG 191900Z 23010KT 9999 FEW017 BKN080 18/13 A3026 SKRH 191800Z 36013KT 9999 BKN020 30/20 A2981 K14Y 191856Z AUTO 27016G23KT 7SM BKN007 OVC012 07/06 A2966 RMK AO2 NFNA 191700Z 14006KT 40KM -SHRA SCT020 BKN048 24/23 Q1012 RMK RR TRACE K0A9 191855Z AUTO VRB05KT 5SM +RA FEW029 SCT038 BKN050 18/15 A2979 RMK SLJE 191800Z 36015KT 9999 SCT015 33/22 Q1010 K18A 191835Z AUTO 16006KT 5SM RA 20/20 A2979 RMK AO2 LTG DSNT SW T01980195 SKSM 191800Z 00000KT 9999 FEW020TCU 33/25 A2983 RMK TCU/E YHOO 191900Z AUTO 13011KT //// // ////// 21/08 Q1018 SLJO 191800Z 32012KT 8000 VCSH SCT017 FEW023CB 31/24 Q1009 SKSP 191900Z 08007KT 9999 FEW018 29/24 A2985 YHOT 191800Z AUTO 19007KT 9999 // ////// M00/M01 Q1030 SKUC 191800Z 04003KT 9999 SCT017 BKN090 27/25 A2992 K19A 191855Z AUTO 19011G17KT 7SM -RA SCT003 BKN006 OVC020 20/20 A2979 RMK AO2 LTG DSNT SE TDCF 191800Z 14007KT 9999 FEW023 31/20 Q1014 SKUI 191800Z 26005KT 8000 BKN010 OVC100 25/24 A2985 RMK HZ/AD OPR IMC NGFU 191800Z 00000KT 9999 VCSH SCT019CB SCT310 27/25 Q1009 K0E0 191855Z AUTO 28011G15KT 10SM CLR 16/M12 A3007 RMK AO2 T01621119 K21D 191850Z AUTO 16004KT 7SM DZ SCT012 BKN025 OVC029 14/12 A2962 RMK AO2 SLMG 191800Z 30010KT 9999 SCT017 FEW023CB BKN200 31/24 Q1010 SLLP 191900Z 28009KT 9999 SCT017 FEW020CB BKN200 14/03 Q1035 YJAB 191900Z AUTO 13005KT //// // ////// 27/22 Q1011 K20U 191835Z AUTO 33023G33KT 10SM FEW026 SCT038 BKN044 05/M01 A3006 RMK AO2 K20V 191855Z AUTO 21005KT 10SM OVC047 03/M03 A3014 RMK AO2 K0F2 191835Z AUTO 29012G20KT 10SM BKN029 20/13 A2978 RMK AO2 T02020128 SKVP 191800Z 09004KT 9999 FEW020TCU BKN200 36/20 A2982 RMK TCU SE/NW K0CO 191855Z AUTO 33028G34KT BKN002 OVC006 M09/M13 A3009 RMK AO2 PWINO YHSM 191830Z AUTO 22005KT 9999 // NCD 02/01 Q1036 SKVV 191800Z 00000KT 9999 FEW020 31/21 A2993 HKEL 191800Z 12005KT 9999 -RA FEW017CB BKN080 14/13 Q1026 HKEM 191600Z 00000KT 9999 FEW022CB SCT280 23/17 YHUG 191830Z AUTO 15009KT //// // ////// 22/13 Q1017 NFTF 191900Z VRB03KT 9999 FEW016 24/21 Q1015 SLOR 191800Z 29010KT 9999 FEW017 18/06 Q1032 HKGA 191600Z 16005KT CAVOK 33/20 1006 K24J 191855Z AUTO 21008G16KT 010V020 10SM VCTS FEW040 BKN060 BKN075 28/21 A2992 RMK AO1 LTG DSNT W AND NW NFTL 191900Z 05005KT 9999 FEW017 BKN270 25/23 Q//// SLPS 191900Z 06006KT 9999 SCT017 BKN200 32/25 Q1007 SLRB 191800Z 36015KT 9999 FEW020 SCT200 31/23 Q1010 NFTV 191900Z 13005KT 9999 FEW010 BKN120 25/23 Q1012 LYKV 191830Z 04001KT 9999 SCT040 08/00 Q1020 NOSIG MPMG 191800Z 14005KT 9000 SCT020TCU 32/23 Q1010 NOSIG K0J4 191825Z AUTO 23008KT 10SM FEW009 SCT020 21/19 A2984 RMK AO2 RAE08 PNO $ SLRI 191800Z 32006KT 9999 SCT017 FEW020CB BKN200 32/24 Q1011 K1A5 191835Z AUTO 00000KT 4SM -RA 16/16 A2982 RMK AO2 P0014 T01610161 SLSA 191800Z 31010KT 9999 SCT017 SCT200 31/24 Q1009 K1A6 191835Z AUTO 19003KT 10SM -RA BKN020 OVC036 19/17 A2972 RMK AO2 P0001 T01920173 K1A9 191855Z AUTO 20008KT 10SM BKN016 23/20 A2975 RMK AO2 T02310204 SLRQ 191800Z 00000KT 9999 BKN015 OVC200 27/25 Q1009 SLSI 191800Z 33012KT 9999 SCT017 30/22 Q1010 LYNI 191830Z 32009KT CAVOK 09/M02 Q1019 NOSIG SLSP 191000Z 00000KT 0100 FG VV/// 21/21 Q1013 SLRY 191800Z 34004KT 9999 SCT012 OVC200 27/24 Q1010 SMJP 191900Z 04011KT 010V070 9999 SCT025 30/23 Q1011 NOSIG SLTJ 191900Z 00000KT 9999 NSC 30/12 Q1010 MPPA 191800Z 16006KT 9999 FEW030 29/20 Q1010 SLSU 191900Z 05008KT 9999 FEW020 BKN200 19/11 Q1023 K28J 191835Z AUTO 25009G15KT 10SM FEW050 31/19 A2988 RMK AO2 HKJK 191800Z 36007KT 9999 FEW021CB SCT022 21/16 Q1021 RETS LYPG 191830Z 03011KT CAVOK 14/M03 Q1016 NOSIG HKKG 191600Z 36004KT 9999 FEW016CB BKN018 OVC080 17/16 RERA SLTR 191900Z 28012KT 9999 FEW017 FEW020CB SCT200 30/24 Q1008 HKKI 191800Z 18008KT 9999 -TSRA FEW018CB SCT019 OVC070 20/19 Q1019 ZBAA 191830Z VRB01MPS 8000 NSC 08/06 Q1016 NOSIG HKMA 190700Z 22006KT 9999 BKN022 BKN080 30/23 HKKS 191800Z 00000KT 9999 -RA FEW018CB SCT019 BKN080 15/15 LZIB 191830Z 30003KT CAVOK 11/M02 Q1020 HKMB 191600Z 15012KT 9999 FEW020CB BKN250 22/17 SLVM 191700Z 00000KT 9999 BKN020 BKN070 29/20 Q1003 HKKT 191700Z 36004KT 9999 FEW018CB SCT019 BKN090 18/15 K1F0 191835Z AUTO 34006KT 10SM SCT024 SCT029 BKN041 20/12 A2974 RMK AO2 HKME 191600Z 18003KT 9999 SCT019 FEW022CB BKN240 20/18 HKLO 191600Z 00000KT 9999 -TSRA FEW024CB BKN025 27/21 SLVR 191900Z 35015G26KT 9999 FEW012 BKN017 29/22 Q1007 HKLU 191400Z 18010KT 9999 SCT025 31/24 HKNC 191600Z 27004KT 9999 FEW020CB SCT021 BKN080 21/16 1020 REST HKML 191800Z 18011KT 9999 FEW023 29/24 Q1011 HKMO 191800Z 17007KT 9999 SCT024 28/24 Q1011 NOSIG GUCY 191800Z 29006KT CAVOK 28/22 Q1009 NOSIG SLYA 191800Z 00000KT 9999 BKN015 OVC070 23/19 Q1006 YJLC 191900Z AUTO 16016KT //// // ////// 22/14 Q1018 HKNI 191600Z 24002KT 9/9 FEW021CB BKN080 20/16 NGTA 191800Z 13004KT 9999 -DZ SCT018 BKN100 27/25 Q1008 TDPD 191900Z 11008KT 9999 SCT019 28/22 Q1016 HKNK 191800Z 00000KT 9999 FEW020 BKN090 17/14 HKMU 191800Z 09004KT CAVOK 25/17 K1H2 191835Z AUTO 06005KT 2SM -RA OVC004 15/14 A2954 RMK AO2 T01540140 CERM 191800Z AUTO 33010G18KT 09/M08 RMK AO1 SOG 01 8008 PK WND 30020/1728 SLP217 T00911084 HKNO 191800Z 18006KT CAVOK 21/12 HKMY 191800Z 00000KT 9999 FEW022CB 22/19 K33V 191856Z AUTO 33012G15KT 10SM SCT065 01/M07 A3013 RMK AO2 HKNW 191500Z 09007KT 9999 SCT024 23/14 Q1017 MPTO 191800Z 00000KT 9000 SCT020 34/22 Q1009 NOSIG HKNY 191400Z 16005KT 9999 FEW018CB SCT020 BKN090 20/14 Q1019 NGTT 191900Z 09006KT 9999 SCT170 BKN100 27/25 1009 K1J0 191858Z AUTO 18006KT 10SM FEW120 21/20 A2980 RMK AO2 RAE37 TSE21 SLP048 P0004 T02110200 YIVO 191900Z AUTO 19011KT //// // ////// 07/04 Q1030 LYTV 191830Z VRB01KT CAVOK 11/07 Q1016 LZKZ 191830Z 25003KT CAVOK 08/M02 Q1018 K1K1 191855Z AUTO 30012G17KT 10SM BKN029 BKN038 BKN044 18/11 A2973 RMK AO2 T01770108 HKRE 191400Z 09015KT 9999 FEW027CB BKN028 25/15 Q1018 LYUZ 191830Z AUTO 05005KT 020V090 //// // ////// 04/M02 Q1019 LYVR 191830Z 06003KT 360V090 CAVOK 06/01 Q1020 NOSIG K1II 191855Z AUTO 08006KT 4SM RA BKN005 OVC013 16/15 A2956 RMK AO2 K1L0 191835Z AUTO 10SM CLR 29/16 A2981 RMK AO2 T02940159 GVAC 191900Z 03016KT 9999 SCT015 SCT200 22/15 Q1014 NOSIG K36U 191855Z AUTO 17003KT 10SM SCT090 17/M03 A3005 RMK AO2 SOCA 191830Z AUTO 07010KT 9999 SCT028/// SCT040/// OVC056/// 29/23 Q1011 GVBA 191800Z 04016KT 9999 FEW015 22/16 Q1013 NOSIG K2C8 191855Z AUTO 32013G20KT 5SM BR BKN010 OVC016 04/03 A2973 RMK AO2 P0002 K40B 191816Z AUTO VRB06G13KT 09/M10 A3017 RMK AO1 SLP232 T00911102 10095 20015 58010 ZBHH 191800Z 05003MPS CAVOK 05/M10 Q1017 NOSIG K1M4 191856Z AUTO 21011G17KT 10SM 23/18 A2969 RMK AO2 T02330177 RAB39E52 P0000 SLP068 $ K0V4 191855Z AUTO 10008KT 10SM SCT060 OVC080 21/16 A2998 RMK AO1 T02050156 K2D5 191855Z AUTO 32028G31KT 10SM 11/02 A2974 RMK AO2 K40J 191835Z AUTO 17012G21KT 140V200 10SM -TSRA SCT018 SCT026 OVC055 25/22 A2992 RMK AO2 LTG DSNT ALQS T02500220 YKII 191900Z AUTO 17003KT 9999 // SCT031 BKN040 OVC056 07/05 Q1036 LZPP 191830Z VRB01KT CAVOK 08/M02 Q1020 HLLM 191855Z 03003KT 7000 VV// 19/14 Q1016 K0VG 191835Z AUTO 09005KT 10SM BKN017 BKN024 OVC050 19/18 A2977 RMK AO2 YLBD 191830Z AUTO 12010KT 9999 // BKN018 OVC023 OVC068 26/23 Q1012 K42J 191855Z AUTO 23011KT 10SM FEW060 29/19 A2989 RMK AO1 TSNO K1P1 191855Z AUTO 26008KT 10SM CLR 14/00 A3020 RMK AO2 T01441001 TFFF 191830Z AUTO 08015KT 9999 SCT023 SCT030 BKN049 29/22 Q1015 HKVO 191700Z 16010KT 9999 FEW020 27/20 K2G4 191850Z AUTO 13017G26KT 10SM BKN120 13/05 A2999 RMK AO1 K2DP 191856Z AUTO 12012G16KT 10SM BKN026 BKN090 24/18 A2999 RMK AO2 RAB03E05DZB05E06SHRAB06E17DZB17E18 CIG 026V090 BKN V SCT SLPNO T02350177 $ HKWJ 191000Z 19003KT 9999 SCT030 32/21 Q1010 K2G9 191835Z AUTO 14017G22KT 10SM CLR 16/01 A3000 RMK AO2 LZSL 191830Z 32003KT 270V360 CAVOK 08/M02 Q1019 TFFR 191836Z 12014KT 9999 SCT025 SCT055 BKN130 29/20 Q1015 MRLB 191900Z 07009KT 9999 FEW035 SCT130 34/17 A2977 K2I0 191835Z AUTO 20007KT 10SM SCT025 BKN049 OVC055 23/18 A2954 RMK AO2 T02320178 YLEC 191900Z AUTO 16004KT //// // ////// 09/01 Q1033 K1R7 191855Z AUTO 29010G15KT CLR 69/59 A2980 RMK AO2 LZTT 191830Z 25011KT 9999 BKN066 05/M03 Q1017 MRLM 191900Z 07003KT 9999 SCT025 SCT280 29/24 A2985 YKMP 191830Z AUTO 23008KT //// // ////// 17/14 Q1019 SMZO 191900Z 03008KT 9999 SCT035 SCT045 29/22 Q1011 NOSIG K46D 191855Z AUTO 34021G27KT 10SM SCT019 SCT026 OVC065 07/07 A2979 RMK AO2 P0003 K1S5 191855Z AUTO 00000KT 10SM CLR 18/01 A3013 RMK AO2 T01800012 K2J9 191835Z AUTO 22003KT 1 3/4SM SCT036 BKN047 OVC090 19/19 A2993 RMK AO1 YLEO 191830Z AUTO 12007KT 9999 // NCD 14/09 Q1027 YKNT 191900Z AUTO 10018KT //// // ////// 19/07 Q1023 MROC 191900Z 11010KT 9999 SCT045 29/15 A2995 NOSIG K1QW 191756Z AUTO 04007G13KT 10SM CLR 15/M06 A3015 RMK AO2 SLP209 T01541065 10156 20103 58004 AYMO 190400Z 00000KT 9999 SCT018 BKN140 25/23 Q1008 RMKS K49A 191855Z AUTO 19008KT 10SM BKN008 OVC013 A2981 RMK AO2 YKOW 191830Z AUTO 13005KT //// // SCT051 BKN062 26/23 Q1011 K3D2 191855Z AUTO 10009KT 10SM BKN100 12/00 A2976 RMK AO2 T01151003 YLHI 191830Z AUTO 01009KT 9999 // SCT021 SCT026 23/18 Q1018 K1V4 191854Z AUTO 13/M06 A3021 RMK AO1 SLP232 T01281061 K1V6 191855Z AUTO 12013G17KT 10SM SCT110 12/01 A3005 RMK AO2 SPCL 191800Z 01004KT 9999 SCT015 BKN150 29/23 Q1012 RMK BIRD HAZARD RWY 02/20 PP000 K3AU 191835Z AUTO 31006KT 10SM BKN029 BKN036 OVC045 17/10 A2974 RMK AO2 LZZI 191830Z 29003KT 240V330 CAVOK 06/00 Q1019 YKSC 191900Z AUTO 00000KT 9999 // OVC051 07/06 Q1038 MRPV 191900Z 08009KT 9999 FEW045 28/16 A2997 NOSIG YMBA 191900Z AUTO 14004KT //// // ////// 20/18 Q1015 YLIS 191830Z AUTO 20005KT 9999 -RA BKN028 OVC047 18/18 Q1018 RERA ZBSJ 191800Z 00000MPS 2000 R15/0800V1800U BR NSC 05/05 Q1016 NOSIG OAHR 191655Z 17005KT CAVOK 14/09 Q1017 RMK SKC VIS MIN 9999 BLU YMBD 191900Z AUTO 17005KT 9999 // NCD 05/01 Q1038 YKRY 191900Z AUTO 18004KT //// // ////// 17/16 Q1019 ZBTJ 191830Z 28001MPS 8000 NSC 10/02 Q1016 NOSIG AYPY 191800Z 00000KT 9999 FEW006 SCT040 OVC140 24/24 Q1008 OAKB 191850Z 03004KT 9999 FEW080 10/09 Q1016 NOSIG RMK BLU BLU YMAV 191830Z AUTO 29004KT 9999 -SHRA SCT052 BKN062 08/06 Q1035 YLLE 191800Z AUTO 15013KT //// // ////// 11/04 Q1027 YMAY 191830Z AUTO 16009KT 9999 // NCD 09/01 Q1029 GVNP 191900Z 03018KT 9999 FEW016 SCT100 22/17 Q1012 NOSIG OBBI 191800Z 31011KT CAVOK 24/13 Q1012 NOSIG K54J 191835Z AUTO 22007KT 10SM CLR 20/20 A2983 RMK AO2 P0001 T02010196 SPGM 191700Z /////KT 9999 SCT040 29/22 Q1015 RMK PP000 YMCO 191900Z AUTO 16007KT //// // ////// 15/07 Q1031 NIUE 182000Z 15022KT 9999 SCT018 BKN030 BKN100 25/24 Q1015 RMKS K3I2 191855Z AUTO 10007KT 080V150 7SM -RA SCT006 BKN018 OVC031 18/15 A2981 RMK AO2 YMDG 191830Z AUTO 12009KT //// // BKN024 OVC044 11/09 Q1023 SPHI 191900Z 19017KT CAVOK 27/19 Q1010 RMK PP000 METAR SPUR 191900Z 24008KT 9999 FEW030 SCT040 33/22 Q1010 RMK BIRD HAZARD RWY 19/01 SPHO 191800Z VRB04KT 9999 FEW046 BKN100 23/09 Q1025 RMK PP000 MSLP 191850Z 19009KT 150V230 9999 FEW023 32/24 Q1009 A2981 K4A6 191835Z AUTO 19007KT 10SM BKN020 BKN028 OVC041 22/18 A2971 RMK AO2 YMEK 191830Z AUTO 09012KT 9999 // NCD 17/08 Q1023 K3J7 191855Z AUTO 18009G15KT 7SM -RA SCT010 BKN048 OVC060 11/ A2980 RMK AO2 LTG DSNT SE AND S SPIM 191900Z 28005KT 220V320 9999 BKN005 22/19 Q1012 NOSIG RMK PP000 K1YT 191756Z AUTO 28003KT 10SM CLR 18/M01 A3015 RMK AO2 SLPNO T01771007 10177 20046 57015 K4A9 191855Z AUTO 21006KT 10SM BKN017 BKN024 OVC031 20/16 A2971 RMK AO2 P0003 YMEN 191830Z AUTO 13007KT 9999 // NCD 09/03 Q1034 SPHY 191800Z /////KT 9999 FEW014 BKN080 13/07 Q1036 RMK BIRD HAZARD RWY 03/21 PP000 K3K3 191835Z AUTO 35028G35KT 10SM CLR 13/01 A3001 RMK AO2 YMER 191830Z AUTO 23007KT 9999 // SCT058 BKN066 11/07 Q1030 YMES 191830Z AUTO 33008KT 9999 // NCD 04/03 Q1034 YMGB 191900Z AUTO 15006KT //// // ////// 26/24 Q1010 OAMS 191850Z 24008KT 9999 SCT020 BKN055 OVC120 15/10 Q1015 BLU BLU TEMPO WHT YMGD 191900Z AUTO 14006KT 9999 // NCD 25/24 Q1010 SPJL 191800Z 04007KT 9999 SCT025 17/05 Q1034 RMK PP000 SPJR 191830Z 31006KT 9999 VCSH SCT026 BKN043 17/12 Q1027 YMHB 191830Z 31009KT 9999 FEW045 05/01 Q1034 ZBYN 191830Z 09002MPS 6000 NSC 06/03 Q1016 NOSIG K2V5 191855Z AUTO 33022G29KT 10SM SCT055 OVC080 10/M05 A3006 RMK AO2 T00951048 YMIA 191900Z AUTO 19007KT 9999 // NCD 06/03 Q1035 YLRE 191900Z AUTO 15016KT 9999 // SCT071 20/12 Q1020 SPME 191800Z 30003KT 9999 BKN010 31/23 Q1010 RMK BIRD HAZARD RWY 32/14 PP000 GVSV 191800Z 06022KT 9999 FEW022 24/14 Q1014 NOSIG K4BM 191857Z AUTO 26004KT 10SM SCT009 BKN028 OVC037 M01/M05 A3014 RMK AO2 K3LF 191855Z AUTO 00000KT 2SM +RA SCT004 BKN009 OVC025 14/13 A2954 RMK AO2 P0009 T01360125 K2W6 191850Z AUTO 10010G17KT 060V130 10SM BKN035 18/08 A3011 RMK AO1 YMHU 191900Z AUTO 17008KT 9999 // NCD 23/09 Q1015 K3N8 191835Z AUTO 31014G19KT 7SM OVC006 07/06 A2966 RMK AO2 T00660058 YMIN 191900Z AUTO 10010KT //// // ////// 10/05 Q1037 SPMS 191800Z /////KT 9999 SCT025 30/23 Q1014 RMK BIRD HAZARD RWY 09/27 PP000 YNAR 191900Z AUTO 20007KT //// // ////// 07/03 Q1029 YLST 191830Z AUTO 09008KT 9999 // NCD 14/10 Q//// YLTN 191830Z AUTO 08012KT //// // ////// 13/09 Q1028 DAAD 191800Z 32010KT CAVOK 28/02 Q1014 YNBR 191900Z AUTO 18003KT //// // ////// 10/10 Q1021 DAAE 191800Z 10010KT 8000 FEW020 BKN233 17/14 Q1016 YMMB 191830Z AUTO 18003KT 9999 // NCD 07/03 Q1035 DAAG 191830Z 04004KT 360V060 CAVOK 16/12 Q1017 MSSS 191850Z 16010KT 8000 SCT033 31/23 Q1013 A2994 YLTV 191830Z AUTO 22002KT 9999 // SCT067 04/04 Q1034 DAAJ 191800Z 00000KT 9000 NSC 28/M04 Q1019 DABB 191830Z 23005KT 210V270 CAVOK 16/14 Q1015 DABC 191830Z 05006KT CAVOK 16/10 Q1017 K4I3 191856Z AUTO 14014G21KT 10SM CLR 22/08 A2977 RMK AO2 MUCF 191750Z 23014KT 9999 FEW025 31/23 Q1015 K2WX 191856Z AUTO 32032G41KT 08/M03 A2994 RMK AO1 PK WND 33045/1759 SLP149 T00831033 $ DAAP 191800Z 10006KT 8000 NSC 33/M01 Q1016 YMLT 191900Z AUTO 18004KT 9999 // NCD M01/M02 Q1035 K4I7 191855Z AUTO 10008KT 4SM -RA SCT006 BKN015 OVC050 13/11 A2957 RMK AO2 P0012 K3R7 191835Z AUTO 21006KT 180V240 10SM CLR 26/17 A2981 RMK AO2 T02630168 YMML 191830Z 21002KT 9999 FEW034 06/02 Q1035 NOSIG YMNE 191830Z AUTO 10011KT 9999 // NCD 14/10 Q1026 MUCL 191751Z 17009KT 110V200 9999 FEW020 29/21 Q1014 DAAS 191800Z 36006KT 9999 FEW030 BKN233 18/10 Q1017 DAAT 191830Z 13009KT CAVOK 24/// Q1022 MUCM 191750Z VRB04KT 9000 SCT020 32/17 Q1015 YMNG 191830Z AUTO 19016KT 9999 // NCD 09/02 Q1032 DAAV 191800Z 33005KT CAVOK 19/16 Q1016 TGPY 191800Z 11018KT 9999 FEW021 BKN080 29/24 Q1013 NOSIG DAAY 191800Z 26026KT 1000 BLSA FEW026CB BKN030TCU 29/05 Q1016 K5A6 191855Z AUTO 26007G14KT 230V290 10SM SCT022 BKN030 BKN037 23/17 A2972 RMK AO2 T02260165 SPQT 191900Z VRB03KT 9999 BKN030 31/23 Q1009 NOSIG RMK BIRD HAZARD PP000 SPQU 191900Z 23010KT CAVOK 19/07 Q1024 RMK PP000 K65S 191855Z AUTO 00000KT 10SM CLR 14/M03 A3014 RMK AO2 YNEN 191830Z AUTO 10008KT 9999 // SCT025 29/23 Q1010 MUCU 191750Z 20008KT 9999 SCT020 29/21 Q1015 DABS 191830Z 18006KT CAVOK 23/04 Q1016 DABT 191800Z 05010KT CAVOK 22/06 Q1015 YMOG 191900Z AUTO 11006KT //// // ////// 16/08 Q1024 K3T5 191835Z AUTO 21007G14KT 170V240 10SM CLR 28/21 A2977 RMK AO2 T02810212 K66R 191835Z AUTO 22009G14KT 10SM CLR 27/21 A2978 RMK AO2 T02740206 SPRU 191900Z 13011KT 9000 NSC 23/18 Q1010 RMK PP000 K5C1 191835Z AUTO 30007G15KT 10SM CLR 27/14 A2984 RMK AO1 SPSO 191900Z 230159KT CAVOK 25/19 Q1010 RMK BIRD HAZARD RWY 22/04 PP000 YMOR 191830Z AUTO 24011KT 9999 // NCD 11/09 Q1021 DAEF 191800Z 33010KT CAVOK 33/// Q1015 SPST 191800Z 15004KT 9999 SCT025 31/22 Q1011 RMK BIRD HAZARD RWY 17/35 PP000 SPTN 191900Z 24013KT CAVOK 26/16 Q1012 RMK PP000 DAEN 191800Z /////KT 3000 HZ FEW040 35/M01 Q1014 YMRB 191830Z AUTO 13011KT 9999 // OVC025 21/18 Q1017 YNGU 191900Z AUTO 17009KT //// // ////// 26/13 Q1013 YNHL 191900Z AUTO 20006KT //// // ////// 02/01 Q1036 DAFH 191800Z 33020KT 5000 DRSA FEW030TCU SCT033 30/02 Q1016 MUHA 191755Z 18012KT 140V220 9000 SCT030 32/19 Q1014 SPTU 191800Z 30006KT 9999 FEW010 BKN100 31/25 Q1009 RMK BIRD HAZARD RWY 01/19 PP000 DAER 191800Z 30010KT 5000 HZ NSC 36/// Q1015 K4M9 191855Z AUTO 25009KT 10SM 21/18 A2959 RMK AO2 MUGM 191756Z 17010KT 9999 FEW035 31/22 A2997 RMK SLP147 T03060217 10311 20250 58021 MTPP 191300Z 09008KT 9000 FEW022 27/// Q1016 A3002 MUHG 191750Z 18007KT 130V220 9999 SCT025 34/15 Q1013 K4O4 191855Z AUTO 25009KT 10SM SCT029 SCT037 SCT046 23/16 A2969 RMK AO2 YMTG 191900Z AUTO 00000KT 9999 // SCT035 OVC056 05/04 Q1037 K4MR 191856Z AUTO 02021G28KT 10SM SCT060 16/M02 A3004 RMK AO2 PK WND 01028/02 SLP144 T01581016 $ K5H4 191835Z AUTO RMK AO2 PWINO PNO TSNO SPZA 191830Z 29007KT 220V340 9999 FEW070 33/19 Q1012 SPYL 191800Z /////KT CAVOK 32/20 Q1010 RMK BIRD HAZARD RWY 17/35 PP000 DBBB 191800Z 20009KT 8000 FEW014 30/25 Q1008 NOSIG SPZO 191900Z 07007KT 9999 VCSH SCT040TCU BKN080 17/08 Q1029 TEMPO -RA RMK PP000 K6A2 191855Z AUTO 19005KT 10SM BKN008 OVC012 21/21 A2981 RMK AO2 UAAA 191830Z 21002MPS 3500 FU BKN100 12/06 Q1012 R88/CLRD65 NOSIG K6B0 191835Z AUTO 36006KT 10SM CLR 12/M01 A3024 RMK AO2 T01161006 UAAH 191130Z 07004MPS 9999 FEW033 SCT130 22/M04 Q1015 R05/0///60 NOSIG RMK QFE724/0966 YMYB 191900Z AUTO 21005KT 9999 // NCD 20/19 Q1016 UACC 191830Z VRB01MPS CAVOK 05/03 Q1013 R22/0/0070 NOSIG RMK QFE729/0972 DAOB 191800Z 33008KT CAVOK 19/09 Q1016 TJBQ 191850Z 06010KT 10SM SCT021 SCT039 SCT050 29/23 A2999 RMK RWY08 ATIS I DAOF 191800Z 28014KT 9999 FEW046 BKN100 34/M02 Q1011 YNRC 191900Z AUTO 00000KT //// // ////// M01/M01 Q1038 UACK 191130Z 20003MPS 9999 OVC019CB 07/06 Q1009 R20/190060 NOSIG RMK QFE733/0978 DAOI 191800Z 34008KT CAVOK 22/12 Q1013 UADD 191800Z 24002MPS 9999 NSC 10/05 Q1011 R13/0///65 NOSIG RMK QFE701/0935 K5M9 191835Z AUTO 22005KT 7SM RA BKN012 BKN021 OVC030 20/18 A2954 RMK AO2 T01980180 DAOL 191600Z 35012KT 9000 NSC 23/10 Q1014 UACP 191130Z 24007MPS 9999 -SHRA BKN033CB OVC100 07/03 Q1009 R23/1/0060 NOSIG RMK QFE744/0992 DAON 191830Z 33003KT 9999 FEW030 SCT233 17/07 Q1017 DAOO 191830Z 01006KT CAVOK 17/11 Q1015 YPAD 191830Z 14007KT CAVOK 08/02 Q1037 NOSIG DAOR 191800Z 24024KT 1500 BLDU FEW033CB SCT040 SCT233 32/M03 Q1014 K82C 191855Z AUTO 15006KT 10SM CLR 20/05 A2963 RMK AO2 T02040046 YPAG 191900Z AUTO 12005KT 9999 // NCD 09/05 Q1036 DAOV 191800Z 36012KT 9999 FEW030 20/10 Q1015 DAOY 191700Z /////KT 8000 TS DRDU SCT030CB BKN033TCU 23/02 Q1017 YNSM 191900Z AUTO 07010KT //// // ////// 12/06 Q1030 OEAB 191800Z 19005KT 9999 FEW025 SCT080 20/17 Q1024 NOSIG MUSC 182317Z VRB02KT 8000 VCSH BKN025CB 24/21 Q1015 RMK CB A T E OF AD OEAH 191800Z 34005KT CAVOK 25/M05 Q1013 NOSIG YPCC 191900Z AUTO 15004KT 9999 // NCD 26/24 Q1010 OEBA 191800Z 10013KT 3000 BLDU SKC 24/06 Q1021 NOSIG YOLD 191900Z AUTO 15007KT 9999 // NCD 09/04 Q1034 YNTN 191900Z AUTO 17016KT //// // ////// 26/16 Q1014 YPBO 191830Z AUTO 06007KT 9999 // SCT110 18/13 Q1019 K82V 191855Z AUTO 33019G27KT 10SM SCT043 BKN050 OVC060 05/M05 A3010 RMK AO2 OEAO 191800Z 36006KT 8000 SKC 29/M04 Q1015 OEBH 191800Z 10008KT 3500 DU SKC 26/03 Q1018 NOSIG OEAR 191800Z 23002KT 7000 SKC 30/17 Q1012 MWCB 191900Z 15005KT 9999 FEW018CB 30/24 Q1013 K6I2 191850Z AUTO 17019G22KT 10SM BKN021 BKN025 OVC031 20/18 A2956 RMK AO2 YPEA 191900Z AUTO 06013KT //// // NCD 19/10 Q1024 YPED 191900Z AUTO 10004KT //// // NCD 07/01 Q1037 K5R8 191855Z AUTO 20008KT 10SM BKN045 BKN050 27/18 A2979 RMK AO2 T02730183 YOLW 191830Z AUTO 08013KT //// // ////// 21/18 Q1016 YPDN 191900Z 14010KT CAVOK 26/23 Q1011 DAUA 191800Z 18009KT 9000 NSC 37/// Q1013 DAUB 191812Z 30008KT 9999 TS FEW033CB SCT040 BKN233 32/08 Q1010 TJIG 191845Z 10016G20KT 10SM SCT040 SCT080 28/22 A2998 RMK RWY09 IN USE ATIS I DATM 191200Z 10014KT CAVOK 36/// Q1016 OEDF 191800Z 31007KT CAVOK 25/03 Q1012 NOSIG DAUE 191700Z 22013KT 3500 HZ BKN040 35/02 Q1014 UAII 191830Z 22001MPS CAVOK 12/07 Q1011 R10/0///70 NOSIG RMK QFE723/0964 MWCR 191900Z 13010KT 100V170 9999 FEW018 30/25 Q1013 NOSIG DAUG 191800Z 18004KT 5000 SCT046 SCT233 32/02 Q1014 RERA DAUH 191830Z 24005KT 6000 SCT040 SCT100 34/06 Q1012 YOOD 191900Z AUTO 13008KT //// // ////// 11/03 Q1031 DAUI 191800Z 00000KT 6000 NSC 36/// Q1014 YNWN 191830Z AUTO 12007KT //// // OVC068 20/07 Q1021 DAUK 191800Z 12006KT 9999 SCT040 33/10 Q1011 OEDM 191800Z 05009KT 7000 SKC 23/M06 Q1018 DAUL 191800Z 32006KT 7000 FEW023CB BKN026TCU 27/05 Q1015 DAUO 191800Z 160//KT CAVOK 32/12 Q1011 OEDR 191800Z 31005KT CAVOK 23/01 Q1011 NOSIG MUVR 191751Z 18008KT 150V210 9000 BKN020 32/18 Q1014 UBBB 191830Z 18013KT CAVOK 16/10 Q1004 88CLRD70 NOSIG YOOM 191900Z AUTO 17008KT //// // ////// 11/04 Q1030 UAKD 191700Z 18003MPS 7000 SCT100 14/04 Q1014 R22/0///65 NOSIG RMK QFE727/0969 K5T9 191855Z AUTO 33006KT 10SM CLR 28/14 A2985 RMK A01 DAUT 191800Z 21011KT 4000 HZ NSC 35/// Q1013 DAUU 191800Z 21006KT 4000 HZ NSC 35/M01 Q1012 ZGGG 191830Z 14003MPS 8000 OVC026 27/24 Q1005 NOSIG UBBG 191830Z VRB04KT 9999 BKN100 15/09 Q1008 R30/CLRD70 NOSIG K6L4 191855Z AUTO 09007G18KT 060V130 7SM BKN042 OVC050 18/15 A2975 RMK AO2 ZGHA 191800Z 34004MPS 8000 -RA SCT012 BKN023 14/11 Q1013 NOSIG TIST 191753Z 11011KT 10SM CLR 29/23 A3000 RMK AO2 SLP160 T02940233 10294 20267 58014 DAUZ 191800Z 18004KT 8000 NSC 32/M05 Q1016 UAKK 191830Z VRB01MPS CAVOK 05/04 Q1016 R23/0///70 NOSIG RMK QFE715/0953 UBBL 191900Z VRB02KT 9999 SCT200 16/13 Q1008 R33/CLRD70 RMK MT OP UBBN 191900Z 10007KT 9999 -SHRA SCT036CB BKN080 15/04 Q1010 R14R/CLRD60 NOSIG RMK MT OP QFE683 K5SM 191854Z AUTO 00000KT 5SM HZ BKN002 OVC006 A3021 RMK AO2 TISX 191853Z 12011KT 10SM SCT030 29/23 A3000 RMK AO2 SLP156 T02940228 UBBQ 191800Z 28008KT 9999 NSC 13/08 Q1007 R34/CLRD70 NOSIG RMK MT OBSC YPGV 191900Z AUTO 24005KT 9999 // SCT033 24/23 Q1010 YORG 191830Z AUTO 15013KT 9999 // SCT011 BKN020 OVC039 06/05 Q1024 OEGN 191800Z 31007KT CAVOK 30/24 Q1010 NOSIG K7BM 191855Z AUTO 00000KT 10SM SCT055 BKN070 BKN080 05/M07 A3010 RMK AO2 UBBY 191800Z 07009KT 9999 BKN060 15/08 Q1012 R33/////// NOSIG RMK MT OP OEGS 191800Z 11004KT CAVOK 25/02 Q1018 OEGT 191800Z 27010KT CAVOK 23/M07 Q1016 NOSIG OEHL 191800Z 09006KT CAVOK 23/00 Q1019 NOSIG UBEE 191400Z 30010KT 9999 BKN048 24/09 Q1005 R30/CLRD70 NOSIG YPKA 191830Z AUTO 09017KT //// // ////// 19/19 Q1016 YPKG 191900Z AUTO 06009KT 9999 // NCD 13/06 Q1029 TJMZ 182150Z 11005KT 10SM BKN040 28/23 A3002 RMK LAST TJNR 191853Z AUTO 10009KT 10SM SCT030 BKN041 29/23 A3001 RMK AO2 SLP161 T02940233 $ YPJT 191830Z AUTO 07009KT 9999 // NCD 18/09 Q1025 YPLC 191900Z AUTO 11010KT 9999 // SCT043 BKN052 13/06 Q1037 ZHCC 191800Z 34003MPS CAVOK 10/07 Q1017 NOSIG ZGKL 191800Z VRB03MPS 8000 -TSRA FEW013 SCT030 OVC050 FEW053CB 18/16 Q1011 NOSIG UAOO 191800Z 03003MPS CAVOK 13/03 Q1012 NOSIG RMK QFE747/0996 OEJN 191800Z 33006KT CAVOK 27/19 Q1010 NOSIG YPKS 191900Z AUTO 19009KT //// // ////// 09/07 Q1025 YPKT 191900Z AUTO 15012KT //// // ////// 27/17 Q1011 YPKU 191900Z AUTO 16010KT 9999 // NCD 26/14 Q1013 OEKJ 191800Z 02004KT CAVOK 25/M10 Q1019 OEKK 191800Z 00000KT CAVOK 22/03 Q1017 NOSIG YPLM 191900Z AUTO 10014KT //// // OVC054 22/18 Q1015 K6R3 191835Z AUTO 26009G14KT 230V310 7SM CLR 29/20 A2978 RMK AO2 T02860199 K6R6 191853Z AUTO VRB03KT 28/M01 A2988 RMK AO1 SLP087 T02781006 TJPS 191850Z 14010G15KT 10SM FEW030 SCT060 31/24 A2994 OEMA 191800Z 07007KT 4000 DU SKC 32/M02 Q1015 NOSIG K8A0 191835Z AUTO 21014G18KT 10SM SCT015 BKN022 OVC030 22/20 A2972 RMK AO2 K96D 191855Z AUTO 32012G23KT 5SM -RA FEW014 04/04 A2975 RMK AO2 P0004 YPMQ 191830Z AUTO 24013KT 9999 // SCT022 SCT032 BKN047 17/15 Q1019 SUAA 191800Z 25007KT CAVOK 24/09 Q1009 YPOD 191830Z AUTO 17004KT 9999 // SCT033 09/05 Q1037 ZGNN 191800Z 11002MPS 6000 NSC 26/24 Q1004 NOSIG UARR 191800Z 20003MPS 9999 OVC024CB 09/07 Q1000 R22/110165 NOSIG RMK QFE746/0995 TJSJ 191856Z 06015KT 9SM SCT035 SCT042 31/24 A2996 RMK AO2 SLP145 HZ ALQDS T03060239 $ UASK 191800Z VRB01MPS 9999 SCT240 10/05 Q1019 R12/090060 NOSIG RMK QFE739/0985 YPPD 191900Z AUTO 11012KT //// // SCT059 OVC072 20/17 Q1016 YPPF 191900Z AUTO 11004KT 9999 // NCD 05/02 Q1037 UATE 191830Z 14004MPS 5000 BR BKN002 OVC160 10/08 Q1003 R12/0///70 TEMPO 1000 BR BKN002 RMK QBB060 QFE750/1001 K7L2 191835Z AUTO 32013G21KT 10SM BKN032 BKN041 OVC075 08/04 A2987 RMK AO2 YPPH 191830Z 08006KT CAVOK 16/09 Q1024 UATG 191830Z 18003MPS 5000 BR SCT130 08/08 Q1003 R14/CLRD70 NOSIG RMK QFE754/1006 UASP 191830Z 16004MPS CAVOK 08/05 Q1014 R21/0///70 NOSIG RMK QFE749/0999 SUCA 191800Z 30017KT CAVOK 25/10 Q1006 UASS 191330Z 02002MPS CAVOK 16/07 Q1018 R08/0///60 NOSIG RMK QFE742/0990 OEPA 191800Z 33002KT CAVOK 26/12 Q1015 NOSIG ZGOW 191800Z VRB01MPS 9999 SCT023 BKN040 26/24 Q1007 NOSIG ZHHH 191800Z 02004MPS 340V070 CAVOK 13/10 Q1014 NOSIG K8D3 191856Z AUTO 34023G27KT 12/03 A2972 RMK AO1 PK WND 34035/1806 SLP066 T01170033 UATT 191830Z 21004MPS 9999 SCT048 BKN084 12/08 Q1004 R13/0///60 NOSIG RMK QFE733/0978 K7N0 191855Z AUTO 28006KT 230V300 A2980 RMK AO1 CMGB 191845Z AUTO 06002KT 10/M05 RMK AO1 SLP255 T01001049 58016 CMFM 191800Z AUTO 29005KT 05/M10 RMK AO1 SOG 17 8007 SLP231 T00461101 UAUU 191830Z 22004MPS 9999 BKN033CB OVC090 11/07 Q1003 R33/220050 TEMPO 20012MPS RMK QFE737/0983 OERF 191800Z 00000KT CAVOK 26/03 Q1016 SUDU 191800Z 00000KT CAVOK 27/11 Q1007 OERK 191800Z 07003KT CAVOK 24/M08 Q1018 NOSIG OERR 191800Z 25004KT CAVOK 23/01 Q1016 NOSIG OETB 191800Z 33013KT CAVOK 25/M07 Q1016 NOSIG OESK 191800Z 32005KT CAVOK 23/M09 Q1018 NOSIG YPTN 191900Z AUTO 14012KT 9999 // NCD 24/14 Q1014 UCFM 191830Z 13001MPS 8000 NSC 13/09 Q1010 R08/CLRD70 NOSIG UCFO 191830Z 18002MPS 6000 SCT050CB OVC100 13/10 Q1012 R12/CLRD70 TEMPO 25008MPS 2000 SHRA BR SCT005 BKN010CB OETF 191800Z 29006KT 5000 HZ NSC 24/14 Q1020 NOSIG ZGSZ 191800Z 16006MPS 9999 BKN023 26/24 Q1007 NOSIG OERY 191800Z 03005KT CAVOK 26/M03 Q1019 TKPK 191800Z 09014KT 9999 SCT014 30/24 Q1016 TKPN 191900Z 09015KT 9999 FEW016TCU 29/22 Q1015 OETR 191800Z 26004KT CAVOK 21/M06 Q1017 NOSIG K9A5 191835Z AUTO 20007KT 10SM BKN016 OVC023 21/15 A2974 RMK AO2 T02110152 SVAC 191800Z 290//KT 9999 OVC013 ///// Q1016 YREN 191900Z AUTO 16008KT //// // ////// 06/03 Q1036 YPWR 191900Z AUTO 15009KT 9999 // NCD 09/04 Q1034 OEWJ 191800Z 36007KT CAVOK 26/18 Q1010 NOSIG YPXM 191900Z AUTO 21001KT 9999 // NCD 24/23 Q1012 SVBC 191800Z /////KT 9999 SCT010 32/26 Q1013 SVBI 191800Z 02006KT 9999 SCT013 SCT060 27/27 Q1015 SVBM 191900Z 11011KT 9999 BKN016 26/20 Q1015 MYGF 191900Z 25010KT 9999 BKN022 BKN250 30/24 A2992 SVBS 191600Z 18004KT 9999 SCT016 30/21 Q1016 K9D7 191855Z AUTO 35016G24KT 10SM FEW012 SCT019 BKN027 06/04 A2979 RMK AO2 SVCN 191800Z 00000KT 9999 OVC060 ///// Q1016 OEYN 191800Z 27005KT CAVOK 30/10 Q1008 NOSIG K7W4 191855Z AUTO 11009G19KT 080V140 10SM SCT041 OVC100 19/11 A3004 RMK AO1 T01940114 SVCR 191900Z 08020G25KT 9999 FEW012 BKN050 36/25 Q1010 SULS 191800Z 21008KT CAVOK 24/12 Q1008 SVCU 191800Z 05013KT 9999 SCT013 30/18 Q1011 SUMU 191900Z 32003KT CAVOK 25/11 Q1008 NOSIG YSBK 191830Z AUTO 23009KT 9999 // OVC019 OVC023 12/09 Q1024 YSCB 191830Z 18014KT 9999 -SHRA FEW025 SCT055 BKN100 07/03 Q1027 TLPC 191800Z 11011KT 9999 BKN025 BKN280 29/23 Q1015 NOSIG SVGD 191800Z 02005KT 9999 SCT017 BKN070 27/23 Q//// YRMD 191900Z AUTO 12010KT //// // ////// 22/17 Q1018 TLPL 191800Z 11015KT 9999 SCT023 SCT040 BKN280 30/23 Q1015 NOSIG YSCN 191830Z AUTO 24008KT 9999 -RA BKN026 BKN033 OVC042 11/09 Q1024 YSCO 191830Z AUTO 16005KT //// // ////// 11/11 Q1022 YSCR 191900Z AUTO 07010KT //// // ////// 13/08 Q1028 SVGU 191800Z /////KT 9999 BKN017 26/16 Q1014 MZBZ 191800Z 06008KT 9999 SCT023 32/26 A2982 Q1009 NOSIG RMK HZY YSDU 191830Z AUTO 18004KT 7000 // OVC029 11/08 Q1023 HRYR 191900Z 06004KT 9999 FEW026 20/18 Q1021 NOSIG SVJC 191900Z 06021KT 9999 FEW013 BKN300 XX/XX Q1009 YROM 191830Z AUTO 19011KT 9999 // SCT018 BKN052 OVC075 14/10 Q1022 YSGE 191900Z AUTO 20011KT //// // ////// 12/05 Q1023 SVJM 191800Z /////KT 9999 BKN020 31/20 Q1013 SUSO 191700Z 35010KT 9999 SCT027 SCT200 26/17 Q1008 MYNN 191900Z 17008KT 9999 SCT016 28/21 A2996 K9L2 191855Z AUTO VRB06KT 10SM CLR 26/M06 A2993 RMK AO2 SLP120 T02561061 TSNO $ TNCA 191800Z 08023KT 9999 FEW025 32/25 Q1011 A2986 NOSIG TNCB 191800Z 06022KT 060V100 9999 SCT018 30/24 Q1012 NOSIG METAR TNCE 191800Z AUTO 07013KT //// ////// 29/23 Q1016 TNCC 191800Z 10013KT 9999 SCT021 30/23 Q1013 NOSIG TNCE 191800Z AUTO 07013KT //// ////// 29/23 Q1016 DFFD 191800Z VRB03KT 3500 DU NSC 37/M02 Q1009 TEMPO 2500 DU YSHK 191830Z AUTO 08006KT //// // ////// 18/14 Q1018 ZJHK 191800Z 14002MPS 100V170 CAVOK 25/21 Q1005 NOSIG SVMC 191800Z /////KT 9999 BKN016 34/25 Q1012 HSSS 191830Z 31006KT CAVOK Q1011 SVMD 191900Z 18010KT 9000 VCBR FEW023 BKN100 24/18 Q1019 TNCM 191800Z 13010KT 9999 FEW023 28/23 Q1016 A3000 NOSIG K8W2 191855Z AUTO 10008KT 060V130 10SM SCT050 SCT060 OVC090 19/07 A3001 RMK AO1 T01910065 SVMG 191900Z /////KT 9999 FEW010 32/21 Q1012 NOSIG SVMI 191900Z 05003KT 9999 BKN016 28/24 Q1012 NOSIG YSHT 191830Z AUTO 15011KT //// // ////// 07/03 Q1032 YSHW 191830Z AUTO 24006KT 9999 // OVC019 12/11 Q1024 SVMN 191800Z 20004KT 9999 BKN013 36/// Q1009 UEEE 191830Z 30002MPS CAVOK M11/M16 Q1022 NOSIG RMK QFE758 2309//60 SVMT 191800Z 09010KT 9999 BKN010 31/17 Q1012 OIAA 191800Z 30004KT CAVOK 25/06 Q1012 OIAD 191700Z 00000KT CAVOK 22/09 Q1010 A2985 K9MN 191854Z AUTO 11003KT 10SM BKN021 BKN025 OVC042 16/12 A2961 RMK AO1 T01620117 YTAR 191900Z AUTO 13008KT //// // ////// 10/04 Q1035 YRTI 191830Z AUTO 06013KT //// // ////// 19/11 Q1024 OIAG 191700Z 34006KT CAVOK 26/M06 Q1011 OIAH 191200Z 00000KT CAVOK 28/M04 Q1013 SVPA 191200Z /////KT 9999 FEW013 SCT090 26/26 Q1012 OIBA 191500Z 27016KT 4500 SA SKC 28/18 Q1005 SVPC 191700Z 02003KT 9999 BKN040 30/XX Q1013 OIBB 191800Z 30010KT CAVOK 24/12 Q1010 A2985 DGAA 191800Z 18009KT 9999 FEW010 29/25 Q1009 NOSIG OIAM 191800Z 30008KT CAVOK 25/05 Q1011 HUEN 191300Z 20006KT 9999 FEW024 FEW026CB 26/18 Q1015 OIBJ 191500Z 31012KT CAVOK 27/03 Q1012 OIBK 191800Z 29012KT 6000 NSC 26/19 Q1007 SVPM 191200Z 20010KT 9999 SCT050 XX/XX Q1014 OICC 191800Z 28012KT CAVOK 13/M04 Q1018 A3008 OIBL 191800Z 25010KT 5000 HZ SKC 26/18 Q1007 OIAW 191830Z 24004KT CAVOK 26/12 Q1011 YSMH 191830Z AUTO 00000KT 9999 // NCD 20/19 Q1015 YSMI 191900Z AUTO 26005KT //// // ////// M01/M01 Q1036 OIBP 191700Z 00000KT CAVOK 24/17 Q1008 A2977 OIBQ 191500Z 27008KT CAVOK 25/16 Q1009 OICI 191800Z 00000KT CAVOK 13/07 Q1019 A3010 OIBS 191500Z 26016KT CAVOK 26/19 Q1007 OICK 191330Z 28004KT CAVOK 23/M05 Q1016 YTEE 191830Z AUTO 18015KT 9999 // BKN110 18/09 Q1021 KMG 191900Z AUTO 18015KT 9999 // NCD 05/03 Q1033 YSNF 191830Z AUTO 07005KT 9999 // SCT037 17/11 Q1023 OIBV 191400Z 29024KT 7000 SKC 27/18 Q1006 YTEF 191900Z AUTO 13010KT //// // ////// 19/12 Q1019 SVSA 191800Z /////KT 9999 -DZ OVC020 23/20 Q1013 OICS 191300Z 26008KT CAVOK 22/M07 Q1015 YTEM 191830Z AUTO 18010KT //// // ////// 08/04 Q1027 CPBT 191800Z AUTO 10003KT 09/M05 RMK AO1 T00851046 50004 UDSG 191830Z 00000MPS 9000 SCT050CB BKN100 08/01 Q1012 R02/CLRD70 NOSIG YSNW 191805Z AUTO 21017G27KT 9999 // SCT025 BKN032 OVC059 11/08 Q1025 SVSP 191300Z 00000KT 8000 +DZ OVC030 XX/XX Q1014 SVST 191800Z 10012KT 9999 SCT060 ///// Q1017 HUJI 191200Z 23006KT 9999 FEW024 FEW026CB 26/18 CPEH 191800Z AUTO 33004KT 10/M07 RMK AO1 T01041070 YTGM 191900Z AUTO 15009KT //// // ////// 11/04 Q1027 HUKA 191200Z 11003KT 9999 SCT024 FEW027 SCT130 28/16 OIFM 191830Z 00000KT 7000 SKC 13/M03 Q1016 A3001 OIGG 191530Z 34004KT CAVOK 19/13 Q1006 YTIB 191830Z AUTO 18011KT //// // ////// 10/// Q1029 SVVA 191900Z 25004KT 9999 SCT020 SCT100 33/19 Q1012 OIFS 191800Z 08006KT CAVOK 08/01 Q1020 CPFI 191800Z AUTO 28004KT 10/M06 RMK AO1 T01011056 50005 K9V9 191835Z AUTO 33017G25KT 10SM SCT047 OVC065 10/00 A2990 RMK AO2 T01011004 SVVG 191800Z 34003KT 9999 OVC013 33/23 Q1009 YSRI 191830Z AUTO 21011KT 9999 -DZ BKN025 BKN029 OVC036 12/10 Q1024 DFOO 191800Z 00000KT 8000 FEW020 BKN260 37/15 Q1009 OIHH 191500Z 24008KT CAVOK 17/M04 Q1016 SVVL 182100Z 34005KT 9999 FEW023CB BKN023 28/19 Q1014 HUKS 191200Z 25005KT 9999 FEW018 FEW023CB SCT130 26/20 YSRN 191900Z AUTO 08004KT 050V120 9999 // SCT028 BKN039 OVC046 05/04 Q1036 OIIE 191800Z 25006KT CAVOK 20/M06 Q1012 OIII 191830Z 30004KT CAVOK 19/M06 Q1012 A2991 NOSIG OIIK 191700Z 00000KT CAVOK 15/00 Q1013 PAAD 191855Z AUTO 09024KT 3SM BR CLR M09/M11 A2968 RMK AO2 YSTH 191900Z AUTO 31006KT 9999 // NCD 03/00 Q1035 OIIP 191800Z 24006KT CAVOK 15/00 Q1013 OJAI 191900Z 00000KT CAVOK 12/03 Q1019 NOSIG OIIS 191200Z 00000KT CAVOK 24/M06 Q1013 PABA 191801Z AUTO 09022KT 6SM BR CLR M09/M11 A2975 RMK AO2 SLP073 60000 T10941111 11094 21133 57024 FZRANO PAAK 191856Z 25007KT 10SM OVC046 02/M08 A2991 RMK AO1 OIKB 191830Z 21014K CHECK TEXT NEW ENDING ADDED VABBYFYX OJAM 191800Z 00000KT 6000 NSC 19/04 Q1019 NOSIG ZJSY 191800Z 07003MPS 9999 BKN016 27/24 Q1008 NOSIG YSSY 191830Z 21023KT 9999 BKN010 BKN045 14/12 Q1023 FM1900 21020G30KT 9999 -SHRA SCT010 BKN020 TEMPO 1830/2130 4000 SHRA BKN010 FM1830 MOD TURB BLW 5000FT PABE 191853Z 08006KT 10SM SCT039 BKN046 OVC090 03/M02 A2911 RMK AO2 SNE10 SLP858 P0000 T00281017 OJAQ 191800Z 35011KT CAVOK 26/M05 Q1013 NOSIG PAAQ 191853Z 14021G30KT 10SM FEW020 SCT120 07/02 A2947 RMK AO2 PK WND 14034/1840 SLP982 T00720017 PABI 191853Z 11019G26KT 10SM FEW060 SCT100 10/M04 A2944 RMK AO2 PK WND 12031/1820 SLP976 SHRA DSNT SE-SW T01001044 CPIR 191800Z AUTO 20003KT 09/M06 RMK AO1 T00911062 OIKK 191800Z 34006KT CAVOK 15/M07 Q1019 A3011 PABL 191856Z AUTO 12011G17KT 10SM BKN060 OVC075 04/M02 A2919 RMK AO1 YSTW 191830Z AUTO 35005KT 8000 // OVC002 13/11 Q1021 PACD 191853Z 30030KT 10SM BKN038 M02/M07 A2953 RMK AO2 PK WND 30041/1808 SLP000 T10171072 OIKQ 191800Z 21019KT 4000 HZ SKC 26/20 Q1008 PABR 191753Z 06026G31KT 3SM BLSN FEW003 SCT220 M13/M16 A2979 RMK PK WND 05031/1752 VIS 2 1/2 NE SLP091 933008 T11331161 11133 21156 58027 VIA AUTODIAL OIMB 191800Z 00000KT CAVOK 12/07 Q1018 PABT 191853Z 05014G26KT 10SM FEW100 BKN170 06/M06 A2939 RMK AO2 PK WND 05029/1839 SLP961 T00561061 PNO OIMC 191700Z 13008KT CAVOK 20/09 Q1013 YTMO 191900Z AUTO 17014KT //// // ////// 16/09 Q1022 OIMD 191700Z 26006KT CAVOK 17/06 Q1010 PABV 191856Z AUTO 04007KT 10SM CLR 09/01 A2947 RMK AO1 PACM 191856Z AUTO 22010KT 10SM SCT080 M01/M03 A2913 RMK AO2 FZRANO TSNO T10111027 SLP861 $ YTNG 191900Z AUTO 11001KT 9999 // OVC026 20/18 Q1018 PADE 191853Z AUTO 05012KT 10SM -RA BKN035 OVC047 02/M01 A2918 RMK AO2 PK WND 09026/1812 RAB04 SLP881 P0001 T00171011 TSNO $ YSWG 191830Z AUTO 18007KT 9999 // NCD 06/02 Q1028 YSWH 191830Z AUTO 20010KT 9999 // NCD 06/02 Q1033 PADG 191800Z 04009G18KT 15SM FEW040 BKN050 04/M04 A2932 UDYZ 191830Z VRB02MPS 9999 FEW040CB SCT100 12/08 Q1010 R09/190065 NOSIG YTNK 191900Z AUTO 12018KT 9999 // NCD 19/05 Q1020 PADK 191856Z 00000KT 10SM FEW060 01/M07 A2995 RMK AO1 P0001 PAEC 191849Z 18008KT 10SM SCT030 BKN055 04/M07 A2939 RMK NOSPECI PADL 191849Z 12010G14KT 15SM -RA BKN014 OVC030 03/03 A2912 PACV 191853Z 11008KT 8SM -RA FEW010 BKN027 OVC050 06/04 A2977 RMK AO2 RAB12E22B53 SLP081 P0000 T00610039 $ PADM 191856Z AUTO 09012KT 10SM SCT080 04/M01 A2916 RMK AO2 TSNO T00441005 SLP863 $ PAED 191858Z AUTO 02007KT 350V090 10SM BKN075 08/01 A2946 RMK AO2 SLP973 T00780006 OIMM 191830Z 18008KT CAVOK 15/05 Q1014 A2995 OINE 191800Z 00000KT CAVOK 16/07 Q1007 OIMN 191800Z 00000KT CAVOK 11/03 Q1014 OING 191800Z 00000KT CAVOK 13/10 Q1008 PAEG 191853Z AUTO 15017G31KT 10SM CLR 11/M03 A2960 RMK AO2 PK WND 14035/1811 SLP028 T01061033 TSNO $ OIMQ 191700Z 28006KT CAVOK 19/M06 Q1014 PADQ 191853Z 18017G24KT 8SM -RA SCT020 BKN025 BKN032 06/03 A2932 RMK AO2 PK WND 15026/1803 RAB1755E18B46 SLP931 P0001 T00610028 PACZ 191842Z AUTO 20003KT 10SM -FZRA OVC003 M05/M05 A2910 RMK AO2 SLP861 PAEH 191855Z AUTO 32024G35KT 2 1/2SM -FZRA BR OVC006 M04/M05 A2919 RMK AO2 PK WND 31036/1844 SNB1832E1853 SLP894 P0000 T10421048 PAEI 191858Z AUTO 13022G29KT 10SM CLR 13/M03 A2933 RMK AO2 PK WND 11039/30 SLP936 T01321033 11039 $ NSFA 191800Z 11003KT 9999 FEW022 23/23 Q1011 PAFA 191853Z 12011G23KT 10SM FEW080 SCT110 BKN180 11/M04 A2932 RMK AO2 SLP935 T01111039 PAFB 191756Z AUTO 12016G26KT 10SM SCT120 11/M03 A2932 RMK PK WND 12026/1750 SLP933 T01111033 10111 20067 56019 $ VIA AUTODIAL PAEL 191850Z 10009KT 7SM -RA OVC017 05/04 A3007 RMK SPB E03015KT SEA 0 SWELL 2 SW NOSPECI PADU 191856Z 29016KT 6SM -SN BR SCT024 BKN036 OVC047 01/M06 A2976 RMK AO2 PK WND 32027/1813 RAB41E56SNB1758E40B56 SLP082 CS T00111056 PNO $ PAEM 191856Z AUTO 09005KT 10SM CLR 01/M02 A2914 RMK AO1 OINN 191800Z 13004KT CAVOK 18/07 Q1005 PAEN 191853Z 12010KT 10SM FEW037 SCT065 BKN095 07/02 A2944 RMK AO2 SLP971 T00670017 PAFE 191856Z AUTO 11008G15KT 10SM OVC020 06/05 A3020 RMK AO1 P0002 OINR 191800Z 31006KT 9999 FEW030 17/12 Q1005 PAGA 191758Z AUTO 11003KT 10SM OVC090 06/M02 A2920 RMK AO2 SLP893 T00561022 10072 20050 56007 PAFM 191856Z AUTO 09005KT 10SM OVC110 04/M05 A2932 RMK AO1 HUSO 191200Z 27004KT 9999 BKN020 FEW022CB BKN300 27/19 PAGH 191857Z AUTO 11026G33KT 10SM CLR 08/M05 A2927 RMK AO2 PK WND 11037/1834 SLP941 T00781050 OINZ 191800Z 15004KT CAVOK 19/11 Q1007 SYCJ 191800Z 07010KT 9999 SCT020 SCT100 BKN300 30/23 Q1012 NOSIG PAFS 191856Z AUTO 24009KT 10SM FEW013 BKN027 OVC034 04/01 A2928 RMK AO2 TSNO T00380011 RAB27E46 P0000 SLP925 $ PAGK 191853Z AUTO 17018G25KT 10SM BKN060 BKN075 OVC095 08/M01 A2955 RMK AO2 PK WND 17028/1834 SLP018 T00781006 TSNO PAGL 191856Z AUTO 10009KT 10SM BKN022 BKN032 OVC050 03/01 A2918 RMK AO1 PAHC 191856Z AUTO 09006KT 10SM -RA CLR 04/M01 A2916 RMK AO2 TSNO T00441005 P0000 SLP880 $ YTRE 191830Z AUTO 25007KT 9999 -SHRA SCT017 BKN020 BKN027 16/14 Q1020 PAGM 191856Z AUTO 12009G16KT 9SM OVC006 M01/M02 A2907 RMK AO1 PAGN 191856Z AUTO 09003KT 7SM -RA OVC032 06/04 A3015 RMK AO2 TSNO T00610044 RAE10B36 P0000 SLP211 $ PAGS 191856Z AUTO 15006KT 10SM SCT041 BKN047 OVC055 07/03 A3011 RMK AO1 PNO PAHL 191856Z AUTO 09009G18KT 10SM BKN055 BKN065 OVC075 06/M04 A2922 RMK AO1 PAHN 191854Z AUTO 07013G23KT 10SM BKN016 OVC024 06/03 A3010 RMK AO2 RAE20 SLP195 P0000 T00610028 TSNO PAHO 191853Z 10008KT 10SM -RA BKN028 BKN038 OVC048 07/02 A2942 RMK AO2 RAB13 SLP961 P0003 T00670022 PAGY 191853Z AUTO 21019G25KT 10SM OVC060 06/02 A3009 RMK AO2 PK WND 21030/1802 RAB04E34 SLP188 P0000 T00610022 TSNO PAHP 191856Z AUTO 28017KT 2SM OVC008 M05/M07 A2914 RMK AO1 PAIG 191856Z AUTO 05009KT BKN037 03/00 A2916 RMK AO2 TSNO T00330000 SLP877 $ PAII 191856Z AUTO 19013KT 4SM OVC005 02/01 A2914 RMK AO1 P0001 NTAA 191830Z VRB03KT 9999 FEW023 BKN066 28/21 Q1014 NOSIG PAIK 191801Z AUTO 08009KT 10SM CLR 06/M04 A2930 RMK AO2 SLP962 60000 T00611044 10061 20050 56018 PAIL 191853Z 08014KT 10SM BKN030 OVC041 04/01 A2923 RMK AO2 SLP900 T00440011 PAIM 191855Z AUTO 08011G20KT 060V140 10SM SCT095 03/M05 A2928 RMK AO2 PK WND 06037/1806 SLP923 T00341049 $ PAIN 191856Z AUTO 17011G21KT 10SM OVC055 09/M01 A2931 RMK AO1 OISF 191150Z 00000KT 8000 NSC 27/M03 Q1012 PAHX 191856Z AUTO 14005KT 10SM CLR 05/00 A2918 RMK AO2 SLP883 T00500000 PAHY 191856Z AUTO 10SM SCT016 SCT022 OVC034 08/04 A3020 RMK AO1 YTST 191900Z AUTO 11003KT 9999 // NCD 26/20 Q1010 OISL 191800Z 00000KT CAVOK 23/05 Q1011 PAJN 191853Z 11011KT 7SM -RA FEW010 BKN034 OVC046 05/04 A3016 RMK AO2 SLP212 P0006 T00500039 PAIW 191758Z AUTO 05013KT 10SM M01/M02 A2919 RMK AO2 SLP885 60000 T10061022 10000 21011 55003 FZRANO $ DIAD 191700Z 16004KT 8000 SCT015 31/26 Q1007 NOSIG PAKF 191846Z AUTO 32029G41KT 280V340 8SM UP BKN028 M01/M07 A2953 RMK AO2 PK WND 28044/1833 UPB1734E1740B15SNE1734B1740E15 SLP094 P0000 60000 T10111072 11011 21022 53012 FZRANO $ CPRO 191800Z AUTO 30006KT 11/M08 RMK AO1 T01081076 PAKH 191856Z AUTO 20015KT BKN021 OVC033 05/02 RMK AO2 PWINO TSNO T00500022 BKN V SCT SLPNO $ PAKI 191856Z AUTO 27020G27KT OVC012 M06/M08 RMK AO2 PWINO TSNO T10611077 PK WND 27028/1821 SLPNO $ ZLLL 191800Z 24002MPS CAVOK 07/00 Q1019 NOSIG OISS 191830Z 31008KT 280V360 CAVOK 18/M04 Q1017 A3004 OKBK 191800Z 32005KT CAVOK 24/M04 Q1013 NOSIG OITK 191000Z 20006KT 9999 FEW035 SCT040 21/M01 Q1012 PAKK 191856Z AUTO 34003KT 10SM BKN046 06/M06 A2914 RMK AO1 OITL 191755Z 22006KT 9999 FEW035 SCT090 11/02 Q1012 OITM 191800Z 12006KT 9999 FEW040 12/03 Q1015 PAKN 191854Z 12009KT 10SM -RA FEW031 BKN038 OVC050 03/02 A2912 RMK AO2 SLP861 P0003 T00330017 OISY 191800Z 09006KT CAVOK 12/04 Q1020 PAKP 191856Z AUTO 00000KT 10SM CLR M05/M11 A2943 RMK AO1 PALG 191856Z AUTO 11006KT BKN033 OVC043 03/M01 RMK AO2 PWINO TSNO T00331005 OVC V BKN SLPNO $ PALH 191853Z 16010G16KT 10SM FEW070 10/M03 A2947 RMK AO2 SLP978 T01001028 CPRY 191800Z AUTO 05002KT 09/M06 RMK AO1 T00881061 OITR 191830Z 00000KT 9999 FEW035 14/02 Q1014 DIAP 191900Z 19008KT 6000 SCT011 FEW020CB 29/25 Q1009 TEMPO TS PALJ 191650Z 25005KT 30SM FEW010 SCT045 SCT150 04/01 A2920 RMK EST PASS OPEN NOSPECI PAKT 191853Z 14011KT 10SM -RA FEW012 BKN020 OVC027 07/04 A3026 RMK AO2 RAB1757 SLP249 P0001 T00720044 OITT 191830Z 24016KT 9999 FEW035 FEW040CB 16/03 Q1014 A2996 PAKU 191850Z 07023KT 2SM R06/P6000FT BLSN FEW004 BKN009 M12/M13 A2968 PAMC 191853Z 09005KT 10SM FEW017 BKN038 OVC095 03/01 A2924 RMK AO2 RAE51 SLP906 P0005 T00280011 DIBK 191700Z 10004KT 5000 HZ SCT015CB 35/17 Q1017 NOSIG CPST 191800Z AUTO 26004KT 10/M07 RMK AO1 T00971071 50004 PAKV 191853Z AUTO 00000KT 10SM OVC026 04/M01 A2921 RMK AO1 SLP895 T00441011 TSNO PAMD 191856Z AUTO 14020G27KT 3SM FEW015 SCT023 BKN029 04/02 A2971 RMK AO1 PAKW 191853Z AUTO 08005KT 10SM -RA BKN012 OVC033 07/06 A3018 RMK AO2 SLP220 P0004 T00720061 TSNO CPSV 191800Z AUTO 36005KT 09/M04 RMK AO1 T00941035 PALP 191849Z 06020KT 1SM BLSN BR SKC M12/M14 A2970 OITZ 191500Z 25014KT 9999 FEW035 19/M04 Q1013 PAMH 191856Z AUTO 00000KT 10SM OVC080 07/M02 A2922 RMK AO1 PANA 191856Z AUTO 00000KT 10SM OVC045 02/M02 A2910 RMK AO2 RAE1759 SLP853 P0000 T00221022 FZRANO PAMK 191856Z AUTO 13006KT 10SM SCT038 03/00 A2916 RMK AO2 PWINO TSNO T00270000 SLP878 $ PANC 191853Z 14009G21KT 110V170 10SM FEW040 BKN070 BKN180 09/M01 A2945 RMK AO2 SLP974 SH DSNT NW T00941006 PALU 191855Z AUTO 10011KT 040V110 6SM -SN OVC010 M11/M13 A2952 RMK AO2 SNB1755 SLP996 P0000 T11141127 PAMM 191856Z AUTO 09004KT 10SM OVC024 08/04 A3028 RMK AO1 DIBU 191700Z 00000KT 6000 SCT016 FEW023CB 24/22 Q1009 NOSIG PAMO 191856Z AUTO 11006KT 10SM FEW011 SCT045 OVC055 02/M01 A2915 RMK AO2 TSNO T00161005 OVC V BKN SLP760 $ PAMR 191853Z 12009KT 100V160 10SM SCT070 SCT080 BKN180 10/M04 A2946 RMK AO2 SLP976 T01001039 PANI 191856Z AUTO 10011KT 10SM BKN110 04/M01 A2916 RMK AO1 UHBB 191800Z 07002MPS 7000 SCT033 M02/M03 Q1002 NOSIG RMK QFE734/0979 36090060 DIDK 191700Z ///// 9999 FEW015 FEW023CB BKN266 35/27 Q//// NOSIG DIDL 191700Z ///// 9999 SCT015 33/23 Q1009 NOSIG PANN 191853Z AUTO 11014KT 10SM FEW100 12/M03 A2928 RMK AO2 SLP920 T01221028 TSNO $ PAMY 191856Z AUTO 29026G30KT 1 1/4SM OVC012 M09/M12 A2923 RMK AO1 PAOH 191856Z AUTO 08009KT 9SM -RA BKN025 BKN030 06/06 A3013 RMK AO2 TSNO T00610055 BKN V SCT P0001 SLP202 $ PAPB 191853Z AUTO 10SM FEW023 BKN035 OVC046 M01/M06 A2959 RMK AO2 SNB33E43 SLP007 P0000 T10111061 TSNO PANT 191853Z 12009KT 10SM -RA OVC020 08/05 A3026 RMK AO2 RAB1756E05B47 SLP248 P0000 T00830050 PAOM 191853Z 09007KT 7SM -RA OVC027 01/01 A2915 RMK RAB14 SLP872 P0000 T00060006 VIA AUTODIAL PANV 191856Z AUTO 10005KT 10SM CLR 04/M01 A2915 RMK AO1 PANW 191756Z AUTO 11010KT 10SM FEW027 SCT035 BKN044 03/00 A2915 RMK AO2 TSNO 53010 60000 T00330000 10033 20011 SLP852 $ UGKO 191830Z 05007KT 360V070 CAVOK 16/11 Q1007 R07/09//70 NOSIG PAOO 191856Z AUTO 3/4SM -SN OVC011 A2921 RMK AO2 TSNO SNB20 P0000 SLPNO $ PAPG 191856Z 07003KT 10SM -SHRA SCT025 OVC034 06/02 A3021 PAPH 191856Z AUTO 24019G29KT 10SM FEW012 SCT019 BKN026 00/M04 A2928 RMK AO1 PAOR 191853Z 09013KT 10SM FEW090 FEW150 10/M04 A2952 RMK AO2 SLP012 T01001044 PNO $ OIZB 191800Z 14004KT CAVOK 19/08 Q1014 PAOT 191853Z 09015KT 10SM SCT060 BKN080 BKN100 03/M02 A2922 RMK AO2 PK WND 08029/1754 SLP896 T00331017 DIGA 191700Z 22004KT 8000 BKN013 FEW023CB 32/25 Q1006 NOSIG OIZC 191650Z 26008KT 5000 HZ SKC 30/12 Q1005 A2969 PAOU 191856Z AUTO 30026G35KT SN OVC005 M02/M02 A2944 RMK AO2 TSNO T10161022 P0000 PK WND 29035/1808 PRESRR SLP971 $ PAPM 191856Z AUTO 27023KT 1/2SM -SN FZFG BKN006 BKN042 OVC075 M02/M03 A2915 RMK AO2 TSNO T10221027 CIG 004V010 P0000 PK WND 27028/1845 SLP873 $ PAPN 191756Z AUTO 00000KT BKN009 OVC012 01/01 A2915 RMK AO2 PWINO TSNO 53035 60006 T00110005 10022 20000 CIG 006V010 SLP873 $ CPXL 191800Z AUTO 32004KT 10/M07 RMK AO1 T00991073 PAPO 191856Z AUTO 02017KT 10SM BKN060 BKN080 OVC090 M04/M08 A2934 RMK AO1 PAQH 191856Z AUTO 00000KT 10SM BKN017 OVC026 02/01 A2910 RMK AO2 RAE18 SLP856 P0000 T00170011 FZRANO OIZH 191800Z 01008KT CAVOK 18/04 Q1018 A3007 OIZI 191800Z 01006KT 6000 NSC 30/04 Q1010 OIZJ 191800Z 29016KT 5000 HZ SKC 28/19 Q1007 PARC 191856Z AUTO 04011G16KT 10SM CLR 01/M08 A2964 RMK AO1 OIYY 191830Z 17006KT 4000 HZ SKC 20/M02 Q1016 PASA 191856Z AUTO 11016KT 8SM BKN005 A2906 RMK AO1 PAQT 191753Z AUTO 06017KT 1SM BLSN BR OVC004 M13/M16 A2971 RMK SLP061 T11331156 11133 21150 58024 TSNO $ VIA AUTODIAL PASC 191853Z 07021KT 4SM BLSN CLR M11/M13 A2967 RMK AO2 SLP048 T11061133 PASD 191856Z 31025G31KT 10SM FEW017 SCT022 BKN034 00/M04 A2943 RMK AO1 WEA YWCA 191900Z AUTO 19010KT //// // ////// 08/04 Q1031 PASH 190838Z 05012KT 10SM BKN024 OVC029 M01/M03 A2937 RMK VIA PHONE PASI 191853Z 12011KT 10SM -RA OVC029 09/04 A3008 RMK AO2 SLP187 P0004 T00940044 YWBL 191830Z AUTO 00000KT 9999 // SCT058 04/03 Q1037 OLBA 191800Z 23003KT 210V270 8000 FEW026 17/14 Q1018 NOSIG PATA 191852Z 08016G26KT 10SM CLR 07/M04 A2924 RMK AO2 PK WND 08026/1845 SLP904 4/004 933011 T00721039 PNO PARS 191856Z AUTO VRB03KT 10SM BKN070 04/M01 A2914 RMK AO2 TSNO T00441005 SLP872 $ PASK 191856Z AUTO 08016KT 10SM SCT065 BKN075 OVC090 03/M02 A2925 RMK AO1 PASL 191856Z AUTO 00000KT 10SM BKN004 OVC027 02/M01 A2925 RMK AO1 PATC 191855Z AUTO 05010KT 10SM -SN OVC037 M01/M02 A2915 RMK AO2 SNB1848 SLP877 P0000 T10151019 PASM 191856Z AUTO 11005KT 10SM OVC060 02/M02 A2913 RMK AO1 PASN 191853Z 28010KT 10SM FEW024 SCT042 M02/M07 A2956 RMK AO2 SLP012 T10221072 $ PATE 191758Z AUTO 12017G20KT 10SM FEW037 BKN060 OVC070 02/00 A2914 RMK AO2 SLP879 T00170000 10017 20006 58003 FZRANO PASO 191853Z AUTO 19014G25KT 10SM -RA SCT029 OVC035 05/03 A2936 RMK AO2 PK WND 14026/1837 SLP942 P0001 T00500028 TSNO YWBR 191900Z AUTO 11012KT //// // ////// 14/07 Q1027 PATG 191856Z AUTO 18005KT 8SM OVC010 02/01 A2911 RMK AO1 P0004 PARY 191856Z AUTO 00000KT 6SM UP BR OVC032 02/00 A2923 RMK AO2 TSNO T00220000 RAB04E39UPB39 P0003 SLP905 $ PATK 191853Z 20011G18KT 10SM CLR 10/M03 A2943 RMK AO2 SLP970 T01001033 PATL 191855Z AUTO VRB05KT 10SM FEW004 SCT047 BKN095 01/01 A2925 RMK AO2 SHRAB1731E1831 SLP912 P0002 T00130013 $ PASV 191855Z AUTO 13018G23KT 10SM CLR 05/M03 A2917 RMK AO2 PK WND 14027/1824 SLP891 T00471033 PASW 191849Z 13005KT 25SM SCT015 BKN050 08/04 A2945 RMK NOSPECI PATO 191853Z AUTO 10010G31KT 050V140 1 3/4SM RA BKN026 BKN031 OVC038 05/01 A2957 RMK AO2 PK WND 07036/1840 RAB09 SLP013 P0004 T00500011 TSNO PASX 191856Z AUTO 09009KT 10SM SCT041 BKN050 OVC080 06/01 A2943 RMK AO1 UHHH 191830Z 04003MPS 9999 -SHRASN SCT033CB BKN100 02/00 Q1009 NOSIG RMK QFE750/1001 55090060 PASY 191856Z AUTO 29011KT 10SM FEW027 OVC048 M01/M06 A3001 RMK AO2 SNB16E32 SLP163 T10111061 TSNO PATQ 191856Z AUTO 08022KT 1 1/4SM -SN BR OVC013 M15/M17 A2970 RMK AO2 TSNO T11501166 SNE00B21 P0000 PK WND 07027/1828 SLP062 $ PAVA 191857Z AUTO 26017KT 9SM -SN BKN007 OVC027 M04/M05 A2917 RMK AO2 SNB51 SLP881 P0000 T10441050 FZRANO PAVC 191856Z AUTO 30025G39KT -SN FEW021 SCT025 BKN032 M02/M09 A2948 RMK AO2 TSNO T10221094 UPE53SNB53 P0000 PK WND 29051/1816 PRESRR SLP986 $ NSTU 191852Z VRB05KT 12SM SCT024 BKN100 BKN220 29/26 A2985 RMK SLP108 T02870256 PAVD 191856Z 00000KT 10SM FEW015 SCT025 BKN055 07/03 A2971 RMK AO1 1847Z WEA PAUN 191856Z AUTO 06007KT 10SM BKN031 BKN065 OVC095 03/00 A2918 RMK AO1 DIKO 191700Z 14006KT 6000 FEW016 34/20 Q1010 NOSIG UIAA 191800Z 00000MPS 9999 SKC M03/M14 Q1014 NOSIG RMK QFE702 29CLRD70 UGSB 191830Z 22025G37KT 9999 -SHRA FEW014 BKN026CB 13/11 Q1016 R13/CLRD70 TEMPO 23045KT PAUT 191855Z AUTO 10SM SCT028 BKN033 OVC045 00/M05 A2969 RMK AO2 T10021047 PAVL 191853Z AUTO 07020KT 10SM OVC100 02/M03 A2926 RMK AO2 PK WND 06029/1755 RAE10 SLP909 P0000 T00221028 TSNO PAWD 191853Z AUTO 19021G29KT 6SM -RA SCT024 BKN029 OVC035 06/02 A2953 RMK AO2 PK WND 17030/1828 SLP000 P0001 T00560022 TSNO PAWG 191856Z 11011G16KT 7SM SCT025 BKN040 OVC060 07/02 A3026 RMK AO1 WEA PAWI 191753Z AUTO 06020KT 1 1/4SM BR OVC013 M14/M16 A2972 RMK PK WND 05026/1742 SLP067 60000 T11391161 11139 21150 56012 TSNO VIA AUTODIAL UIBB 191830Z 10002MPS P5000 SCT100 OVC200 03/M12 Q1010 NOSIG RMK QFE714/0953 30CLRD60 UGTB 191830Z 33009KT CAVOK 13/06 Q1011 R31L/CLRD80 NOSIG PAWM 191751Z AUTO 04003KT 10SM -RA OVC017 03/02 A2916 RMK VIA PHONE PAWN 191856Z AUTO 02008KT 10SM OVC100 03/M04 A2922 RMK AO1 YWHA 191900Z AUTO 11013KT 9999 // NCD 11/04 Q1036 PAYA 191853Z 13012G25KT 3SM -RA BR OVC011 07/06 A2993 RMK AO2 SLP135 P0008 T00720061 PAWS 191856Z AUTO 07012G19KT 10SM FEW110 09/M03 A2947 RMK AO1 ZLXY 191800Z 03002MPS 6000 NSC 10/08 Q1017 NOSIG UHMA 191800Z 34008G11MPS 2000 SN BLSN SCT006 OVC080 M18/M22 Q1004 RMK QBB190 QFE749/0999 YWGT 191900Z AUTO 20007KT //// // ////// 07/00 Q1030 YVRD 191900Z AUTO 13010KT //// // ////// 24/07 Q1016 PAZK 191856Z AUTO 17009KT 10SM SCT009 BKN017 BKN100 01/M02 A2946 RMK AO1 UHMM 191800Z 00000MPS 9999 FEW008 SCT100 M13/M15 Q1018 RMK QFE749 YWIS 191900Z AUTO 18006KT //// // ////// 21/20 Q1016 OMAA 191800Z 28009KT CAVOK 26/15 Q1011 A2986 NOSIG OMAD 191800Z 28009KT CAVOK 27/13 Q1011 A2986 NOSIG ZMUB 191900Z VRB01MPS CAVOK M07/M14 Q1014 NOSIG RMK QFE653.8 52 OMAL 191800Z 27007KT CAVOK 25/08 Q1013 A2991 NOSIG YWLG 191830Z AUTO 23008KT 9999 // NCD 09/05 Q1023 TQPF 191900Z 10013KT 9999 SCT020 29/23 Q1016 YWLM 191830Z AUTO 24009KT 7000 SHRA SCT009 BKN013 BKN018 14/13 Q1021 DITB 191700Z 18004KT 9999 FEW015 30/25 Q1008 NOSIG UHPP 191800Z 01004MPS 9999 NSC M05/M08 Q1018 NOSIG RMK QFE760/1013 SC070 EBBE 191825Z AUTO 04007KT 9999 NCD 13/01 Q1021 BLU DISP 191700Z 18010KT 9999 FEW015 SCT300 30/25 Q1008 NOSIG OMDB 191800Z 25009KT CAVOK 26/17 Q1011 NOSIG DISS 191700Z ///// 9999 FEW015 SCT260 30/26 Q1008 NOSIG EBBL 191825Z 04006KT 9999 FEW220 13/01 Q1022 BLU EBAW 191850Z 04008KT CAVOK 12/02 Q1022 NOSIG UIII 191830Z 14003MPS CAVOK M01/M08 Q1014 NOSIG RMK QFE718/0958 12CLRD60 EBCI 191850Z 04009KT CAVOK 11/02 Q1021 NOSIG EBBR 191850Z 04006KT CAVOK 09/03 Q1022 NOSIG VAAH 191840Z 29003KT 4000 FU NSC 34/12 Q1007 NOSIG VABB 191840Z 32004KT 3000 HZ FEW100 30/25 Q1008 NOSIG KA08 191835Z AUTO 20007G15KT 10SM BKN024 BKN033 BKN040 24/20 A2973 RMK AO2 T02400197 PWINO OMDW 191800Z 25009KT CAVOK 25/16 Q1012 NOSIG EBCV 191825Z AUTO 03009KT 9999 NCD 12/03 Q1021 BLU UHSS 191800Z 00000MPS 9999 BKN008 BKN021CB 01/M01 Q1017 RMK MT OBSC QFE762/1016 OMFJ 191800Z 28018KT 6000 NSC 27/11 Q1009 A2982 EBDT 191825Z AUTO 04006KT 9999 NCD 13/01 Q1022 BLU EBFN 191825Z 03009KT 9999 FEW023 SCT200 08/03 Q1023 BLU EBFS 191825Z AUTO 04009KT 9999 NCD 11/01 Q1021 BLU DIYO 191700Z 20008KT 6000 FEW016 33/24 Q1008 NOSIG YWUD 191900Z AUTO 00000KT //// // ////// 06/05 Q1036 YWTN 191900Z AUTO /////KT //// // ////// 19/14 Q1019 UHWW 191830Z 00000MPS 9999 SCT033 BKN100 06/01 Q1012 NOSIG RMK QFE757/1010 25CLRD70 TRPG 191800Z 11012KT 9999 HZ BKN018 27/22 Q1016 EBLB 191825Z AUTO 05006KT 9999 NCD 09/M02 Q1021 BLU EBLG 191850Z 04009KT CAVOK 11/01 Q1021 NOSIG YWWL 191900Z AUTO 18006KT //// // ////// 08/05 Q1027 UKBB 191830Z 29006MPS 9999 SCT032 06/M01 Q1007 86CLRD95 36190060 NOSIG YWYM 191900Z AUTO 12014KT //// // ////// 27/16 Q1012 CTNK 191800Z AUTO 11008KT 10/M07 RMK AO1 SLP226 T00991069 58032 UKDD 191830Z 27004MPS CAVOK 05/M01 Q1006 26090070 NOSIG UKDE 191800Z 27006MPS CAVOK 04/02 Q1007 20290550 NOSIG YWYY 191900Z AUTO 29007KT 9999 // NCD 02/02 Q1036 TTCP 191800Z 09012KT 9999 SCT018 30/22 Q1014 RMK NOSIG UIUU 191830Z 12002MPS 080V160 9999 BKN100 M01/M11 Q1016 NOSIG RMK QFE717/0957 26CLRD60 EBOS 191850Z 03010KT CAVOK 08/04 Q1023 NOSIG UKDR 191830Z 26004MPS CAVOK 03/M01 Q1008 3609//70 NOSIG OMRK 191800Z 00000KT CAVOK 24/16 Q1011 A2987 CTRA 191800Z AUTO 12004KT 04/03 RMK AO1 8037 SLP028 T00420033 50056 VANP 191840Z 22004KT 5000 HZ NSC 30/19 Q1008 NOSIG OMSJ 191800Z 23008KT CAVOK 26/16 Q1011 EDAH 191550Z 03006KT 360V060 CAVOK 10/M01 Q1023 EDBC 191550Z 03006KT 9999 13/01 Q1022 UKHH 191830Z 30005MPS 9999 SCT040 BKN100 06/M02 Q1002 25290063 NOSIG PFCL 191856Z AUTO 15017KT 9SM OVC010 03/02 A2911 RMK AO2 SLP859 T00330022 YYNG 191830Z AUTO 15016KT //// // ////// 08/05 Q1026 ULAA 191830Z VRB01MPS 9999 BKN032CB BKN/// M02/M04 Q1004 26CLRD70 TEMPO 3000 -SHSN BKN007CB RMK QFE752/1002 EDDB 191850Z 04005KT CAVOK 11/02 Q1022 NOSIG EDDC 191850Z VRB02KT CAVOK 10/M01 Q1022 NOSIG EDDE 191850Z 09006KT CAVOK 10/M01 Q1023 NOSIG EDDF 191850Z 07006KT CAVOK 15/M04 Q1021 NOSIG EDDG 191850Z 04005KT CAVOK 11/03 Q1023 NOSIG EDDH 191850Z 05007KT CAVOK 11/04 Q1024 NOSIG KAAA 191855Z AUTO 05008KT 5SM RA SCT008 BKN020 OVC034 15/14 A2955 RMK AO2 P0006 T01540137 PFEL 191758Z AUTO 34004KT 10SM -RA BKN022 OVC040 02/01 A2918 RMK AO2 SLP885 P0001 60015 T00220011 10050 20017 56008 FZRANO KC09 191835Z AUTO 13013KT 10SM BKN065 OVC075 20/07 A2961 RMK AO2 T02010065 EDDK 191850Z 03007KT CAVOK 14/01 Q1021 NOSIG EDDL 191850Z 02007KT CAVOK 14/01 Q1022 NOSIG EDDM 191850Z 06003KT CAVOK 10/M00 Q1020 NOSIG KAAF 191853Z AUTO 10004KT 10SM -RA FEW060 SCT090 OVC110 22/20 A2985 RMK AO2 LTG DSNT NE AND SE TSB25E40 PRESFR SLP107 P0023 T02220200 EDDN 191850Z 03003KT 320V110 CAVOK 12/M04 Q1020 NOSIG VCBI 191810Z 14004KT 9999 SCT018 26/24 Q1011 NOSIG EDDP 191850Z 33004KT CAVOK 11/02 Q1023 NOSIG UKKK 191836Z 30008G15MPS 9999 -SHRA SCT026CB BKN047 05/01 Q1007 26290058 NOSIG EDDR 191850Z 04011KT CAVOK 13/M03 Q1019 NOSIG EDDS 191850Z 06007KT CAVOK 11/M03 Q1020 NOSIG UKKM 191800Z AUTO 30007G12MPS 9999 -UP OVC057 05/02 Q1007 EDDT 191850Z 03003KT CAVOK 13/01 Q1022 NOSIG ZPPP 191800Z 23005MPS 9999 SCT023 BKN040 16/07 Q1019 NOSIG KABE 191851Z VRB04G14KT 10SM CLR 19/01 A3014 RMK AO2 SLP204 T01940006 EDDV 191850Z 33003KT CAVOK 10/01 Q1023 NOSIG EDFE 191850Z 08003KT CAVOK 12/M04 Q1020 EDDW 191850Z 02002KT CAVOK 13/M01 Q1024 NOSIG KAAO 191854Z AUTO 33012G17KT 10SM FEW031 SCT042 BKN055 18/11 A2973 RMK AO2 SLP062 T01830106 $ UKLI 191830Z 28005MPS 9999 -SHRA BKN009 BKN018CB 05/02 Q1015 28290065 NOSIG KABH 191856Z AUTO 02019G23KT 10SM CLR A3006 RMK AO2 PK WND 02027/1811 SLPNO $ KABI 191852Z 31015G22KT 10SM CLR 23/06 A2987 RMK AO2 SLP099 T02330056 EDFH 191850Z 10004KT 070V130 CAVOK 10/M03 Q1021 UKLL 191830Z 27004MPS 9999 SCT019CB BKN100 04/02 Q1015 31190070 NOSIG KACB 191854Z AUTO 14015G20KT 10SM CLR 20/M08 A2981 RMK AO2 T01951082 KAAT 191855Z AUTO VRB04KT 10SM CLR 19/M04 A3012 RMK AO2 SLP172 T01891044 KC29 191835Z AUTO 12012KT 10SM CLR 23/03 A2963 RMK AO1 T02320025 UKLN 191500Z 31008MPS 280V350 CAVOK 09/M04 Q1015 15////// TEMPO 32011G16MPS EDFM 191820Z 07007KT CAVOK 15/M03 Q1020 KC35 191835Z AUTO 18006KT 150V210 10SM CLR 21/06 A2963 RMK AO2 T02060055 UKLR 191830Z 29006MPS 9999 SCT030CB OVC100 04/01 Q1012 30190060 NOSIG KABQ 191852Z 33006KT 10SM FEW065 17/M07 A3006 RMK AO2 SLP128 T01671072 KABR 191853Z AUTO 32021KT 10SM FEW060 OVC075 12/M01 A2981 RMK AO2 PK WND 32033/1802 SLP096 T01171011 UKLU 191800Z 00000MPS 9999 OVC040 09/M00 Q1018 10090070 NOSIG KACJ 191835Z AUTO 21007KT 10SM -RA OVC110 19/19 A2988 RMK AO2 LTG DSNT E KACK 191853Z 03013KT 10SM CLR 11/01 A3026 RMK AO2 SLP248 T01060011 KADC 191853Z AUTO 30013G20KT 7SM OVC010 07/06 A2965 RMK AO2 KADF 191856Z AUTO 17007KT 10SM CLR 27/17 A2968 RMK AO2 T02660166 SLP064 KABY 191853Z 18005KT 5SM VCTS -RA BR OVC110 19/18 A2988 RMK AO2 LTG DSNT N-SE SLP115 P0013 T01890178 KADG 191853Z AUTO 10016G23KT 10SM FEW060 15/04 A2978 RMK AO2 SLP086 T01500039 TSNO KACP 191835Z AUTO 27004KT 10SM SCT039 28/18 A2980 RMK AO2 T02750179 KADH 191835Z AUTO 31004KT 10SM SCT037 OVC065 20/13 A2973 RMK AO2 EDGS 191850Z 10007KT CAVOK 10/M02 Q1022 KACT 191851Z 28018G22KT 10SM CLR 27/13 A2976 RMK AO2 PK WND 28026/1827 SLP071 T02720128 EDHK 191450Z 03008KT 360V070 CAVOK 09/03 Q1025 EDHL 191850Z 03002KT CAVOK 09/01 Q1025 RMK ATIS CHA KACV 191853Z AUTO 25007KT 7SM CLR 14/12 A2994 RMK AO2 SLP144 T01390117 $ KADM 191855Z 33006KT 10SM SCT032 SCT043 BKN050 21/15 A2973 KACY 191854Z 09014KT 10SM CLR 12/03 A3020 RMK AO2 SLP226 T01220033 $ KAEG 191849Z 00000KT 10SM FEW100 15/M04 A3008 KAEJ 191855Z AUTO 28003KT 10SM BKN070 03/M03 A3007 RMK AO2 T00331027 KADS 191847Z 29017G25KT 13SM SCT035 23/14 A2975 DNAA 191800Z 17007KT 5000 HZ NSC 35/03 Q1009 NOSIG EDJA 191850Z 06006KT CAVOK 07/M01 Q1019 KAEL 191853Z AUTO 30005KT 3SM -RA SCT010 SCT030 OVC050 15/14 A2961 RMK AO2 P0001 KADU 191835Z AUTO 32012G18KT 7SM RA BKN010 12/11 A2966 RMK AO2 P0003 UKON 191700Z 27005MPS 9999 FEW033CB 07/01 Q1011 NOSIG UKOO 191830Z 29004MPS CAVOK 05/01 Q1014 34290055 NOSIG KADW 191858Z 09015G21KT 10SM M 18/09 A3009 RMK AO2A SLP195 T01840094 $ CWAE 191800Z 32002KT 15SM FEW240 15/M00 A3020 RMK CI1 WND ESTD SLP231 DENSITY ALT 2300FT KAFF 191758Z AUTO 01012G17KT 10SM FEW170 04/M02 A3009 RMK AO2 SLP186 60000 T00431020 10043 21003 58015 CWAF 191800Z AUTO 05/M03 RMK AO1 T00531030 KAFJ 191855Z AUTO 13017G25KT 10SM FEW110 19/04 A2991 RMK AO1 CWBA 191800Z AUTO 11009G15KT 11/M09 RMK AO1 T01071094 CWAJ 191800Z AUTO 05025G32KT 08/01 RMK AO1 PK WND 06033/1735 SLP119 T00780012 KAFK 191835Z AUTO 35018G27KT 10SM -DZ OVC014 11/10 A2971 RMK AO2 T01120104 KAGC 191853Z AUTO 13015G21KT 10SM CLR 20/02 A2991 RMK AO2 PK WND 14026/1801 SLP129 T02000017 TSNO TTPP 191800Z 09013KT 7000 FEW018 31/21 Q1013 RMK NOSIG SHWRS-E KAFN 191852Z AUTO VRB03KT 10SM CLR 15/M03 A3019 RMK AO2 SLP230 T01501028 CWBE 191800Z AUTO 15004KT 02/M02 RMK AO1 SLP209 T00191020 58043 KAEX 191853Z 00000KT 10SM FEW034 25/18 A2976 RMK AO2 SLP080 T02500178 $ KAFO 191835Z AUTO 30004KT 10SM SCT110 10/M10 A3010 RMK AO2 KAFP 191835Z AUTO 16003KT 7SM DZ BKN006 OVC011 21/19 A2989 RMK AO2 P0004 T02050188 KC75 191835Z AUTO 10008G16KT 070V130 10SM -RA SCT013 BKN019 BKN029 15/11 A2961 RMK AO2 T01490109 CWAQ 191800Z AUTO 32022G31KT 07/M03 RMK AO1 PK WND 32031/1757 SLP197 T00711032 58001 CWAR 191800Z AUTO 04010KT 02/M06 RMK AO1 PK WND 04019/1706 SLP169 T00201055 55005 PFKT 191758Z AUTO 10009KT 10SM OVC055 02/00 A2917 RMK AO2 SLP878 T00170000 10044 20017 56002 FZRANO CWCA 191800Z 06006KT 15SM FEW030 M01/M11 A3004 RMK SC1 SLP172 CWBK 191800Z AUTO 10002KT 03/M06 RMK AO1 SOG 44 3001 SLP225 T00261056 PFKW 191856Z AUTO 11006KT 10SM BKN040 OVC047 03/M01 A2910 RMK AO2 SLP854 T00281006 KAFW 191853Z 30018G23KT 10SM SCT030 21/14 A2977 RMK AO2 PK WND 31027/1802 SLP074 T02110139 CWCF 191800Z AUTO 32010G16KT 01/01 RMK AO1 SOG 02 6010 SLP061 T00120007 CWBO 191800Z AUTO 33005KT 11/M07 RMK AO1 SOG 01 8015 SLP252 T01081074 CWCI 191800Z AUTO 13019G24KT 04/M01 RMK AO1 PK WND 13026/1705 SLP133 T00381012 56039 KAGS 191853Z 13006KT 10SM -RA SCT049 BKN070 OVC100 23/22 A2981 RMK AO2 LTG DSNT SW AND W RAB25 SLP091 P0000 T02330217 KAIA 191853Z AUTO 33025G35KT 10SM SCT060 09/M05 A3003 RMK AO2 PK WND 32039/1835 SLP164 T00891050 EDMA 191850Z VRB02KT CAVOK 07/M01 Q1020 RMK ATIS ALF CWDA 191800Z AUTO 29013KT 03/M04 RMK AO1 SLP175 T00281042 56006 CWCJ 191800Z AUTO 24003KT 05/M02 RMK AO1 SLP147 T00521021 56021 CWBS 191800Z AUTO 19007KT 06/M03 RMK AO1 T00641032 KAIB 191855Z AUTO 26004G08KT 10SM CLR 13/M02 A3013 RMK AO2 CWBT 191800Z AUTO 20005KT 02/M01 RMK AO1 SLP195 T00231012 56009 KAID 181948Z 09005KT 10SM SCT085 24/05 A3002 CWBU 191800Z AUTO 35017KT 03/M02 RMK AO1 SOG 00 0001 PK WND 35023/1711 SLP208 T00301021 50002 CWDC 191800Z AUTO 18004KT 05/M04 RMK AO1 SLP237 T00531037 58016 CWBV 191800Z AUTO 19011KT 02/M03 RMK AO1 SLP211 T00211029 53001 KAHN 191856Z 21008G20KT 160V230 1 1/2SM +RA BR FEW006 BKN013 OVC027 19/19 A2979 RMK AO2 P0003 T01940189 EDLN 191820Z 36004KT 330V030 CAVOK 13/04 Q1022 RMK ATIS Z CWCO 191700Z AUTO 13011G18KT 11/M02 RMK AO1 PK WND 11021/1632 SLP199 T01091024 58034 KAIG 191830Z AUTO 15009KT 10SM CLR 14/02 A2971 RMK AO2 T01410019 CWBY 191800Z AUTO 24009KT 03/M11 RMK AO1 SOG 10 6007 SLP195 T00261113 EDLP 191850Z 07006KT CAVOK 10/01 Q1022 RMK ATIS YAN KAHQ 191835Z AUTO 34023G35KT 10SM DZ BKN016 BKN020 OVC055 10/07 A2976 RMK AO2 T00960070 CWBZ 191800Z AUTO 10003KT 11/M02 RMK AO1 SLP256 T01121021 58019 UMBB 191300Z 32006G09MPS 8000 BKN030CB FEW100 07/00 Q1014 NOSIG KD07 191856Z AUTO 32031G38KT 08/M03 A2994 RMK AO1 PK WND 33038/1853 SLP153 T00781028 OOMS 191750Z 00000KT 8000 NSC 33/11 Q1008 NOSIG CWDJ 191800Z AUTO 34018G24KT 04/M02 RMK AO1 PK WND 35024/1745 SLP202 T00431019 50004 KAIK 191855Z AUTO 13006KT 10SM SCT005 SCT010 SCT018 22/20 A2987 RMK AO2 KBAB 191758Z AUTO 21003KT 8SM CLR 23/10 A2990 RMK AO2 SLP127 T02260097 10226 20112 57007 $ CWCT 191800Z AUTO 32009G15KT 09/M10 RMK AO1 PK WND 34018/1734 SLP256 T00931095 58013 CWDK 191800Z AUTO 18006KT 10/M05 RMK AO1 8015 SLP254 T00961054 50002 CWEB 191800Z AUTO 12005KT 12/07 RMK AO1 0PAST HR 8002 SLP233 P0004 T01240070 50036 KBAC 191855Z AUTO 33022G27KT 10SM -RA SCT024 BKN033 OVC060 08/05 A2975 RMK AO2 KBAD 191858Z AUTO 22011G18KT 10SM FEW200 26/17 A2971 RMK AO2 SLP062 T02550174 CWDM 191800Z AUTO 21007KT 01/M02 RMK AO1 SOG 82 6006 SLP189 T00091020 EDLV 191850Z VRB03KT CAVOK 12/03 Q1023 PFNO 191758Z AUTO 07018KT 10SM SCT065 SCT080 04/M02 A2926 RMK AO2 PK WND 07026/1718 SLP911 T00441022 10044 20028 56016 CWEE 191800Z AUTO 06/M08 RMK AO1 T00551080 KBAF 191853Z VRB03KT 10SM CLR 17/M04 A3019 RMK AO2 SLP224 T01721039 EDLW 191850Z 04004KT CAVOK 11/00 Q1022 RMK ATIS G KAIO 191835Z AUTO 33021G27KT 3SM -RA FEW012 FEW039 BKN049 12/12 A2965 RMK AO2 EDMO 191850Z 07004KT CAVOK 09/M03 Q1020 RMK ATIS X CWEF 191800Z AUTO 31007KT 01/M02 RMK AO1 SLP216 T00111020 53002 CWDO 191800Z AUTO 35003KT M01/M08 RMK AO1 SOG 45 7005 SLP192 T10071080 KAJG 191855Z AUTO 12004KT 10SM OVC006 18/16 A2952 RMK AO2 CWDQ 191800Z AUTO 35006KT 10/M10 RMK AO1 SLP256 T00961097 57018 CWEH 191800Z AUTO 33013G19KT 06/M07 RMK AO1 PK WND 33020/1719 SLP242 T00551073 58009 EEEI 191850Z 29008KT CAVOK 07/01 Q1008 R24/090095 NOSIG KBAK 191754Z 11008KT 2 1/2SM -RABR OVC008 15/14 A2964 KBBB 191854Z AUTO 35016G22KT 10SM BKN020 OVC026 09/05 A2972 RMK AO2 KAIT 191853Z AUTO 00000KT 1 3/4SM HZ OVC005 09/07 A2958 RMK AO2 P0001 CWDT 191800Z AUTO 29012KT 03/M15 RMK AO1 20 SLP240 T00271154 CWEK 191800Z AUTO 08011KT 08/ RMK AO1 PK WND 07018/1702 SLP248 T0079 58008 KAJL 191855Z AUTO 31010KT 10SM SCT070 BKN080 M01/M12 A3013 RMK AO2 T10081121 CWEL 191800Z AUTO 33016KT 11/06 RMK AO1 PK WND 33019/1750 SLP231 T01070062 58007 KBBD 191855Z AUTO 30013KT 10SM CLR 25/09 A2987 RMK NWWW 191830Z AUTO 00000KT 9999 BKN047 BKN060 20/16 Q1017 CWDV 191800Z AUTO 17007G16KT 02/02 RMK AO1 7PAST HR SOG 02 8031 SLP072 P0003 T00180017 50118 CWFD 191804Z AUTO 01010KT 1/8SM CLR M19/ A2948 KBAN 191852Z AUTO VRB04KT 10SM CLR 17/M09 A3011 RMK AO2 SLP155 T01671094 $ KAJO 191856Z AUTO 27008KT 10SM CLR 25/07 A2992 RMK AO2 T02500072 SLP127 $ KBBF 191855Z AUTO 19014KT 7SM CLR 25/21 A2981 RMK A01 ULLI 191830Z 00000MPS 1200 R28L/P2000U SHSN BKN008 OVC019CB 00/M00 Q1003 28290050 78////// NOSIG CWFF 191800Z AUTO 01012G19KT 06/M01 RMK AO1 SOG 01 8007 PK WND 34020/1710 SLP207 T00591009 KBBG 191846Z 31012G18KT 10SM SCT030 BKN250 21/10 A2968 KD25 191835Z AUTO 15007G15KT 10SM SCT070 OVC090 12/03 A2967 RMK AO2 T01200025 CWEP 191800Z AUTO 36006KT 02/M03 RMK AO1 SLP226 T00181029 53004 KAIZ 191855Z AUTO 26010G14KT 10SM FEW026 FEW065 BKN090 19/13 A2962 RMK AO1 KAKH 191854Z AUTO VRB06G14KT 8SM OVC006 20/18 A2985 RMK AO2 RAB1755E13B25E37 SLP104 P0002 T02000183 CWDZ 191800Z AUTO 28004KT 12/M08 RMK AO1 T01161079 CWEQ 191800Z AUTO 34018G25KT 04/M02 RMK AO1 PK WND 34025/1759 SLP143 T00401022 58001 KAJR 191835Z AUTO 18005KT 7SM RA BKN005 OVC009 18/18 A2981 RMK AO2 LTG DSNT S T01810180 CWER 191800Z AUTO 20011KT RMK AO1 CWFJ 191800Z AUTO 12004KT 09/M02 RMK AO1 T00931016 KALB 191851Z VRB03KT 10SM BKN250 16/M02 A3020 RMK AO2 SLP227 T01561017 $ KBCB 191855Z AUTO 08013KT 7SM RA SCT018 OVC025 14/13 A2997 RMK AO2 P0006 T01400127 CWGB 191800Z AUTO 27013KT 10/06 RMK AO1 SLP233 T01030056 56008 CWEU 191800Z 13003KT 15SM SKC M21/M25 A2994 RMK SLP140 CWGD 191800Z AUTO 12024G31KT 15/M01 RMK AO1 PK WND 12033/1743 SLP135 T01521011 58043 KBCE 191853Z AUTO 27011G19KT 10SM SCT085 14/M08 A3015 RMK AO2 SLP139 T01391078 TSNO CWEW 191800Z AUTO 04002KT 10/M04 RMK AO1 SLP268 T00991041 58022 KAKO 191853Z AUTO 35022G32KT 10SM OVC060 07/M06 A3008 RMK AO2 PK WND 35036/1810 SLP181 T00671056 KBAX 191854Z AUTO 10014G22KT 10SM CLR 14/M01 A2990 RMK AO2 T01421015 KBBP 191855Z AUTO 12007KT 10SM -DZ BKN008 BKN012 OVC120 23/23 A2988 RMK AO2 KBAZ 191851Z 24015KT 10SM CLR 30/20 A2978 RMK AO2 SLP075 T03000200 EDOP 191650Z 36009KT 320V030 CAVOK 14/05 Q1023 KAKQ 191854Z AUTO 09008G17KT 040V130 10SM BKN044 21/14 A3002 RMK AO2 RAB1759E09 SLP167 P0000 T02060139 TSNO $ KAJZ 191855Z AUTO 00000KT 10SM SCT095 13/04 A3012 RMK AO2 T01260044 PWINO EDNY 191850Z 02011KT CAVOK 12/M03 Q1018 CWEZ 191800Z AUTO 30004KT 13/08 RMK AO1 SLP228 T01290077 58007 CWFQ 191800Z AUTO 04006KT 09/M04 RMK AO1 SOG 00 7019 SLP248 T00941041 KALI 191853Z AUTO 22007KT 6SM HZ BKN025 OVC034 28/21 A2981 RMK AO2 SLP092 T02830211 KAKR 191854Z AUTO 13010G19KT 10SM CLR 23/04 A2981 RMK AO2 SLP089 T02280044 KAMA 191853Z 34028G35KT 10SM OVC035 11/03 A3001 RMK AO2 PK WND 36038/1806 SLP144 T01110033 ULMM 191830Z 30004G09MPS 9999 BKN016CB BKN080 02/M01 Q1005 NOSIG RMK QFE746 31290150 KD39 191852Z AUTO 29018G23KT 10SM OVC009 08/06 A2966 RMK AO2 T00810062 KALK 191856Z AUTO 00000KT 10SM CLR 23/M09 A3006 RMK AO2 SLP103 T02281094 KBCK 191835Z AUTO 35003KT 10SM SCT065 15/05 A2965 RMK AO2 T01460053 CWGL 191800Z AUTO 11013G22KT 10/M03 RMK AO1 PK WND 12022/1755 SLP202 T00971029 58037 KALM 191855Z AUTO 24003KT 10SM CLR 22/M04 A3000 RMK AO2 CWGM 191800Z AUTO 04005KT 08/M02 RMK AO1 T00841023 KBBW 191853Z AUTO 35023G37KT 10SM BKN060 12/M01 A2991 RMK AO2 PK WND 36038/1805 SLP126 T01171011 KBDE 191853Z AUTO 22005KT 10SM OVC011 07/04 A2960 RMK AO2 SLP031 T00670044 TSNO KALN 191554Z 10005KT 10SM -RA OVC017 17/13 A2963 KALO 191854Z 03004KT 10SM FEW075 OVC110 16/12 A2959 RMK AO2 SLP020 T01560117 $ KAMG 191853Z AUTO 20010G20KT 8SM -TSRA FEW030 SCT047 OVC095 22/20 A2988 RMK AO2 LTG DSNT ALQDS RAB04 TSB02 SLP116 P0026 T02170200 KBDG 191855Z AUTO 11003KT 10SM SCT065 BKN070 BKN080 14/01 A3016 RMK AO1 T01360008 KBDH 191855Z AUTO 31024G28KT 10SM BKN012 09/07 A2971 RMK AO2 OOSA 191750Z 18003KT CAVOK 27/21 Q1011 NOSIG NZAA 191830Z AUTO 19004KT 9999 NCD 13/13 Q1027 TEMPO 1500 BR CWHI 191700Z AUTO 27004KT 09/M08 RMK AO1 T00941083 CWGR 191800Z AUTO 27011KT M00/M02 RMK AO1 SLP221 T10021019 53002 ZSAM 191800Z 00000MPS 9999 SCT013 BKN033 25/24 Q1006 NOSIG KALS 191852Z AUTO 33009G19KT 10SM SCT065 11/M08 A3006 RMK AO2 SLP138 T01061083 KBEA 191855Z AUTO 23005KT 10SM CLR 27/22 A2981 RMK AO2 T02720216 KBCT 191753Z 18012G19KT 10SM CLR 31/21 A2994 KANB 191853Z AUTO 21007KT 10SM SCT026 BKN031 23/18 A2973 RMK AO2 SLP062 T02330183 KD50 191835Z AUTO 33021G28KT 10SM FEW027 FEW033 OVC050 06/M02 A3000 RMK AO2 CWGT 191800Z AUTO 30010KT 10/06 RMK AO1 SLP237 T01030055 58008 KBDL 191851Z VRB03KT 10SM BKN250 17/M05 A3019 RMK AO2 SLP223 T01671050 CWHL 191800Z AUTO 12005KT 08/04 RMK AO1 8009 SLP245 T00830036 50004 KAND 191856Z AUTO 17010KT 6SM RA BR SCT008 BKN075 OVC100 21/19 A2981 RMK AO2 SLP087 P0008 T02060194 KBED 191856Z 12012KT 10SM BKN250 13/01 A3021 RMK AO2 SLP245 T01280006 CWHM 191800Z AUTO 32004KT 10/M04 RMK AO1 T01001035 KALW 191853Z 29005KT 10SM CLR 18/01 A3012 RMK AO2 SLP200 T01830011 KBDN 191855Z AUTO 13005KT 10SM CLR 18/M08 A3012 RMK AO2 KANE 191845Z 26009KT 10SM BKN013 OVC019 14/12 A2962 KAMN 191853Z AUTO 07016G20KT 10SM CLR 19/00 A2981 RMK AO2 T01881001 CWGW 191800Z AUTO 11001KT 10/M06 RMK AO1 SLP241 T00971060 58025 CWHN 191847Z AUTO 08007KT 9SM -RA BKN017 BKN033 BKN042 OVC070 07/M03 A3015 KALX 191835Z AUTO 20006KT 10SM SCT014 SCT020 SCT031 24/19 A2977 RMK AO2 T02350192 CWHO 191800Z AUTO 08006KT M00/M08 RMK AO1 SLP167 T10031081 53002 CWGX 191800Z AUTO 05014G24KT M04/M05 RMK AO1 5PAST HR 8008 PK WND 05024/1750 SLP178 P0002 T10391053 50025 KD55 191855Z AUTO 33019G25KT 10SM SCT010 BKN015 OVC020 05/03 A2975 RMK AO2 PFSH 191841Z AUTO 20004KT 10SM -RA BKN028 OVC036 02/01 A2918 RMK AO2 RAB34 P0000 FZRANO CWHP 191800Z AUTO 25015KT M00/M03 RMK AO1 PK WND 25017/1757 SLP199 T10021026 56002 CWGY 191800Z AUTO 33012G17KT 09/M07 RMK AO1 PK WND 35017/1747 SLP252 T00931066 58017 CWIG 191800Z AUTO 23010KT RMK AO1 KBEH 191853Z AUTO 10016G22KT 10SM CLR 21/04 A2966 RMK AO2 SLP041 T02060039 CWGZ 182000Z VRB02KT 10SM -SG BKN030 OVC070 M18/M23 A2994 RMK SC5AS3 -14.8/-23.8/0/TR SNW CVR/HRD PCK LAST OB SLP144 CWHQ 191800Z AUTO 30006KT 13/M05 RMK AO1 T01311053 KBDR 191852Z 13011KT 10SM CLR 14/02 A3022 RMK AO2 SLP234 T01390022 KD57 191855Z AUTO 31024G36KT 6SM -RA FEW026 SCT031 BKN038 06/02 A2993 RMK AO2 CWII 191800Z AUTO 34011KT 01/01 RMK AO1 T00050009 KANJ 191855Z AUTO 12012G20KT 10SM CLR 09/M03 A2995 RMK AO2 PK WND 14029/1833 SLP146 T00941028 CWIJ 191800Z AUTO 08005KT M12/M14 RMK AO1 SOG 75 7003 SLP249 T11201136 KD60 191835Z AUTO 33020G28KT 10SM SCT021 BKN040 OVC050 04/03 A3000 RMK AO2 KANK 191855Z AUTO 25015G21KT 10SM BKN085 10/M03 A3013 RMK AO1 T00961035 OPKC 191855Z 23014KT 6000 NSC 29/20 Q1007 NOSIG CWIK 191800Z AUTO 33017G24KT 04/M00 RMK AO1 8002 PK WND 36024/1747 SLP159 T00411003 50002 CWJB 191800Z AUTO 24009G15KT 10/M07 RMK AO1 T00991072 CWHT 191800Z AUTO 02006KT 08/M02 RMK AO1 SOG 01 8018 SLP113 T00771015 EDSB 191850Z 04010KT CAVOK 13/M03 Q1019 KBDU 191858Z AUTO 15004KT 10SM SCT038 BKN080 OVC095 08/M02 A3008 RMK AO2 CWJC 191800Z AUTO 24011KT M06/M09 RMK AO1 SOG 00 8014 SLP244 T10561091 CWIL 191800Z AUTO 28009KT M17/ A3017 RMK SLP226 KBFD 191853Z AUTO 13015G24KT 120V180 10SM CLR 19/M03 A2998 RMK AO2 SLP153 T01941028 TSNO CWJD 191800Z AUTO 36012G23KT M00/M04 RMK AO1 SOG 01 0003 PK WND 05023/1757 SLP127 T10021038 CWHV 191800Z AUTO 34006KT 09/M07 RMK AO1 SLP237 T00871072 58013 UMGG 191800Z 32006MPS 9000 -SHRA SCT024CB BKN070 03/01 Q1006 R28/CLRD// NOSIG KAMW 191853Z AUTO 32004KT 10SM FEW050 SCT080 OVC100 18/13 A2958 RMK AO2 SLP012 T01780133 NZAP 191800Z 00000KT 15KM VCSH SCT015 12/11 Q1029 RMK ALT VATSIM USE ONLY KBFF 191853Z AUTO 33023G31KT 10SM SCT070 10/M06 A3007 RMK AO2 PK WND 34034/1832 SLP174 T01001056 CXAF 191800Z AUTO 29008KT 09/M09 RMK AO1 T00851094 TUPJ 191800Z 12007KT 9999 SCT019 29/24 Q1016 RMK A3001 CXAG 191800Z AUTO 30006KT 10/M11 RMK AO1 T00951106 CWIP 191800Z AUTO 17004KT 04/ RMK AO1 T0042 KAOH 191853Z AUTO 15018G25KT 8SM -RA OVC040 20/14 A2970 RMK AO2 PK WND 14028/1818 RAB11 SLP056 P0001 T02000144 KANQ 191935Z AUTO 10009KT 10SM FEW047 SCT050 16/04 A2972 RMK CWJH 191800Z AUTO 01004KT M03/M05 RMK AO1 8004 SLP252 T10301047 50002 KBFI 191853Z 30007KT 10SM CLR 18/07 A3015 RMK AO2 SLP211 T01780067 OPLA 191855Z 03016KT 4000 HZ SCT040 BKN100 28/15 Q1005 TEMPO 31035KT 2000 TSRA FEW030CB CWJI 191800Z AUTO 35022G31KT 08/M05 RMK AO1 PK WND 35031/1754 SLP214 T00771047 58003 KAPA 191853Z 00000KT 10SM BKN040 OVC055 06/M03 A3010 RMK AO2 SLP192 T00561033 PHBK 191856Z AUTO 27005KT 10SM CLR 26/16 A3016 RMK AO2 SLP214 T02560161 EEKA 191550Z 32014KT 9999 BKN043 06/03 Q1009 CXBA 191800Z AUTO 33010KT 10/M05 RMK AO1 PK WND 35018/1738 T01041054 CXAJ 191800Z AUTO 28007KT 12/M08 RMK AO1 PK WND 29017/1759 T01191079 CWIS 191800Z AUTO 33008G15KT 04/M12 RMK AO1 SOG 24 7008 SLP229 T00431117 CXAK 191800Z AUTO 29009KT 11/M11 RMK AO1 T01071106 KBFL 191854Z VRB05KT 10SM CLR 28/00 A2989 RMK AO2 SLP116 T02780000 KAPC 191854Z 24006KT 10SM OVC010 14/11 A2996 RMK AO2 SLP137 T01390106 KBGD 191851Z AUTO 36027G37KT 10SM BKN036 OVC043 12/03 A2999 RMK AO2 PK WND 36037/1850 SLP141 T01220028 KBFM 191853Z 19010KT 10SM FEW027 SCT055 27/20 A2980 RMK AO2 SLP089 T02720200 CWKD 191800Z AUTO 28011KT 01/M13 RMK AO1 21 5001 SLP234 T00091132 KANW 191855Z AUTO 33027G36KT 10SM SCT065 12/M01 A2993 RMK AO2 T01151014 KBGE 191835Z AUTO 18006KT 10SM -TSRA BKN009 OVC016 21/20 A2989 RMK AO2 LTG DSNT ALQS CWIW 191800Z AUTO 35019G25KT 07/M02 RMK AO1 PK WND 34025/1734 SLP212 T00681023 58003 KAOO 191853Z AUTO 13015G21KT 10SM CLR 18/02 A3003 RMK AO2 SLP167 T01780022 $ EEKE 191850Z AUTO 34010KT 9999NDV NSC 06/02 Q1010 KAPF 191853Z 21017G23KT 10SM SCT029 31/22 A2992 RMK AO2 SLP132 T03060217 KBGF 191855Z AUTO 20007KT 10SM SCT027 BKN031 OVC047 23/17 A2968 RMK CWIX 191800Z AUTO 26014KT 05/M07 RMK AO1 19 T00501068 CWJO 191800Z AUTO 28012G19KT 06/M07 RMK AO1 PK WND 31020/1704 SLP259 T00551068 57010 NZCH 191830Z AUTO 31001KT 3000 BR NCD 07/07 Q1019 TEMPO 0500 FG BKN002 NZCI 191828Z VRB02KT 30KM FEW040 08/08 Q1027 RMK NZNR VATSIM USE ONLY CWIY 191800Z AUTO 29008KT 08/M07 RMK AO1 SLP215 T00781069 58007 CWKG 191800Z AUTO 28005KT 08/M05 RMK AO1 SOG 22 3004 SLP220 T00761050 CWKH 191800Z AUTO 14/04 RMK AO1 SLP218 T01370038 58005 CWIZ 191800Z AUTO 31003KT 09/M04 RMK AO1 T00941041 CXBI 191800Z AUTO 10014G21KT 10/M03 RMK AO1 PK WND 09021/1755 SLP205 T00981026 58039 CWJR 191800Z AUTO 31004KT 12/M04 RMK AO1 SOG 00 8020 SLP227 T01191040 CXCA 191800Z AUTO 16007G16KT 01/M00 RMK AO1 PK WND 16024/1715 SLP121 T00141004 58031 KBHB 191855Z 32006KT 10SM BKN055 12/M03 A3019 RMK AO1 NZCM 191755Z 06014G21KT 4800 IC BLSN SCT040 SCT080 M29/M35 A2884 RMK SLP730 CWKK 191800Z AUTO 16010G16KT 03/M01 RMK AO1 SOG 00 8026 PK WND 15021/1748 SLP113 T00341012 CXAT 191800Z AUTO 34001KT M16/M20 RMK AO1 2PAST HR SOG 08 6007 SLP153 P0001 T11641195 50004 CXBK 191800Z AUTO 34019G24KT 05/M01 RMK AO1 SOG 00 0001 PK WND 32026/1701 SLP188 T00481013 CWJT 191800Z AUTO 21003KT 11/M06 RMK AO1 SLP252 T01141056 58021 CWLB 191800Z AUTO 07004KT 09/M06 RMK AO1 SOG 01 8016 SLP240 T00901055 KBHC 191855Z AUTO 19011KT 7SM -TSRA BKN018 BKN049 OVC110 24/22 A2987 RMK AO2 LTG DSNT ALQS CWJU 191800Z AUTO 12004KT 09/08 RMK AO1 3PAST HR 7008 SLP219 P0001 T00860077 50008 CWLC 191800Z AUTO 14008KT 08/05 RMK AO1 T00760046 KBGM 191853Z AUTO 13007KT 10SM CLR 17/M06 A3010 RMK AO2 SLP195 T01671056 $ CXCD 191800Z AUTO 25003KT 09/M03 RMK AO1 T00851032 CWJV 191800Z AUTO 30003KT 14/M01 RMK AO1 SLP234 T01391012 58016 CWKM 191800Z AUTO 09028KT M15/ A2980 RMK SLP098 KBFW 191854Z AUTO 04007KT 5SM BR OVC003 03/02 A2964 RMK AO2 KAPN 191854Z AUTO 11014G20KT 10SM CLR 09/M01 A2998 RMK AO2 SLP156 T00891006 DNKN 191400Z 06014KT 5000 HZ NSC 37/01 Q1012 NOSIG CWLE 191800Z AUTO 34019G25KT 08/M06 RMK AO1 PK WND 35027/1738 SLP225 T00761055 58012 CWJW 191800Z AUTO 19005KT 10/M08 RMK AO1 SLP237 T01041076 58023 VCRI 191810Z 02004KT 9999 SCT018 FEW020CB 26/24 Q1011 NOSIG RMK W/SW UMII 191700Z 32004G07MPS 3100 -SHSNRA OVC011CB 03/M01 Q1004 TEMPO 1000 BKN005 CXBO 191800Z AUTO 21011G17KT RMK AO1 PK WND 21017/1758 CWJX 191800Z AUTO 33011G17KT 09/M04 RMK AO1 PK WND 33018/1738 SLP244 T00931039 58017 CWKO 191800Z AUTO 32020G27KT 07/M05 RMK AO1 PK WND 33029/1741 SLP216 T00671050 58002 UNAA 191830Z 22007MPS 9999 SCT033CB BKN130 07/02 Q1017 NOSIG RMK QFE740 20090065 CWKP 191800Z AUTO 11014KT M10/ A3011 RMK SLP237 CXCH 191800Z AUTO 01/M04 RMK AO1 SOG 39 T00111043 KBGR 191853Z 34011G16KT 10SM SCT060 12/M04 A3019 RMK AO2 SLP225 T01221039 CXBR 191800Z AUTO 13005KT 10/M06 RMK AO1 T01011060 CWLI 191800Z AUTO 07013KT M11/ A3005 RMK SLP193 KARA 191853Z 23009KT 10SM CLR 28/18 A2982 RMK AO2 SLP096 T02780183 KBHK 191851Z AUTO 33020G31KT 10SM OVC038 07/M03 A3007 RMK AO2 PK WND 31031/1823 SLP197 T00671028 KARB 191853Z 10011KT 10SM BKN090 16/06 A2980 RMK AO2 RAB1759E16 SLP092 P0001 T01610056 CXDB 191800Z AUTO 22002KT 08/M08 RMK AO1 T00811077 CXCK 191800Z AUTO 13017G24KT 07/M03 RMK AO1 PK WND 13026/1705 SLP106 T00741026 58023 NZDN 191800Z 22005KT 35KM SCT010 12/10 Q1021 RMK ALT VATSIM USE ONLY KBHM 191853Z 18011G21KT 10SM SCT024 SCT030 BKN037 24/19 A2972 RMK AO2 SLP057 T02440189 KBID 191855Z AUTO 15012KT 10SM CLR 10/01 A3025 RMK AO1 CWLM 191800Z AUTO 02011G16KT 15/06 RMK AO1 PK WND 01018/1731 SLP227 T01520057 58012 KBIE 191835Z AUTO 34022G28KT 10SM OVC025 11/07 A2977 RMK AO2 T01050072 EDVE 191850Z 08004KT CAVOK 11/00 Q1023 CXBW 191700Z AUTO 21003KT 09/M04 RMK AO1 T00851039 CXDE 191800Z AUTO 20002KT M02/M09 RMK AO1 SOG 07 8006 SLP199 T10201089 CWME 191800Z AUTO 07014KT 09/04 RMK AO1 PK WND 05023/1716 SLP249 T00880039 58015 CWKW 191800Z AUTO ///// M09/ A2985 RMK SLP154 KBIF 191758Z AUTO 35003KT 10SM CLR 21/M05 A3000 RMK AO2 SLP104 T02121053 10217 20131 58001 KAQO 191835Z AUTO 31011G16KT 10SM CLR 28/13 A2985 RMK AO2 KAPY 191835Z AUTO 02003KT 7SM OVC010 23/21 A2984 RMK AO2 T02380210 CWKX 191800Z AUTO 25002KT 04/M02 RMK AO1 SOG 16 7009 SLP243 T00391019 KD95 191853Z AUTO 11005G18KT 10SM SCT070 SCT085 18/01 A2983 RMK AO2 T01760013 KAQP 191854Z AUTO 32019G25KT 10SM CLR 11/05 A2973 RMK AO2 KARG 191855Z AUTO 25014KT 10SM CLR 22/15 A2960 RMK AO1 OPNH 191855Z 22510KT 2500M DU NSC 30/12 Q1001 CXCP 191800Z AUTO 24005KT 10/M08 RMK AO1 T01021081 CWLP 191800Z AUTO 00000KT 09/06 RMK AO1 SLP252 T00860059 58007 KBIH 191856Z AUTO 28006KT 10SM CLR 24/M09 A3002 RMK AO2 SLP124 T02391094 UNBB 191830Z 21004MPS CAVOK 08/M01 Q1016 NOSIG RMK QFE739/0986 24CLRD66 KAQR 191835Z AUTO 26004KT 10SM OVC023 19/13 A2973 RMK AO2 CXDI 191800Z AUTO 07005G15KT 13/02 RMK AO1 SLP152 T01290021 58036 OPMT 191355Z 27006KTS 4000 HZ SCT040 37/19 Q0998 NOSIG KBIJ 191835Z AUTO 00000KT 10SM VCTS SCT010 BKN017 BKN060 20/20 A2985 RMK AO2 CXCS 191800Z AUTO 32009KT 10/M08 RMK AO1 PK WND 31020/1731 T00971084 CWLS 191800Z AUTO 10014G21KT 11/M04 RMK AO1 PK WND 11024/1746 SLP174 T01081043 56039 CXEA 191800Z AUTO 09004KT 04/03 RMK AO1 6034 SLP056 T00380029 50034 CWMJ 191800Z AUTO 13006KT 10/M08 RMK AO1 SLP251 T01031079 58025 CWNB 191800Z AUTO RMK AO1 CXDK 191800Z AUTO 32005KT 11/M04 RMK AO1 SLP171 T01121044 58015 KBJC 191852Z 17004KT 30SM BKN037 BKN085 07/M02 A3010 EDVK 191850Z 01003KT CAVOK 10/02 Q1022 RMK ATIS E KBIL 191853Z 01012G19KT 10SM SCT075 11/M09 A3017 RMK AO2 SLP227 T01061089 KE11 191855Z AUTO 36013G24KT 10SM CLR 22/M01 A2998 RMK AO2 T02191007 CWNC 191800Z AUTO 10009KT 07/01 RMK AO1 PK WND 10019/1706 SLP213 T00740009 58034 CXEC 191800Z AUTO 26005KT 11/M10 RMK AO1 SLP249 T01101103 58016 KASD 191853Z AUTO 22009KT 10SM CLR 28/18 A2979 RMK AO2 SLP086 T02830178 KAQV 191856Z AUTO 20007KT 170V240 10SM CLR 26/17 A2976 RMK AO2 SLP073 T02610167 KCAD 191854Z AUTO 11017G21KT 10SM CLR 18/M07 A2979 RMK AO2 T01811070 KARM 191835Z AUTO 19010KT 10SM SCT018 26/21 A2981 RMK AO2 T02590213 CWND 190120Z M01/M01 RMK SOG 05 6003 T10131007 CWMM 191800Z AUTO 27005KT 16/07 RMK AO1 SOG 00 8013 SLP225 T01600070 KASE 191853Z 02006KT 9SM FEW014 SCT035 BKN050 04/M02 A3012 RMK AO2 SLP164 T00391017 KAQW 191852Z AUTO 00000KT 10SM CLR 16/M04 A3017 RMK AO2 SLP220 T01611044 KCAE 191856Z 13013KT 10SM SCT015 BKN022 OVC028 23/19 A2985 RMK AO2 SLP107 T02280194 CWNE 191800Z AUTO 13007KT 03/M02 RMK AO1 SLP220 T00301023 56005 KAQX 191855Z AUTO 14010KT 10SM SCT020 BKN027 BKN070 26/22 A2984 RMK AO2 LTG DSNT W AND NW KASG 191848Z 30012KT 10SM SCT035 BKN041 20/12 A2972 CWLX 191800Z AUTO 34005KT M21/ A2990 RMK SLP152 KCAG 191853Z AUTO VRB04KT 10SM FEW028 BKN065 BKN080 07/M01 A3015 RMK AO2 SLP202 T00721006 CXEG 191800Z AUTO 11/M09 RMK AO1 T01081091 CXDP 191800Z AUTO 22007KT 11/M08 RMK AO1 T01101077 CWLY 191800Z AUTO 01006KT 320V030 9SM CLR 16/M01 A3023 RMK SLP239 KASH 191851Z 08040KT 10SM FEW065 16/M02 A3020 RMK AO2 T01611022 SLP478 $ KE16 191855Z AUTO 14003KT 10SM CLR 15/10 A2998 RMK AO2 UMKK 191830Z 32007G12MPS 280V350 9999 BKN033 BKN100 06/02 Q1016 R24/CLRD70 NOSIG RMK QFE761/1015 CWNH 191800Z AUTO 26005KT 07/M06 RMK AO1 SLP234 T00681063 56009 CWMQ 191800Z AUTO 31005KT 09/M02 RMK AO1 SOG 00 8015 SLP255 T00891020 ZSHC 191830Z 35005G10MPS 330V050 7000 -SHRA SCT009 BKN020 13/10 Q1009 NOSIG KARR 191852Z 12013KT 10SM BKN080 OVC100 22/06 A2961 RMK AO2 SLP023 T02170056 KBJI 191851Z AUTO 24004KT 3SM RA OVC008 08/07 A2960 RMK AO2 T00760065 PFWS 191856Z AUTO 12014KT 10SM BKN018 OVC024 03/02 A2915 RMK AO2 UPE1759RAB1759E44 SLP876 P0000 T00280017 KBIS 191852Z 32019G27KT 10SM SCT024 SCT080 08/05 A2988 RMK AO2 PK WND 35041/1835 RAB34E49 SLP128 P0002 T00830050 VECC 191850Z 16008KT 3500 HZ FEW020 28/26 Q1008 NOSIG KBJJ 191856Z AUTO 15014G28KT 10SM CLR 22/07 A2979 RMK AO2 PK WND 15028/1849 SLP086 T02170072 TSNO KASJ 191835Z AUTO 09006KT 10SM SCT049 BKN060 21/14 A3000 RMK AO2 T02110136 KBKB 191854Z AUTO VRB05KT 10SM FEW041 28/17 A2975 RMK AO2 SLP099 T02780172 KCAK 191851Z 14016G21KT 10SM OVC150 23/04 A2982 RMK AO2 PK WND 15026/1756 SLP093 T02280044 KART 191856Z AUTO 08010G16KT 10SM CLR 16/M02 A3015 RMK AO2 SLP211 T01611022 CWNK 191800Z AUTO 33013G21KT 04/03 RMK AO1 3PAST HR M PK WND 32022/1746 P0001 T00410028 50080 CWMT 191800Z AUTO 08004KT 08/M04 RMK AO1 SLP177 T00821038 58010 CWOB 191800Z AUTO 09011KT -SN M09/ A2978 RMK SLP136 KASL 191835Z AUTO 19007KT 10SM BKN025 25/19 A2974 RMK AO1 T02450188 CWNL 191800Z AUTO 11013G24KT 05/M02 RMK AO1 PK WND 12024/1756 SLP181 T00451015 57037 CWOC 191800Z AUTO 21003KT 02/M03 RMK AO1 SLP204 T00241033 57011 KBIV 191853Z AUTO 07015KT 10SM CLR 21/02 A2970 RMK AO2 SLP057 T02110022 KBKD 191855Z AUTO 32015G22KT 5SM HZ CLR 25/07 A2983 RMK AO2 T02460065 KARV 191835Z AUTO 15009KT 10SM SCT075 BKN100 14/03 A2968 RMK AO2 T01380029 CWOD 191800Z AUTO 28009KT 07/M11 RMK AO1 PK WND 30018/1742 SLP241 T00661109 56013 CWNM 191800Z AUTO 03004KT 15/M03 RMK AO1 SLP221 T01461029 57024 ZSFZ 191800Z 19005MPS 3500 BR SCT011 23/21 Q1005 NOSIG KBKE 191853Z AUTO 30007KT 10SM CLR 16/M04 A3014 RMK AO2 SLP207 T01611044 TSNO KARW 191855Z AUTO 16005KT 5SM BR BKN011 OVC016 23/22 A2988 RMK AO2 LTG DSNT SW KCBE 191850Z AUTO 12013G17KT 10SM CLR 20/02 A3005 RMK AO1 KASN 191855Z AUTO 21008KT 10SM BKN022 BKN026 24/20 A2974 RMK AO2 T02410195 KBKF 191758Z 33009KT 10SM BKN040 BKN090 06/M03 A3012 RMK AO2A SLP188 T00561033 10062 20011 58010 CXDW 191800Z AUTO 33017G23KT 04/04 RMK AO1 9PAST HR M PK WND 34023/1754 P0004 T00440041 50071 CWOE 191800Z AUTO 31010G18KT 09/M06 RMK AO1 SOG 00 8012 PK WND 31018/1759 SLP253 T00911064 KCAO 191755Z AUTO 36031G40KT 10SM SCT035 11/M01 A3004 RMK AO2 PK WND 36041/1658 SLP156 T01061011 10106 20050 51023 KBIX 191858Z AUTO 21015KT 10SM CLR 26/21 A2979 RMK AO2 SLP091 T02610214 $ KCBF 191835Z AUTO 33022G30KT 5SM -RA BKN009 OVC016 10/10 A2970 RMK AO2 KCBG 191855Z AUTO 25007KT 4SM RA SCT008 OVC012 13/08 A2959 RMK AO2 CWNP 191800Z AUTO 25002KT 11/01 RMK AO1 SLP237 T01080005 58015 CWMZ 191800Z AUTO 13019KT 06/M02 RMK AO1 PK WND 12020/1756 SLP187 T00581016 58045 CWNQ 191800Z AUTO 23004KT 08/M05 RMK AO1 SLP255 T00821052 58016 KCAR 191854Z AUTO 33014G19KT 10SM CLR 10/M09 A3013 RMK AO2 SLP210 T01001089 $ KCCA 191855Z AUTO 20004KT 9SM BKN060 24/13 A2965 RMK AO2 KAST 191855Z AUTO 34008KT 10SM CLR 18/07 A3012 RMK AO2 SLP198 T01780072 KCBK 191835Z AUTO 35022G30KT 10SM SCT060 OVC065 10/00 A3000 RMK AO2 CXET 192300Z AUTO 33011G17KT 11/M03 RMK AO1 PK WND 34019/2240 SLP217 T01061032 51022 KATL 191852Z 19009G15KT 10SM -RA BKN008 OVC014 20/18 A2979 RMK AO2 RAB41 SLP081 P0000 T02000183 KBKL 191853Z 12013G22KT 10SM FEW100 23/04 A2979 RMK AO2 SLP085 T02280044 EFET 191850Z AUTO 32008KT CAVOK 00/M03 Q1013 CWPC 191800Z AUTO 08015G21KT 16/M02 RMK AO1 PK WND 07021/1758 SLP166 T01561018 58043 KCBM 191858Z AUTO 24014G19KT 10SM FEW050 SCT080 SCT095 24/17 A2968 RMK AO2 RAB35E49 SLP052 P0000 T02380166 $ KCAV 191835Z AUTO 31014KT 5SM -RA FEW008 SCT017 BKN046 15/15 A2961 RMK AO2 CXFM 191800Z AUTO 29005KT 10/M08 RMK AO1 T00971083 CWPD 191700Z AUTO 34007KT 02/M09 RMK AO1 SLP230 T00221087 58005 UMMG 191000Z 33006G10MPS 9999 BKN020 BKN066 05/00 Q1014 NOSIG KASW 191855Z AUTO 10007KT 10SM RA SCT030 SCT037 OVC044 14/09 A2968 RMK AO2 P0001 CWPE 191800Z AUTO 17006KT 04/01 RMK AO1 SLP231 T00410007 58005 KBLF 191852Z AUTO 12007G16KT 090V170 4SM -RA BKN010 OVC016 16/13 A2991 RMK AO2 CIG 007V013 SLP101 P0005 T01560128 KASX 191853Z AUTO 04006KT 10SM OVC032 07/04 A2965 RMK AO2 RAB19E28 SLP047 P0000 T00720039 CWPF 191845Z AUTO 21006KT 11/06 RMK AO1 T01060062 KAUG 191853Z AUTO 33008KT 10SM CLR 12/M03 A3022 RMK AO2 SLP235 T01171028 KATP 191855Z AUTO VRB04KT 10SM BKN026 BKN031 M40/ A2986 RMK A01 PHHI 191758Z AUTO M M M M M M RMK AO2 SLPNO PWINO PNO FZRANO TSNO $ KBLH 191852Z AUTO 24004KT 10SM CLR 30/01 A2986 RMK AO2 SLP105 T03000011 KAUH 191835Z AUTO 34028G36KT 10SM SCT065 OVC080 12/01 A2986 RMK AO2 T01160009 NZGS 191837Z 33003KT 0300 FG NSC 07/07 Q1029 RMK VATSIM USE ONLY CXGH 191800Z AUTO 30014G19KT 04/02 RMK AO1 PK WND 31021/1746 T00420023 CWNZ 191800Z AUTO 36010KT 08/M08 RMK AO1 PK WND 00019/1740 SLP182 T00821082 56039 KBLI 191853Z VRB05KT 10SM CLR 16/08 A3018 RMK AO2 SLP226 T01610078 OPPS 191900Z 23004KT 4000 VCTS FEW030TCU SCT040 BKN150 19/17 Q1010 NZHK 191800Z 10006KT 20KM SCT035 13/12 Q1027 RMK ALT VATSIM USE ONLY ULWC 191830Z 31002MPS CAVOK M02/M11 Q1002 NOSIG RMK QFE742/0989 SC060 KATS 191855Z AUTO 04005G18KT 10SM CLR 21/M01 A3002 RMK AO2 KCDA 191855Z AUTO 35008KT 10SM CLR 11/M10 A3023 RMK AO2 T01081100 KBKS 191855Z AUTO 00000KT 10SM SCT030 OVC036 28/22 A2981 RMK AO1 T02830215 KE38 191835Z AUTO 27008KT 240V300 10SM CLR 24/M05 A3005 RMK AO2 T02421049 CXHA 191800Z AUTO 08011G18KT 09/04 RMK AO1 PK WND 08019/1748 SLP107 T00920035 58039 UMMM 191730Z 31006G11MPS 9999 SCT026CB OVC100 04/M03 Q1007 R30/CLRD60 NOSIG RMK QFE736 EFHA 191850Z AUTO 34013KT CAVOK 06/M02 Q1008 KATT 191851Z AUTO 29009G18KT 260V320 10SM FEW060 31/16 A2978 RMK AO2 SLP074 T03060156 $ PFYU 191836Z AUTO 05009KT 10SM CLR 05/M05 A2955 RMK AO1 KBKT 191835Z AUTO 09010G14KT 10SM OVC090 20/12 A3002 RMK AO1 T02000124 UNEE 191830Z 20005MPS CAVOK 04/M00 Q1013 NOSIG RMK QFE737 23CLRD60 CWPK 191800Z AUTO 28002KT 07/M08 RMK AO1 SLP259 T00671081 56019 KCDC 191853Z AUTO 00000KT 10SM CLR 18/M07 A3007 RMK AO2 SLP142 T01831072 KAVC 191856Z AUTO 11004KT 10SM SCT048 SCT065 OVC090 20/12 A3005 RMK AO2 T01950124 KBMC 191835Z AUTO 00000KT 10SM CLR 16/M02 A3006 RMK AO1 T01641024 NZHN 191755Z VRB04KT 15KM FEW025 BKN035 11/10 Q1028 RMK VATSIM USE ONLY KBKV 191853Z 21012KT 10SM FEW050 31/20 A2992 RMK AO2 SLP131 T03110200 KBLM 191855Z AUTO 11015G20KT 10SM CLR 11/01 A3023 RMK AO1 KAUM 191856Z AUTO 00000KT 10SM BKN016 BKN050 16/12 A2960 RMK AO2 CXHD 191800Z AUTO 33006KT 10/M08 RMK AO1 T01041084 KBKW 191851Z AUTO 13020G30KT 9SM -RA FEW018 FEW060 OVC090 15/12 A2988 RMK AO2 PK WND 11030/1847 SLP099 P0001 T01500117 KAUN 191855Z AUTO 25005KT 10SM CLR 23/08 A2994 RMK AO1 KATW 191845Z 14011G16KT 10SM BKN120 17/00 A2972 EDXW 191850Z 32009KT CAVOK 07/04 Q1026 RMK ATIS GOL KBKX 191855Z AUTO 33016G23KT 10SM BKN033 BKN039 OVC045 09/03 A2978 RMK AO1 KAUO 191855Z AUTO 19010KT 10SM BKN008 OVC016 19/17 A2981 RMK AO1 P0002 KCCO 191855Z AUTO 20007KT 180V240 10SM BKN008 OVC014 21/21 A2979 RMK AO2 T02130207 CWPO 191800Z AUTO 34018G23KT 05/03 RMK AO1 SOG 01 0001 PK WND 34024/1742 SLP097 T00500029 50039 CXHF 191800Z AUTO 10/M08 RMK AO1 T01001083 KBMG 191853Z 10005KT 9SM -RA OVC006 16/15 A2955 RMK AO2 SLP001 P0003 T01610150 EFHF 191850Z AUTO 33012KT 300V360 CAVOK 09/00 Q1006 KATY 191853Z AUTO 32021G27KT 10SM SCT034 BKN055 10/02 A2976 RMK AO2 PK WND 33030/1818 SLP083 T01000022 CWOY 191800Z AUTO 32009G17KT 03/M02 RMK AO1 PK WND 33018/1746 SLP202 T00251016 50001 UMMS 191830Z 29004MPS 260V320 9999 OVC026 03/00 Q1007 R31/CLRD// TEMPO 2000 SHRA KCDH 191855Z AUTO 05006KT 10SM CLR 27/13 A2970 RMK AO2 NZHS 191828Z VRB02KT 30KM FEW040 08/08 Q1027 RMK NZNR VATSIM USE ONLY CWQH 191800Z AUTO 26004KT 09/M03 RMK AO1 T00851028 KCCR 191853Z 32008KT 10SM CLR 21/11 A2993 RMK AO2 SLP123 T02060106 KBMI 191856Z 06010KT 3SM -RA BR SCT007 BKN026 OVC044 14/13 A2959 RMK AO2 T01440133 P0005 SLP018 NZHT 191800Z 12004KT 20KM SKC 13/11 Q1025 RMK ALT VATSIM USE ONLY CWPR 191800Z AUTO 14002KT 12/M03 RMK AO1 SOG 00 8026 SLP235 T01151030 KCDJ 191852Z AUTO 25006KT 19/14 A2960 RMK AO1 SLP019 T01890144 KAUS 191853Z 25010G16KT 10SM SCT050TCU BKN200 30/18 A2976 RMK AO2 SLP068 TCU NE T03000178 KBNA 191853Z 19018G23KT 10SM FEW026 SCT035 BKN095 24/18 A2959 RMK AO2 RAB03E16 SLP013 P0000 T02440183 CWPS 191800Z AUTO 08/M00 RMK AO1 SLP144 T00781001 56042 CWRA 191800Z AUTO 04017G22KT M01/ RMK AO1 PK WND 05025/1700 SLP164 T1010 55002 KAVK 191855Z AUTO 33018G23KT 10SM SCT037 BKN065 BKN090 15/09 A2981 RMK AO2 LTG DSNT ALQDS CWQK 191800Z AUTO 11008KT 13/04 RMK AO1 SLP227 T01260036 58010 CXIB 191800Z AUTO 08009KT 01/M05 RMK AO1 SLP214 T00101049 53004 KBML 191852Z AUTO 10SM CLR 12/M06 A3021 RMK AO2 SLP237 T01171056 KBLU 191852Z AUTO 00000KT 10SM CLR 21/M11 A3010 RMK AO2 SLP111 T02061106 EFHK 191850Z 33011KT 9999 VCSH FEW040CB BKN095 08/M00 Q1007 BECMG NSC KCCU 191855Z AUTO 28014G21KT BKN002 BKN008 OVC013 M03/M06 A3014 RMK AO2 PWINO KAVL 191854Z 16009KT 4SM -RA BR BKN007 BKN022 OVC031 18/17 A2983 RMK AO2 SLP082 P0010 T01830167 KCEC 191856Z AUTO 33007KT 7SM CLR 14/10 A2994 RMK AO2 SLP138 T01440100 EEPU 191250Z 29012KT CAVOK 08/01 Q1010 KBLV 191858Z 33004KT 2SM -RA BR OVC008 16/16 A2953 RMK SLP001 P0024 T01620162 OPRN 191900Z 36008KT 6000 TSRA FEW030CB SCT040 BKN100 21/15 Q1010.0/29.82 CXHM 191800Z AUTO 07013G26KT 07/M01 RMK AO1 PK WND 07026/1726 SLP187 T00721012 58035 PGRO 190950Z 08012KT 7SM SCT020 26/22 A2992 RMK LAST KCDN 191855Z AUTO VRB03KT 4SM -DZ OVC008 21/20 A2989 RMK AO2 TSNO KAUW 191854Z AUTO 14008KT 10SM BKN075 17/02 A2966 RMK AO2 SLP048 T01720022 KCEF 191858Z AUTO 00000KT 10SM CLR 16/M04 A3018 RMK AO2 SLP226 T01561036 PHJH 191845Z 05012G16KT 15SM FEW025 SCT045 22/18 A3016 CWQO 191800Z AUTO 21010KT 07/M00 RMK AO1 PK WND 22021/1729 T00721001 CWRF 191800Z AUTO ///// M15/ A2998 RMK SLP199 CWPX 191800Z AUTO 32012KT M16/ A3015 RMK SLP238 KAVP 191854Z AUTO VRB06KT 10SM CLR 21/M05 A3010 RMK AO2 SLP188 T02061050 KCCY 191855Z AUTO VRB04KT 10SM OVC022 17/15 A2961 RMK AO2 KAWG 191835Z AUTO 08004KT 10SM SCT070 SCT090 BKN110 21/12 A2957 RMK AO2 CWQP 192300Z AUTO 36010KT 17/M07 RMK AO1 PK WND 35017/2228 SLP192 T01671070 53033 CXHP 191800Z AUTO 27005KT 10/M06 RMK AO1 T01021060 KBMQ 191853Z AUTO 25014G19KT 10SM CLR 27/M01 A2984 RMK AO2 SLP090 T02721006 $ KAVQ 191835Z AUTO 29003KT 10SM CLR 28/M05 A2995 RMK AO2 T02761054 CWPZ 191800Z AUTO 16004KT 08/M03 RMK AO1 SLP260 T00791034 58018 CWRH 191800Z AUTO ///// M08/ A2988 RMK SLP158 KCDR 191853Z AUTO 31020G27KT 10SM FEW065 11/M04 A3004 RMK AO2 PK WND 32029/1823 SLP182 T01061039 CXHR 191800Z AUTO 34008KT 09/M11 RMK AO1 T00871107 CWQR 191800Z AUTO 22006KT 02/ RMK AO1 T0016 OPSK 191900Z 18012KT 4000 HZ NSC 33/14 Q0999 RH31 PC KCDS 191853Z AUTO 35025G32KT 10SM SCT049 SCT060 19/07 A2988 RMK AO2 PK WND 35034/1816 SLP103 T01940067 KAXA 191835Z AUTO 35013G18KT 3SM -DZ FEW008 BKN015 BKN021 13/13 A2964 RMK AO2 CWQS 191800Z AUTO 17015G20KT 10/09 RMK AO1 PK WND 18022/1700 SLP224 T00980087 58009 CWRJ 191800Z AUTO 34014G20KT 10/M04 RMK AO1 SOG 02 8011 PK WND 32023/1703 SLP227 T01031042 CWSA 191800Z AUTO 01019G24KT 9SM CLR 03/M02 A3012 RMK SLP198 EGAA 191850Z 08008KT 9999 FEW030 10/05 Q1027 KBMT 191835Z AUTO 21012G19KT 10SM CLR 27/19 A2980 RMK AO2 T02650189 CYAB 182200Z 17002KT 6SM -SN FEW070 SCT220 M16/M19 A2998 RMK AC1CI2 -15.3/-18.5/TR/19 MUCH LOOSE LAST STFD OBS/NXT 201100Z SLP154 CWRK 191800Z AUTO 11006KT 12/M07 RMK AO1 PK WND 09017/1747 SLP226 T01191067 58030 KBNL 191855Z AUTO 14007KT 10SM VCTS SCT019 SCT024 BKN095 24/22 A2985 RMK AO2 LTG DSNT SE-W EGAC 191850Z 03008KT 9999 FEW030 09/03 Q1027 UMOO 191400Z 32008G13MPS 9999 OVC042 06/M01 Q1006 NOSIG KAWM 191853Z AUTO 25008G17KT 220V290 10SM FEW040 BKN080 BKN095 21/18 A2964 RMK AO2 RAE48 SLP032 P0000 T02110183 PGSN 191854Z 07012G17KT 10SM FEW019 SCT027 BKN035 26/22 A2990 RMK AO2 RAB1756E06 SLP147 P0000 T02610222 KCFD 191835Z AUTO 21011G16KT 10SM CLR 27/21 A2977 RMK AO2 T02680206 CWSD 191800Z AUTO 22004KT 03/M08 RMK AO1 SOG 26 5000 SLP224 T00251075 CWQV 191800Z AUTO 28020KT 06/M06 RMK AO1 PK WND 28027/1730 T00581062 CWRM 191800Z AUTO 17004KT 11/M09 RMK AO1 SOG 00 8019 SLP245 T01061088 50002 KCDW 191853Z 14010G20KT 10SM CLR 14/02 A3020 RMK AO2 SLP231 T01440022 KCFE 191855Z AUTO 28009G15KT 10SM BKN022 OVC027 13/08 A2964 RMK AO2 T01290079 EGAE 191720Z 09012KT 9999 FEW035 12/05 Q1027 CWRN 191800Z AUTO 03006KT 04/ RMK AO1 T0039 KBNO 191853Z AUTO 00000KT 10SM CLR 17/M09 A3016 RMK AO2 SLP199 T01671089 KAVX 191851Z AUTO 26007KT 10SM CLR 18/11 A2999 RMK AO2 SLP139 T01780111 KAWO 191855Z AUTO 31008KT 10SM CLR 16/08 A3018 RMK AO1 CWSF 191800Z AUTO 34004KT 04/M03 RMK AO1 SLP200 T00431028 56006 CWRO 191800Z AUTO 14023KT 09/07 RMK AO1 PK WND 14027/1759 SLP230 T00870074 58013 NZKI 191800Z 22004KT 45KM SKC 16/03 Q1019 RMK ALT VATSIM USE ONLY CWSG 191800Z AUTO 25023KT 05/M02 RMK AO1 PK WND 25028/1728 SLP199 T00531022 56004 PHJR 191853Z 07006G17KT 10SM CLR 26/17 A3017 RMK AO2 SLP221 T02560172 ORBI 191900Z 14003KT CAVOK 22/03 Q1014 NOSIG KAXH 191835Z AUTO 22006KT 10SM CLR 28/22 A2980 RMK AO2 T02810220 CYAH 191822Z AUTO 34004KT 280V040 9SM OVC035 M05/M13 A3026 RMK SLP272 KBOI 191853Z 21009KT 10SM CLR 18/M03 A3011 RMK AO2 SLP187 T01801030 $ PGUA 191858Z AUTO 07012KT 10SM FEW020 SCT060 25/21 A2990 RMK AO2 SLP115 T02480214 $ NZKK 191756Z 16005KT 30KM FEW028 12/12 Q1027 RMK NZAA VATSIM USE ONLY OPST 191430Z 05014KT 3000 TS FEW030CB SCT040 BKN100 29/16 Q1003 RH46 KCFJ 191855Z AUTO 09011KT 5SM -RA OVC007 13/11 A2957 RMK AO2 P0009 T01280112 CXKA 191800Z AUTO 13010G15KT 08/M08 RMK AO1 SLP197 T00801075 58037 KBOK 191856Z AUTO 00000KT 10SM CLR 25/04 A2994 RMK AO2 T02500038 SLP138 CYBB 190000Z 24006KT 12SM -SN VCFG OVC017 M13/M15 A3012 RMK SC8 -11.3/-15.5/0.0/56/SNW CVR HARD PACK/LAST OBS/NXT/201200Z SLP200 CWSK 191800Z AUTO 30003KT 16/03 RMK AO1 SLP218 T01550026 58024 CWRT 191800Z AUTO 12005KT 09/M04 RMK AO1 T00921044 EGBB 191850Z 04008KT 9999 FEW036 09/03 Q1024 KCEU 191854Z AUTO VRB06KT 3SM RA BR BKN006 OVC055 21/19 A2981 RMK AO2 SLP085 P0009 T02110189 KCGC 191855Z AUTO 24009G18KT 10SM SCT023 SCT070 29/22 A2993 RMK AO2 KBPC 191855Z AUTO 35026G30KT 10SM BKN030 OVC035 12/05 A2998 RMK AO2 CWRU 191800Z AUTO 02017KT 09/05 RMK AO1 PK WND 01025/1704 SLP227 T00940054 56006 CWSL 191800Z AUTO 26002KT 12/M01 RMK AO1 SOG 00 8016 SLP244 T01241006 CYBC 191800Z AUTO 30013G20KT 270V330 9SM FEW070 07/M09 A3014 RMK SLP207 KCGE 191849Z AUTO 09014G20KT 10SM CLR 18/08 A3011 RMK AO1 CYBD 191800Z 29004KT 220V300 15SM FEW110 OVC260 11/02 A3030 RMK AC1CS8 TR AC SLP261 VDPP 191800Z 23003KT 9000 NSC 29/25 Q1008 CYAM 191800Z 10017G25KT 15SM SCT260 08/M02 A2999 RMK CI3 CC TR SLP162 KAXN 191853Z AUTO 30015G25KT 7SM BKN014 OVC020 08/05 A2970 RMK AO2 PK WND 32026/1841 SLP065 T00780050 KCEW 191853Z AUTO 21009KT 10SM BKN034 23/21 A2982 RMK AO2 SLP095 T02280206 $ PHKO 191853Z 17009KT 10SM SCT030 27/19 A3009 RMK AO2 SLP188 T02720189 $ EFIV 191850Z AUTO 30011G21KT 9999 -SHRA FEW011 SCT024 BKN067 03/M01 Q1010 KBNW 191835Z AUTO 31008KT 5SM -DZ OVC011 16/15 A2960 RMK AO2 KCGF 191845Z 15015G20KT 10SM SCT070 OVC200 24/07 A2983 EGBE 191720Z 06010KT 020V080 9999 FEW035 BKN042 12/03 Q1023 CXKE 191800Z AUTO 28006KT 11/M04 RMK AO1 SLP246 T01131044 58027 EFKE 191855Z 34006KT CAVOK 04/M02 Q1013 CWRX 191800Z AUTO 30009KT M15/ A2996 EFJO 191850Z 33009KT 300V360 9999 BKN019 BKN043 02/01 Q1004 KCEY 191855Z AUTO 23010KT 10SM FEW014 SCT040 SCT100 20/19 A2955 RMK AO1 KBPG 191835Z AUTO 33020G25KT 10SM CLR 24/M01 A2996 RMK AO2 T02361013 CWTG 191800Z AUTO 24022KT 04/M00 RMK AO1 PK WND 24025/1758 SLP195 T00351003 56007 CWRY 191800Z AUTO 03003KT 10/M05 RMK AO1 8011 SLP257 T00951046 50002 CWSP 191800Z AUTO 09006KT 11/07 RMK AO1 SLP229 T01060066 58008 CYBG 191800Z 29015G20KT 25SM FEW040 05/M06 A3025 RMK SC1 SC TR SLP253 ZSNB 191800Z 01003MPS 330V050 8000 -RA SCT005 BKN023 16/15 Q1006 NOSIG KCEZ 191853Z AUTO 35013G17KT 10SM FEW080 17/M03 A3006 RMK AO2 SLP132 T01671033 PHLI 191853Z 07017KT 10SM BKN060 26/18 A3020 RMK AO2 SLP223 T02560178 $ VEGT 190100Z 00000KT 4000 HZ SCT018 BKN090 22/20 Q1009 NOSIG CWRZ 191800Z AUTO 20010KT M00/M02 RMK AO1 SLP203 T10021024 55005 KCGI 191853Z 21008KT 10SM BKN070 20/19 A2952 RMK AO2 RAB10E41 SLP993 P0025 T02000189 KBPI 191853Z AUTO VRB05KT 10SM FEW047 08/M06 A3013 RMK AO2 SLP159 T00831056 CWSR 191800Z AUTO 35010KT 07/M02 RMK AO1 SOG 01 8010 SLP221 T00691018 CXKI 191800Z AUTO 06/M09 RMK AO1 SOG 00 7028 SLP235 T00551093 KCHA 191853Z 20016G20KT 10SM SCT020 SCT028 BKN034 BKN130 22/17 A2971 RMK AO2 SLP052 T02220172 EFKI 191850Z 34008KT 300V010 9999 FEW040 SCT060 03/M02 Q1008 KBOS 191854Z 11013KT 10SM SCT220 BKN250 08/02 A3026 RMK AO2 SLP245 T00830022 KCFS 191855Z AUTO 08012G19KT 050V110 10SM SCT085 16/02 A2984 RMK AO2 T01640020 KAXS 191855Z AUTO 33022G27KT 10SM CLR 21/09 A2983 RMK AO2 T02090085 NZMC 191800Z 12004KT 20KM SKC 13/11 Q1025 RMK ALT NZHT VATSIM USE ONLY EGBJ 191820Z 35002KT 9999 FEW035 11/05 Q1023 CWSS 191800Z AUTO 28006KT 11/M04 RMK AO1 SOG 00 7007 SLP220 T01101040 KBPK 191853Z AUTO 30009KT 260V340 10SM CLR 23/11 A2964 RMK AO2 SLP028 T02280111 KE80 191855Z AUTO 07005KT 10SM CLR 17/M05 A3006 RMK AO2 T01711051 CWST 191800Z AUTO 28007KT 10/M04 RMK AO1 SOG 00 8020 SLP227 T00971035 CXLB 191800Z AUTO 17009KT 04/ RMK AO1 SLP218 T0044 56001 CYAT 191800Z AUTO 10010G15KT 9SM CLR 00/M10 A3027 RMK SLP251 CYCB 191800Z 28007KT 15SM FEW045 M17/M20 A3022 RMK SC1 SLP236 CYBK 191800Z 07005KT 10SM -SN BKN035 M13/M16 A3014 RMK SC7 /S02/ SLP210 PGUM 191854Z 07006KT 10SM CLR 26/22 A2990 RMK AO2 SLP118 T02560217 EFKK 191850Z AUTO 36011KT 330V040 CAVOK 05/M03 Q1013 KAZC 191855Z AUTO 23008KT 190V260 10SM CLR 22/M06 A3007 RMK AO2 T02191061 CYBL 191800Z 32005KT 260V050 30SM BKN250 14/05 A3022 RMK CI7 SLP236 KCHD 191847Z 22008KT 40SM SKC 28/M04 A2991 KCFV 191852Z AUTO VRB03KT 10SM FEW013 SCT020 SCT100 16/13 A2971 RMK AO2 SLP057 T01610133 KAXV 191853Z AUTO 14016G25KT 7SM RA OVC028 18/16 A2970 RMK AO2 EGCC 191850Z 04013KT 9999 FEW033 10/02 Q1025 NZMF 191800Z 01005KT 20KM SCT070 10/08 Q1022 RMK ALT NZQN VATSIM USE ONLY CYCD 191800Z 02007KT 30SM BKN250 15/06 A3022 RMK CI6 SLP233 CXKM 191800Z AUTO 32008KT 11/M10 RMK AO1 T01061104 50010 KBOW 191850Z 19011G18KT 10SM SCT045 32/19 A2990 KAZE 191835Z AUTO 26011G25KT 210V300 3SM +TSRA SCT015 SCT026 BKN038 24/21 A2990 RMK AO2 LTG DSNT ALQS T02350206 CWSW 191800Z VRB02KT 20SM FEW050 FEW090 09/M06 A3018 RMK CU1AC1 AC TR SLP242 CWTN 191800Z AUTO 18006KT 11/M04 RMK AO1 8021 SLP234 T01081037 50010 CYBN 191800Z AUTO 12014G22KT 9SM CLR 13/M03 A3009 RMK SLP197 EETN 191850Z 32014KT CAVOK 07/02 Q1007 TEMPO SCT020CB KAXX 191855Z AUTO 25011G15KT 220V280 10SM SCT055 SCT075 BKN085 09/M05 A3008 RMK AO2 T00921055 ZSNJ 191800Z 01003MPS 310V050 6000 OVC026 11/09 Q1011 NOSIG CYCG 191800Z 03006KT 320V060 15SM SKC 14/M02 A3017 RMK SLP223 CYAY 191800Z AUTO 23014G19KT 9SM FEW023 00/M04 A3005 RMK SLP177 EFJY 191850Z AUTO 36012G22KT 9999 FEW047 OVC057 06/M02 Q1008 CYAZ 191800Z 18005KT 160V230 15SM BKN230 13/09 A3020 RMK CI7 SLP229 CYBQ 191800Z AUTO 07004KT 030V130 9SM CLR M03/M12 A3023 RMK SLP260 CYBR 191811Z 34017G24KT 15SM BKN028 OVC042 06/01 A2981 RMK SC7SC1 SLP110 KCGS 191850Z AUTO 10012G19KT 070V130 10SM CLR 18/07 A3011 RMK AO1 PHMK 191854Z 05014G26KT 10SM FEW030 BKN050 23/17 A3016 RMK AO2 PK WND 05026/1850 SLP217 T02330172 $ KAYS 191855Z AUTO 25010G21KT 5SM +RA SCT014 BKN030 OVC110 23/21 RMK AO2 T02320214 CYDA 191800Z 10015G28KT 050V120 20SM SCT045 09/M02 A2973 RMK SC3 SLP082 EFMA 191850Z AUTO 35016KT 320V020 CAVOK 10/01 Q1013 KBPT 191853Z 22011KT 10SM FEW041 29/19 A2978 RMK AO2 SLP085 T02940189 EFKS 191850Z AUTO 33008KT 290V010 9999 OVC041 03/M04 Q1007 KBQK 191835Z AUTO 15011KT 10SM SCT120 27/21 A2986 RMK AO1 LTG DSNT NW KCHK 191835Z AUTO 32008G14KT 10SM SCT047 SCT060 SCT070 21/11 A2977 RMK AO2 CXKT 191800Z AUTO 26007KT 07/M07 RMK AO1 SOG 03 6002 SLP220 T00711069 CWTT 191800Z AUTO 20005KT 06/M04 RMK AO1 T00631043 CYCK 191800Z AUTO 09023G31KT 9SM BKN080 BKN092 10/04 A2988 RMK PRESFR SLP122 CYDB 191800Z 11023G39KT 30SM FEW040 FEW090 SCT220 06/M02 A2962 RMK SC1AC1CS2 SLP059 ZSOF 191800Z 02004MPS 3600 BR SCT010 SCT015 OVC033 11/09 Q1013 NOSIG EFKT 191850Z AUTO 32011KT 280V350 9999 OVC045 02/M03 Q1013 KCIC 191850Z 28006KT 40SM SCT250 26/07 A2990 CYDC 191800Z 00000KT 25SM FEW090 FEW110 11/M02 A3023 RMK AC1AS1 AC TR CONTRAILS HZ SE SLP243 CXLL 191800Z AUTO 22002KT 10/M06 RMK AO1 SOG 26 8010 SLP173 T00981059 50008 CWTU 191800Z AUTO 30010KT M07/ A2988 RMK SLP163 CYBU 191835Z AUTO 33014G21KT 9SM OVC026 05/M02 A3009 RMK SLP206 EETU 191850Z 28009KT 9999 -SHRA SCT038CB BKN049 06/01 Q1004 KCID 191852Z 05004KT 9SM SCT070 SCT085 21/12 A2956 RMK AO2 SLP008 T02060122 EFKU 191850Z AUTO 34009KT 9999 FEW027 FEW049 SCT061 03/00 Q1007 KBRD 191853Z AUTO 29012KT 10SM BKN011 OVC017 09/07 A2962 RMK AO2 SLP039 T00890067 $ CXMD 191800Z AUTO 34012G19KT 04/02 RMK AO1 2PAST HR SOG 02 0008 PK WND 33022/1749 SLP082 P0005 T00370015 50066 CWVD 191800Z AUTO 35010KT M20/ A2965 RMK SLP116 CYBW 191800Z AUTO 20007KT 9SM CLR 08/M07 A3019 RMK SLP262 KCHO 191853Z 09007KT 050V120 10SM OVC100 20/07 A3003 RMK AO2 RAE07 SLP163 P0000 T02000067 EGCN 191850Z 36008KT 9999 SCT024 SCT031 09/05 Q1025 KAZO 191853Z 11012G18KT 10SM CLR 21/02 A2971 RMK AO2 SLP060 T02110022 PHNG 191857Z 07012G21KT FEW026 SCT034 25/18 A3015 RMK AO2 SLP205 T02500183 $ CWVF 191800Z AUTO 32017KT 10/07 RMK AO1 PK WND 32019/1759 T01020070 CYBX 191800Z 26007KT 15SM SCT012 M01/M03 A3005 RMK CU4 SLP180 CYDF 191800Z 31008KT 15SM BKN055 03/M10 A3008 RMK SC5 SLP188 CYCO 191817Z 24005KT 8SM IC SCT005 M17/M19 A3030 RMK ST3 SLP264 KF05 191835Z AUTO 29018G25KT 10SM SCT055 22/04 A2983 RMK AO1 T02150042 KBQP 191835Z AUTO 25007KT 220V280 10SM SCT039 26/16 A2976 RMK AO2 T02550156 CYCP 191800Z 04003KT 010V190 15SM FEW060 FEW230 SCT300 10/M02 A3024 RMK CU1CI1CC2 CU TR CYCLIST ON RWY SLP263 CXMG 191800Z AUTO 19003KT 12/M05 RMK AO1 T01151046 CWTY 191800Z AUTO 21011KT 05/M01 RMK AO1 SLP254 T00451011 57018 CWUP 191800Z AUTO ///// M20/ A2978 RMK SLP134 EFLP 191850Z AUTO 01009KT 340V060 9999 -SHRA FEW019 SCT039 BKN080 03/01 Q1003 KCGZ 191855Z AUTO 23005KT 10SM CLR 29/M03 A2990 RMK AO1 CYCQ 191800Z 22011G17KT 35SM FEW060 FEW110 SCT200 11/M06 A3015 RMK SC1AC1CC2 SLP231 CWVH 191800Z AUTO 11003KT M06/ A2994 RMK SLP165 CXMI 191800Z AUTO 35004KT 08/M07 RMK AO1 SLP214 T00811073 55002 CWVI 191800Z AUTO 31008G15KT 11/M10 RMK AO1 8017 SLP244 T01101099 50002 ZSPD 191830Z 33009MPS 9999 -RA BKN008 OVC040 12/10 Q1006 NOSIG EFMI 191850Z AUTO VRB05KT CAVOK 05/M01 Q1006 KCHS 191856Z 13011KT 10SM FEW008 BKN012 OVC060 24/21 A2989 RMK AO2 RAE30 SLP121 CB DSNT NE P0000 T02440211 KDAA 191858Z AUTO 09008KT 050V140 10SM BKN043 20/10 A3007 RMK AO2 SLP186 T01970101 CYCS 191800Z 00000KT 15SM FEW040 FEW090 BKN200 M11/M14 A3020 RMK SC1AS1CS5 HALO SLP229 CWWA 191800Z AUTO 18001KT 14/07 RMK AO1 SLP225 T01390067 58011 CWUS 191800Z AUTO 04004KT 12/M04 RMK AO1 SLP235 T01191040 58017 KDAB 191853Z 22010KT 10SM SCT047 SCT080 OVC250 32/21 A2989 RMK AO2 SLP119 T03220206 PHNL 191853Z 05013G20KT 10SM FEW024 SCT031 SCT055 25/18 A3015 RMK AO2 RAB03E14B37E46 SLP210 VCSH NE-SE SHRA DSNT NW-N P0000 T02500178 CWWB 191800Z AUTO 03021KT 03/M00 RMK AO1 PK WND 04025/1747 SLP196 T00341003 58036 KBRL 191853Z AUTO 29006KT 9SM CLR 24/12 A2953 RMK AO2 SLP995 T02390122 CYDL 191846Z AUTO VRB02KT 9SM -RA SCT019 BKN025 OVC035 03/00 A3013 RMK SLP227 CXMM 191800Z AUTO 27004KT 11/M05 RMK AO1 SLP212 T01051051 58022 EGDM 191750Z AUTO 06007KT 9999 SCT180/// 09/02 Q1022 CYED 191800Z AUTO 29011KT 9SM FEW075 12/M09 A3019 RMK SLP244 KCIN 191835Z AUTO 32019KT 2SM RA SCT009 BKN014 BKN021 13/13 A2965 RMK AO2 NZNP 191826Z 12004KT 25KM FEW015 SCT045 11/11 Q1028 RMK VATSIM USE ONLY CWWE 191800Z AUTO 16008KT 03/M03 RMK AO1 SLP227 T00251027 53001 CWVN 191800Z AUTO 35020G26KT 10/M05 RMK AO1 PK WND 35030/1709 SLP235 T00991049 58007 CWUW 191800Z AUTO 27002KT 9SM FEW017 FEW078 FEW092 M18/ A2974 RMK SLP138 CYDN 191855Z AUTO 34023KT 9SM FEW019 OVC026 04/M01 A2985 RMK SLP121 KBRO 191853Z 11009KT 8SM SCT018 BKN030 BKN034 29/24 A2979 RMK AO2 SLP086 T02940244 PHOG 191854Z 07015G25KT 10SM FEW032 SCT050 24/18 A3015 RMK AO2 PK WND 07026/1827 SLP214 T02440178 KBQX 191855Z AUTO 20004KT 10SM CLR 23/21 A2982 RMK A01 NZOH 191740Z 34008KT 25KM BKN050 10/09 Q1027 RMK VATSIM USE ONLY CXMO 191800Z AUTO 36006KT 10/M09 RMK AO1 T01001093 50012 CWWF 191800Z AUTO 35024G33KT 06/M01 RMK AO1 PK WND 35035/1723 SLP178 T00611011 58002 CWUX 191800Z AUTO 29012G19KT 07/M06 RMK AO1 PK WND 30021/1728 SLP249 T00701058 58011 VDSR 191800Z 11001KT 9000 NSC 28/24 Q1007 CYCX 191800Z 26009KT 190V280 15SM SCT055 11/M07 A3016 RMK SC3 DA-498FT SLP214 KDAG 191850Z AUTO 32006KT 10SM CLR 28/M07 A2992 RMK AO2 SLP107 T02781072 $ NZNR 191828Z VRB02KT 30KM FEW040 08/08 Q1027 RMK VATSIM USE ONLY CYDP 191800Z 30015G21KT 15SM FEW090 SCT200 02/M09 A2998 RMK AC1CI2 SLP154 CWVP 191800Z AUTO 32007KT 03/M06 RMK AO1 8008 SLP247 T00331055 50002 CYEG 191800Z VRB05KT 15SM SCT080 BKN100 11/M10 A3020 RMK CU3AC3 AC LENT SLP258 CYCY 191800Z 32017KT 15SM IC DRSN FEW016 SCT250 M17/M20 A2991 RMK SC1CS3 SLP131 ORER 191600Z VRB02KT CAVOK 22/08 Q1014 NOSIG NZNS 191804Z 00000KT 40KM NSC 09/08 Q1026 RMK VATSIM USE ONLY CWVQ 191800Z AUTO 15008KT 09/M06 RMK AO1 SLP258 T00911064 58021 CYDQ 191800Z AUTO 30007KT 200V320 9SM FEW240 10/M05 A3015 RMK SLP234 KCIR 191855Z AUTO 20009KT 10SM SCT020 SCT026 OVC060 20/18 A2952 RMK AO2 T02010184 KF17 191835Z AUTO 18009KT 10SM BKN025 BKN032 24/18 A2974 RMK AO2 T02370183 UNKL 191830Z 24007G10MPS 9999 SCT040CB BKN083 05/00 Q1011 TEMPO 25018G23MPS RMK QFE733 29////55 ZSQD 191800Z 33003MPS CAVOK 08/04 Q1012 NOSIG PGWT 190950Z 09011KT 7SM FEW015 26/22 A2991 RMK LAST KBTA 191855Z AUTO 32021G30KT 10SM -RA OVC010 10/08 A2971 RMK AO2 T00950078 EGDR 191850Z 10006KT 9999 HZ FEW025 08/04 Q1022 BLU TVSV 191900Z 10012KT 9999 FEW018 SCT090 BKN280 29/22 Q1015 -HZ CWXA 191800Z AUTO 29003KT 08/M11 RMK AO1 SLP242 T00821106 57020 KCKB 191853Z 15010G22KT 10SM -RA SCT070 OVC090 19/08 A2991 RMK AO2 PK WND 14028/1808 RAB26 SLP118 P0000 T01890078 NZNV 191810Z 16017KT 15KM SHRA SCT007 BKN016 11/10 Q1023 RMK VATSIM USE ONLY CWWK 191800Z AUTO 23003KT 14/09 RMK AO1 SOG 00 8010 SLP231 T01430086 CWVT 191800Z AUTO 05003KT 06/M02 RMK AO1 SOG 00 8010 SLP253 T00551015 50004 CYFB 191800Z 32017KT 25SM DRSN FEW020 M15/M20 A3005 RMK SC1 SC TR CONTRAILS SLP180 CYEK 191800Z 22008KT 15SM SKC M12/M13 A3026 RMK SLP249 KDAL 191853Z 31017G25KT 10SM FEW040 24/14 A2974 RMK AO2 SLP065 T02390144 KCIU 191855Z AUTO 11019G26KT 10SM FEW110 09/M02 A2994 RMK AO1 KCKC 191853Z AUTO 07008KT 3SM -RA SCT007 OVC024 02/M01 A2966 RMK AO2 P0004 CWXC 191800Z AUTO 32009KT 06/M10 RMK AO1 PK WND 33017/1737 SLP228 T00561099 58009 CWWL 191800Z AUTO 15011G16KT 08/06 RMK AO1 4PAST HR 8011 SLP242 P0002 T00750063 50020 CWVU 191800Z AUTO 34004KT 05/M01 RMK AO1 SLP248 T00511007 50001 CYFC 191800Z AUTO 28012G17KT 200V330 9SM FEW075 11/M07 A3016 RMK SLP212 KDAN 191853Z AUTO 08009G15KT 10SM -RA BKN029 OVC035 19/15 A2994 RMK AO2 SLP130 P0001 T01890150 NZPG 191855Z 07010KT 6000 IC BR FEW000 FEW010 SCT040 M31/M34 A2889 RMK BR FEW000 SLP787 LSR12 GRID24010KT SDN/HDN CYEN 191800Z 32026G35KT 15SM -SHRA BKN010 BKN020 06/M00 A2998 RMK SC5SC2 CVCTV CLD EMBD SLP175 KCKF 191855Z AUTO 22006G14KT 10SM -RA OVC110 20/18 A2988 RMK AO2 LTG DSNT ALQS T02020184 PHNY 191849Z AUTO 03011KT 10SM BKN028 BKN034 22/17 A3018 RMK AO2 EGEO 191550Z 28008KT 9999 FEW036 11/07 Q1028 EGDX 191850Z 08005KT 9999 SCT044 09/02 Q1023 BLU EGFF 191850Z AUTO 08006KT 9999 SCT037 10/03 Q1023 CXMY 191800Z AUTO 05/M10 RMK AO1 T00541096 EGDY 191750Z AUTO 05011KT 9999 SCT041/// 11/02 Q1022 CXNP 191800Z AUTO 01002KT 05/M05 RMK AO1 SLP223 T00451048 56003 KCKI 191855Z AUTO 12009KT 10SM SCT012 SCT047 BKN090 23/23 A2989 RMK AO2 KCJR 191837Z AUTO 12006KT 10SM CLR 22/10 A3006 RMK AO2 CWXI 191800Z AUTO M01/M04 RMK AO1 SLP175 T10131035 56007 CYER 191800Z AUTO 09017G22KT 9SM OVC041 M03/M07 A3020 RMK PRESFR SLP227 KDCA 191852Z 09015G20KT 10SM SCT040 BKN085 BKN250 21/09 A3010 RMK AO2 PK WND 09027/1842 SLP192 T02060094 CWWS 191800Z AUTO 34025KT M00/M01 RMK AO1 SOG 05 7006 PK WND 34029/1733 SLP071 T10021007 CXPA 191800Z AUTO 28007KT 12/M05 RMK AO1 T01161046 NZPM 191815Z 00000KT 30KM SCT036 BKN048 10/09 Q1027 RMK VATSIM USE ONLY CYET 191800Z AUTO VRB03KT 9SM CLR 10/M06 A3018 RMK SLP249 KBTL 191853Z 10015G20KT 10SM FEW050 20/02 A2973 RMK AO2 SLP065 T02000017 CWWU 191800Z 03018KT 15SM BKN020 BKN200 M01/M04 A3006 RMK SC6CI1 SLP180 CXOL 191800Z AUTO 25001KT 10/M09 RMK AO1 T01001088 CWXL 191800Z AUTO 29005KT 10/M06 RMK AO1 T00971059 CXPC 191800Z AUTO 12/M07 RMK AO1 PRESFR SLP186 T01211066 58045 KBTM 191853Z AUTO 07006KT 10SM FEW075 09/M07 A3012 RMK AO2 SLP202 T00891067 KCKM 191835Z AUTO 24014KT FEW020 BKN095 23/19 A2970 RMK AO1 EGGD 191850Z 06007KT 9999 FEW043 08/02 Q1023 CYEV 191800Z 08007KT 15SM SCT220 00/M07 A2994 RMK CS4 SLP145 KDAW 191851Z AUTO 13009KT 10SM CLR 13/01 A3021 RMK AO2 SLP229 T01280011 KCLE 191851Z 14017G22KT 10SM BKN200 23/06 A2981 RMK AO2 SLP091 T02330056 $ KCKN 191854Z AUTO 34025G30KT 7SM -RA SCT010 BKN021 OVC031 06/06 A2969 RMK AO2 KDBN 191835Z AUTO 23007G14KT 5SM VCTSRA SCT039 BKN090 OVC110 15/15 A2988 RMK AO2 LTG DSNT ALQS NZPP 191800Z 03008KT 25KM SCT012 16/12 Q1026 RMK ALT VATSIM USE ONLY CYGE 191800Z 32007KT 290V360 20SM FEW075 12/M05 A3021 RMK CU1 SLP248 KBUF 191854Z 07016G25KT 10SM FEW200 BKN250 18/M01 A3000 RMK AO2 SLP159 T01831006 CYFO 191800Z 35013G23KT 15SM -SN OVC008 M02/M04 A3006 RMK SC8 SLP198 CWWX 191800Z AUTO 12015KT 02/M00 RMK AO1 PK WND 13020/1712 SLP179 T00211001 58040 KBTP 191855Z AUTO 14015G20KT 10SM CLR 21/03 A2993 RMK AO1 KDAY 191856Z 12018G23KT 5SM -RA BR FEW011 SCT019 OVC030 18/16 A2967 RMK AO2 SLP044 SCT019 V BKN P0006 T01780161 KCKP 191835Z AUTO 33017G25KT 10SM SCT015 OVC022 11/09 A2971 RMK AO2 T01060089 KDBQ 191853Z 10SM CLR 23/08 A2959 RMK AO2 SLP015 T02330078 CYGH 191800Z 06005KT 15SM BKN210 02/M07 A2998 RMK CI7 1.6/-8.6/0.0/51 MEDIUM PACK LAST OBS/NXT 201300Z SLP157 CWWZ 191800Z AUTO 06028G33KT 05/01 RMK AO1 PK WND 06033/1750 SLP185 T00470012 58038 KBTR 191853Z VRB06G17KT 10SM CLR 27/16 A2981 RMK AO2 SLP092 T02720156 KCLI 191855Z AUTO 11012G15KT 10SM CLR 18/00 A2971 RMK AO2 CWXR 191800Z AUTO 16005KT M12/ A3023 RMK SLP251 KCMA 191855Z 25007KT 10SM CLR 19/11 A2995 RMK AO2 SLP149 T01940106 NZRC 191810Z 16017KT 15KM SHRA SCT007 BKN016 11/10 Q1023 RMK NZNV VATSIM USE ONL CYHA 191800Z 30014KT 15SM -SN FEW008 BKN020 M08/M12 A3009 RMK SF1SC6 SLP193 CWZA 191800Z AUTO 03005KT 17/04 RMK AO1 SLP219 T01680035 58020 CWYJ 191800Z AUTO 35006KT 14/06 RMK AO1 SLP228 T01390062 57010 CYFS 191800Z 00000KT 15SM FEW210 08/M07 A3003 RMK CI1 CI TR SLP177 KCLK 191855Z AUTO 32016G23KT 10SM CLR 17/06 A2982 RMK AO2 LTG DSNT N CYGK 191800Z 08010G16KT 15SM BKN260 12/M01 A3022 RMK CI7 PRESFR SLP236 CYFT 191800Z 32004KT 290V350 15SM FEW220 M00/M14 A3002 RMK CI1 CI TR SLP170 CWYK 191800Z AUTO ///// M07/ A2980 RMK SLP151 KDDC 191852Z AUTO 36027G37KT 10SM FEW031 SCT041 OVC050 10/05 A2995 RMK AO2 PK WND 35041/1823 RAB16E47 SLP139 P0000 T01000050 KCLL 191853Z 23011KT 10SM CLR 27/20 A2975 RMK AO2 SLP071 T02720200 NZQN 191800Z 01005KT 20KM SCT070 10/08 Q1022 RMK ALT VATSIM USE ONLY KDCM 191855Z AUTO 15010KT 3SM BR OVC003 21/20 A2986 RMK AO2 CXPL 191800Z AUTO 31006KT 10/M08 RMK AO1 T01001083 CWYL 191800Z AUTO 25009KT 09/M10 RMK AO1 SOG 49 6014 SLP233 T00871096 CYGL 191800Z 13005KT 100V160 15SM FEW030 SCT230 M02/M09 A3030 RMK CF1CI4 CF TR SLP277 KCLM 191853Z AUTO VRB05KT 10SM CLR 14/04 A3020 RMK AO2 SLP227 T01440039 KCKV 191852Z AUTO 19010G15KT 10SM -RA SCT019 BKN027 OVC060 21/18 A2955 RMK AO2 LTG DSNT SW-N RAB35E45B50 SLP002 P0000 T02110178 EFOU 191850Z AUTO 35012KT CAVOK 04/M03 Q1012 KBTV 191854Z 31008KT 280V350 10SM FEW100 SCT250 12/M03 A3025 RMK AO2 SLP245 T01171028 KCMD 191855Z AUTO 19012G17KT 10SM -RA SCT011 BKN022 BKN029 22/18 A2971 RMK AO2 T02180180 CYHD 191858Z AUTO 11006G15KT 9SM OVC007 03/02 A2962 RMK SLP048 CWYM 191800Z AUTO ///// M15/ A2966 RMK SLP110 KBVE 191851Z AUTO 23011KT 10SM CLR 26/21 A2982 RMK AO2 SLP097 T02560206 CYHE 191800Z AUTO 08006KT 050V130 9SM CLR 17/03 A3019 RMK SLP222 KF44 191855Z AUTO 23005G17KT 10SM BKN028 BKN034 25/18 A2971 RMK AO2 CXOX 191800Z AUTO 02005KT 04/M04 RMK AO1 SOG 01 8009 SLP234 T00421035 EFPO 191850Z AUTO 31012KT 9999 FEW066/// 06/01 Q1011 CXOY 191800Z AUTO 32011KT 08/M06 RMK AO1 PK WND 34018/1723 T00841055 CWZG 191800Z AUTO 28003KT 07/M10 RMK AO1 SLP247 T00651104 56024 CYGP 191800Z 08011KT 15SM SCT035 BKN100 BKN220 05/M08 A3010 RMK CU3AS3CI1 SLP195 EGGP 191850Z 05012KT 9999 FEW040 10/03 Q1025 KCMH 191851Z 13011KT 8SM -RA OVC055 18/12 A2976 RMK AO2 PK WND 13026/1813 SLP073 P0001 T01830122 KDDH 191854Z AUTO 36006KT 10SM CLR 16/M03 A3018 RMK AO2 SLP222 T01561028 KF46 191855Z AUTO 30017G22KT 10SM CLR 25/15 A2971 RMK AO2 T02500152 KBVI 191847Z 13014G25KT 10SM CLR 21/03 A2989 CYGQ 191800Z 11009G16KT 15SM SCT009 OVC015 07/M04 A2992 RMK SF4SC4 CIG RAG SLP147 KBUR 191853Z 14006KT 10SM CLR 24/07 A2993 RMK AO2 SLP123 T02390072 EGHH 191850Z 05009KT 9999 FEW043 10/02 Q1022 KCMI 191853Z 05012KT 2SM R32R/6000VP6000FT RA BR BKN007 OVC013 13/13 A2956 RMK AO2 CIG 005V009 SLP007 P0012 T01330128 CYHI 190000Z VRB02KT 15SM FEW190 SCT210 BKN230 M15/M17 A3026 RMK AC2CC2CI3 -14.6/-15.3 SNW CVR/HARD PACK 0.0/53.0 LAST OBS TAKEN/NEXT 191400Z SLP251 CYGR 191800Z 28011KT 20SM BKN240 01/M03 A3018 RMK CI6 SLP222 EGHI 191850Z 04006KT 010V080 9999 FEW047 09/02 Q1023 KCLS 191855Z AUTO 02009KT 340V040 4SM HZ CLR 18/07 A3014 RMK AO2 KCLT 191852Z 15012KT 9SM -RA BKN007 OVC014 20/18 A2987 RMK AO2 SLP107 P0000 T02000183 $ KCNB 191855Z AUTO 32013G23KT 10SM SCT029 SCT035 OVC044 10/04 A2976 RMK AO2 T01040040 CXRB 191800Z AUTO 30008KT M16/M17 RMK AO1 SOG 15 6005 SLP146 T11561174 CYHK 191800Z 25005KT 8SM -SN OVC031 M13/M15 A3015 RMK SC8 SLP216 KDCU 191853Z AUTO 19013G19KT 10SM FEW026 SCT034 SCT047 23/19 A2966 RMK AO2 SLP038 T02330189 KDEC 191854Z 05012KT 5SM -RA BR BKN007 OVC014 15/14 A2954 RMK AO2 CIG 006V011 SLP000 P0004 T01500144 KCNC 191835Z AUTO 00000KT 10SM BKN043 BKN050 BKN070 19/14 A2957 RMK AO2 KBUU 191835Z AUTO 11011G16KT 10SM CLR 18/02 A2967 RMK AO2 T01820021 CWZL 191800Z AUTO 16018KT 09/07 RMK AO1 PK WND 16022/1703 SLP240 T00900073 57007 KDED 191855Z AUTO 20011KT 33/19 A2990 RMK AO1 KBWD 191835Z AUTO 33014G18KT 10SM CLR 24/10 A2986 RMK AO2 NZRO 191830Z VRB03KT 30KM VCSH FEW010 SCT018 BKN025 12/11 Q1029 RMK VATSIM USE O CYGV 191800Z AUTO 22008KT 9SM CLR 03/M06 A3008 RMK SLP190 CYHM 191800Z 05026G32KT 15SM BKN250 06/00 A3006 RMK CI6 SLP185 PHSF 191856Z AUTO 29005KT 10SM CLR 16/07 A3038 RMK AO2 SLP188 T01610072 $ KCLW 191855Z AUTO 20014G22KT 10SM CLR 28/21 A2992 RMK AO2 KBVN 191835Z AUTO 34023G30KT 10SM SCT085 BKN110 11/M01 A2984 RMK AO2 T01101007 CWZN 191800Z AUTO 00000KT 01/M06 RMK AO1 SLP176 T00061062 56006 KBVO 191853Z AUTO 10SM CLR 20/13 A2972 RMK AO2 SLP058 T02000128 CYGW 191848Z AUTO 31004KT 9SM OVC020 M06/M10 A3037 RMK SLP284 EGGW 191850Z 05005KT 010V080 CAVOK 08/04 Q1023 CWZO 191800Z AUTO 02009KT RMK AO1 CYGX 191800Z 05013G24KT 1/2SM SN DRSN VV004 M04/M06 A3003 RMK SN8 SLP180 ZSSS 191830Z 34006MPS 9999 -RA BKN009 12/11 Q1007 NOSIG KBWG 191853Z AUTO 19013KT 8SM -RA SCT055 BKN075 OVC085 22/18 A2957 RMK AO2 RAB47 SLP006 P0001 T02220178 KBUY 191854Z AUTO 10006KT 4SM RA BR SCT010 BKN015 OVC030 19/18 A2991 RMK AO2 SLP124 P0004 T01940178 KDCY 191835Z AUTO 11007KT 7SM RA SCT009 BKN034 OVC070 17/15 A2954 RMK AO2 P0004 T01710150 CWYY 191800Z AUTO 06002KT 16/M00 RMK AO1 SLP224 T01561001 58022 KDEH 191835Z AUTO 00000KT 9SM FEW080 FEW090 13/08 A2963 RMK AO2 EGHQ 191850Z 17008KT CAVOK 09/05 Q1022 CWZQ 191840Z AUTO 33010KT 02/M01 RMK AO1 T00221014 CXRH 191800Z AUTO 28005KT 04/M08 RMK AO1 SOG 57 T00441082 UNNT 191830Z 20004MPS CAVOK 06/M00 Q1013 25090070 16090070 NOSIG RMK QFE750/1000 KCMR 191855Z AUTO 34009G14KT 310V010 10SM SCT110 17/M10 A3018 RMK AO2 KBWI 191854Z 10014G23KT 10SM FEW045 BKN250 17/05 A3012 RMK AO2 SLP198 T01670050 KCNI 191855Z AUTO 00000KT 10SM SCT006 BKN011 BKN023 20/17 A2978 RMK AO2 KBXA 191855Z AUTO 29009KT 10SM 30/13 A2980 RMK AO2 T02950128 KBVS 191835Z AUTO VRB06KT 260V320 10SM CLR 14/07 A3019 RMK A01 EGJA 191750Z 06014KT CAVOK 09/05 Q1021 CWZS 191800Z AUTO 32009G16KT 06/M09 RMK AO1 PK WND 31017/1727 SLP207 T00621086 58002 EFSA 191850Z AUTO 31010KT CAVOK 03/01 Q1004 KCNK 191855Z AUTO 34022G29KT 10SM OVC043 10/03 A2983 RMK AO2 PK WND 36030/1802 RAE01B18E31 SLP101 P0000 T01000033 CYIK 191800Z 29008KT 15SM -SN BKN014 OVC020 M11/M14 A3016 RMK ST6SC2 SLP219 CXQT 191800Z AUTO 08004KT 02/01 RMK AO1 T00190013 EGJB 191850Z 06011KT CAVOK 08/05 Q1022 KBVU 191855Z AUTO 03007KT 010V070 10SM CLR 27/M09 A2993 RMK AO2 CXSC 191800Z AUTO 34011KT 09/M06 RMK AO1 PK WND 32021/1715 T00871064 UNOO 191830Z 14001MPS 3500 -SHRA BKN015 BKN033CB 06/06 Q1008 25290250 NOSIG RMK QFE748 CXRL 191800Z AUTO 10/M07 RMK AO1 T01011069 CYHU 191800Z AUTO 01006KT 290V040 9SM CLR 10/M06 A3029 RMK SLP257 KCNM 191853Z AUTO 05010KT 10SM CLR 23/M01 A2998 RMK AO2 SLP114 T02281011 KCOD 191855Z 01008KT 350V050 10SM CLR 07/M08 A3015 RMK AO1 CWZV 191800Z AUTO 16010KT 09/08 RMK AO1 SLP243 T00860077 58013 KDEN 191853Z 35012G20KT 10SM SCT045 BKN055 BKN070 09/M04 A3009 RMK AO2 SLP168 T00891039 $ KCOE 191855Z AUTO 03008KT 10SM CLR 16/M03 A3013 RMK AO1 NZTG 191827Z 10006KT 25KM VCSH SCT021 SCT035 15/14 Q1028 RMK VATSIM USE ONLY NZSP 191750Z 01013KT 3200 -SG IC BLSN FEW000 SCT010 BKN030 BKN080 M54/ A2795 RMK BLSN FEW000 CLN AIR 01015KT ALL WNDS GRID CXSE 191800Z AUTO 27011KT M14/M15 RMK AO1 SLP191 T11351151 50000 CWZW 191800Z AUTO 12004KT 05/M02 RMK AO1 SOG 06 8011 SLP195 T00461017 CYIN 191800Z AUTO 35005KT 270V030 9SM CLR 11/M06 A3023 RMK SLP255 KCNO 191853Z 23005KT 3SM FU CLR 26/07 A2993 RMK AO2 SLP131 T02610072 KCMX 191853Z AUTO 08009KT 10SM SCT075 OVC100 07/01 A2971 RMK AO2 SLP070 T00670006 KBVX 191855Z AUTO 25008KT 10SM FEW036 24/16 A2964 RMK AO1 KCOF 191858Z AUTO 14013KT 10SM FEW049 29/25 A2988 RMK AO2 SLP123 T02920245 $ CYIO 191849Z AUTO 26002KT 3SM -SN BKN028 OVC038 M18/M21 A2995 RMK SLP152 EFRO 191850Z AUTO 33012KT CAVOK 03/M03 Q1011 KBVY 191853Z 14013KT 10SM CLR 09/01 A3024 RMK AO2 SLP237 T00940011 KCMY 191835Z AUTO 16005KT 10SM SCT070 17/03 A2965 RMK AO2 T01700033 KBWP 191830Z AUTO 32022G27KT 10SM BKN027 OVC032 08/03 A2973 RMK AO1 CYHY 191800Z VRB02KT 15SM FEW120 FEW230 11/M05 A3004 RMK AC1CS1 SLP180 ZUCK 191800Z 23002MPS 190V250 CAVOK 16/11 Q1015 NOSIG KDEQ 191853Z AUTO 24005KT 10SM SCT034 SCT043 BKN055 24/18 A2966 RMK AO2 SLP040 T02440178 CXSH 191800Z AUTO 12006KT 11/M08 RMK AO1 SLP247 T01051084 58019 CYHZ 191800Z 31007KT 290V010 15SM FEW045 06/M08 A3015 RMK SC1 SLP217 CWZZ 191800Z AUTO 07002KT M05/ A2989 RMK SLP160 KDFI 191853Z AUTO 07011KT 10SM OVC110 16/04 A2973 RMK AO2 SLP068 T01560044 $ EFSI 191850Z AUTO 35011KT 310V040 CAVOK 07/M03 Q1012 EGKA 191750Z 06009KT 9999 FEW036 11/02 Q1022 CYKA 191800Z VRB04KT 40SM SKC 13/M03 A3025 RMK SLP250 KBXK 191835Z AUTO 21006KT 10SM CLR 28/M04 A2991 RMK AO1 EGJJ 191850Z 07012KT CAVOK 08/04 Q1021 NOSIG KDET 191853Z 09016KT 10SM SCT090 11/04 A2985 RMK AO2 PK WND 08027/1843 RAE09 SLP112 P0000 T01110039 $ KF70 191835Z AUTO 20003KT 10SM CLR 24/02 A2994 RMK AO1 EGKB 191820Z 07005KT 9999 SCT030 09/02 Q1023 KCNU 191852Z AUTO 26008KT 10SM OVC110 17/12 A2971 RMK AO2 SLP054 T01720122 EHAK 191855Z AUTO 09016KT 9999 NCD 08/05 Q1027 KCPC 191835Z AUTO 15005KT 10SM -RA BKN016 BKN024 OVC029 22/20 A2993 RMK AO2 P0001 T02200198 CXSL 191800Z AUTO 33005KT 10/M11 RMK AO1 T01021106 KCOM 191835Z AUTO 33012G16KT 10SM CLR 23/08 A2988 RMK AO2 T02320083 CYKD 191800Z 14006KT 15SM SKC M03/M09 A2994 RMK SLP140 KCNW 191853Z 26013G21KT 10SM SKC 28/16 A2976 CXTD 191800Z AUTO 34010KT 01/M03 RMK AO1 SOG 03 3004 SLP231 T00051027 CYIV 191800Z 03006KT 15SM OVC015 04/01 A2972 RMK SC8 SLP076 KDEW 191853Z AUTO VRB03KT 10SM CLR 17/M02 A3013 RMK AO2 SLP208 T01671022 KCON 191851Z AUTO VRB03KT 10SM CLR 16/M06 A3020 RMK AO2 SLP227 T01561056 PHTO 191853Z 29006KT 10SM FEW048 BKN065 23/19 A3017 RMK AO2 RAB22E31 SLP215 P0000 T02280189 EHAM 191855Z 04007KT 010V070 CAVOK 10/04 Q1023 NOSIG CZBF 191800Z 04005KT 020V100 15SM BKN030 07/M04 A3012 RMK SC5 SLP203 CYKF 191800Z AUTO 08021G29KT 9SM CLR 09/M01 A3003 RMK PRESFR SLP176 KBYG 191853Z AUTO 36026G36KT 10SM CLR 07/M08 A3011 RMK AO2 PK WND 36037/1802 SLP197 T00721083 KCNY 191853Z AUTO VRB04KT 10SM CLR 16/01 A3006 RMK AO2 SLP153 T01560011 CYKG 191800Z 36015G20KT 10SM -SN FEW015 BKN050 M10/M12 A3004 RMK ST2SC2 SLP190 CXSP 191800Z AUTO 31006KT 09/M07 RMK AO1 T00851071 KCOQ 191856Z AUTO 11004KT 1 1/4SM BR OVC001 05/04 A2961 RMK AO2 CXTH 191800Z AUTO 31007KT 09/M07 RMK AO1 T00851069 KBYI 191853Z AUTO 02005KT 10SM CLR 15/M03 A3008 RMK AO2 SLP168 T01501033 VEPT 191450Z 09011KT 3500 HZ NSC 30/22 Q1006 NOSIG VERC 190030Z 18003KT 3000 HZ 24/16 Q1009 CXSR 191800Z AUTO 29007KT 07/M06 RMK AO1 SOG 18 7009 SLP230 T00701055 KCOS 191854Z 35015KT 10SM FEW040 FEW060 SCT180 09/M04 A3008 RMK AO2 PK WND 04028/1829 SLP170 T00891044 NZTU 191800Z 33004KT 40KM SCT085 09/09 Q1018 RMK ALT VATSIM USE ONLY CYKJ 191800Z AUTO 02006KT 340V050 9SM CLR 03/M06 A3018 RMK SLP248 KCOT 191853Z AUTO 31004KT 9SM BKN017 27/21 A2983 RMK AO2 SLP093 T02670211 KCPK 191855Z AUTO 11006KT 10SM -RA BKN037 BKN047 OVC070 22/15 A3003 RMK AO2 KCQB 191835Z AUTO 00000KT 10SM 21/12 A2974 RMK AO2 CYJT 191800Z 24010KT 15SM FEW025 BKN220 M00/M03 A3012 RMK CU2CI5 SLP200 KCQC 191853Z AUTO 12006G15KT 10SM SCT080 12/M08 A3007 RMK AO2 SLP135 T01221078 EGKK 191850Z 06005KT 9999 FEW044 09/03 Q1023 KCOU 191854Z 27007KT 10SM SCT065 19/16 A2960 RMK AO2 SLP017 T01890156 EHBK 191855Z AUTO 04009KT 9999 NCD 11/02 Q1021 NOSIG CYKL 191858Z AUTO 32015KT 9SM FEW024 BKN029 BKN037 M02/M08 A3002 RMK SLP204 EGLC 191850Z 07006KT 9999 FEW034 11/04 Q1023 CYLD 191800Z 15011G16KT 090V170 15SM SCT170 BKN220 10/M12 A3002 RMK AC4CS3 PRESFR SLP187 KDFW 191853Z 29015G28KT 10SM FEW034 22/14 A2975 RMK AO2 PK WND 31028/1849 RAE1754B11E28 SLP069 T02220139 PNO $ KCQF 191835Z AUTO 24008KT 10SM BKN009 OVC017 23/21 A2981 RMK AO2 EGLF 191850Z 09006KT 060V120 9999 FEW038 SCT043 10/04 Q1023 CXTO 191800Z AUTO 08/M02 RMK AO1 SLP205 T00841023 56033 CXTP 191800Z AUTO 05003KT 01/M06 RMK AO1 SOG 28 6003 SLP179 T00091062 CYKP 191800Z AUTO 11011G17KT 9SM OVC110 04/M03 A3004 RMK SLP181 OSDI 191900Z 21012KT CAVOK 17/04 Q1017 EFTP 191850Z AUTO 34008G18KT CAVOK 08/M01 Q1010 CYKQ 191800Z 29004KT 15SM FEW040 FEW140 BKN250 05/M05 A3030 RMK CF1AC2CS5 CF TR SLP262 CYLH 191800Z AUTO 11012G17KT 9SM FEW050 BKN060 OVC073 06/M03 A2994 RMK PRESFR SLP151 KCPR 191853Z 35012G17KT 10SM FEW050 OVC065 08/M06 A3011 RMK AO2 SLP191 T00831061 NZWB 191824Z 28015KT 35KM NSC 15/07 Q1023 RMK VATSIM USE ONLY KCPS 191853Z 01005KT 6SM -RA BR OVC010 18/16 A2954 RMK AO2 CIG 009V014 SLP000 P0001 T01830161 KBYS 191855Z AUTO 13004KT 10SM CLR 26/M06 A2993 RMK AO2 SLP101 T02621065 $ CYLJ 191800Z 04007KT 320V050 15SM FEW025 08/M01 A3018 RMK SC1 SLP242 CYMA 191800Z 08015G20KT 20SM FEW050 SCT100 08/M03 A2981 RMK SC1AS2 CLIMAT 8.5/-1.2/0.0 41002 SLP116 EFVA 191850Z AUTO 01008KT CAVOK 06/M02 Q1014 R16/0/0095 KCPT 191835Z AUTO 27014G21KT 10SM CLR 23/16 A2980 RMK AO2 CZDB 191800Z AUTO 22008KT 05/M07 RMK AO1 SOG 63 5002 SLP220 T00521068 ORMM 191900Z 29010KT CAVOK 26/06 Q1013 NOSIG CYLL 191800Z 34008KT 300V360 15SM BKN056 10/M03 A3018 RMK CU5 SLP246 EGMC 191850Z 13006KT 9999 FEW037 08/03 Q1023 EFTU 191850Z AUTO 35008KT 320V030 CAVOK 08/M01 Q1010 R08/0/0095 EGLL 191850Z 07004KT 9999 FEW034 SCT040 10/04 Q1023 KCQM 191855Z AUTO 14004KT 2SM DZ OVC007 06/06 A2960 RMK AO2 P0001 EGMD 191750Z 08016KT CAVOK 10/04 Q1023 CXTV 191800Z AUTO 30004KT M10/M14 RMK AO1 SLP154 T11001139 56015 KDGW 191853Z AUTO 31015G18KT 10SM SCT048 OVC060 06/M04 A3012 RMK AO2 SLP202 T00561044 KDHN 191853Z 11007KT 9SM -RA BKN006 BKN010 OVC019 20/19 A2980 RMK AO2 RAB1758 PRESFR SLP087 P0004 T02000189 KCRE 191853Z 12006KT 10SM -RA FEW070 BKN090 OVC110 21/19 A2992 RMK AO1 RAB1754 SLP134 P0001 T02060194 KCPW 191857Z AUTO 36005KT 10SM SCT048 00/M11 A3021 RMK AO2 KBZN 191856Z 08004KT 10SM OVC110 10/M05 A3015 RMK AO2 SLP221 T01001050 KCRG 191853Z 19009KT 10SM SCT049 SCT060 30/19 A2986 RMK AO2 SLP112 T03000194 KBYY 191835Z AUTO 22009KT 10SM SCT023 27/22 A2981 RMK AO2 T02710219 CZCP 191800Z AUTO 09016KT 9SM CLR M14/ A3020 RMK SLP238 CYKY 191800Z 32013G22KT 15SM SCT035TCU BKN040 09/M03 A3018 RMK TCU4SC2 SLP243 ORNI 191800Z 00000KT CAVOK 23/00 Q1014 NOSIG CYMH 191800Z AUTO 11011KT 9SM CLR M01/M08 A3003 RMK SLP169 CYKZ 191800Z 10018G25KT 15SM FEW200 11/M03 A3013 RMK CC1 SLP207 NZWK 191830Z VRB03KT 30KM VCSH FEW010 SCT018 BKN025 12/11 Q1029 RMK NZRO VATSIM CZCR 191800Z AUTO 27011G16KT 08/M06 RMK AO1 SOG 01 8016 PK WND 27017/1736 SLP198 T00791060 KDIJ 191856Z AUTO 32009KT 280V010 6SM HZ BKN090 11/M07 A3012 RMK AO2 T01051072 SLP166 CYNA 191800Z AUTO 25007KT 9SM CLR 01/M07 A3010 RMK SLP192 KCQT 191847Z AUTO 26004KT 10SM CLR 23/12 A2993 RMK AO2 SLP133 T02330122 KDHT 191853Z AUTO 01027G37KT 10SM FEW043 13/M01 A3004 RMK AO2 PK WND 36040/1805 SLP151 T01281006 KDIK 191856Z AUTO 33024G32KT 10SM BKN036 BKN045 BKN065 06/M01 A2996 RMK AO2 PK WND 31034/1826 SLP159 T00561006 CXWB 191800Z AUTO M11/M15 RMK AO1 T11061151 EFUT 191850Z AUTO 33010KT CAVOK 04/01 Q1004 CYLU 191800Z 28007KT 10SM -SN FEW025 SCT030 OVC050 M05/M06 A3010 RMK SC2SC2SC4 SLP200 NZWN 191833Z 35018KT 30KM FEW020 16/12 Q1025 RMK VATSIM USE ONLY TXKF 191855Z 05008KT 020V080 9999 FEW018 BKN050 BKN300 22/18 Q1017 RMK BASE EST  EHDL 191855Z AUTO 04005KT 9999 NCD 09/01 Q1023 BLU CYND 191800Z 14008KT 070V180 15SM FEW220 11/M04 A3028 RMK CI2 SLP257 CXVM 191800Z AUTO 34008KT 09/M06 RMK AO1 PK WND 33017/1751 T00931063 CYMM 191800Z AUTO 31006KT 170V330 9SM CLR 12/M04 A3015 RMK SLP227 KCQW 191855Z AUTO 16005KT 10SM BKN008 OVC013 20/20 A2988 RMK AO2 NZWP 191756Z 16005KT 30KM FEW028 12/12 Q1027 RMK NZAA VATSIM USE ONLY CXVN 191800Z AUTO 06014G25KT 05/M00 RMK AO1 PK WND 06025/1757 SLP179 T00541004 58040 CYNE 191819Z AUTO 35014G24KT 1/2SM SN OVC012 M01/M02 A2982 RMK SLP113 CYLW 191800Z AUTO 01008KT 9SM CLR 14/M00 A3022 RMK SLP240 KCQX 191852Z AUTO 06012KT 10SM CLR 08/02 A3028 RMK AO2 SLP255 T00830017 CYMO 191800Z AUTO 07010KT 9SM CLR 03/M02 A3026 RMK SLP248 KCSG 191851Z 22007KT 10SM BKN048 OVC060 19/18 A2981 RMK AO2 RAB20E36 SLP089 P0000 T01940178 KCRP 191851Z 00000KT 10SM SCT024 BKN030 OVC035 27/21 A2982 RMK AO2 SLP096 T02670211 $ NZWR 191756Z 16005KT 30KM FEW028 12/12 Q1027 RMK NZAA VATSIM USE ONLY KCRQ 191853Z 25008KT 9SM CLR 18/12 A2994 RMK AO2 SLP137 T01830117 NZWS 191800Z 15005KT 30KM SCT050 12/10 Q1027 RMK ALT VATSIM USE ONLY EGNH 191850Z 05011KT 9999 FEW046 10/02 Q1025 EHEH 191855Z AUTO 04008KT 9999 NCD 11/02 Q1022 BLU 04008KT CAVOK EFVR 191850Z AUTO 9999 FEW047 SCT105 ///// Q//// KCRS 191853Z AUTO 27018G25KT 10SM FEW042 27/14 A2974 RMK AO2 SLP066 T02720144 $ KEBA 191835Z AUTO 12004KT 5SM -RA BKN004 BKN008 OVC060 24/24 A2984 RMK AO2 LTG DSNT W T02370235 NZWU 191740Z 34008KT 25KM BKN050 10/09 Q1027 RMK NZOH VATSIM USE ONLY CZFA 191800Z 10007KT 060V130 30SM FEW050 FEW090 SCT180 BKN240 08/M03 A2989 RMK SC1AC1AC2CI3 ACSL SLP150 CYOA 191844Z 09011KT 3SM BR BKN005 OVC030 RMK ST6SC2 EGNJ 191850Z VRB03KT 9999 -SHRA FEW015 SCT022 BKN033 07/06 Q1024 KCTB 191856Z AUTO 10SM SCT100 09/M07 A3018 RMK AO2 SLP239 T00891072 KDKB 191855Z AUTO 13007KT 10SM BKN080 OVC090 20/06 A2962 RMK AO2 T02000059 CYMT 191800Z 32008KT 270V340 15SM SCT030 02/M08 A3025 RMK CF3 SLP267 CYMU 191824Z 27006KT 15SM FEW010 FEW070 RMK ST1AC0 CYOC 191800Z 05009G16KT 35SM FEW038 FEW075 03/M07 A2975 RMK SC1AS1 SC TR AS TR SLP091 CZEL 191800Z AUTO 10017G26KT 10/M03 RMK AO1 PK WND 10026/1759 SLP179 T01041027 56039 KCSM 191853Z AUTO 33017G24KT 10SM SCT045 BKN070 17/08 A2983 RMK AO2 PK WND 33026/1832 SLP091 T01720078 CZEM 191800Z 33005KT 15SM SCT250 02/M08 A3032 RMK CS4 VIA CYQB SLP267 CXWM 191800Z AUTO 33004KT 09/M08 RMK AO1 T00921080 CYNM 191800Z AUTO 13004KT 090V150 9SM FEW170 BKN190 05/M10 A3025 RMK SLP261 CYOD 191800Z 30007KT 15SM BKN060 10/M02 A3018 RMK CU6 SLP242 EGNM 191850Z 36010KT 9999 SCT020 SCT028 07/03 Q1024 KCRW 191854Z 09006KT 7SM -RA FEW050 OVC080 18/14 A2980 RMK AO2 SLP084 P0003 T01830144 EHDV 191855Z AUTO ///15KT 9999 NCD 07/06 Q1025 EHFD 191855Z AUTO 08011KT 9000 NCD 07/06 Q1026 CXVW 191800Z AUTO 25006KT 11/M06 RMK AO1 T01081064 CXWN 191800Z AUTO 33007G15KT 05/04 RMK AO1 1PAST HR 0005 SLP061 P0004 T00540036 50097 KCRX 191855Z AUTO VRB05G12KT 6SM VCTS RA SCT009 BKN014 BKN023 19/18 A2965 RMK AO2 LTG DSNT NE CYMX 191800Z 05006KT 340V080 45SM FEW220 10/M07 A3030 RMK CI2 SLP262 KEBG 191855Z AUTO 11005KT 10SM SCT028 SCT035 SCT043 31/22 A2980 RMK AO2 T03070217 KCSQ 191835Z AUTO 35006KT 1 1/4SM +RA SCT004 BKN009 OVC027 14/14 A2962 RMK AO2 UNTT 191800Z 22005MPS CAVOK 03/02 Q1011 NOSIG RMK QFE743 EGNR 191450Z 32009KT 9999 SCT032 12/06 Q1025 CYPA 191800Z 02013KT 340V050 15SM FEW032 SCT250 08/M02 A3013 RMK CU1CI2 SLP220 CYOJ 191800Z 18005KT 130V230 15SM SCT100 11/M07 A3009 RMK AC4 SLP206 EGPA 191850Z AUTO 08006KT 060V130 9999 BKN016/// 08/04 Q1032 EGNS 191850Z 03010KT 350V070 9999 FEW025 11/03 Q1026 NOSIG KDKK 191853Z AUTO 06013G24KT 10SM CLR 22/00 A2992 RMK AO2 PRESFR SLP133 T02220000 KCUB 191853Z AUTO VRB04KT 10SM BKN010 OVC015 22/20 A2988 RMK AO2 CIG 007V013 SLP115 T02170200 KEAT 191855Z AUTO VRB03KT 10SM CLR 19/01 A3013 RMK AO2 SLP201 T01890011 EGPB 191850Z 06011KT 9999 BKN012 08/05 Q1032 BECMG SCT012 EGNT 191850Z 04013KT 9999 SCT013 BKN025 07/05 Q1027 KEAU 191856Z 15009KT 10SM OVC019 13/06 A2964 RMK AO2 RAE38 SLP039 P0000 T01330056 CYPC 191800Z 08003KT 15SM FEW220 M19/M22 A3022 RMK CI1 -19.5/-24.3/TR/31 TRACE LOOSE LAST OB/NEXT 201300Z SLP232 ZUGY 191800Z 36004MPS 9999 BKN023 OVC040 13/09 Q1017 NOSIG KCSV 191853Z AUTO 18011G19KT 150V210 10SM SCT024 BKN034 21/16 A2969 RMK AO2 SLP036 T02110156 EGPC 191850Z 11007KT 9999 BKN016 06/03 Q1032 CZFM 191800Z 00000KT 35SM FEW018 M02/M10 A2995 RMK ST2 SLP145 CZEV 191800Z AUTO 09006KT 01/M09 RMK AO1 SOG 48 8016 SLP145 T00081086 EGOM 191750Z AUTO 04011KT 9999 SCT025/// SCT049/// 08/01 Q1026 CYPD 191800Z AUTO 27012G19KT 9SM BKN042 BKN050 01/M02 A3013 RMK SLP211 EGPD 191850Z 07004KT CAVOK 07/04 Q1031 NOSIG EGNV 191850Z 02015KT 9999 FEW015 SCT025 08/04 Q1025 CYPE 191800Z 18008KT 140V200 15SM FEW210 11/M04 A3016 RMK CI1 SLP234 EGPE 191850Z 06010KT 9999 FEW024 07/04 Q1031 KDLF 191758Z AUTO 30007KT 10SM FEW130 SCT210 28/19 A2986 RMK AO2 SLP100 T02820190 10282 20189 58002 $ CYOO 191800Z AUTO 10021G28KT 9SM FEW210 11/M04 A3014 RMK PRESFR SLP209 EGNX 191850Z 02009KT 9999 FEW045 08/02 Q1024 EGPF 191850Z AUTO 07011KT 9999 NCD 09/03 Q1029 KECG 191854Z 09009KT 10SM SCT029 BKN050 OVC100 21/16 A3001 RMK AO2 SLP162 T02060156 EGOP 191750Z AUTO 26008KT 8000 // BKN044/// 09/05 Q1023 KDLH 191855Z 12010KT 1/8SM R09/2400V5000FT -RA FG VV002 04/03 A2961 RMK AO2 TWR VIS 1/2 RAB02 SLP042 P0001 T00390033 EHGG 191855Z AUTO 03009KT 9999 NCD 10/06 Q1024 NOSIG KCUH 191855Z AUTO 30008KT 255V315 10SM CLR 20/12 A2973 RMK AO2 CXYH 191200Z AUTO 04001KT M05/M06 RMK AO1 SOG 12 6008 SLP176 T10481062 CYPH 191800Z AUTO 27012KT 9SM -SN FEW012 OVC027 M09/M11 A3027 RMK SLP254 EGPH 191850Z 08009KT 9999 FEW024 07/04 Q1029 KDKR 191835Z AUTO 22009G14KT 10SM CLR 27/22 A2978 RMK AO2 EGPI 191820Z AUTO 00000KT 9999 // BKN033/// 09/05 Q1028 KEBS 191835Z AUTO 30010KT 2SM RA SCT007 SCT037 15/15 A2959 RMK AO2 KDMA 191758Z AUTO 31010G17KT 10SM CLR 25/M06 A2998 RMK AO2 SLP120 T02461060 10246 20104 57007 $ CZFS 191800Z AUTO 12001KT 09/M07 RMK AO1 SOG 02 8010 SLP177 T00931072 EGOS 191750Z AUTO 36005KT 9999 FEW044/// BKN070/// 11/05 Q1023 CYQA 191800Z AUTO 12012G22KT 080V150 9SM CLR 12/M07 A3011 RMK PRESFR SLP202 EHFS 191855Z AUTO 01012KT 340V040 9999 NCD 08/05 Q1023 KCVB 191835Z AUTO 26006KT 7SM CLR 28/19 A2984 RMK AO2 T02810188 CYQB 191800Z CCA 25013KT 190V270 30SM FEW050 12/M04 A3023 RMK SC1 SC TR WS RWY 24 SLP239 EGPK 191850Z 05010KT 9999 FEW034 10/04 Q1029 KEDC 191855Z AUTO 27012G17KT 10SM SCT055 29/19 A2977 RMK AO2 KCUL 191855Z AUTO 18006KT 7SM RA SCT009 OVC015 19/16 A2951 RMK AO2 P0001 T01850157 KDLL 191855Z AUTO 12006KT 10SM CLR 21/04 A2963 RMK AO2 T02110037 KCVC 191835Z AUTO 21004KT 10SM -RA SCT010 BKN048 OVC060 21/20 A2981 RMK AO2 LTG DSNT NE CYPL 191800Z 11013KT 10SM -RASN SCT012 OVC025 02/00 A2980 RMK SF3SC5 SLP110 CXZC 191800Z AUTO 07007KT 04/M02 RMK AO1 SOG 26 8012 SLP249 T00371015 50002 EGPL 191850Z AUTO 05007KT 9999 NCD 12/05 Q1029 EGOV 191750Z AUTO 01010KT 9999 NCD 10/05 Q1025 CYQD 191800Z 35016G23KT 15SM OVC010 M00/M03 A3000 RMK SC8 SLP172 EGPM 191850Z AUTO 08008KT //// NCD 07/05 Q1032 KDLN 191853Z AUTO VRB04KT 10SM CLR 11/M03 A3011 RMK AO2 SLP190 T01061033 VGEG 191550Z 00000KT 5000 HZ FEW028 SCT100 29/26 Q1010 NOSIG KEDE 191855Z AUTO 09009KT 10SM BKN060 BKN090 21/16 A3000 RMK AO2 T02080161 EGOW 191550Z 04013KT 9999 SCT035 13/04 Q1025 BLU EGPN 191820Z 08006KT 020V110 CAVOK 10/04 Q1030 CYOW 191800Z 09010G15KT 15SM FEW200 SCT240 11/M05 A3027 RMK CI1CI3 CI TR SLP255 CYPO 191800Z AUTO 09009G15KT 060V130 9SM CLR 02/M09 A3021 RMK SLP235 CYQF 191800Z 05002KT 15SM FEW075 FEW250 10/M10 A3020 RMK CU1CI1 SLP256 KCTY 191853Z AUTO 20011G25KT 27/22 A2991 RMK AO1 SLP129 T02720217 KCVG 191852Z 12015KT 2 1/2SM -RA BR FEW008 BKN012 OVC022 18/16 A2960 RMK AO2 SLP017 P0008 T01780161 $ EGPO 191850Z AUTO 03008KT 9999 NCD 09/05 Q1029 KECP 191853Z 19006KT 5SM -RA CLR 22/19 A2981 RMK AO2 LTG DSNT E RAE22B44 SLP106 P0003 T02220189 $ KDLP 191855Z AUTO 23009KT 9SM BKN004 24/22 A2981 RMK A01 CYOY 191800Z AUTO 26003KT 240V320 9SM CLR 10/M07 A3022 RMK SLP240 CYQG 191800Z 07015G20KT 15SM FEW048 SCT081 BKN140 BKN260 11/07 A2988 RMK CU1ACC2AC2CI2 CONTRAILS PRESFR SLP120 KCVH 191850Z AUTO 25004KT 10SM CLR 17/09 A2997 RMK AO1 KDMH 191854Z AUTO 17/03 A3015 RMK AO1 SLP209 T01720033 KCTZ 191835Z AUTO 00000KT 2SM +RA BKN017 BKN025 OVC046 21/20 A2994 RMK AO2 P0007 T02050200 CYPQ 191800Z AUTO 10012G19KT 050V140 9SM CLR 11/M03 A3016 RMK PRESFR SLP218 CYQH 191800Z 22005KT 180V260 30SM BKN050 OVC080 06/M04 A3006 RMK SC5AC3 CLIMAT 6.9/-3.1/0.0/42005 SLP207 EHFZ 191855Z AUTO 09012KT 9999 FEW005/// 07/06 Q1025 CYQI 191800Z 34011G20KT 15SM FEW020 06/01 A3022 RMK SC1 SLP235 CYPR 191840Z AUTO 11003KT 080V150 9SM OVC030 09/06 A3026 RMK SLP247 KDLS 191853Z AUTO 00000KT 10SM CLR 18/02 A3013 RMK AO2 SLP202 T01780022 EHGR 191855Z AUTO 04006KT 9999 FEW110 BKN230 OVC310 10/02 Q1022 BLU KEDJ 191850Z AUTO 14010KT 5SM FEW034 SCT048 17/16 A2972 RMK AO1 P0002 KECS 191855Z AUTO 31020G29KT 10SM SCT060 06/M07 A3007 RMK AO2 KCWA 191745Z 11011KT 10SM BKN070 16/02 A2973 CYRA 191800Z 32004KT 15SM FEW035 03/M03 A3006 RMK SC1 SC TR SLP193 KCUT 191853Z AUTO 33013G24KT 310V010 10SM BKN049 03/M09 A3001 RMK AO2 PK WND 28028/1807 SLP169 T00331089 CYQK 191838Z 12006KT 12SM OVC004 05/03 A2961 RMK SC8 SLP039 EGQK 191750Z AUTO 07011KT 9999 NCD 09/04 Q1030 CYRB 191846Z 32007KT 2 1/2SM -SN SCT040 OVC070 M15/M18 A2997 RMK SN2SC2AC4 SLP157 KCWC 191855Z AUTO 33010G17KT 10SM SCT055 22/07 A2981 RMK AO2 T02240073 KECU 191835Z AUTO 31009G15KT 10SM CLR 27/06 A2992 RMK AO2 CYQL 191800Z 27003KT 190V290 40SM FEW060 FEW120 09/M06 A3022 RMK CU1AC1 SLP263 EGPU 191820Z AUTO 31005KT 9999 NCD 10/07 Q1028 KEED 191856Z AUTO 33003KT 10SM CLR 30/M07 A2987 RMK AO2 SLP084 T03001072 $ EGQL 191850Z 07008KT CAVOK 08/05 Q1030 BLU CYQM 191800Z 31006KT 290V350 15SM BKN040 06/M04 A3016 RMK CU6 SLP216 KDMN 191853Z AUTO 32009G16KT 300V360 10SM CLR 25/M09 A2998 RMK AO2 SLP094 T02501089 KCVN 191855Z AUTO 01026G35KT 10SM BKN048 16/01 A3006 RMK AO1 EGQM 191850Z AUTO 01011KT 9999 NCD 07/// Q1028 KEDN 191855Z AUTO 23004KT 10SM BKN006 OVC014 19/18 A2982 RMK AO2 P0009 CYPW 191800Z 29006KT 50SM SCT250 11/07 A3023 RMK CI4 CONTRAILS SLP241 KDMO 191853Z AUTO 28014KT 10SM FEW020 18/13 A2964 RMK AO2 SLP032 T01830133 TSNO $ KCVO 191855Z AUTO 07007KT 10SM CLR 19/06 A3010 RMK AO1 KCWF 191850Z 21007KT 10SM SKC 27/17 A2981 CYPX 191855Z AUTO 27008KT 9SM -SN BKN015 BKN028 M12/M14 A3023 RMK SLP239 CYPY 191800Z AUTO VRB03KT 9SM FEW080 08/M01 A3013 RMK SLP217 KDLZ 191857Z AUTO 14012G20KT 10SM RA SCT048 BKN070 OVC080 17/11 A2975 RMK AO2 CYQQ 191800Z 35008KT 20SM BKN250 12/07 A3024 RMK CI1 CONTRAILS SLP239 KCWI 191855Z AUTO 11010KT 10SM CLR 23/08 A2959 RMK AO1 KCVS 191812Z 02021G37KT 10SM FEW050 15/00 A3004 CYQR 191800Z 33016G25KT 15SM OVC024 04/M01 A3008 RMK SC8 SLP208 CYRJ 191800Z 33014G20KT 300V360 40SM FEW045 07/M10 A3026 RMK CU1 CU TR SLP255 EHJA 191855Z AUTO 11014KT 050V150 9999 SCT007/// BKN008/// BKN010/// 07/06 Q1024 EGQS 191850Z 08009KT 9999 FEW025 08/03 Q1031 BLU TEMPO SCT012 GRN CYSB 191800Z 13012G23KT 090V170 20SM BKN210 11/M09 A3011 RMK CI6 PRESFR SLP208 OTBD 191800Z 30007KT 260V340 CAVOK 26/09 Q1013 NOSIG CYQT 191800Z 08016G22KT 20SM -RA FEW006 OVC045 02/02 A2979 RMK SF2SC6 VIS LWR W PRESFR SLP096 KDNL 191853Z AUTO 13005KT 10SM -RA FEW017 BKN025 OVC075 23/21 A2982 RMK AO2 LTG DSNT SW SLP093 P0000 T02330211 KEDU 191855Z AUTO 00000KT 10SM CLR 23/10 A2991 RMK AO1 CYRL 191856Z 14011KT 10SM -RA SCT008 OVC012 05/03 A2963 RMK SF4SC4 SLP048 EGSC 191550Z 36010KT 310V030 9999 BKN032 10/04 Q1023 CXZU 191800Z AUTO 10/M05 RMK AO1 SLP244 T01021054 58019 CYSC 191800Z AUTO 28009KT 240V310 9SM FEW049 09/M03 A3025 RMK SLP250 CYQU 191800Z 28007KT 230V310 25SM SCT240 10/M05 A3019 RMK CI4 SLP243 KEFD 191850Z 20010KT 10SM FEW025 SCT250 27/18 A2980 CXZV 191800Z AUTO 16003KT 02/M04 RMK AO1 SLP191 T00201036 56007 KEDW 191758Z VRB03KT 50SM FEW250 24/M04 A2995 RMK AO2A SLP124 T02371038 10237 20098 57005 CYQV 191815Z AUTO 33026G34KT 9SM BKN025 OVC030 05/M01 A2994 RMK SLP159 KDMW 191850Z AUTO 14010G15KT 10SM CLR 18/04 A3010 RMK AO2 KEEN 191855Z AUTO 00000KT 10SM CLR 14/M05 A3020 RMK AO1 KCVW 191855Z AUTO 19009KT 5SM HZ CLR 24/19 A2985 RMK A01 KCXE 191835Z AUTO 10009G17KT 070V130 10SM OVC090 21/14 A2999 RMK AO1 T02110144 KDNN 191835Z AUTO 00000KT 10SM SCT012 BKN018 OVC027 20/19 A2974 RMK AO2 KCWN 191856Z AUTO 02010G19KT 10SM BKN030 04/M02 A2976 RMK AO2 SLP071 T00411021 $ CYQW 191800Z AUTO 31011G16KT 300V020 9SM FEW049 10/M02 A3019 RMK SLP243 KEEO 191853Z AUTO 00000KT 10SM BKN035 BKN043 BKN055 07/02 A3015 RMK AO2 SLP194 T00670017 KCVX 191855Z AUTO 10016G21KT 10SM CLR 17/M03 A2984 RMK AO2 T01721026 CYQX 191800Z 01009KT 230V030 20SM FEW026 BKN038 M01/M08 A3006 RMK CU1SC6 SLP187 CYSF 191800Z AUTO VRB05KT 9SM CLR 04/M05 A3020 RMK SLP243 CZHY 191800Z AUTO 34003KT 11/M08 RMK AO1 SOG 02 8017 SLP174 T01111081 CYQY 191800Z 35011KT 15SM FEW013 SCT240 01/M06 A3015 RMK CU1CI2 SLP213 CYRQ 191800Z AUTO 20008KT 9SM CLR 09/M03 A3027 RMK SLP252 CYQZ 191800Z AUTO VRB02KT 9SM CLR 09/M01 A3026 RMK SLP269 EGSH 191850Z 09004KT 9999 FEW035 07/05 Q1024 KDPA 191852Z 08010KT 10SM BKN085 OVC110 21/06 A2961 RMK AO2 SLP024 T02060056 KDNS 191855Z AUTO 32019G24KT 3SM RA BKN009 BKN013 BKN022 10/10 A2968 RMK AO2 P0004 CYSJ 191800Z 25006KT 190V310 15SM SCT040 07/M02 A3019 RMK SC3 SLP228 ORSU 191800Z VRB03KT CAVOK 08/05 Q1018 KEET 191853Z AUTO 21009G17KT 10SM FEW023 SCT029 24/18 A2973 RMK AO2 SLP059 T02440183 OSKL 191200Z 20004KT CAVOK 24/09 Q1013 KEFK 191835Z AUTO 07005KT 10SM CLR 09/M04 A3025 RMK AO2 T00921036 CYRT 191800Z 20005KT 15SM BKN040 BKN250 M12/M14 A3021 RMK SC6CI1 SLP233 EGTC 191620Z 04013KT 9999 SCT040 11/05 Q1022 KDNV 191855Z AUTO 09008KT 5SM RA OVC009 12/11 A2956 RMK AO2 P0006 T01210113 KCWV 191835Z AUTO 17004KT 10SM BKN070 BKN090 BKN110 26/22 A2985 RMK AO2 LTG DSNT SW AND W CZKD 192300Z AUTO 34008KT 10/M04 RMK AO1 PK WND 32021/2210 SLP187 T00971035 51028 CYSM 191800Z VRB04KT 15SM BKN030 BKN100 11/M03 A3008 RMK CU5AC1 AC TR VIRGA SLP196 CYRV 191800Z AUTO 30006KT 270V340 9SM CLR 12/M02 A3021 RMK SLP239 EHKD 191855Z AUTO 05010KT 9999 NCD 09/07 Q1024 BLU KEGE 191850Z 32005KT 7SM -RA BR BKN026 BKN035 07/02 A3013 CYSN 191800Z 05018G25KT 15SM FEW180 BKN250 10/03 A3006 RMK AC1CI7 AC TR SLP180 EGTE 191850Z 05005KT 9999 FEW040 09/03 Q1022 CYTE 191800Z AUTO 30013KT 9SM OVC019 M11/M15 A3008 RMK SLP191 KCXO 191853Z 24012KT 10SM CLR 27/19 A2977 RMK AO2 SLP077 T02720189 KCXP 191855Z AUTO 07008KT 060V140 10SM CLR 20/M14 A3011 RMK AO2 CYSP 191800Z 24006KT 160V280 15SM FEW018 SCT022 BKN095 OVC110 06/M03 A2994 RMK SC2SC2AC2AS2 CIG RAG SLP150 CYTH 191800Z 03015KT 1 1/2SM R06/5500VP6000FT/U -SN OVC010 M04/M06 A3001 RMK SC8 SLP177 KEGI 191858Z AUTO 20010KT 10SM FEW030 SCT140 SCT170 BKN190 23/19 A2980 RMK AO2 SLP092 T02250189 $ EHJR 191825Z AUTO 11010G11KT //// ///////// 08/06 Q1024 W08/H15 OSLK 191900Z 12006KT CAVOK 13/11 Q1017 EGSS 191850Z 02004KT CAVOK 08/03 Q1023 CYUA 191800Z AUTO 00000KT 9SM CLR M15/ A2989 RMK ICG PAST HR SLP129 KEFT 191835Z AUTO 12008KT 10SM CLR 22/06 A2961 RMK AO2 EGTK 191850Z 05006KT 9999 FEW028 09/04 Q1023 EGUB 191750Z AUTO 03003KT 9999 // SCT050/// 10/04 Q1022 CYUB 191800Z 09010G15KT 15SM BKN080 M09/M13 A3001 RMK AS2 SLP165 KDPL 191855Z AUTO 12003KT 10SM SCT021 BKN031 BKN047 21/19 A2995 RMK AO2 P0002 T02080191 KEHC 191855Z AUTO 16014KT 10SM CLR 27/19 A2983 RMK A01 KCXU 191835Z AUTO 16003KT 1 3/4SM SCT032 BKN038 OVC046 19/19 A2989 RMK AO2 T01900190 CYTL 191800Z AUTO 12013G22KT 9SM BKN055 OVC066 06/M05 A2987 RMK SLP127 KDOV 191858Z AUTO 09018G26KT 10SM FEW160 13/05 A3013 RMK AO2 PK WND 09027/44 SLP206 T01330049 VISNO RWY19 CHINO RWY19 $ KCXY 191856Z 11011G18KT 10SM CLR 19/03 A3009 RMK AO2 SLP191 T01890033 CYSY 182300Z 14007KT 10SM -SN BKN050 M15/M17 A3025 RMK SC6 SNW CVR/ MEDIUM PACK LAST OBS/NEXT 191300Z SLP255 KDQH 191855Z AUTO 30011G17KT 270V330 10SM -VCTSRA BKN016 OVC024 21/18 A2991 RMK AO2 LTG DSNT ALQS VGHS 191750Z 08007KT 4000 HZ SCT012 BKN100 25/21 Q1010 NOSIG CYTQ 191836Z 27015G20KT 12SM SCT020 SCT070 RMK SC4AC1 CYTR 191800Z 10010G16KT 15SM OVC240 12/M01 A3019 RMK CI2 SLP227 KCYS 191853Z 34017G29KT 10SM FEW026 BKN033 OVC043 03/M05 A3009 RMK AO2 PK WND 33029/1851 SNB11E22 SLP190 P0000 T00331050 KDRA 191852Z AUTO VRB03KT 10SM CLR 25/M09 A2996 RMK AO2 SLP109 T02501089 CYTS 191800Z 12012KT 15SM SCT160 BKN220 09/M07 A3014 RMK AC3CI4 SLP219 EGVA 191858Z AUTO 13002KT 9999 OVC034 10/05 A3020 RMK AO2 SLP232 T01000046 $ EHMA 191855Z AUTO 08014KT 020V140 9999 NSC 10/06 Q1025 KCZL 191855Z AUTO 19010G14KT 150V210 10SM SCT018 SCT025 22/15 A2974 RMK AO2 T02180151 EICK 191830Z 09012KT 9999 FEW018 BKN022 08/04 Q1025 NOSIG CYUL 191800Z 24005KT 150V280 30SM FEW240 09/M05 A3029 RMK CI1 SLP258 CYVC 191800Z 36007KT 320V040 15SM FEW033 05/M04 A3018 RMK CU1 SLP238 EGUL 191858Z AUTO 03005KT 9999 OVC040 09/04 A3021 RMK AO2 SLP234 T00890042 KEGV 191830Z AUTO 15011G15KT 10SM CLR 13/00 A2969 RMK AO2 T01271004 CZMD 191800Z AUTO 14009G23KT 070V180 9SM BKN070 BKN082 07/M04 A2976 RMK SLP090 EHKV 191855Z AUTO 10009KT 9999 NCD 08/06 Q1025 EGUN 191755Z 02005KT 9999 OVC041 10/05 A3021 RMK AO2A SLP218 T00980049 10127 20095 53003 KEHO 191855Z AUTO 14007KT 5SM HZ OVC004 A2985 RMK AO2 EGUO 191350Z 07012KT 9999 BKN030 10/02 Q1024 BLU EHMG 191855Z AUTO 08017KT 9999 NCD 10/06 Q1025 CYTZ 191800Z AUTO 07027G33KT 9SM CLR 07/M01 A3013 RMK SLP204 KEHR 191855Z AUTO 17006KT 10SM FEW012 SCT020 BKN025 20/17 A2951 RMK AO1 KDRI 191855Z AUTO 21009KT 10SM SCT006 SCT042 27/17 A2980 RMK AO2 T02660174 CZMJ 191800Z AUTO 33019G25KT 09/M04 RMK AO1 SOG 00 8001 PK WND 33025/1754 SLP216 T00871036 CYWA 191800Z AUTO 14010KT 9SM FEW098 10/M04 A3023 RMK SLP242 KEIK 191855Z AUTO 06006KT 10SM OVC048 09/M03 A3009 RMK AO2 T00881031 KCZT 191855Z AUTO 30007KT 10SM CLR 28/18 A2982 RMK AO2 CYUT 191800Z 25002KT 10SM -SN BKN016 M12/M15 A3012 RMK SC7 SLP202 EIDL 191700Z 04013KT CAVOK 13/05 Q1028 CYVL 191800Z AUTO 25004KT 9SM CLR M03/M08 A3003 RMK SLP193 KDRM 191855Z AUTO 08010G19KT 10SM CLR 08/M01 A2998 RMK AO2 T00801010 CYVM 191800Z AUTO 01015KT 9SM OVC075 M15/M18 A2990 RMK SLP127 EGUW 191750Z AUTO 02007KT 9999 BKN039/// 09/02 Q1022 CYWE 191800Z AUTO 08007KT 9SM FEW075 02/M04 A3005 RMK SLP200 KDRO 191853Z AUTO 20013G21KT 10SM CLR 14/M03 A3005 RMK AO2 SLP137 T01441033 EHLW 191855Z AUTO 07010KT 9999 NCD 09/06 Q1024 BLU EGVN 191850Z 09004KT 9999 SCT035 10/04 Q1023 NOSIG KFAF 191858Z AUTO 08013G19KT 1 3/4SM HZ FEW020 SCT042 SCT049 SCT190 19/14 A3002 RMK AO2 SLP169 T01930138 $ CYUX 191800Z 31008KT 12SM -SN SCT042 BKN230 M14/M17 A3003 RMK SC3CS4 SF TR AS TR BR OVR BASIN SLP171 CYVO 191800Z 11007KT 040V140 15SM BKN280 08/M10 A3022 RMK CS6 SLP251 EGVO 191850Z 06004KT 9999 FEW030 09/03 Q1022 BLU KEHY 191855Z AUTO 26012KT 10SM CLR 01/M04 A3010 RMK AO2 EGVP 191750Z AUTO 07007KT 9999 // NCD 10/03 Q1022 CYVP 191800Z 29009G17KT 15SM -SN OVC037 M03/M11 A3016 RMK SC8 SLP218 CYUY 191852Z 11010G16KT 080V160 15SM FEW180 BKN220 09/M10 A3019 RMK AC1CS7 AC TR WSHFT 1843 SLP240 CYWG 191800Z 34023KT 10SM -RA SCT008 OVC016 05/04 A2971 RMK SF3SC5 SLP068 KCZZ 191852Z AUTO 22013KT 25/M02 A2991 RMK AO1 SLP105 T02501022 CYWH 191800Z 03006KT 360V080 15SM SCT240 14/05 A3020 RMK CI3 SLP227 CYVQ 191800Z 13011KT 30SM SKC 01/M06 A3000 RMK SLP163 KEIR 191855Z AUTO 19012KT 10SM CLR 25/20 A2985 RMK A01 CYVR 191800Z 30013KT 30SM BKN250 13/08 A3021 RMK CI5 CONTRAILS SLP229 KDTA 191835Z AUTO 31006KT 10SM CLR 18/M05 A3007 RMK AO1 T01791047 CYWJ 191800Z 18003KT 140V250 40SM SKC M04/M09 A3004 RMK SLP193 KDRT 191853Z AUTO VRB04KT 10SM CLR 31/09 A2984 RMK AO2 SLP088 T03060089 $ CZMT 191800Z 16012G18KT 10SM -SHRA SCT008 BKN012 OVC025 09/08 A3020 RMK CF4SC3SC1 SLP228 CYVT 191800Z 07004KT 030V100 15SM FEW032 FEW080 FEW250 06/M02 A3019 RMK CU1AC1CI1 CU TR AC TR CI TR SLP244 CYWK 191835Z 33014G20KT 3SM -SHSN BKN020 OVC042 M04/M07 A3004 RMK CU5SC3 VIS S 11/2 SLP213 CZMU 191800Z AUTO 30008KT 10/M10 RMK AO1 SOG 00 T00991098 CYXC 191800Z VRB03KT 25SM FEW100 FEW250 11/M06 A3019 RMK AC1CI1 SLP235 CYWL 191800Z VRB03KT 15SM SKC 10/M04 A3024 RMK SLP265 KDSM 191854Z 33008KT 10SM SCT014 BKN022 OVC030 18/14 A2957 RMK AO2 SLP010 CB DSNT SW MOV NE T01780139 $ KFAM 191855Z AUTO 30009G16KT 10SM SCT010 BKN036 OVC055 17/14 A2959 RMK AO1 P0016 EGXC 191850Z 35005KT 9999 FEW015 07/05 Q1023 BLU EGXD 191750Z AUTO 01010KT 9999 // SCT025/// BKN035/// 09/03 Q1025 CYVV 191800Z 08019G24KT 15SM BKN250 11/M01 A3003 RMK CI7 PRESFR SLP174 EGXE 191750Z AUTO 02012KT 9999 FEW019/// BKN038/// 08/04 Q1025 CYXE 191800Z 35018G25KT 15SM FEW040 09/M10 A3015 RMK SC1 SLP228 EIDW 191830Z 04012KT 9999 FEW024 SCT040 08/04 Q1026 NOSIG KFBG 191856Z AUTO 12004KT 10SM -RA FEW023 SCT028 BKN035 21/20 A2991 RMK AO2 $ CYXH 191800Z 36005KT 300V020 30SM BKN055 11/M05 A3022 RMK CU6 SLP252 KFAR 191853Z 31016G29KT 10SM -RA SCT018 BKN024 OVC032 08/04 A2971 RMK AO2 PK WND 31030/1757 RAB06 SLP064 P0000 T00830044 KDUA 191855Z AUTO 29008KT 10SM SCT018 SCT034 OVC040 20/16 A2973 RMK AO2 KELA 191835Z AUTO 22009KT 10SM CLR 26/21 A2979 RMK AO2 T02620212 CYXJ 191800Z 24005KT 210V300 15SM FEW140 SCT200 BKN240 09/M04 A3015 RMK AC1CI3CI1 SLP235 KFAT 191853Z 13004KT 10SM FEW090 FEW180 FEW200 27/02 A2990 RMK AO2 SLP121 CU DSNT N-NE-E T02720022 KDUB 191835Z AUTO 15008G16KT 10SM SCT075 SCT110 07/M07 A3009 RMK AO2 CYYB 191800Z 13012G19KT 15SM BKN250 10/M06 A3014 RMK CI6 SLP219 KFBL 191854Z AUTO 29011G20KT 5SM DZ OVC013 13/11 A2963 RMK AO2 KDTL 191855Z AUTO 31016G21KT 2 1/2SM -RA BKN007 OVC012 06/06 A2967 RMK AO2 KDUC 191855Z AUTO 31012G17KT 10SM SCT040 SCT055 BKN080 21/11 A2977 RMK AO2 KEKM 191750Z 10015KT 10SM CLR 19/01 A2972 RMK AO2 CZOL 191800Z AUTO 27004KT 11/M09 RMK AO1 T01131091 EGWU 191850Z 07007KT 9999 FEW030 SCT050 11/01 Q1023 BLU NOSIG CYYC 191800Z 18010KT 130V220 40SM FEW050 SCT220 10/M08 A3020 RMK SC1CI3 SLP259 CYXL 191810Z 10010G18KT 070V140 8SM -RA BKN006 OVC030 03/02 A2966 RMK SF6SC2 PRESFR SLP060 CZPC 191800Z AUTO 12006KT 100V180 9SM CLR 08/M03 A3020 RMK SLP260 KELD 191853Z AUTO VRB04KT 10SM SCT040 25/17 A2972 RMK AO2 SLP060 T02500167 $ KDSV 191854Z AUTO 10013KT 10SM CLR 21/M02 A3004 RMK AO2 SLP180 T02061017 EGYD 191750Z AUTO 01006KT 9999 // SCT029/// BKN060/// 07/05 Q1024 CYYD 191800Z 16004KT 010V190 25SM FEW070 BKN120 BKN230 07/M02 A3026 RMK AC2AC4CI1 SLP263 KEKN 191851Z AUTO 15016G26KT 10SM -RA OVC085 16/08 A2995 RMK AO2 PK WND 15028/1841 SLP147 P0001 T01610083 TSNO KDTN 191853Z 21011KT 10SM FEW029 25/17 A2972 RMK AO2 SLP060 T02500172 CYYE 191800Z 21006KT 150V220 30SM FEW210 10/M08 A3008 RMK CI2 SLP203 KDTO 191853Z 29016KT 10SM SCT032 21/14 A2976 RMK AO2 SLP072 T02060139 KEKO 191856Z AUTO 19008KT 140V220 10SM CLR 17/M08 A3010 RMK AO2 SLP173 T01721083 CYYF 191800Z 36009KT 15SM SKC 13/M02 A3021 RMK SLP235 KFAY 191853Z 15009G19KT 1SM +RA BR FEW015 BKN026 OVC060 21/19 A2992 RMK AO2 RAB04 SLP126 P0035 T02060194 RVRNO KDUG 191856Z AUTO 33005KT 10SM CLR 24/M06 A3002 RMK AO2 SLP118 T02391061 CYXP 191800Z 24013KT 15SM IC FEW012 SCT040 SCT090 M16/M19 A2991 RMK SF1SC2AC1 SLP131 EGXP 191750Z AUTO 02005KT 9999 // BKN060/// 07/05 Q1023 CYYG 191800Z 25003KT 210V340 15SM FEW035 SCT055 BKN270 03/M07 A3020 RMK SC1SC3CI2 CU ASOCTD SLP228 KDUH 191855Z AUTO 07013G19KT 10SM CLR 11/04 A2979 RMK AO2 KEKQ 191856Z AUTO 18011KT 10SM FEW003 BKN055 BKN070 20/18 A2967 RMK AO2 T02000177 BKN V OVC P0024 WSHFT 1810 PK WND 24026/1820 SLP041 EHPG 191855Z AUTO 04008KT 9999 NCD 08/05 Q1024 CYXQ 191800Z 10008G15KT 080V140 30SM SKC 08/M04 A2955 RMK SLP028 CYYH 191800Z 30006KT 10SM -SN VCFG BKN018 OVC025 M12/M15 A3013 RMK SC6SC2 SUN DIMLY VISIBLE SLP205 KFBR 191855Z AUTO 32003KT 10SM SCT030 SCT034 08/00 A3016 RMK AO2 T00840001 CYXR 191800Z AUTO 10006G15KT 9SM CLR 07/M04 A3019 RMK SLP236 KDUJ 191853Z AUTO 11016G23KT 10SM CLR 21/M01 A2997 RMK AO2 SLP145 T02061011 KDTS 191853Z AUTO 19007KT 10SM SCT044 24/19 A2980 RMK AO2 RAE1754 SLP091 P0013 T02390189 TSNO EGXS 191750Z AUTO 34012KT 9999 // FEW028/// 07/06 Q1023 CYYJ 191800Z VRB03KT 30SM SCT250 14/06 A3021 RMK CI3 SLP230 CYXS 191800Z AUTO 19004KT 090V240 9SM CLR 10/M03 A3025 RMK SLP268 KELK 191855Z AUTO 32019G27KT 10SM SCT040 SCT047 BKN065 14/09 A2988 RMK AO2 EGXT 191750Z AUTO 02011KT 9999 NCD 09/03 Q1023 CYXT 191800Z 32002KT 20SM SCT048 BKN100 OVC140 06/01 A3030 RMK SC4AC2AC2 SLP270 EGXU 191750Z AUTO 02011KT 9999 // SCT024/// BKN070/// 09/03 Q1025 CYXU 191836Z 08017G26KT 15SM -SHRA SCT040 BKN070 OVC260 11/02 A2995 RMK SC3AC4CI1 ACC ASOCTD PRESFR SLP146 CYYL 191800Z AUTO 01011G17KT 9SM OVC011 M03/M04 A3017 RMK SLP241 KELM 191853Z AUTO 14006G14KT 10SM CLR 19/M03 A3007 RMK AO2 SLP184 T01941033 KFCM 191853Z 27012KT 10SM BKN014 OVC035 13/09 A2962 RMK AO2 SLP032 T01330089 EGYM 191750Z AUTO 36005KT 9999 SCT024/// 10/04 Q1023 KELN 191853Z AUTO VRB03KT 10SM CLR 20/00 A3014 RMK AO2 SLP203 T02000000 KDTW 191853Z 06011G19KT 10SM SCT070 BKN180 14/05 A2983 RMK AO2 SLP103 T01390050 $ EGXV 191850Z AUTO 02006KT 5000 SHRA FEW008/// BKN014/// 06/06 Q1024 CYZE 191800Z AUTO 09015G22KT 9SM CLR 09/M01 A3006 RMK SLP185 CYYN 191800Z AUTO 34019G24KT 9SM FEW047 BKN060 07/M05 A3015 RMK SLP232 KELO 191850Z AUTO 14004KT 2 1/2SM DZ OVC008 04/03 A2962 RMK AO2 EGXW 191850Z 36006KT 9999 VCSH FEW025 SCT035 BKN060 07/05 Q1024 BLU CYZF 191800Z 14007KT 15SM FEW060 FEW100 FEW240 05/M04 A3004 RMK CU1ACC1CI1 CU TR ACC TR SLP188 CYXX 191800Z CCA 03004KT 260V060 30SM FEW120 FEW240 16/07 A3019 RMK AC1CI1 SLP225 KELP 191851Z VRB03KT 10SM FEW120 FEW250 24/M05 A2998 RMK AO2 SLP088 T02391050 $ CYZG 191800Z 29006KT 4SM -SN OVC013 M12/M14 A3007 RMK ST8 SUN DIMLY VSBL SLP209 CYXY 191800Z 14013G22KT 40SM FEW050 SCT080 BKN180 05/M03 A2992 RMK SC2AC1CI4 SLP161 EGYP 191850Z 22018KT 9999 FEW004 BKN006 OVC012 06/06 Q0978 YLO1 CYXZ 191700Z 10009KT 080V160 15SM BKN030 BKN100 11/M08 A3000 RMK SC6AC1 SLP168 EGXZ 191750Z AUTO 01011KT 9999 BKN026/// BKN038/// 08/04 Q1025 CYYQ 191800Z 04006KT 15SM FEW008 SCT270 M05/M07 A3029 RMK SF2CI1 SLP259 CYZH 191800Z AUTO 31006KT 9SM CLR 04/M02 A3018 RMK SLP247 CYYR 191800Z 00000KT 15SM FEW052 SCT075 BKN210 04/M08 A3000 RMK CF2AC2CI1 SLP164 KFCS 191758Z 01014KT 10SM SCT044 BKN075 07/M02 A3008 RMK AO2A SLP200 60000 T00711016 10071 20023 58012 CZPS 191800Z AUTO 03004KT 10/M11 RMK AO1 T00971108 KFDK 191849Z 13008G17KT 10SM SKC 19/03 A3012 KDVK 191855Z AUTO 17015G21KT 7SM +RA BKN016 OVC024 18/17 A2961 RMK AO2 KEMK 191855Z AUTO 10SM CLR 24/21 A2982 RMK A01 CYYT 191800Z 03014KT 15SM OVC012 M02/M04 A3004 RMK SC8 SLP179 KDVL 191855Z AUTO 32015KT 10SM OVC015 06/03 A2977 RMK AO1 P0001 CYYU 191800Z 15012G21KT 15SM FEW040 BKN120 BKN230 08/M08 A3011 RMK SC1AC4CS2 PRESFR SLP207 KEND 191855Z 29013G25KT 10SM -SHRA FEW030 BKN042 BKN150 BKN180 18/11 A2976 RMK AO2A CB DSNT N-NE AND W PRESRR SLP074 KEMM 191835Z AUTO 14005KT 10SM SCT028 BKN040 08/M01 A3015 RMK AO2 KDVN 191852Z AUTO 10SM CLR 24/08 A2956 RMK AO2 SLP008 T02390078 $ EHRD 191855Z AUTO 36006KT 330V040 9999 NCD 09/05 Q1023 NOSIG KDUX 191855Z AUTO 36028G38KT 10SM SCT028 BKN035 BKN042 11/02 A3001 RMK AO2 T01130021 KDVO 191855Z AUTO 00000KT 10SM CLR 15/11 A2997 RMK AO2 KEMP 191853Z AUTO 32010KT 10SM FEW030 19/11 A2969 RMK AO2 LTG DSNT NE SLP052 T01890106 KDVP 191853Z AUTO 32017G23KT 10SM SCT011 BKN029 OVC041 09/07 A2974 RMK AO2 T00920068 KELY 191853Z AUTO VRB05KT 10SM CLR 17/M12 A3010 RMK AO2 SLP123 T01721122 CYYY 191800Z 25014G20KT 30SM FEW040 08/M06 A3016 RMK CF1 SLP214 CYZP 191814Z AUTO 15008KT 9SM -RA OVC060 09/08 A3022 RMK SLP235 KDWH 191853Z 22010G18KT 190V260 10SM CLR 27/19 A2977 RMK AO2 SLP078 T02720189 KELZ 191856Z AUTO 12012G19KT 10SM CLR 19/M04 A3003 RMK AO2 SLP170 T01891044 $ CYYZ 191800Z 08017G23KT 15SM FEW230 BKN260 09/M02 A3011 RMK CI2CC3 PRESFR SLP202 KFDR 191853Z AUTO 29019G24KT 10SM FEW055 21/08 A2979 RMK AO2 SLP077 T02110083 CYZR 191853Z AUTO 12018G24KT 9SM -RA SCT060 SCT077 BKN100 13/06 A2987 RMK PRESFR SLP118 KFFA 191835Z AUTO 09008KT 10SM SCT046 OVC110 19/15 A3001 RMK AO2 T01890149 KEMT 191845Z 25005KT 10SM CLR 23/07 A2995 CYZS 191800Z 22002KT 15SM BKN025 M12/M16 A3013 RMK SC7 SLP211 EHSA 191825Z AUTO 36008G08KT 9999 ///////// 08/06 Q1023 W08/H10 KDVT 191853Z AUTO 19003KT 10SM CLR 27/M06 A2990 RMK AO2 SLP104 T02721061 CYZT 191800Z 04006KT 20SM FEW016 OVC200 09/07 A3029 RMK SC1CI7 SLP256 KFFC 191853Z AUTO 17007KT 140V210 10SM BKN012 OVC016 20/19 A2980 RMK AO2 RAE24 SLP086 P0005 T02000189 KENL 191835Z AUTO 30003KT 5SM BR OVC007 17/14 A2953 RMK AO2 T01680143 CYZU 191800Z 32008KT 220V350 15SM FEW030 FEW120 10/M06 A3019 RMK CU1AC1 SLP248 EHSC 191825Z AUTO 03013G14KT 9999 ///////// 08/06 Q1023 W09/H9 KEMV 191835Z AUTO 08007KT 10SM BKN055 BKN090 21/12 A3002 RMK AO2 CYZV 191800Z 15004KT 30SM BKN064 02/M05 A3009 RMK SC7 SLP192 KFDW 191855Z AUTO 16007G14KT 7SM OVC007 20/20 A2988 RMK AO1 KEOE 191855Z AUTO 14007KT 10SM BKN009 OVC014 21/21 A2986 RMK AO2 LTG DSNT SW CYZW 191800Z 13005KT 090V160 20SM OVC040 05/M02 A3002 RMK SC8 SLP196 CYZX 191800Z 29008KT 15SM FEW040 06/M07 A3021 RMK SC2 WNDY HILL 29010KT SLP232 KFDY 191853Z AUTO 07007KT 10SM -RA OVC049 18/09 A2971 RMK AO2 RAB40 SLP056 P0000 T01830089 KFEP 191855Z AUTO 10011KT 060V130 10SM OVC080 23/07 A2960 RMK AO2 T02290066 CZRP 191800Z AUTO 29013KT M09/M11 RMK AO1 PK WND 29018/1744 SLP193 T10931112 53008 CYZY 191800Z AUTO 19003KT 150V260 9SM CLR 07/M03 A3023 RMK SLP266 KDYA 191855Z AUTO 23008G15KT 10SM 26/17 A2973 RMK AO2 T02630168 CZSJ 191800Z AUTO 11010G17KT 9SM BKN075 BKN091 07/M03 A2969 RMK SLP064 KDYB 191855Z AUTO 14008KT 10SM BKN012 BKN017 OVC031 25/22 A2990 RMK AO1 KFET 191855Z AUTO 32020G26KT 7SM -RA SCT015 BKN022 OVC060 10/08 A2977 RMK AO2 P0002 T00960080 KEOK 191835Z AUTO 09004KT 10SM SCT110 21/13 A2956 RMK AO2 CZTB 191800Z AUTO 09012KT 02/02 RMK AO1 2PAST HR 8039 PK WND 09020/1718 SLP094 P0001 T00210016 50050 KDWU 191855Z AUTO 13011G15KT 7SM FEW037 FEW045 OVC060 18/17 A2971 RMK AO1 P0012 KFFL 191835Z AUTO 04007KT 10SM FEW085 FEW100 20/11 A2956 RMK AO2 KENV 191855Z AUTO 13007KT 10SM CLR 18/M06 A3007 RMK AO1 KFFM 191854Z AUTO 32019G29KT 10SM OVC021 08/06 A2971 RMK AO2 CZSM 191800Z AUTO 05003KT 11/M05 RMK AO1 SOG 05 8022 SLP192 T01131051 KENW 191853Z 09010KT 10SM CLR 16/01 A2967 RMK AO2 SLP048 T01610011 KFEW 191823Z AUTO 34016G28KT 10SM BKN027 03/M04 A3006 RMK AO2 RAB08E11SHRAB11E23RAB23E23 $ KFFO 191842Z 12015G20KT 4SM -RA BR SCT012 BKN023 OVC033 17/17 A2968 RMK AO2A SLP053 VHHH 191830Z 21010G22KT 180V250 9999 FEW012 SCT025 27/23 Q1006 NOSIG KDWX 191835Z AUTO 17003KT 10SM SCT060 OVC070 06/M07 A3018 RMK AO2 T00561072 PLCH 191800Z VRB02KT 9999 SCT017 BKN300 27/25 Q1010 CZSP 191800Z AUTO 01005KT 01/M07 RMK AO1 SOG 55 3003 SLP235 T00141071 KEPH 191853Z AUTO 00000KT 10SM CLR 21/M04 A3013 RMK AO2 SLP201 T02061039 ZUUU 191800Z VRB01MPS CAVOK 14/11 Q1015 NOSIG KDXR 191853Z 14007G14KT 10SM CLR 16/M01 A3019 RMK AO2 SLP224 T01561006 KH78 191645Z 17015KT 10SM BKN010 26/24 2977 RMK SEAS 6-8 KEQA 191855Z AUTO 31011G16KT 10SM SCT034 BKN042 OVC060 18/11 A2972 RMK AO2 KFFT 191853Z AUTO 13011KT 7SM -RA BKN017 BKN027 OVC060 19/17 A2956 RMK AO2 RAE00B40 SLP004 P0001 T01940167 KDZB 191855Z AUTO 30011G16KT 10SM CLR 29/10 A2981 RMK AO2 T02940098 KFHB 191835Z AUTO 14014KT 10SM SCT048 SCT055 SCT070 28/23 A2986 RMK AO1 CZST 191800Z 00000KT 12SM -RA FEW009 FEW018 BKN030 OVC054 06/03 A3033 RMK CF1SC1SC4SC2 SLP270 KDYL 191854Z AUTO VRB04KT 10SM CLR 16/02 A3016 RMK AO2 SLP212 T01610017 FABL 191800Z 23003KT CAVOK 15/M03 Q1022 NOSIG KFGN 191854Z AUTO 00000KT 10SM -DZ OVC007 04/03 A2960 RMK AO2 EIKN 191830Z 11008KT 080V140 5000 FEW037 BKN190 11/04 Q1026 NOSIG KDXX 191854Z AUTO 33016G27KT 10SM BKN036 OVC043 11/03 A2974 RMK AO2 KFFX 191854Z AUTO 12014G21KT 10SM CLR 20/M07 A2974 RMK AO2 T01971072 KFFZ 191747Z VRB05KT 40SM SKC 25/M05 A2993 RMK WIND ESTIMATED PKMJ 182155Z 06012KT 15SM FEW015 SCT050 BKN120 OVC300 29/25 A2982 KDYR 191855Z 23013G18KT 10SM SCT020 BKN026 OVC038 22/12 A2959 RMK AO1 LTG DSNT NW KDYS 191758Z AUTO 33012KT 290V350 10SM CLR 22/07 A2988 RMK AO2 RAB1658E04DZB04E05RAB05E06 SLP094 P0000 60000 T02160070 10216 20129 50015 $ KDZJ 191855Z AUTO 11004KT 10SM 18/15 A2979 RMK AO2 T01820151 KDYT 191854Z AUTO 06014KT 10SM OVC003 03/02 A2965 RMK AO2 CZUM 191853Z AUTO 32012KT 9SM SCT038 BKN050 OVC055 01/M07 A2998 RMK SLP184 EIME 191800Z 06010KT 9999 FEW030 09/03 Q1026 KFGX 191855Z AUTO 14018G27KT 10SM BKN017 BKN021 OVC048 18/16 A2966 RMK AO2 T01830160 KFIG 191854Z AUTO 13011G17KT 10SM CLR 19/00 A3001 RMK AO2 SLP161 T01940000 EIKY 191830Z 06006KT CAVOK 15/07 Q1024 PKMR 191852Z 05010KT 15SM FEW014 SCT050 BKN120 OVC300 27/24 A2978 RMK SLP086 T02720238 KFHR 191853Z AUTO 01009KT 10SM CLR 15/07 A3020 RMK AO2 SLP226 T01500067 $ KERI 191851Z AUTO 04008KT 10SM CLR 14/02 A2988 RMK AO2 SLP121 T01390017 TSNO FACT 191800Z VRB03KT CAVOK 15/13 Q1016 NOSIG EHVK 191855Z AUTO 03004KT 9999 NCD 11/02 Q1023 BLU KESC 191855Z AUTO 08011KT 10SM SCT075 BKN080 OVC085 07/M01 A2981 RMK AO1 KFHU 191758Z AUTO VRB04KT 8SM CLR 22/M09 A3006 RMK AO2 SLP163 P0006 60126 T02201087 10225 20107 58004 $ CZVL 191800Z AUTO VRB07KT 9SM CLR 11/M09 A3020 RMK SLP252 KGAD 191855Z 22010KT 10SM SCT020 BKN026 BKN033 22/17 A2971 RMK AO1 EHVL 191855Z AUTO 06009KT 9999 NCD 08/06 Q1024 BLU FACV 190831Z 07003KT CAVOK 20/M00 Q1021 KFIN 191850Z 24008KT 7SM BKN050 31/20 A2988 KESF 191853Z AUTO 26005KT 10SM CLR 26/17 A2978 RMK AO2 SLP082 T02610172 KGAF 191855Z AUTO 32019G28KT 6SM BR SCT012 BKN018 OVC023 04/04 A2973 RMK AO2 VIAR 191830Z 33018KT 3500 TS SCT030 FEW035CB OVC090 29/14 Q1006 KGAG 191853Z AUTO 35030G40KT 10SM SCT030 BKN037 BKN048 14/08 A2988 RMK AO2 PK WND 34040/1853 LTG DSNT E RAE05 SLP109 P0000 T01390078 KEQY 191853Z AUTO VRB03KT 10SM OVC007 20/18 A2987 RMK AO2 CIG 006V010 SLP116 T02000183 KI16 191835Z AUTO 7SM -RA BKN025 OVC032 17/16 A2989 RMK AO2 T01740157 KGAI 191855Z AUTO 08009G15KT 10SM CLR 17/05 A3013 RMK AO1 KFKA 191855Z AUTO 00000KT 10SM OVC022 15/11 A2963 RMK AO2 T01500105 KFIT 191852Z AUTO VRB03KT 10SM CLR 17/M02 A3020 RMK AO2 SLP227 T01671022 KETB 191830Z AUTO 10011KT 10SM CLR 15/00 A2971 RMK AO2 VIBN 191730Z 08008KT 3500 HZ NSC 30/20 Q1007 KETC 191835Z AUTO 09007KT 10SM SCT040 BKN047 OVC060 22/15 A3000 RMK AO2 T02220147 FAEL 191800Z 01004KT 9999 FEW029 14/13 Q1018 KGBD 191855Z AUTO 35032G37KT 10SM FEW020 SCT027 OVC040 09/04 A2991 RMK AO1 KERV 191835Z AUTO 27008G14KT 10SM CLR 28/10 A2985 RMK AO2 T02810095 KESN 191850Z 11015G30KT 10SM SKC 18/08 A3016 KGAO 191855Z AUTO 21012G17KT 10SM CLR 28/19 A2982 RMK AO2 T02770194 EINN 191830Z 06012KT 9999 FEW038 SCT200 13/03 Q1025 NOSIG FAEO 190856Z 32017KT 9999 BKN015 17/08 Q1025 EHWO 191855Z AUTO 03007KT 9999 NCD 11/02 Q1022 BLU KERY 191854Z AUTO 13021G29KT 10SM BKN120 12/00 A2988 RMK AO2 T01171002 KGBG 191835Z AUTO 12007KT 10SM SCT070 BKN110 20/10 A2958 RMK AO2 T02000097 FADY 190840Z 15003KT CAVOK 16/01 Q1022 KETH 191855Z AUTO 31018G22KT 10SM OVC035 08/03 A2975 RMK AO2 KEST 191852Z AUTO 34022G29KT 10SM BKN008 OVC016 10/08 A2967 RMK AO2 PK WND 33031/1840 CIG 008V014 SLP050 T01000083 KGBK 191855Z AUTO VRB06KT 10SM CLR 26/22 A2985 RMK A01 KGCC 191853Z AUTO 32023G33KT 10SM FEW065 08/M09 A3009 RMK AO2 PK WND 33036/1804 SLP196 T00781094 KFKL 191855Z AUTO 15014G23KT 10SM CLR 21/02 A2993 RMK AO1 KFLD 191853Z AUTO 13016KT 10SM CLR 18/01 A2968 RMK AO2 PK WND 14026/1756 SLP052 T01780006 FAGC 191900Z AUTO 33003KT //// // ////// 16/11 Q1022 KGCD 191835Z AUTO 32007KT 10SM CLR 14/00 A3015 RMK AO2 T01401001 KFKN 191835Z AUTO 11010G16KT 10SM OVC037 A3002 RMK AO2 KEUF 191858Z AUTO 19005KT 10SM FEW017 SCT065 21/19 A2981 RMK AO2 SLP092 T02060189 $ KEUG 191854Z 02007KT 10SM CLR 17/08 A3009 RMK AO2 SLP189 T01670078 KI35 191855Z AUTO 10003G15KT 10SM BKN020 OVC025 18/17 A2973 RMK AO1 KFLG 191857Z 10006KT 10SM BKN095 BKN120 14/M05 A3012 RMK AO2 SLP137 T01391050 FAGG 191800Z VRB02KT CAVOK 14/11 Q1016 KFKR 191855Z AUTO 06011G17KT 4SM RA BKN008 OVC014 13/13 A2963 RMK AO2 P0012 T01320132 KFKS 191855Z AUTO 12015G18KT 10SM BKN075 21/M14 A2974 RMK AO2 T02141140 KEVB 191747Z 12006KT 10SM SCT045 31/23 A2991 KGCK 191854Z 01024G29KT 10SM FEW020 SCT029 BKN036 10/03 A2997 RMK AO2 PK WND 36040/1816 SLP149 T01000033 KGDB 191853Z AUTO 30018G26KT 10SM SCT024 BKN029 OVC050 10/06 A2974 RMK AO2 T01040062 KI39 191855Z AUTO 15011G17KT 10SM SCT013 BKN020 OVC026 20/17 A2962 RMK AO2 KFLL 191853Z 17015KT 10SM FEW037 SCT250 31/20 A2992 RMK AO2 SLP130 T03110200 KEUL 191855Z AUTO 00000KT 10SM CLR 17/M01 A3012 RMK AO1 KGCM 191615Z AUTO 32006KT 10SM CLR 17/12 A2980 RMK AO2 VIDP 191830Z 12006KT 2200 HZ NSC 32/11 Q1006 NOSIG FAGM 191100Z 32014G18KT 9999 SCT020 20/13 Q1025 KFME 191848Z AUTO 10013G21KT 10SM CLR 17/05 A3014 RMK AO1 KGCN 191854Z 05004KT 10SM BKN090 BKN110 17/M07 A3012 RMK AO2 SLP155 T01671072 KFLO 191853Z 13012KT 10SM BKN012 BKN100 23/20 A2988 RMK AO2 RAE03B40E51 SLP114 P0000 T02280200 KFLP 191855Z 32008G16KT 10SM CLR 24/ A2963 RMK AO1 KFMH 191855Z AUTO 06012KT 030V090 10SM CLR 10/01 A3027 RMK AO2 KGDJ 191855Z AUTO 28010G26KT 260V320 10SM SCT034 SCT055 BKN100 23/14 A2981 RMK AO2 T02320141 KEWB 182153Z 22013KT 10SM OVC100 18/06 A2980 RMK AO2 SLP089 T01830056 CZZJ 191800Z AUTO 01004KT 09/M08 RMK AO1 SOG 01 8016 SLP248 T00931075 KFNB 191853Z AUTO 32014G20KT 6SM -RA BR OVC014 12/10 A2969 RMK AO2 RAB29 SLP052 P0000 T01220100 URFF 191830Z 25006MPS 9999 FEW025 05/02 Q1014 19010095 NOSIG KEVM 191852Z AUTO 16005KT 2SM BR OVC007 06/05 A2962 RMK AO2 P0002 KFMM 191855Z AUTO 33020G26KT 10SM SCT055 09/M05 A3010 RMK AO2 T00941050 KGED 191854Z AUTO 08014G23KT 10SM CLR 16/05 A3016 RMK AO2 PK WND 12028/1809 SLP210 T01560050 KFMN 191853Z VRB04KT 10SM CLR 15/M01 A3005 RMK AO2 SLP153 T01501011 KGEG 191853Z VRB04KT 10SM FEW200 17/M03 A3013 RMK AO2 SLP203 T01671033 KFLY 191855Z AUTO 36013G22KT 10SM SCT029 SCT075 06/M03 A3009 RMK AO2 T00601033 KGDP 191851Z AUTO 10014G23KT 10SM SCT100 18/00 A3006 RMK AO2 SLP121 T01830000 $ KGFA 191756Z AUTO 06003KT 10SM FEW065 BKN110 09/M06 A3022 RMK AO2 SLP255 T00881065 10088 21024 57013 TSNO $ KFOA 191855Z AUTO 15006KT 4SM DZ OVC004 17/16 A2952 RMK AO2 P0001 T01660163 KEWK 191855Z AUTO 32019G24KT 10SM FEW027 SCT036 SCT047 17/09 A2976 RMK AO1 FAJB 191900Z AUTO 00000KT //// // ////// 13/09 Q1023 KFNL 191855Z AUTO 01023KT 10SM CLR 11/M02 A3008 RMK AO1 KFOD 191855Z AUTO 33006KT 8SM FEW010 SCT029 BKN075 15/12 A2962 RMK AO1 KEVV 191854Z 16005KT 3SM -RA BR BKN010 BKN065 OVC110 19/18 A2953 RMK AO2 SLP995 P0002 T01940178 KGDV 191855Z AUTO 32025G31KT 10SM OVC047 09/M03 A3008 RMK AO1 DRRM 191800Z 00000KT 8000 NSC 34/00 Q1011 KFOE 191853Z 33016G22KT 10SM FEW030 SCT039 BKN055 19/11 A2967 RMK AO2 LTG DSNT SW SLP043 T01890111 KEWN 191854Z AUTO 12010G19KT 5SM -RA SCT020 BKN080 OVC095 22/18 A2998 RMK AO2 RAB42 SLP152 P0001 T02220183 KEVW 191853Z AUTO 35003KT 10SM SCT032 09/00 A3012 RMK AO2 SLP161 T00940000 DRRN 191800Z 05004KT 2300 DU NSC 38/M08 Q1009 NOSIG KFMY 191853Z 21013KT 10SM CLR 31/22 A2991 RMK AO2 SLP129 T03110217 EISG 191800Z 34005KT 9999 SCT045 11/08 Q1026 KEWR 191851Z 13012KT 10SM BKN250 13/01 A3022 RMK AO2 SLP234 T01280011 EKAH 191850Z AUTO 35006KT 9999NDV NCD 10/01 Q1025 KI67 191855Z AUTO 11010G15KT 3SM BKN012 OVC018 17/16 A2960 RMK AO1 P0006 KGFK 191853Z 34021G28KT 10SM -RA FEW015 BKN020 OVC043 07/04 A2970 RMK AO2 PK WND 34031/1840 SLP064 P0000 T00670044 KI69 191853Z AUTO 12012G19KT OVC012 17/16 A2963 RMK AO1 P0004 PWINO KFNT 191853Z 12014G21KT 10SM FEW070 19/03 A2980 RMK AO2 SLP093 T01940028 KFOK 191853Z 13009KT 10SM CLR 11/01 A3027 RMK AO2 SLP249 T01060006 KGEU 191850Z VRB03KT 20SM FEW150 FEW200 28/M03 A2990 DRRT 191800Z 06010KT 4001 DU NSC 36/M08 Q1010 KGFL 191853Z AUTO 10SM CLR 14/M03 A3021 RMK AO2 SLP234 T01391028 KGEV 191855Z AUTO 12006KT 4SM +RA OVC005 15/15 A2989 RMK AO2 P0008 T01500150 KEYE 191853Z AUTO 09005KT 5SM -RA BR OVC005 14/14 A2958 RMK AO2 SLP015 P0012 T01440139 KGGE 191855Z AUTO 11009KT 10SM SCT100 SCT120 23/22 A2992 RMK AO2 KEYF 191855Z AUTO 13005KT 5SM -RA SCT021 BKN031 OVC060 21/20 A2993 RMK AO2 P0004 T02090202 KGGG 191853Z 24012KT 10SM BKN025 OVC030 24/18 A2971 RMK AO2 SLP056 T02440178 KGEY 191853Z AUTO 35013G19KT 10SM CLR 11/M12 A3013 RMK AO2 SLP207 T01111117 $ KI75 191835Z AUTO 04003KT 7SM -RA BKN021 BKN035 BKN085 18/14 A2957 RMK AO2 P0001 T01840143 KGEZ 191853Z AUTO 09007KT 2SM -RA BR FEW005 BKN011 OVC029 17/15 A2958 RMK AO2 SLP012 P0011 T01670150 KGGI 191855Z AUTO 34004KT 10SM SCT012 SCT080 BKN120 17/14 A2958 RMK AO2 T01730140 EKBI 191850Z 00000KT CAVOK 10/02 Q1025 FALA 191800Z 00000KT CAVOK 16/12 Q1022 NOSIG KFPK 191855Z AUTO 09013G17KT 10SM CLR 19/01 A2974 RMK AO2 T01870011 KFOT 191855Z AUTO 32010KT 8SM CLR 15/12 A2994 RMK AO1 KGHB 191855Z AUTO VRB03KT 10SM CLR 26/21 A2986 RMK A01 KFQD 191835Z AUTO 15011G16KT 5SM -DZ OVC005 19/19 A2984 RMK AO2 T01850185 FAKM 191800Z 00000KT CAVOK 15/M03 Q1020 FAKN 191800Z 06001KT 9999 FEW025CB 18/15 Q1019 NOSIG FALE 191800Z VRB02KT 9999 FEW023 17/16 Q1018 NOSIG KEXX 191835Z AUTO 11007KT 3SM RA SCT008 BKN014 OVC024 19/18 A2988 RMK AO2 P0009 T01900184 KEZF 191835Z AUTO 09010G17KT 10SM SCT038 SCT043 20/12 A3006 RMK AO2 T02030121 KGHG 191835Z AUTO 09008KT 10SM CLR 08/02 A3030 RMK AO2 KGGP 191835Z AUTO 08009KT 7SM -RA BKN018 OVC025 12/11 A2965 RMK AO2 P0010 WAAA 191830Z 05002KT 8000 FEW020 24/24 Q1009 NOSIG KFOZ 191853Z AUTO 21006KT 10SM OVC007 07/05 A2960 RMK AO2 PKWA 191840Z AUTO 07015KT 10SM SCT018 27/24 A2982 EKCH 191850Z 33012KT CAVOK 09/02 Q1023 NOSIG KFPR 191853Z 14009KT 10SM SCT046 BKN065 BKN100 30/23 A2990 RMK AO2 SLP125 T03000228 KGIC 191855Z AUTO 00000KT 10SM CLR 16/M07 A3016 RMK AO1 T01581067 KEZM 191855Z AUTO 23003KT 10SM -RA SCT040 OVC090 20/20 A2990 RMK AO2 LTG DSNT ALQS T01970197 KGGW 191853Z AUTO 34019G29KT 10SM FEW060 11/M07 A3013 RMK AO2 PK WND 35034/1837 SLP218 T01111072 TSNO KEYW 191853Z 16010KT 10SM CLR 29/24 A2993 RMK AO2 SLP135 T02940239 KGIF 191853Z AUTO 20012G16KT 10SM CLR 33/20 A2991 RMK AO2 SLP125 T03280200 KFRG 191853Z 12014KT 10SM CLR 12/01 A3024 RMK AO2 SLP239 T01170011 URKA 191800Z 28008G12MPS 9999 SCT026 BKN110 08/03 Q1012 RMK QFE755/1006 KFRI 191854Z AUTO 34012G20KT 10SM SCT016 OVC024 13/11 A2976 RMK AO2 DZB39E49 CIG 014V024 KEZS 191855Z AUTO 12009G14KT 10SM CLR 18/01 A2973 RMK AO2 T01810008 EKEB 191850Z AUTO 28004KT 9999NDV NCD 09/05 Q1025 KFRM 191855Z AUTO 31021G25KT 10SM OVC013 12/07 A2965 RMK AO1 KFSD 191856Z 33019G24KT 10SM BKN030 OVC038 10/04 A2977 RMK AO2 PK WND 33030/1825 SLP084 T01000044 VIJP 191830Z 00000KT 2000 FU FEW040 30/15 Q1007 NOSIG FAMM 191800Z 03007KT 9999 FEW025 17/14 Q1021 NOSIG KGHW 191854Z AUTO 30022KT 10SM BKN011 08/06 A2969 RMK AO2 KFSE 191855Z AUTO 29013G21KT 7SM DZ BKN010 OVC014 06/05 A2964 RMK AO2 KHAE 191855Z AUTO 24003KT 10SM -DZ SCT080 BKN095 18/14 A2957 RMK AO2 P0001 LTG DSNT W FALW 191800Z AUTO 25003KT //// // ////// 15/12 Q1016 KHAF 191855Z AUTO 23003KT 6SM BR OVC010 12/10 A3000 RMK AO2 PMDY 191856Z AUTO 08008KT FEW018 BKN038 21/21 A3029 RMK AO2 PWINO TSNO T02110211 BKN V SCT SLP567 $ EIWF 191830Z 07007KT 040V100 9999 SCT032 09/03 Q1025 URKK 191830Z 23006G09MPS 9999 FEW033CB BKN120 06/04 Q1011 NOSIG RMK QFE755 SC060 KHAI 191854Z AUTO 11012KT 10SM CLR 19/04 A2971 RMK AO2 T01890038 KFRR 191855Z AUTO 10011G14KT 10SM BKN120 19/06 A3003 RMK AO1 KFSI 191758Z AUTO 33013KT 10SM BKN043 20/11 A2977 RMK AO2 SLP076 T02020110 10208 20107 52007 USCC 191830Z VRB01MPS 5000 BR BKN016CB OVC070 03/03 Q1003 27290050 NOSIG RMK QFE732 FAOB 191800Z AUTO 21001KT //// // ////// 14/12 Q1016 KFSM 191853Z 25006KT 10SM FEW049 23/12 A2966 RMK AO2 SLP040 T02330122 KHAO 191853Z AUTO 12007G18KT 090V150 4SM -RA BR SCT017 BKN026 OVC050 19/17 A2963 RMK AO2 SLP029 P0001 T01890167 KFSO 191855Z AUTO 32006KT 10SM CLR 10/M03 A3027 RMK AO2 T01011031 KFTG 191847Z 33011G19KT 30SM BKN050 BKN070 09/M02 A3010 KHBG 191853Z AUTO 25010KT 10SM CLR 29/13 A2978 RMK AO2 RAE1755 SLP080 P0000 T02890133 VILK 191830Z 10005KT 4000 HZ NSC 30/20 Q1007 KHBI 191835Z AUTO 14005KT 7SM -RA SCT014 BKN025 BKN040 20/19 A2994 RMK AO2 P0001 T01970190 KGKJ 191853Z AUTO VRB04G16KT 10SM CLR 22/00 A2989 RMK AO2 SLP118 T02220000 TSNO WADD 191800Z 04002KT 9999 FEW017CB FEW017 27/24 Q1009 NOSIG RMK CB TO NE USCM 191830Z VRB01MPS 6000 -RA OVC003 01/M00 Q1001 TEMPO 2000 BR VV002 01290157 RMK QFE713 KGJT 191853Z 09008KT 10SM CLR 13/03 A3009 RMK AO2 SLP174 T01280028 KFST 191853Z AUTO 01006G16KT 10SM CLR 24/00 A2997 RMK AO2 SLP110 T02390000 KFTK 191858Z AUTO 18006KT 10SM SCT049 OVC070 20/19 A2952 RMK AO2 RAE1759DZB1759E04RAB04E55 SLP994 P0021 KGLD 191853Z AUTO 35024G32KT 10SM OVC060 08/M02 A3003 RMK AO2 PK WND 34035/1759 SLP164 T00831017 KHCD 191852Z AUTO 28018G22KT 10SM OVC011 11/09 A2967 RMK AO2 T01130093 KFTN 191855Z AUTO VRB05KT 10SM FEW043 FEW060 FEW085 28/21 A2984 RMK A01 KFSW 191835Z AUTO 08004KT 10SM SCT075 22/11 A2956 RMK AO2 KGLE 191835Z AUTO 31011KT 10SM SCT023 BKN034 19/14 A2977 RMK AO2 T01920135 FAPE 191800Z 04003KT CAVOK 15/13 Q1017 NOSIG KGLH 191853Z AUTO 23011KT 10SM CLR 24/16 A2971 RMK AO2 SLP066 T02440156 $ KHBR 191853Z AUTO 33016G24KT 10SM CLR 19/08 A2982 RMK AO2 PK WND 35030/1827 SLP089 T01940083 $ URML 191830Z 14003MPS 0250 R14/0900 FG VV001 07/06 Q1002 BECMG 31015G20MPS RMK QBB040 MT OBSC QFE751/1002 SC070 FAOR 191900Z 30006KT 250V320 CAVOK 16/10 Q1024 NOSIG WADL 191430Z 11003KT 7000 SCT016 26/25 Q1012 NOSIG DRZA 191800Z 12012KT CAVOK 31/M10 Q1014 URMM 191830Z 29016G22MPS 9999 -SHRA BKN015 BKN033CB 09/06 Q1006 R30/000070 TEMPO VRB12G17MPS 1200 TSRAGR SQ RMK MT OBSC QFE726/0969 KGKT 191855Z AUTO 08003KT 4SM FEW026 SCT033 BKN039 19/18 A2970 RMK FBFT 191800Z 11005KT 9999 FEW015 19/16 Q1019 URMN 191800Z 27003MPS 9999 SCT030CB 13/08 Q1003 NOSIG RMK QFE715 KFUL 191853Z VRB04KT 7SM CLR 24/09 A2992 RMK AO2 SLP132 T02390094 KHDC 191835Z AUTO 31012KT 10SM CLR 29/13 A2982 RMK AO2 URMO 191500Z 05005G08MPS 9999 SCT050 BKN100 19/08 Q1001 NOSIG RMK QFE708/0944 õíòî ôõòâ ÷îå ïâì 000-6000 SC070 KHBV 191835Z AUTO 00000KT 10SM 25/20 A2985 RMK AO2 T02470203 ZWSH 191800Z AUTO 32006MPS 9999 SA 11/07 Q1018 KFTW 191853Z 31018G23KT 10SM FEW030 22/15 A2977 RMK AO2 SLP074 T02220150 $ KFVE 191853Z AUTO 31013G21KT 10SM CLR 08/M09 A3013 RMK AO2 SLP210 T00831094 KHDE 191835Z AUTO 34016G24KT 10SM SCT065 BKN075 OVC085 09/00 A2993 RMK AO2 T00860002 FAPN 191800Z AUTO 34002KT //// // ////// 17/13 Q1019 KHCO 191854Z AUTO 33023G31KT 10SM -RA BKN010 BKN017 OVC025 04/03 A2968 RMK AO2 P0005 KFTY 191853Z 18008KT 10SM BKN011 OVC022 21/19 A2977 RMK AO2 SLP074 T02110194 KGKY 191853Z 28014G23KT 10SM FEW039 24/13 A2975 RMK AO2 SLP069 T02440133 $ FAPP 191800Z 13005KT CAVOK 14/12 Q1021 NOSIG URMT 191830Z 30011G16MPS 4000 -SHRA SCT009 BKN016CB 04/02 Q1006 R25/290055 NOSIG RMK QFE716 KGLR 191853Z AUTO 14017G26KT 10SM CLR 16/M07 A2986 RMK AO2 PK WND 14026/1848 SLP116 T01561072 FAPR 190617Z 00000KT 9999 FEW020 SCT100 13/12 Q1023 REFG KGLS 191852Z 18013KT 10SM CLR 25/20 A2981 RMK AO2 SLP093 T02500200 KFWA 191854Z 08015KT 4SM RA OVC033 16/09 A2969 RMK AO2 SLP054 P0002 T01560094 KGNA 191856Z AUTO 06013G21KT 03/01 A2970 RMK AO1 SLP064 P0006 T00330011 KGMJ 191855Z AUTO 33011G14KT 10SM SCT029 BKN037 OVC100 19/12 A2973 RMK AO2 KFWB 191855Z AUTO 29009G15KT 270V330 10SM CLR 20/09 A2968 RMK AO2 KGNC 191835Z AUTO 34012G21KT 10SM CLR 21/01 A3000 RMK AO2 T02100010 KFWC 191835Z AUTO 16005KT 5SM BR OVC004 17/17 A2951 RMK AO1 T01700167 KHDN 191855Z AUTO 00000KT 10SM FEW016 BKN022 OVC070 04/M02 A3015 RMK AO1 KGLW 191830Z AUTO 22009G18KT 10SM SCT014 SCT021 BKN080 22/17 A2959 RMK AO2 T02190173 KHDO 191851Z AUTO 25009KT 6SM HZ CLR 28/18 A2984 RMK AO2 SLP091 T02830183 KHEF 191745Z 11012G20KT 10SM CLR 22/08 A3008 KGLY 191855Z AUTO 28010KT 10SM FEW028 BKN035 BKN040 20/14 A2965 RMK AO2 ZYCC 191800Z 24003MPS CAVOK 04/M15 Q1013 NOSIG KHEI 191853Z AUTO 32023G34KT 10SM SCT036 OVC046 07/M02 A2998 RMK AO2 PK WND 31034/1844 SLP163 T00671022 DRZR 191800Z 02004KT CAVOK 33/M01 Q1011 KGMU 191853Z 18009KT 10SM -RA SCT007 BKN012 OVC023 21/19 A2983 RMK AO2 SLP093 P0016 T02110189 KHFD 191853Z 19003KT 10SM CLR 16/M02 A3020 RMK AO2 SLP226 T01561017 KFWN 191853Z AUTO 00000KT 10SM CLR 19/M03 A3016 RMK AO2 SLP211 T01891028 KFXE 191853Z 19014KT 10SM SCT040 33/20 A2992 RMK AO2 SLP132 T03280200 KHFF 191856Z AUTO 13010G17KT 10SM BKN005 BKN070 BKN075 21/20 A2992 RMK AO2 RAE50 SLP132 T02050197 TSNO $ KFVX 191835Z AUTO 10008KT 10SM -RA OVC080 22/13 A3000 RMK AO2 T02150134 KHEQ 191855Z AUTO 32022G31KT 10SM SCT060 10/M05 A3005 RMK AO2 KGNR 191856Z AUTO VRB06G15KT 08/M06 A3016 RMK AO1 SLP225 T00831056 FASI 191900Z AUTO /////KT //// // ////// 12/09 Q1022 KFWS 191849Z 26017G22KT 10SM SCT034 23/14 A2979 KHFJ 191835Z AUTO 30009KT 10SM BKN029 BKN034 18/12 A2970 RMK AO2 DTKA 191800Z 28006KT 9999 FEW020 SCT100 17/13 Q1016 NOSIG EKKA 191850Z AUTO 35006KT 9999NDV NCD 09/04 Q1026 KGOK 191853Z AUTO 30016G23KT 10SM SCT041 SCT065 20/09 A2975 RMK AO2 SLP068 T02000094 KGNT 191855Z AUTO 36009G17KT 10SM CLR 17/M07 A3008 RMK AO2 T01701071 FCBB 191800Z VRB01KT 8000 FEW030CB 26/22 Q1011 TEMPO TS KGNV 191853Z 25010KT 10SM SCT055 SCT070 30/19 A2989 RMK AO2 SLP120 T03000189 $ KGON 191856Z 16010KT 10SM CLR 11/01 A3025 RMK AO2 SLP242 T01060011 USHH 191830Z 27003G06MPS 9999 SCT023CB OVC080 M01/M04 Q1002 TEMPO 1000 SHSN BKN004 RMK QFE748 24////55 KGOO 191900Z AUTO 28007KT 10SM CLR 23/04 A2999 RMK AO1 KGOP 190135Z AUTO 15007KT 5SM VCTS -RA SCT002 SCT029 BKN046 16/16 A2984 RMK AO2 LTG DSNT ALQDS P0005 KFYG 191835Z AUTO 29010G16KT 4SM -RA SCT009 BKN015 BKN036 17/16 A2957 RMK AO2 P0003 KHEY 191853Z AUTO 19006KT -RA BKN008 OVC013 19/ A2978 RMK AO2 RAB00 SLP972 P0005 T0194 $ KGPH 191855Z AUTO 28009G15KT 10SM BKN034 BKN042 19/11 A2964 RMK AO2 KHEZ 191855Z AUTO 26007G15KT 10SM CLR 24/17 A2980 RMK AO1 KFWZ 191855Z AUTO 20003KT 7SM -SN SCT017 OVC024 00/M03 A3008 RMK AO2 KGPI 191855Z VRB03KT 10SM CLR 13/M03 A3014 RMK AO2 SLP210 T01331028 $ KFYJ 191855Z AUTO 07015G22KT 10SM CLR 21/12 A3008 RMK AO2 T02120122 KGOV 191855Z AUTO 11017G25KT 10SM CLR 17/M09 A2985 RMK AO2 T01691089 KFYM 191855Z AUTO 00000KT 10SM 23/17 A2966 RMK KGPM 191850Z 27015G25KT 10SM SKC 25/13 A2977 KHHF 182215Z AUTO 28014G19KT 10SM OVC120 24/M01 A2972 RMK AO2 LTG DSNT NE T02401012 WAHQ 190600Z 15005KT 8000 SCT 015 31/24 Q1009 NOSIG KFXY 191835Z AUTO 31012KT 10SM -DZ SCT013 BKN033 OVC075 15/12 A2962 RMK AO2 KFZG 191835Z AUTO 27012G16KT 10SM VCTS SCT075 OVC100 20/18 A2992 RMK AO2 LTG DSNT ALQS T01950180 KHHG 191835Z AUTO 09006KT 7SM -RA OVC028 15/09 A2968 RMK AO2 P0003 T01450086 WAHS 191300Z 15003KT 7000 FEW017CB SCT018 28/25 Q1010 NOSIG UTAA 191800Z VRB01MPS 7000 SKC 18/09 Q1010 R30/CLRD70 NOSIG KHGR 191853Z 12011KT 10SM CLR 19/04 A3006 RMK AO2 SLP188 T01890044 KGPT 191853Z 18008G15KT 10SM FEW013 27/21 A2979 RMK AO2 SLP087 T02670206 KGRB 191853Z 13011KT 10SM CLR 18/02 A2973 RMK AO2 SLP069 T01830022 KHIB 191853Z AUTO 15006KT 1 3/4SM BR OVC004 06/04 A2961 RMK AO2 RAE04B10E27 CIG 002V007 SLP037 T00610044 PNO $ DTMB 191830Z 06010KT CAVOK 19/15 Q1015 KFYV 191853Z 33007KT 10SM SCT044 20/12 A2969 RMK AO2 SLP046 T02000122 KGRD 191856Z AUTO 16008KT 9SM -RA SCT015 BKN050 OVC085 22/21 A2983 RMK AO2 SLP097 P0002 T02220206 KHIE 191852Z AUTO VRB03KT 10SM CLR 13/M07 A3021 RMK AO2 SLP237 T01281067 TSNO KGRF 191758Z AUTO 01007KT 10SM CLR 15/06 A3017 RMK AO2 SLP221 T01490059 10149 20011 57011 PWINO $ KHIF 191758Z AUTO 17008KT 10SM CLR 15/01 A3008 RMK AO2 SLP154 T01490013 10151 20066 57004 URRR 191830Z 27005G09MPS 240V310 P8000 SCT031CB BKN100 06/03 Q1003 22290045 NOSIG WAJJ 190800Z 28015KT 9999 FEW015 30/20 Q1006 FAUP 191800Z 21002KT CAVOK 18/M03 Q1018 NOSIG KGPZ 191855Z AUTO 18003KT 5SM OVC005 07/05 A2960 RMK AO1 UTAK 191800Z 02002MPS CAVOK 16/08 Q1006 R16/CLRD70 NOSIG KHHR 191853Z 24007KT 3SM HZ CLR 20/12 A2995 RMK AO2 SLP140 T02000117 $ KGRI 191853Z 34025G38KT 10SM SCT070 OVC095 11/M01 A2987 RMK AO2 PK WND 34039/1814 SLP120 T01111011 KHII 191835Z AUTO 20005KT 10SM CLR 30/M04 A2987 RMK AO2 UTAM 191800Z 13003MPS 6000 SKC 17/08 Q1012 NOSIG ZWWW 191830Z 16003MPS CAVOK 12/01 Q1019 NOSIG KGRK 191858Z AUTO 27015G20KT 10SM FEW370 27/13 A2978 RMK AO2 SLP077 T02730128 $ KIAB 191858Z AUTO 33011G16KT 10SM FEW033 SCT200 19/11 A2973 RMK AO2 SLP065 T01900109 KGSB 191847Z AUTO 11013KT 7SM -RA BKN028 OVC035 22/18 A2992 RMK AO2 RAB38 CIG 028V033 FAUT 191800Z /////KT 9999 FEW020 13/10 Q1020 KIAD 191852Z 09015G18KT 10SM SCT044 19/09 A3007 RMK AO2 SLP179 T01890089 KHHV 191855Z AUTO 13005KT 10SM CLR 26/22 A2984 RMK A01 KHHW 191835Z AUTO 26005KT 10SM BKN026 BKN039 OVC045 23/16 A2969 RMK AO2 T02280157 FBMN 191700Z VRB02KT 9999 FEW030CB SCT070 21/15 Q1019 KHIO 191853Z 00000KT 10SM CLR 18/07 A3009 RMK AO2 SLP186 T01830067 KIAG 191853Z 07019G25KT 10SM FEW200 BKN250 15/03 A3000 RMK AO2 PK WND 07027/1850 SLP166 T01500028 KFZY 191854Z AUTO 11010G15KT 060V140 10SM CLR 17/M06 A3012 RMK AO2 SLP202 T01671061 URSS 191830Z 31005G08MPS 9999 -SHRA BKN013 OVC044CB 08/06 Q1013 WS RWY06 TEMPO 30005G10MPS RMK R02/31005G08MPS MT OBSC QFE759 06290050 02////// ZYHB 191800Z 22004MPS CAVOK 02/M09 Q1009 NOSIG KGSH 191853Z AUTO 10011KT 10SM -RA OVC090 17/07 A2968 RMK AO2 RAB11 SLP052 P0000 T01670072 $ KIAH 191853Z 23011G18KT 10SM FEW030 SCT200 29/18 A2977 RMK AO2 SLP079 T02890183 KHJH 191835Z AUTO 34015G29KT 10SM OVC049 11/02 A2983 RMK AO2 T01070017 UTAT 191800Z 10003MPS CAVOK 18/04 Q1011 99GLRD70 NOSIG KGRR 191853Z 08013G22KT 10SM FEW100 BKN250 20/01 A2973 RMK AO2 SLP068 T02000006 KHKA 191853Z AUTO 24011G17KT 10SM -RA FEW019 BKN029 OVC046 21/18 A2960 RMK AO2 LTG DSNT NE RAB37 SLP020 P0000 T02110183 $ UTAV 191800Z 29002PS 7000 SKC 16/07 Q1012 NOSIG KGTB 191858Z AUTO 07003KT 10SM FEW200 15/M06 A3014 RMK AO2 SLP210 T01491056 FAWK 191800Z AUTO 00000KT //// // ////// 14/11 Q1023 EKOD 191450Z 36009KT 9999 FEW020 13/06 Q1025 FAVV 191900Z AUTO /////KT //// // ////// 12/09 Q1022 KGTF 191853Z VRB05KT 10SM FEW060 OVC110 11/M06 A3018 RMK AO2 SLP238 T01061061 KHJO 191853Z AUTO 00000KT 10SM CLR 28/07 A2990 RMK AO2 SLP124 T02780067 KGSO 191854Z 12012G18KT 7SM -RA BKN012 OVC027 19/18 A2989 RMK AO2 SLP116 P0002 T01940178 KGSP 191857Z 17007KT 10SM SCT004 BKN010 OVC024 21/20 A2981 RMK AO2 T02060200 KGRY 191855Z AUTO VRB05KT 10SM CLR 27/22 A2985 RMK A01 WALL 191800Z 32004KT 8000 FEW020CB FEW020 26/24 Q1009 RMK CB TO SE UTDD 191830Z 32003MPS 9999 -SHRA SCT044CB OVC065 12/10 Q1014 R09/29//50 NOSIG RMK QFE692/0923 KHLC 191853Z AUTO 36021G30KT 10SM OVC085 11/01 A2997 RMK AO2 PK WND 36035/1822 SLP145 T01110006 $ KGUC 191855Z 22004KT 10SM FEW046 SCT050 07/M04 A3012 RMK AO1 KIBM 191835Z AUTO 33020G33KT 10SM SCT045 BKN055 OVC065 05/M04 A3007 RMK AO2 T00541044 KHLG 191853Z 12022G29KT 10SM BKN110 20/05 A2986 RMK AO2 PK WND 12029/1853 SLP109 T02000050 URWA 191830Z 35004MPS 9999 FEW030CB BKN120 13/10 Q1002 NOSIG RMK QFE754/1005 SC070 UTDK 191830Z 22002MPS 7000 -SHRA FEW010 BKN035CB OVC066 12/11 Q1014 0129//50 RMK QFE703/0937 KGTR 191845Z 25009G29KT 10SM SCT041 BKN065 21/16 A2971 RMK ATIS "P" UTDL 191830Z 25003MPS 9999 FEW066CB SCT140 OVC200 15/09 Q1012 NOSIG RMK QFE721/0961 88CLRD70 KIDA 191853Z VRB03KT 10SM CLR 13/M08 A3011 RMK AO2 SLP184 T01331078 KHKS 191853Z 24013G18KT 10SM FEW039 24/16 A2977 RMK AO2 SLP073 T02440161 WAMM 191800Z 04003KT 9000 FEW021 24/23 Q1010 NOSIG KGTU 191849Z 29011G19KT 10SM CLR 30/13 A2978 KICL 191855Z AUTO 32016G26KT 10SM BKN010 OVC013 13/12 A2966 RMK AO2 P0002 KGUL 191855Z AUTO 10SM CLR 24/21 A2984 RMK A01 KHLN 191853Z VRB03KT 10SM OVC100 11/M06 A3015 RMK AO2 SLP232 T01061056 KGVE 191835Z AUTO 07009KT 10SM BKN095 OVC120 21/08 A3003 RMK AO1 T02050079 URWI 191700Z 24010MPS 9999 -SHRA BKN024CB 13/10 Q1001 NOSIG KHKY 191853Z VRB03KT 10SM OVC007 19/17 A2985 RMK AO2 RAE29 CIG 005V011 SLP089 P0000 T01890172 KGUP 191853Z AUTO 01007G14KT 320V040 10SM FEW110 16/M06 A3008 RMK AO2 RAB12E21 SLP117 P0000 T01611061 UTDT 191830Z 16002MPS 9999 FEW016 BKN053CB OVC090 14/12 Q1013 35290250 RMK QFE720/0960 KICR 191853Z AUTO 32025G37KT 10SM OVC060 11/M03 A2992 RMK AO2 PK WND 33038/1806 SLP134 T01061028 KIDI 191855Z AUTO 10.58333311G18KT 10SM CLR 20/03 A3000 RMK A01 KHLR 191858Z AUTO 26014G24KT 10SM CLR 28/13 A2977 RMK AO2 SLP072 T02770134 KGUR 191835Z AUTO 31020G27KT 10SM 12/M03 A3012 RMK AO2 T01171035 PWINO KGUS 191758Z 07010KT 10SM -RA BKN019 BKN026 BKN038 OVC070 13/11 A2967 RMK AO2A SLP050 P0008 60008 T01320108 10164 20101 57033 KICT 191853Z 33013KT 10SM -RA FEW030 SCT045 BKN070 19/11 A2973 RMK AO2 RAB46 SLP063 P0000 T01890106 KHNB 191855Z AUTO 13004KT 10SM BKN010 BKN015 19/17 A2953 RMK AO1 KGWB 191855Z AUTO 09011KT 10SM -DZ SCT034 SCT100 16/06 A2971 RMK AO2 USNN 191830Z 20004MPS 9999 BKN037 02/01 Q1001 TEMPO 2000 BR BKN007 RMK QFE746 21250350 KGVL 191853Z AUTO 18007KT 10SM SCT005 BKN045 OVC060 19/18 A2980 RMK AO2 LTG DSNT N RAB1755E47 SLP078 P0012 T01940183 UTFF 191800Z 17004KT 6000 NSC 15/11 Q1011 R18/CLRD70 KHND 191856Z 02006KT 10SM CLR 27/M05 A2996 RMK AO2 SLP124 T02721050 KHMN 191758Z AUTO 03007KT 10SM CLR 21/M02 A3000 RMK AO2 SLP111 T02111025 10214 20051 $ KHLX 191855Z AUTO 12014G22KT 5SM RA BKN010 BKN015 OVC021 15/14 A2991 RMK AO2 P0014 T01500143 KGUY 191853Z AUTO 36026G35KT 10SM FEW027 BKN040 BKN055 12/02 A2999 RMK AO2 PK WND 36040/1804 SLP140 T01220022 KIDP 191835Z AUTO 33007KT 10SM SCT018 16/12 A2972 RMK AO2 WBGB 191800Z 10004KT 070V140 9999 SCT014 FEW015CB BKN150 26/25 Q1010 KIFA 191855Z AUTO 00000KT 10SM SCT010 BKN036 OVC085 17/13 A2960 RMK AO2 P0001 T01680134 KGXA 191755Z AUTO VRB02KT 10SM CLR 25/M06 A2998 RMK AO2 SLP130 T02491064 10214 20090 57003 KHOB 191850Z 35008G24KT 10SM SKC 19/M01 A3001 KGVT 191835Z AUTO 24011G16KT 10SM SCT029 SCT035 25/16 A2971 RMK AO2 EKSB 191750Z 34004KT CAVOK 11/06 Q1025 URWW 191830Z 29002MPS 9999 -SHRA SCT013 BKN033CB 07/06 Q0997 NOSIG RMK SC054 EKRK 191850Z AUTO 32008KT 9999NDV NCD 08/02 Q1024 WAOO 191130Z 19004KT 9999 FEW020 29/23 Q1009 NOSIG WBGG 191830Z 19003KT 9999 SCT020 SCT150 BKN300 24/23 Q1010 NOSIG KIEN 191852Z AUTO 34019G26KT 10SM OVC070 09/M06 A3002 RMK AO2 PK WND 35028/1804 SLP168 T00891061 KHOE 191855Z AUTO 26007KT 10SM BKN049 BKN070 BKN100 26/23 A2988 RMK AO2 LTG DSNT W THRU E KGXF 191758Z AUTO VRB02KT 10SM CLR 30/M07 A2990 RMK AO2 SLP114 T02951074 10295 20128 57004 $ EKRN 191850Z AUTO 30015KT 9999NDV BKN240/// 08/04 Q1021 KGWO 191853Z AUTO 25009G17KT 220V290 10SM FEW028 24/16 A2971 RMK AO2 SLP060 T02440161 KHMZ 191835Z AUTO 17016G20KT 10SM CLR 18/01 A3002 RMK AO2 T01790007 KGWR 191855Z AUTO 34014G27KT SCT032 BKN042 BKN055 10/06 A2976 RMK A01 P000 KIER 191855Z AUTO 15004KT 10SM SCT032 25/19 A2977 RMK AO2 T02540187 KHNR 191835Z AUTO 33022G30KT 6SM -RA FEW012 SCT031 SCT065 12/12 A2970 RMK AO2 DTTA 191830Z 35007KT 9999 FEW030 18/14 Q1015 NOSIG KGYB 191855Z AUTO 21008KT 10SM CLR 28/20 A2980 RMK AO2 T02780202 FBSK 191800Z 14002KT CAVOK 18/16 Q1019 NOSIG DTTB 191800Z 29009KT 9999 SCT020 17/14 Q1016 FDBB 191900Z AUTO 00000KT //// // ////// 18/17 Q1016 DTTD 191800Z 30006KT 5000 NSC 31/02 Q1014 RMK SIROCCO USPP 191830Z 00000MPS CAVOK 00/M02 Q1002 21090060 NOSIG RMK QFE741/0988 KHON 191855Z AUTO 33027G32KT 10SM BKN065 12/M01 A2983 RMK AO2 PK WND 32035/1842 SLP102 T01221011 KGWW 191855Z AUTO 06005KT 7SM RA SCT037 BKN042 OVC050 20/18 A2995 RMK AO2 T01980182 DTTF 191800Z 23007KT 8000 NSC 30/04 Q1011 NOSIG WBGR 191800Z 14005KT 9999 SCT014 BKN150 25/24 Q1010 KHOP 191858Z AUTO 20011G19KT 9SM FEW026 SCT038 SCT049 22/18 A2954 RMK AO2 LTG DSNT SW SLP001 T02210175 KIFP 191855Z AUTO 23006KT 10SM CLR 29/M05 A2987 RMK AO2 FBSP 191800Z 09005KT CAVOK 19/17 Q1019 DTTG 191800Z 07012KT 8000 NSC 23/12 Q1013 NOSIG WBGS 191800Z 02001KT 9999 FEW007 SCT018 BKN150 25/24 Q1010 EKSP 191850Z 00000KT CAVOK 09/02 Q1025 KGYH 191847Z 19009KT 6SM -RA BR OVC006 19/19 A2983 KHNZ 191855Z AUTO 09010KT 10SM -RA SCT030 BKN055 OVC065 19/13 A2997 RMK AO2 T01910129 KGYI 191855Z AUTO 28014KT 10SM SCT025 OVC039 21/16 A2975 RMK AO2 T02090164 DTTJ 191830Z 09011KT 8000 NSC 21/12 Q1013 NOSIG KHOT 191853Z AUTO 25009KT 10SM CLR 26/12 A2967 RMK AO2 SLP041 T02610122 DTTK 191800Z 08001KT CAVOK 22/14 Q1015 KHOU 191853Z 22010KT 10SM FEW022 SCT200 28/19 A2977 RMK AO2 SLP085 T02780189 KGYL 191855Z AUTO 28013G17KT 10SM OVC021 13/10 A2965 RMK AO2 T01290100 KIGM 191851Z AUTO 24010KT 10SM CLR 27/M11 A2997 RMK AO2 SLP091 T02721111 TSNO $ WBGY 191800Z 00000KT 9999 SCT022 SCT150 24/24 Q1010 KHPN 191856Z 14010KT 10SM CLR 15/M02 A3019 RMK AO2 SLP224 T01501017 DTTN 191800Z 33008KT 270V020 9999 FEW020 20/13 Q1015 KGXY 191855Z 35020G30KT 10SM CLR 11/M03 A3009 RMK AO1 KGZH 191853Z AUTO 20010KT 10SM BKN009 OVC019 23/20 A2980 RMK AO2 CIG 007V014 SLP088 T02280200 $ KIGQ 191855Z AUTO 14008G15KT 10SM SCT080 BKN110 19/04 A2963 RMK AO2 T01910043 KGYR 191847Z 24005KT 10SM FEW120 FEW250 29/M03 A2991 KHQI 191855Z AUTO 15011KT 10SM CLR 25/21 A2984 RMK A01 DTTR 191800Z 27006KT CAVOK 33/M02 Q1014 KIIB 191835Z AUTO 00000KT 10SM SCT080 SCT120 17/12 A2961 RMK AO2 KGZL 191835Z AUTO 33010G17KT 10SM SCT032 BKN039 BKN048 21/12 A2971 RMK AO2 KHQM 191853Z AUTO 25006KT 7SM CLR 15/08 A3016 RMK AO2 SLP215 T01500083 EKVD 191850Z AUTO 11002KT //// ///////// 10/01 Q1025 KIGX 191856Z AUTO 08006KT 8SM -RA SCT007 BKN011 OVC021 19/17 A2994 RMK AO2 SLP132 P0006 T01940167 TSNO $ WARR 191830Z 25004KT 5000 HZ FEW020 26/23 Q1009 USRR 191830Z 24004MPS 5000 -SHSN SCT008 BKN016CB 00/M01 Q1001 TEMPO 0800 +SHSN VV001 RMK OBST OBSC QFE745 25////55 DTTX 191800Z 05012KT 320V070 CAVOK 20/15 Q1014 NOSIG KGYY 191845Z 13015G31KT 15SM BKN110 21/M00 A2963 EKVG 191850Z AUTO 17005KT 120V220 9999NDV OVC015/// 07/03 Q1033 DTTZ 191800Z 27009KT 6000 NSC 32/04 Q1012 NOSIG KHRI 191853Z AUTO VRB03KT 10SM CLR 18/01 A3013 RMK AO2 SLP201 T01830006 KHSA 191851Z 26005KTS 7SM SCT048 28/14 A2979 KHRJ 191855Z AUTO 08007KT 7SM RA BKN024 OVC033 21/21 A2993 RMK AO2 P0006 T02100205 EKVJ 191150Z 08010KT 9999 FEW020 12/00 Q1026 KHSB 191855Z AUTO 21003KT 3SM RA BKN007 BKN012 OVC021 19/19 A2953 RMK AO2 T01880186 KHRL 191852Z 11007KT 10SM SCT026 BKN035 30/23 A2978 RMK AO2 SLP084 T03000233 KJAC 191855Z 22003KT 10SM FEW075 09/M10 A3010 RMK AO1 KHQU 191835Z AUTO 00000KT 1 1/2SM SCT017 BKN024 OVC042 23/23 A2986 RMK AO1 T02340232 KIJD 191852Z AUTO 19013KT 10SM CLR 16/01 A3020 RMK AO2 SLP226 T01560006 KHSE 191851Z AUTO 13014KT 10SM FEW110 23/17 A2999 RMK AO2 SLP155 T02280167 TSNO KHRO 191853Z AUTO 28010KT 10SM CLR 23/11 A2967 RMK AO2 SLP037 T02280106 ELLX 191850Z 06009KT CAVOK 12/M03 Q1020 NOSIG USSS 191830Z 03003MPS CAVOK 04/M05 Q1003 7619//50 NOSIG RMK QFE731 KHQZ 191850Z 28018G22KT 10SM CLR 26/13 A2972 WBKK 191830Z 11003KT 9999 FEW014 SCT140 BKN280 24/24 Q1009 NOSIG KHSI 191853Z AUTO 34027G36KT 10SM OVC075 11/00 A2988 RMK AO2 PK WND 34038/1839 SLP118 T01060000 WBKL 191800Z 19001KT 9999 FEW012 SCT140 BKN290 25/24 Q1010 KL18 191855Z AUTO 21006KT 10SM CLR 22/09 A2994 RMK AO2 KHRT 191755Z 18011KT 10SM BKN015 OVC040 22/16 A2982 RMK LTG DSNT SE PRESRR SLP100 P0005 60102 T02200158 10233 20192 58012 $ UUBP 191800Z 30004MPS CAVOK 01/M06 Q1002 NOSIG SC070 RMK QFE734 KJAN 191854Z 25012G18KT 220V280 10SM SCT034 26/16 A2976 RMK AO2 SLP075 T02560161 $ KHRX 191835Z AUTO 36030G33KT 10SM SCT035 SCT042 OVC049 14/04 A3003 RMK AO2 T01400039 USTR 191830Z 16003MPS CAVOK 06/M04 Q1003 NOSIG RMK QFE743/0990 21CLRD65 12CLRD65 KHSP 191835Z AUTO 10010G17KT 1 3/4SM -RA OVC002 11/11 A3000 RMK AO2 P0001 T01050105 KIIY 191835Z AUTO 13006KT 2 1/2SM +RA BKN005 OVC011 22/ A2983 RMK AO2 LTG DSNT S WBKS 191800Z 28003KT 9999 -RA FEW015 FEW017CB SCT040 BKN280 26/25 Q1010 WATT 191130Z 13003KT 8000 FEW015CB BKN015 25/24 Q1012 RMK CB TO N WBKT 191800Z 23002KT 9999 FEW014 BKN270 24/24 Q1010 KHUA 191838Z AUTO 21014G19KT 10SM SCT024 BKN030 BKN035 23/18 A2968 RMK AO2 KJAS 191855Z AUTO 18004KT 10SM SCT036 28/20 A2979 RMK AO2 T02810196 UUDD 191830Z 31004MPS 9999 SCT032CB M02/M03 Q1000 TEMPO 1000 SHSN KHST 191858Z AUTO 17009KT 10SM CLR 31/20 A2993 RMK AO2 SLP138 T03120203 KIKK 191835Z AUTO 11009KT 10SM DZ SCT025 BKN070 OVC090 16/10 A2963 RMK AO2 T01600103 UUBW 191830Z 29001MPS 9999 BKN040CB M01/M04 Q1001 TEMPO 2000 SHSN WBKW 191800Z 33004KT 9999 FEW017 BKN300 25/24 Q1010 KHTL 191853Z AUTO 10018G25KT 10SM CLR 17/M04 A2984 RMK AO2 PK WND 09026/1840 SLP110 T01671044 $ KHSV 191853Z 20014G23KT 10SM BKN026 BKN250 25/18 A2967 RMK AO2 SLP038 T02500178 $ KHUF 191853Z 11010KT 8SM -RA BKN007 OVC011 16/14 A2954 RMK AO2 CIG 006V011 SLP999 P0005 T01560144 KJAX 191856Z 21011G21KT 10SM FEW055 SCT075 OVC240 30/19 A2986 RMK AO2 SLP112 T03000189 $ KIJX 191835Z AUTO 05005KT 4SM RA SCT007 BKN055 OVC075 16/15 A2957 RMK AO2 P0005 T01620146 KILG 191851Z AUTO 14012KT 10SM CLR 17/02 A3016 RMK AO2 SLP211 T01720022 KL35 191835Z AUTO 00000KT 10SM CLR 16/M10 A3014 RMK AO2 KJBR 191853Z AUTO 24013G21KT 10SM FEW023 21/17 A2961 RMK AO2 TSE1757 SLP024 T02110172 UUDL 191830Z 34002MPS 9999 OVC049 00/M05 Q1001 NOSIG RMK QFE742 23290150 KHTS 191851Z 10005KT 8SM -RA BKN060 BKN070 OVC080 17/17 A2974 RMK AO2 SLP065 P0007 T01720167 KL38 191835Z AUTO 26006KT 10SM CLR 28/17 A2981 RMK AO2 T02750165 KIKT 191855Z AUTO 24014KT 9SM CLR 27/22 A2983 RMK A01 UUEE 191830Z 32004MPS 9999 SCT040 BKN100 M01/M04 Q1001 NOSIG KHUL 191853Z AUTO 28008KT 10SM SCT070 09/M07 A3015 RMK AO2 SLP214 T00891067 KILM 191853Z 11008KT 8SM -RA SCT018 OVC095 21/19 A2995 RMK AO2 RAE20B24 SLP141 P0002 T02060189 KHUM 191850Z 24013KT 7SM SKC 28/15 A2982 RMK VA RY18 ATIS I....DV KIKV 191835Z AUTO 36007KT 10SM BKN014 BKN020 OVC032 17/15 A2959 RMK AO2 KIKW 191853Z AUTO 05015G20KT 10SM CLR 15/01 A2985 RMK AO2 T01450012 KILN 191854Z AUTO 12019G25KT 7SM -RA SCT017 BKN024 OVC065 17/15 A2967 RMK AO2 PK WND 13027/1831 SLP048 P0004 T01720150 KHVE 191855Z AUTO 19004KT 10SM CLR 17/01 A3009 RMK AO2 FCPP 191800Z 17007KT 9999 SCT010 FEW030CB 28/25 Q1010 TEMPO TS KHUT 191852Z 34021G28KT 10SM -RA BKN014 OVC022 12/09 A2981 RMK AO2 PK WND 33037/1815 RAB25 SLP084 P0002 T01170089 KJCT 191851Z AUTO 33011G20KT 10SM CLR 28/03 A2986 RMK AO2 SLP078 T02780033 UTNN 191830Z 13002KT CAVOK 15/04 Q1010 R33/CLRD60 NOSIG KIML 191853Z AUTO 34020G30KT 10SM SCT065 OVC080 09/M03 A3002 RMK AO2 PK WND 34034/1825 SLP168 T00941033 $ EKYT 191850Z 31006KT CAVOK 09/02 Q1026 KIMM 191855Z AUTO 19007KT 7SM FEW070 A2992 RMK A01 P000 KHWD 191854Z 26004KT 10SM FEW014 15/11 A2997 RMK AO2 SLP157 T01500106 $ KIND 191854Z 10010KT 2 1/2SM RA BR BKN008 OVC011 16/14 A2956 RMK AO2 SFC VIS 4 PRESFR SLP007 P0009 T01560139 KJDN 191848Z AUTO 32020G26KT 10/M04 A3015 RMK AO1 PK WND 33026/1848 SLP230 T01001039 KHVN 191853Z 13009KT 10SM BKN200 13/02 A3023 RMK AO2 SLP236 T01330022 KJEF 191853Z 30005KT 10SM CLR 19/16 A2959 RMK AO2 SLP010 T01940156 KINF 191855Z AUTO 20008G14KT 7SM SCT050 SCT060 A2992 RMK AO2 ZYTL 191830Z 33004MPS CAVOK 12/M08 Q1012 NOSIG KHVR 191853Z AUTO 32007KT 10SM SCT060 OVC090 11/M05 A3020 RMK AO2 SLP244 T01111050 UTNU 191830Z 13005KT 7000 NSC 14/06 Q1011 R31/CLRD70 NOSIG KIMS 191854Z AUTO 11007KT 3SM BKN007 OVC012 17/16 A2957 RMK AO1 KHVS 191855Z AUTO 16006KT 10SM BKN009 OVC012 21/20 A2989 RMK AO2 KINJ 191855Z AUTO 26016G21KT 10SM CLR 26/12 A2977 RMK AO2 T02550120 KINK 191853Z AUTO 03012G21KT 10SM CLR 24/M02 A2996 RMK AO2 SLP114 T02441022 KIMT 191854Z AUTO 13010KT 10SM FEW075 FEW095 11/M01 A2977 RMK AO2 SLP088 T01061006 TSNO KIOB 191835Z AUTO 15013G18KT 10SM BKN014 BKN030 OVC039 18/17 A2967 RMK AO2 P0001 KINL 191855Z AUTO 22005KT 10SM OVC009 06/04 A2960 RMK AO2 CIG 007V013 SLP032 T00610044 $ KHXD 191850Z 13004KT 8SM OVC004 23/22 A2989 KHWO 191853Z 15015G20KT 10SM CLR 32/19 A2993 RMK AO2 SLP135 T03220194 $ KJER 191853Z AUTO 10004KT 10SM CLR 15/M08 A3010 RMK AO2 SLP180 T01501078 KHYA 191856Z AUTO 03011KT 10SM CLR 10/02 A3025 RMK AO2 SLP244 T01000017 KINS 191758Z AUTO 00000KT 10SM FEW190 24/M09 A2998 RMK AO2 SLP112 T02421091 10245 20095 57004 KJES 191835Z AUTO 00000KT 10SM -RA SCT033 SCT048 BKN085 28/23 A2985 RMK AO2 KJFK 191851Z 11014KT 10SM BKN250 12/01 A3024 RMK AO2 SLP241 T01220011 KINT 191854Z 13008KT 2 1/2SM -RA BR BKN006 OVC015 19/18 A2991 RMK AO2 CIG 003V010 SLP119 P0013 T01890178 ZYTX 191830Z 04002MPS CAVOK 05/M08 Q1014 NOSIG ENAL 191850Z 05008KT CAVOK 08/03 Q1032 KHWV 191856Z AUTO 14010G18KT 10SM CLR 11/01 A3025 RMK AO2 SLP243 T01060006 TSNO KINW 191856Z AUTO VRB05KT 10SM CLR 21/M03 A3007 RMK AO2 SLP135 T02061033 ENAN 191850Z 28009KT 9999 FEW020 BKN030 04/00 Q1020 KJGG 191835Z AUTO 10007G20KT 070V130 10SM CLR 22/16 A3006 RMK AO1 KHWY 191835Z AUTO 14011G16KT 10SM SCT046 21/11 A3006 RMK AO2 T02140113 KHYI 191846Z 21013KT 10SM CLR 29/22 A2978 FDJR 191900Z AUTO 23002KT //// // ////// 15/14 Q1020 KIPJ 191855Z AUTO 13006KT 10SM OVC006 19/18 A2986 RMK AO2 T01900182 KIPL 191853Z AUTO 00000KT 10SM CLR 30/01 A2984 RMK AO2 SLP105 T03000006 FDLB 191900Z AUTO 01003KT //// // ////// 19/16 Q1019 ENAT 191850Z 33023KT 9999 VCSH FEW010 SCT023 BKN053 03/M00 Q1013 RMK WIND 700FT 33025KT ENBL 191850Z 02004KT CAVOK 09/00 Q1029 KIOW 191852Z AUTO 02006KT 10SM BKN085 22/12 A2957 RMK AO2 SLP010 T02170117 KHZE 191855Z AUTO 32019G30KT 10SM BKN026 BKN033 OVC049 07/00 A2993 RMK AO2 KIPN 191855Z AUTO 26014KT 10SM CLR 26/19 A2986 RMK A01 ENBN 191850Z 24007KT 9999 VCSH SCT005 BKN013 07/05 Q1027 KJFX 191855Z AUTO 22008G15KT 10SM FEW027 FEW036 27/19 A2968 RMK A02 P-128 ENBO 191850Z 24016KT 7000 4000E -DZ BR FEW001 SCT003 BKN006 06/06 Q1023 TEMPO 9999 NSW BKN020 UTSA 191830Z 18004KT 9999 NSC 15/04 Q1012 R07/CLRD70 NOSIG KJFZ 191855Z AUTO 09005KT 7SM +RA OVC011 15/14 A2984 RMK AO2 P0008 T01530135 UTSB 191830Z 36003KT CAVOK 16/06 Q1011 R01/CLRD70 NOSIG WBSB 191830Z 16003KT 9999 FEW014 BKN300 25/24 Q1010 NOSIG KHYR 191853Z AUTO 15010KT 10SM BKN023 BKN043 OVC065 12/04 A2963 RMK AO2 RAB41E52 SLP037 P0000 T01220044 ENBR 191850Z 33009KT CAVOK 11/02 Q1029 NOSIG RMK WIND 1200FT 36009KT KHYS 191855Z 36025G30KT 10SM FEW034 SCT042 OVC055 08/02 A2994 RMK AO1 ENBS 191850Z 33030KT 6000 -SHRASN SCT009 BKN015 01/M04 Q1005 KIPT 191854Z 12008G18KT 10SM CLR 21/M03 A3005 RMK AO2 SLP177 T02111033 KHZL 191855Z AUTO 14006G14KT 10SM CLR 17/M03 A3014 RMK AO2 ENBV 191150Z 31024KT 9999 FEW018 SCT060 04/M00 Q1002 KJHN 191855Z AUTO 35026G37KT 10SM SCT050 13/M01 A2999 RMK AO2 T01311006 KHYW 191855Z AUTO 14007KT 100V160 10SM -RA BKN009 BKN014 BKN060 22/22 A2991 RMK AO2 P0001 ENCN 191850Z VRB02KT CAVOK 10/04 Q1026 KHYX 191855Z AUTO 08014G19KT 10SM CLR 17/01 A2983 RMK AO2 KHZR 191835Z AUTO 26005G14KT 10SM SCT046 27/16 A2981 RMK AO2 T02650161 UTSK 191830Z 22008KT CAVOK 13/08 Q1013 R16/CLRD70 KIRK 191855Z AUTO 27016G21KT 10SM VCTS BKN029 OVC035 19/14 A2958 RMK AO2 LTG DSNT S-NW SLP017 T01940144 KJHW 191855Z 14010G15KT 10SM CLR 20/00 A2995 RMK AO1 FDND 191900Z AUTO /////KT //// // ////// 18/16 Q1016 KHZX 191854Z AUTO 17004KT 2SM OVC006 08/07 A2960 RMK AO2 KHZY 191853Z AUTO 13014G25KT 10SM CLR 22/02 A2987 RMK AO2 SLP113 T02220017 UTSS 191830Z 15001KT 9999 NSC 12/08 Q1013 R88/CLRD70 NOSIG UTST 191830Z 23008KT 9999 -SHRA OVC053CB 14/13 Q1014 R88/290165 NOSIG ENDR 191850Z AUTO 30016KT 08/06 Q1030 KIRS 191855Z AUTO 09003G18KT 10SM SCT080 18/05 A2970 RMK AO2 KJKA 191855Z AUTO 21013G16KT 10SM OVC010 25/22 A2981 RMK AO2 T02500222 FDMS 191500Z 18008KT 9999 BKN030 20/17 Q1016 NOSIG KM19 191856Z AUTO 26011KT 10SM CLR 23/17 A2964 RMK AO2 T02330166 RAE04 P0000 SLP036 ENFB 191850Z AUTO 04020KT 9999NDV BKN009/// 08/06 Q1031 W///S/ ENEK 191850Z 04020KT CAVOK 08/04 Q1028 W08/S4 KISM 191848Z 22012G18KT 10SM SCT050 32/21 A2990 ENDU 191850Z 29010KT 9999 VCSH FEW020 SCT035 BKN045 03/M02 Q1019 FDMV 191500Z AUTO 03008KT //// // ////// 29/21 Q1020 KISN 191852Z AUTO 33021G29KT 10SM SCT040 OVC049 08/M03 A3002 RMK AO2 PK WND 33034/1805 RAB1753E03 SLP180 P0000 T00831033 KISO 191856Z 13005KT 5SM -RA SCT007 BKN015 22/19 A2996 RMK AO2 FEFF 191700Z 00000KT 8000 NSC 31/24 Q1008 NOSIG KM25 191855Z AUTO 22008KT 10SM BKN016 OVC023 21/18 A2956 RMK AO2 KISP 191856Z 12014KT 10SM FEW055 SCT210 BKN260 12/00 A3022 RMK AO2 SLP233 T01170000 LBBG 191830Z 19006KT CAVOK 06/03 Q1020 NOSIG FDMY 190900Z AUTO 02004KT //// // ////// ///// Q1029 KITH 191856Z 17007KT 10SM CLR 18/M06 A3010 ENFG 191350Z 36009KT CAVOK 12/M05 Q1027 KISQ 191854Z AUTO 08013G18KT 10SM BKN100 OVC120 09/01 A2985 RMK AO2 T00860005 UTTT 191830Z 15002KT 4000 FU NSC 16/08 Q1012 R88/CLRD70 NOSIG KJKJ 191851Z AUTO 32018G23KT 10SM -RA BKN023 OVC028 08/04 A2971 RMK AO2 KM30 191855Z AUTO 23005KT 7SM -RA SCT016 BKN023 OVC050 21/21 A2952 RMK AO2 LTG DSNT SE T02090205 KJKL 191853Z AUTO 14008KT 10SM BKN045 BKN060 OVC085 19/16 A2969 RMK AO2 SLP043 T01940156 $ ENFL 191850Z 31007KT 290V350 CAVOK 11/05 Q1029 ENGC 191850Z 05022KT CAVOK 09/05 Q1031 W06/S3 ENEV 191850Z 30008KT 9999 BKN035 05/M00 Q1020 RMK WIND 1400FT 27015KT KISW 191854Z AUTO 12010KT 10SM SCT075 21/02 A2966 RMK AO2 SLP044 T02060017 $ FDNY 191900Z AUTO 33002KT //// // ////// 15/14 Q1027 KITR 191853Z AUTO 33023G31KT 10SM BKN060 09/M03 A3005 RMK AO2 PK WND 32031/1822 SLP162 T00941033 FDOT 191800Z AUTO /////KT //// // ////// 18/16 Q1018 FEFT 190700Z 00000KT 9999 FEW004 OVC150 23/22 Q1010 UUMO 191830Z 31003MPS CAVOK M02/M05 Q1001 NOSIG RMK QFE736/0981 26190055 KJLN 191853Z 27019G23KT 10SM FEW029 BKN034 BKN042 17/11 A2973 RMK AO2 SLP063 LTG DSNT W T01720111 ENHD 191850Z 35013KT CAVOK 08/05 Q1028 ENGM 191850Z 36008KT 320V020 CAVOK 13/M09 Q1025 NOSIG ENHE 191850Z 30020KT 9999 SCT010 06/05 Q1028 W///S5 ENHF 191750Z VRB04G19KT 9999 VCSH FEW010 SCT017 BKN024 03/01 Q1012 RMK WIND 1254FT 31030KT UUOB 191830Z 29005MPS 9999 BKN040 04/M04 Q1000 29090060 NOSIG KIWA 191850Z 25006KT 45SM FEW150 28/M03 A2993 ENHK 191320Z 29025KT 9999 -SHRA FFEW012 SCT020 BKN033 03/01 Q1012 KIWD 191855Z AUTO 18006KT 10SM BKN070 OVC075 12/04 A2961 RMK AO1